Home > Products > Valid Products > TAF

000
FTUS44 KHGX 271729
TAFIAH
TAF
KIAH 271729Z 2718/2824 16006KT P6SM SCT035 BKN170
     FM272200 14010KT P6SM VCTS BKN035CB
     FM280200 13008KT P6SM SCT025
     FM280600 13006KT P6SM BKN025
     FM281500 14008KT P6SM VCSH SCT025 BKN035
     FM282000 14011KT P6SM VCTS BKN040CB=



000
FTUS44 KHGX 271729
TAFHOU
TAF
KHOU 271729Z 2718/2818 VRB05KT P6SM SCT035 BKN250
     FM272200 14010KT P6SM VCTS BKN035CB
     FM280200 13008KT P6SM SCT025
     FM280600 13006KT P6SM BKN025
     FM281500 14008KT P6SM VCSH SCT025 BKN035=



000
FTUS44 KHGX 271729
TAFLBX
TAF
KLBX 271729Z 2718/2818 12010KT P6SM BKN100
     FM272200 14010KT P6SM VCTS BKN035CB
     FM280200 15005KT P6SM SCT025
     FM280600 15005KT P6SM SCT015 BKN025 BKN050
     FM281400 14008KT P6SM VCSH SCT025 BKN035=



000
FTUS44 KHGX 271729
TAFCXO
TAF
KCXO 271729Z 2718/2818 00000KT P6SM SCT035
     FM272000 14010KT P6SM VCTS BKN035CB
     FM280200 15005KT P6SM SCT045 BKN250
     FM280700 VRB03KT 5SM BR BKN015
     FM281400 14008KT P6SM VCSH SCT025 BKN035=



000
FTUS44 KHGX 271729
TAFCLL
TAF
KCLL 271729Z 2718/2818 18008KT P6SM SKC
     FM280200 16008KT P6SM SCT035 SCT050 BKN250
     FM280600 15005KT P6SM SCT015 OVC025
     FM281300 14008KT P6SM VCSH SCT025 BKN035=



000
FTUS44 KHGX 271729
TAFUTS
TAF
KUTS 271729Z 2718/2818 VRB04KT P6SM VCTS BKN035CB OVC100
     FM272000 16004KT P6SM SCT035 BKN250
     FM280200 15003KT P6SM SCT035 BKN050 BKN250
     FM280600 VRB03KT P6SM SCT015 OVC025
     FM281400 14008KT P6SM VCSH SCT025 BKN035=



000
FTUS44 KHGX 271729
TAFGLS
TAF
KGLS 271729Z 2718/2818 12017KT P6SM BKN080
     FM271900 14013KT P6SM SCT025
     FM272300 15013KT P6SM SCT025 BKN250
     FM280800 14008KT P6SM VCSH BKN025
     FM281600 14010KT P6SM BKN035=



000
FTUS44 KHGX 271729
TAFSGR
TAF
KSGR 271729Z 2718/2818 VRB05KT P6SM SCT035 BKN250
     FM272200 14010KT P6SM VCTS BKN035CB
     FM280200 14005KT P6SM SCT025
     FM280600 13006KT P6SM BKN025
     FM281500 14008KT P6SM VCSH SCT025 BKN035=



000
FTUS44 KHGX 271729
TAFUTS
TAFUTS
TAF
KUTS 271729Z 2718/2818 VRB04KT P6SM VCTS BKN035CB OVC100
     FM272000 16004KT P6SM SCT035 BKN250
     FM280200 15003KT P6SM SCT035 BKN050 BKN250
     FM280600 VRB03KT P6SM SCT015 OVC025
     FM281400 14008KT P6SM VCSH SCT025 BKN035=



000
FTUS44 KHGX 271729
TAFLBX
TAFLBX
TAF
KLBX 271729Z 2718/2818 12010KT P6SM BKN100
     FM272200 14010KT P6SM VCTS BKN035CB
     FM280200 15005KT P6SM SCT025
     FM280600 15005KT P6SM SCT015 BKN025 BKN050
     FM281400 14008KT P6SM VCSH SCT025 BKN035=



000
FTUS44 KHGX 271729
TAFIAH
TAFIAH
TAF
KIAH 271729Z 2718/2824 16006KT P6SM SCT035 BKN170
     FM272200 14010KT P6SM VCTS BKN035CB
     FM280200 13008KT P6SM SCT025
     FM280600 13006KT P6SM BKN025
     FM281500 14008KT P6SM VCSH SCT025 BKN035
     FM282000 14011KT P6SM VCTS BKN040CB=



000
FTUS44 KHGX 271729
TAFCXO
TAFCXO
TAF
KCXO 271729Z 2718/2818 00000KT P6SM SCT035
     FM272000 14010KT P6SM VCTS BKN035CB
     FM280200 15005KT P6SM SCT045 BKN250
     FM280700 VRB03KT 5SM BR BKN015
     FM281400 14008KT P6SM VCSH SCT025 BKN035=



000
FTUS44 KHGX 271729
TAFGLS
TAFGLS
TAF
KGLS 271729Z 2718/2818 12017KT P6SM BKN080
     FM271900 14013KT P6SM SCT025
     FM272300 15013KT P6SM SCT025 BKN250
     FM280800 14008KT P6SM VCSH BKN025
     FM281600 14010KT P6SM BKN035=



000
FTUS44 KHGX 271729
TAFSGR
TAF
KSGR 271729Z 2718/2818 VRB05KT P6SM SCT035 BKN250
     FM272200 14010KT P6SM VCTS BKN035CB
     FM280200 14005KT P6SM SCT025
     FM280600 13006KT P6SM BKN025
     FM281500 14008KT P6SM VCSH SCT025 BKN035=



000
FTUS44 KHGX 271729
TAFCXO
TAF
KCXO 271729Z 2718/2818 00000KT P6SM SCT035
     FM272000 14010KT P6SM VCTS BKN035CB
     FM280200 15005KT P6SM SCT045 BKN250
     FM280700 VRB03KT 5SM BR BKN015
     FM281400 14008KT P6SM VCSH SCT025 BKN035=



000
FTUS44 KHGX 271729
TAFCLL
TAFCLL
TAF
KCLL 271729Z 2718/2818 18008KT P6SM SKC
     FM280200 16008KT P6SM SCT035 SCT050 BKN250
     FM280600 15005KT P6SM SCT015 OVC025
     FM281300 14008KT P6SM VCSH SCT025 BKN035=



000
FTUS44 KHGX 271729
TAFCLL
TAF
KCLL 271729Z 2718/2818 18008KT P6SM SKC
     FM280200 16008KT P6SM SCT035 SCT050 BKN250
     FM280600 15005KT P6SM SCT015 OVC025
     FM281300 14008KT P6SM VCSH SCT025 BKN035=



000
FTUS44 KHGX 271729
TAFUTS
TAF
KUTS 271729Z 2718/2818 VRB04KT P6SM VCTS BKN035CB OVC100
     FM272000 16004KT P6SM SCT035 BKN250
     FM280200 15003KT P6SM SCT035 BKN050 BKN250
     FM280600 VRB03KT P6SM SCT015 OVC025
     FM281400 14008KT P6SM VCSH SCT025 BKN035=



000
FTUS44 KHGX 271729
TAFHOU
TAFHOU
TAF
KHOU 271729Z 2718/2818 VRB05KT P6SM SCT035 BKN250
     FM272200 14010KT P6SM VCTS BKN035CB
     FM280200 13008KT P6SM SCT025
     FM280600 13006KT P6SM BKN025
     FM281500 14008KT P6SM VCSH SCT025 BKN035=



000
FTUS44 KHGX 271500
TAFGLS
TAFGLS
TAF AMD
KGLS 271500Z 2715/2812 06011KT P6SM VCTS BKN050CB OVC070
     FM271900 14013KT P6SM SCT025
     FM272300 15013KT P6SM SCT025 BKN250
     FM280500 15014KT P6SM SCT025 BKN050=



000
FTUS44 KHGX 271500 AAC
TAFGLS
TAF AMD
KGLS 271500Z 2715/2812 06011KT P6SM VCTS BKN050CB OVC070
     FM271900 14013KT P6SM SCT025
     FM272300 15013KT P6SM SCT025 BKN250
     FM280500 15014KT P6SM SCT025 BKN050=



000
FTUS44 KHGX 271500 AAC
TAFGLS
TAF AMD
KGLS 271500Z 2715/2812 06011KT P6SM VCTS BKN050CB OVC070
     FM271900 14013KT P6SM SCT025
     FM272300 15013KT P6SM SCT025 BKN250
     FM280500 15014KT P6SM SCT025 BKN050=



000
FTUS44 KHGX 271458
TAFHOU
TAFHOU
TAF AMD
KHOU 271458Z 2715/2812 07009KT P6SM VCTS SCT040CB OVC120
      TEMPO 2715/2716 5SM TSRA BR BKN035CB
     FM271900 14010KT P6SM BKN035
     FM280200 13008KT P6SM SCT025
     FM280600 13006KT P6SM BKN025=



000
FTUS44 KHGX 271458
TAFIAH
TAFIAH
TAF AMD
KIAH 271458Z 2715/2818 19005KT P6SM VCTS SCT040CB BKN110
     FM271900 14010KT P6SM BKN035
     FM280200 13008KT P6SM SCT025
     FM280600 13006KT P6SM BKN025
     FM281500 14010KT P6SM SCT025 BKN035=



000
FTUS44 KHGX 271458 AAB
TAFIAH
TAF AMD
KIAH 271458Z 2715/2818 19005KT P6SM VCTS SCT040CB BKN110
     FM271900 14010KT P6SM BKN035
     FM280200 13008KT P6SM SCT025
     FM280600 13006KT P6SM BKN025
     FM281500 14010KT P6SM SCT025 BKN035=



000
FTUS44 KHGX 271458 AAC
TAFHOU
TAF AMD
KHOU 271458Z 2715/2812 07009KT P6SM VCTS SCT040CB OVC120
      TEMPO 2715/2716 5SM TSRA BR BKN035CB
     FM271900 14010KT P6SM BKN035
     FM280200 13008KT P6SM SCT025
     FM280600 13006KT P6SM BKN025=



000
FTUS44 KHGX 271456
TAFCLL
TAFCLL
TAF AMD
KCLL 271456Z 2715/2812 16006KT P6SM SCT006
     FM271800 17014KT P6SM BKN035
     FM280200 16008KT P6SM SCT035 SCT050 BKN250
     FM280600 15005KT P6SM SCT015 OVC025=



000
FTUS44 KHGX 271456 AAB
TAFUTS
TAF AMD
KUTS 271456Z 2715/2812 VRB03KT P6SM SCT007
     FM271800 17006KT P6SM BKN035
     FM280200 15003KT P6SM SCT035 BKN050 BKN250
     FM280600 VRB03KT P6SM SCT015 OVC025=



000
FTUS44 KHGX 271456 AAB
TAFUTS
TAF AMD
KUTS 271456Z 2715/2812 VRB03KT P6SM SCT007
     FM271800 17006KT P6SM BKN035
     FM280200 15003KT P6SM SCT035 BKN050 BKN250
     FM280600 VRB03KT P6SM SCT015 OVC025=



000
FTUS44 KHGX 271456 AAB
TAFCLL
TAF AMD
KCLL 271456Z 2715/2812 16006KT P6SM SCT006
     FM271800 17014KT P6SM BKN035
     FM280200 16008KT P6SM SCT035 SCT050 BKN250
     FM280600 15005KT P6SM SCT015 OVC025=



000
FTUS44 KHGX 271456 AAB
TAFCLL
TAF AMD
KCLL 271456Z 2715/2812 16006KT P6SM SCT006
     FM271800 17014KT P6SM BKN035
     FM280200 16008KT P6SM SCT035 SCT050 BKN250
     FM280600 15005KT P6SM SCT015 OVC025=



000
FTUS44 KHGX 271456 AAB
TAFCLL
TAF AMD
KCLL 271456Z 2715/2812 16006KT P6SM SCT006
     FM271800 17014KT P6SM BKN035
     FM280200 16008KT P6SM SCT035 SCT050 BKN250
     FM280600 15005KT P6SM SCT015 OVC025=



000
FTUS44 KHGX 271456 AAB
TAFCLL
TAF AMD
KCLL 271456Z 2715/2812 16006KT P6SM SCT006
     FM271800 17014KT P6SM BKN035
     FM280200 16008KT P6SM SCT035 SCT050 BKN250
     FM280600 15005KT P6SM SCT015 OVC025=



000
FTUS44 KHGX 271456
TAFUTS
TAFUTS
TAF AMD
KUTS 271456Z 2715/2812 VRB03KT P6SM SCT007
     FM271800 17006KT P6SM BKN035
     FM280200 15003KT P6SM SCT035 BKN050 BKN250
     FM280600 VRB03KT P6SM SCT015 OVC025=



000
FTUS44 KHGX 271431 AAB
TAFSGR
TAF AMD
KSGR 271431Z 2715/2812 09005KT P6SM -RA FEW006 FEW110
      TEMPO 2715/2716 5SM TSRA BR BKN015CB
     FM271800 15008KT P6SM VCSH BKN035
     FM280200 14005KT P6SM SCT025
     FM280600 13006KT P6SM BKN025=



000
FTUS44 KHGX 271431
TAFSGR
TAFSGR
TAF AMD
KSGR 271431Z 2715/2812 09005KT P6SM -RA FEW006 FEW110
      TEMPO 2715/2716 5SM TSRA BR BKN015CB
     FM271800 15008KT P6SM VCSH BKN035
     FM280200 14005KT P6SM SCT025
     FM280600 13006KT P6SM BKN025=



000
FTUS44 KHGX 271431 AAB
TAFSGR
TAF AMD
KSGR 271431Z 2715/2812 09005KT P6SM -RA FEW006 FEW110
      TEMPO 2715/2716 5SM TSRA BR BKN015CB
     FM271800 15008KT P6SM VCSH BKN035
     FM280200 14005KT P6SM SCT025
     FM280600 13006KT P6SM BKN025=



000
FTUS44 KHGX 271357 AAA
TAFCLL
TAF AMD
KCLL 271357Z 2714/2812 13007KT P6SM BKN006
     FM271500 10006KT P6SM SCT025 BKN035
     FM271800 17014KT P6SM BKN035
     FM280200 16008KT P6SM SCT035 SCT050 BKN250
     FM280600 15005KT P6SM SCT015 OVC025=



000
FTUS44 KHGX 271357 AAA
TAFCLL
TAF AMD
KCLL 271357Z 2714/2812 13007KT P6SM BKN006
     FM271500 10006KT P6SM SCT025 BKN035
     FM271800 17014KT P6SM BKN035
     FM280200 16008KT P6SM SCT035 SCT050 BKN250
     FM280600 15005KT P6SM SCT015 OVC025=



000
FTUS44 KHGX 271357
TAFCLL
TAFCLL
TAF AMD
KCLL 271357Z 2714/2812 13007KT P6SM BKN006
     FM271500 10006KT P6SM SCT025 BKN035
     FM271800 17014KT P6SM BKN035
     FM280200 16008KT P6SM SCT035 SCT050 BKN250
     FM280600 15005KT P6SM SCT015 OVC025=



000
FTUS44 KHGX 271357
TAFCLL
TAFCLL
TAF AMD
KCLL 271357Z 2714/2812 13007KT P6SM BKN006
     FM271500 10006KT P6SM SCT025 BKN035
     FM271800 17014KT P6SM BKN035
     FM280200 16008KT P6SM SCT035 SCT050 BKN250
     FM280600 15005KT P6SM SCT015 OVC025=



000
FTUS44 KHGX 271351
TAFUTS
TAFUTS
TAF AMD
KUTS 271351Z 2714/2812 16004KT P6SM BKN007
     FM271500 12006KT P6SM SCT025 BKN035
     FM271800 17006KT P6SM BKN035
     FM280200 15003KT P6SM SCT035 BKN050 BKN250
     FM280600 VRB03KT P6SM SCT015 OVC025=



000
FTUS44 KHGX 271351 AAA
TAFUTS
TAF AMD
KUTS 271351Z 2714/2812 16004KT P6SM BKN007
     FM271500 12006KT P6SM SCT025 BKN035
     FM271800 17006KT P6SM BKN035
     FM280200 15003KT P6SM SCT035 BKN050 BKN250
     FM280600 VRB03KT P6SM SCT015 OVC025=



000
FTUS44 KHGX 271351 AAA
TAFUTS
TAF AMD
KUTS 271351Z 2714/2812 16004KT P6SM BKN007
     FM271500 12006KT P6SM SCT025 BKN035
     FM271800 17006KT P6SM BKN035
     FM280200 15003KT P6SM SCT035 BKN050 BKN250
     FM280600 VRB03KT P6SM SCT015 OVC025=



000
FTUS44 KHGX 271309 AAA
TAFSGR
TAF AMD
KSGR 271309Z 2713/2812 06008KT P6SM -RA SCT035 BKN050
     FM271500 11007KT P6SM SCT025 BKN035
     FM271800 15008KT P6SM VCSH BKN035
     FM280200 14005KT P6SM SCT025
     FM280600 13006KT P6SM BKN025=



000
FTUS44 KHGX 271309
TAFSGR
TAFSGR
TAF AMD
KSGR 271309Z 2713/2812 06008KT P6SM -RA SCT035 BKN050
     FM271500 11007KT P6SM SCT025 BKN035
     FM271800 15008KT P6SM VCSH BKN035
     FM280200 14005KT P6SM SCT025
     FM280600 13006KT P6SM BKN025=



000
FTUS44 KHGX 271309 AAA
TAFSGR
TAF AMD
KSGR 271309Z 2713/2812 06008KT P6SM -RA SCT035 BKN050
     FM271500 11007KT P6SM SCT025 BKN035
     FM271800 15008KT P6SM VCSH BKN035
     FM280200 14005KT P6SM SCT025
     FM280600 13006KT P6SM BKN025=



000
FTUS44 KHGX 271309 AAA
TAFSGR
TAF AMD
KSGR 271309Z 2713/2812 06008KT P6SM -RA SCT035 BKN050
     FM271500 11007KT P6SM SCT025 BKN035
     FM271800 15008KT P6SM VCSH BKN035
     FM280200 14005KT P6SM SCT025
     FM280600 13006KT P6SM BKN025=



000
FTUS44 KHGX 271309
TAFSGR
TAFSGR
TAF AMD
KSGR 271309Z 2713/2812 06008KT P6SM -RA SCT035 BKN050
     FM271500 11007KT P6SM SCT025 BKN035
     FM271800 15008KT P6SM VCSH BKN035
     FM280200 14005KT P6SM SCT025
     FM280600 13006KT P6SM BKN025=



000
FTUS44 KHGX 271309 AAA
TAFSGR
TAF AMD
KSGR 271309Z 2713/2812 06008KT P6SM -RA SCT035 BKN050
     FM271500 11007KT P6SM SCT025 BKN035
     FM271800 15008KT P6SM VCSH BKN035
     FM280200 14005KT P6SM SCT025
     FM280600 13006KT P6SM BKN025=



000
FTUS44 KHGX 271307
TAFGLS
TAFGLS
TAF AMD
KGLS 271307Z 2713/2812 03015KT 4SM RA BR BKN013 OVC070
     FM271600 12010KT P6SM BKN025
     FM271900 14013KT P6SM SCT025
     FM272300 15013KT P6SM SCT025 BKN250
     FM280500 15014KT P6SM SCT025 BKN050=



000
FTUS44 KHGX 271307 AAB
TAFGLS
TAF AMD
KGLS 271307Z 2713/2812 03015KT 4SM RA BR BKN013 OVC070
     FM271600 12010KT P6SM BKN025
     FM271900 14013KT P6SM SCT025
     FM272300 15013KT P6SM SCT025 BKN250
     FM280500 15014KT P6SM SCT025 BKN050=



000
FTUS44 KHGX 271307 AAB
TAFGLS
TAF AMD
KGLS 271307Z 2713/2812 03015KT 4SM RA BR BKN013 OVC070
     FM271600 12010KT P6SM BKN025
     FM271900 14013KT P6SM SCT025
     FM272300 15013KT P6SM SCT025 BKN250
     FM280500 15014KT P6SM SCT025 BKN050=



000
FTUS44 KHGX 271249
TAFLBX
TAFLBX
TAF AMD
KLBX 271249Z 2713/2812 VRB15G25KT P6SM VCTS FEW007 BKN015CB OVC035
     FM271600 12009KT P6SM SCT025 BKN035
     FM271800 14011KT P6SM SCT035 BKN080
     FM280200 15005KT P6SM SCT025
     FM280600 15005KT P6SM SCT015 BKN025 BKN050=



000
FTUS44 KHGX 271249 AAA
TAFLBX
TAF AMD
KLBX 271249Z 2713/2812 VRB15G25KT P6SM VCTS FEW007 BKN015CB OVC035
     FM271600 12009KT P6SM SCT025 BKN035
     FM271800 14011KT P6SM SCT035 BKN080
     FM280200 15005KT P6SM SCT025
     FM280600 15005KT P6SM SCT015 BKN025 BKN050=



000
FTUS44 KHGX 271235 AAB
TAFHOU
TAF AMD
KHOU 271235Z 2713/2812 06010KT P6SM -RA BKN050 BKN120
     FM271400 11007KT P6SM SCT035 BKN080
     FM271900 14010KT P6SM BKN035
     FM280200 13008KT P6SM SCT025
     FM280600 13006KT P6SM BKN025=



000
FTUS44 KHGX 271235 AAB
TAFHOU
TAF AMD
KHOU 271235Z 2713/2812 06010KT P6SM -RA BKN050 BKN120
     FM271400 11007KT P6SM SCT035 BKN080
     FM271900 14010KT P6SM BKN035
     FM280200 13008KT P6SM SCT025
     FM280600 13006KT P6SM BKN025=



000
FTUS44 KHGX 271235
TAFHOU
TAFHOU
TAF AMD
KHOU 271235Z 2713/2812 06010KT P6SM -RA BKN050 BKN120
     FM271400 11007KT P6SM SCT035 BKN080
     FM271900 14010KT P6SM BKN035
     FM280200 13008KT P6SM SCT025
     FM280600 13006KT P6SM BKN025=



000
FTUS44 KHGX 271158
TAFCXO
TAFCXO
TAF AMD
KCXO 271158Z 2712/2812 09009KT P6SM -RA FEW015 BKN110
     FM271230 13008KT P6SM SCT015 BKN035
     FM271800 17013KT P6SM BKN035
     FM280200 15005KT P6SM SCT045 BKN250
     FM280700 VRB03KT 5SM BR BKN015=



000
FTUS44 KHGX 271158
TAFCXO
TAFCXO
TAF AMD
KCXO 271158Z 2712/2812 09009KT P6SM -RA FEW015 BKN110
     FM271230 13008KT P6SM SCT015 BKN035
     FM271800 17013KT P6SM BKN035
     FM280200 15005KT P6SM SCT045 BKN250
     FM280700 VRB03KT 5SM BR BKN015=



000
FTUS44 KHGX 271158 AAA
TAFCXO
TAF AMD
KCXO 271158Z 2712/2812 09009KT P6SM -RA FEW015 BKN110
     FM271230 13008KT P6SM SCT015 BKN035
     FM271800 17013KT P6SM BKN035
     FM280200 15005KT P6SM SCT045 BKN250
     FM280700 VRB03KT 5SM BR BKN015=



000
FTUS44 KHGX 271158 AAA
TAFCXO
TAF AMD
KCXO 271158Z 2712/2812 09009KT P6SM -RA FEW015 BKN110
     FM271230 13008KT P6SM SCT015 BKN035
     FM271800 17013KT P6SM BKN035
     FM280200 15005KT P6SM SCT045 BKN250
     FM280700 VRB03KT 5SM BR BKN015=



000
FTUS44 KHGX 271158 AAA
TAFCXO
TAF AMD
KCXO 271158Z 2712/2812 09009KT P6SM -RA FEW015 BKN110
     FM271230 13008KT P6SM SCT015 BKN035
     FM271800 17013KT P6SM BKN035
     FM280200 15005KT P6SM SCT045 BKN250
     FM280700 VRB03KT 5SM BR BKN015=



000
FTUS44 KHGX 271157
TAFGLS
TAFGLS
TAF AMD
KGLS 271157Z 2712/2812 36015G30KT 2SM +TSRA BR BKN012CB BKN025
     FM271600 12010KT P6SM BKN025
     FM271900 14013KT P6SM SCT025
     FM272300 15013KT P6SM SCT025 BKN250
     FM280500 15014KT P6SM SCT025 BKN050=



000
FTUS44 KHGX 271157 AAA
TAFGLS
TAF AMD
KGLS 271157Z 2712/2812 36015G30KT 2SM +TSRA BR BKN012CB BKN025
     FM271600 12010KT P6SM BKN025
     FM271900 14013KT P6SM SCT025
     FM272300 15013KT P6SM SCT025 BKN250
     FM280500 15014KT P6SM SCT025 BKN050=



000
FTUS44 KHGX 271157 AAA
TAFGLS
TAF AMD
KGLS 271157Z 2712/2812 36015G30KT 2SM +TSRA BR BKN012CB BKN025
     FM271600 12010KT P6SM BKN025
     FM271900 14013KT P6SM SCT025
     FM272300 15013KT P6SM SCT025 BKN250
     FM280500 15014KT P6SM SCT025 BKN050=



000
FTUS44 KHGX 271157
TAFGLS
TAFGLS
TAF AMD
KGLS 271157Z 2712/2812 36015G30KT 2SM +TSRA BR BKN012CB BKN025
     FM271600 12010KT P6SM BKN025
     FM271900 14013KT P6SM SCT025
     FM272300 15013KT P6SM SCT025 BKN250
     FM280500 15014KT P6SM SCT025 BKN050=



000
FTUS44 KHGX 271157 AAA
TAFGLS
TAF AMD
KGLS 271157Z 2712/2812 36015G30KT 2SM +TSRA BR BKN012CB BKN025
     FM271600 12010KT P6SM BKN025
     FM271900 14013KT P6SM SCT025
     FM272300 15013KT P6SM SCT025 BKN250
     FM280500 15014KT P6SM SCT025 BKN050=



000
FTUS44 KHGX 271157 AAA
TAFGLS
TAF AMD
KGLS 271157Z 2712/2812 36015G30KT 2SM +TSRA BR BKN012CB BKN025
     FM271600 12010KT P6SM BKN025
     FM271900 14013KT P6SM SCT025
     FM272300 15013KT P6SM SCT025 BKN250
     FM280500 15014KT P6SM SCT025 BKN050=



000
FTUS44 KHGX 271156 AAA
TAFIAH
TAF AMD
KIAH 271156Z 2712/2818 02007KT 4SM TSRA BR SCT007 SCT015CB OVC035
     FM271500 11007KT P6SM SCT015 BKN035
     FM271900 14010KT P6SM BKN035
     FM280200 13008KT P6SM SCT025
     FM280600 13006KT P6SM BKN025
     FM281500 14010KT P6SM SCT025 BKN035=



000
FTUS44 KHGX 271156 AAA
TAFIAH
TAF AMD
KIAH 271156Z 2712/2818 02007KT 4SM TSRA BR SCT007 SCT015CB OVC035
     FM271500 11007KT P6SM SCT015 BKN035
     FM271900 14010KT P6SM BKN035
     FM280200 13008KT P6SM SCT025
     FM280600 13006KT P6SM BKN025
     FM281500 14010KT P6SM SCT025 BKN035=



000
FTUS44 KHGX 271156 AAA
TAFIAH
TAF AMD
KIAH 271156Z 2712/2818 02007KT 4SM TSRA BR SCT007 SCT015CB OVC035
     FM271500 11007KT P6SM SCT015 BKN035
     FM271900 14010KT P6SM BKN035
     FM280200 13008KT P6SM SCT025
     FM280600 13006KT P6SM BKN025
     FM281500 14010KT P6SM SCT025 BKN035=



000
FTUS44 KHGX 271156 AAA
TAFIAH
TAF AMD
KIAH 271156Z 2712/2818 02007KT 4SM TSRA BR SCT007 SCT015CB OVC035
     FM271500 11007KT P6SM SCT015 BKN035
     FM271900 14010KT P6SM BKN035
     FM280200 13008KT P6SM SCT025
     FM280600 13006KT P6SM BKN025
     FM281500 14010KT P6SM SCT025 BKN035=



000
FTUS44 KHGX 271154
TAFHOU
TAFHOU
TAF AMD
KHOU 271154Z 2712/2812 VRB25KT 2SM TSRA BR SCT015CB BKN025
     FM271400 11007KT P6SM SCT035 BKN080
     FM271900 14010KT P6SM BKN035
     FM280200 13008KT P6SM SCT025
     FM280600 13006KT P6SM BKN025=



000
FTUS44 KHGX 271154 AAA
TAFHOU
TAF AMD
KHOU 271154Z 2712/2812 VRB25KT 2SM TSRA BR SCT015CB BKN025
     FM271400 11007KT P6SM SCT035 BKN080
     FM271900 14010KT P6SM BKN035
     FM280200 13008KT P6SM SCT025
     FM280600 13006KT P6SM BKN025=



000
FTUS44 KHGX 271154 AAA
TAFHOU
TAF AMD
KHOU 271154Z 2712/2812 VRB25KT 2SM TSRA BR SCT015CB BKN025
     FM271400 11007KT P6SM SCT035 BKN080
     FM271900 14010KT P6SM BKN035
     FM280200 13008KT P6SM SCT025
     FM280600 13006KT P6SM BKN025=



000
FTUS44 KHGX 271120 CCA
TAFHOU
TAF COR
KHOU 271120Z 2712/2812 VRB25KT 4SM TSRA SCT015CB BKN035
     FM271400 11007KT P6SM SCT035 BKN080
     FM271900 14010KT P6SM BKN035
     FM280200 13008KT P6SM SCT025
     FM280600 13006KT P6SM BKN025=



000
FTUS44 KHGX 271120
TAFSGR
TAFSGR
TAF
KSGR 271120Z 2712/2812 14006KT P6SM VCTS BKN015CB BKN070
      TEMPO 2712/2714 VRB15G25KT 4SM TSRA BKN015CB
     FM271500 11007KT P6SM SCT025 BKN035
     FM271800 15008KT P6SM VCSH BKN035
     FM280200 14005KT P6SM SCT025
     FM280600 13006KT P6SM BKN025=



000
FTUS44 KHGX 271120
TAFUTS
TAFUTS
TAF
KUTS 271120Z 2712/2812 11007KT P6SM -RA SCT025 BKN110
     FM271500 12006KT P6SM SCT025 BKN035
     FM271800 17006KT P6SM BKN035
     FM280200 15003KT P6SM SCT035 BKN050 BKN250
     FM280600 VRB03KT P6SM SCT015 OVC025=



000
FTUS44 KHGX 271120
TAFHOU
TAFHOU
TAF
KHOU 271120Z 2712/2812 15006KT P6SM -TSRA SCT015CB BKN035
      TEMPO 2712/2714 VRB12G22KT 2SM +TSRA BR BKN015CB OVC025
     FM271500 11007KT P6SM SCT035 BKN080
     FM271900 14010KT P6SM BKN035
     FM280200 13008KT P6SM SCT025
     FM280600 13006KT P6SM BKN025=



000
FTUS44 KHGX 271120
TAFCLL
TAFCLL
TAF
KCLL 271120Z 2712/2812 05008KT P6SM VCTS SCT035CB BKN060 BKN080
     FM271500 10006KT P6SM SCT025 BKN035
     FM271800 17014KT P6SM BKN035
     FM280200 16008KT P6SM SCT035 SCT050 BKN250
     FM280600 15005KT P6SM SCT015 OVC025=



000
FTUS44 KHGX 271120 CCA
TAFHOU
TAF COR
KHOU 271120Z 2712/2812 VRB25KT 4SM TSRA SCT015CB BKN035
     FM271400 11007KT P6SM SCT035 BKN080
     FM271900 14010KT P6SM BKN035
     FM280200 13008KT P6SM SCT025
     FM280600 13006KT P6SM BKN025=



000
FTUS44 KHGX 271120
TAFCLL
TAFCLL
TAF
KCLL 271120Z 2712/2812 05008KT P6SM VCTS SCT035CB BKN060 BKN080
     FM271500 10006KT P6SM SCT025 BKN035
     FM271800 17014KT P6SM BKN035
     FM280200 16008KT P6SM SCT035 SCT050 BKN250
     FM280600 15005KT P6SM SCT015 OVC025=



000
FTUS44 KHGX 271120
TAFIAH
TAFIAH
TAF
KIAH 271120Z 2712/2818 04009KT P6SM -TSRA SCT015CB OVC025
      TEMPO 2712/2714 VRB15G25KT 1SM +TSRA BKN015CB OVC035
     FM271500 11007KT P6SM SCT015 BKN035
     FM271900 14010KT P6SM BKN035
     FM280200 13008KT P6SM SCT025
     FM280600 13006KT P6SM BKN025
     FM281500 14010KT P6SM SCT025 BKN035=



000
FTUS44 KHGX 271120
TAFCXO
TAFCXO
TAF
KCXO 271120Z 2712/2812 06009KT P6SM -TSRA BKN015CB BKN035 OVC080
     FM271230 16008KT P6SM VCSH SCT015 BKN035
     FM271800 17013KT P6SM BKN035
     FM280200 15005KT P6SM SCT045 BKN250
     FM280700 VRB03KT 5SM BR BKN015=



000
FTUS44 KHGX 271120
TAFUTS
TAFUTS
TAF
KUTS 271120Z 2712/2812 11007KT P6SM -RA SCT025 BKN110
     FM271500 12006KT P6SM SCT025 BKN035
     FM271800 17006KT P6SM BKN035
     FM280200 15003KT P6SM SCT035 BKN050 BKN250
     FM280600 VRB03KT P6SM SCT015 OVC025=



000
FTUS44 KHGX 271120
TAFGLS
TAFGLS
TAF
KGLS 271120Z 2712/2812 15012KT P6SM VCSH SCT009 BKN015 OVC080
     FM271600 12010KT P6SM BKN025
     FM271900 14013KT P6SM SCT025
     FM272300 15013KT P6SM SCT025 BKN250
     FM280500 15014KT P6SM SCT025 BKN050=



000
FTUS44 KHGX 271120
TAFSGR
TAFSGR
TAF
KSGR 271120Z 2712/2812 14006KT P6SM VCTS BKN015CB BKN070
      TEMPO 2712/2714 VRB15G25KT 4SM TSRA BKN015CB
     FM271500 11007KT P6SM SCT025 BKN035
     FM271800 15008KT P6SM VCSH BKN035
     FM280200 14005KT P6SM SCT025
     FM280600 13006KT P6SM BKN025=



000
FTUS44 KHGX 271120
TAFIAH
TAF
KIAH 271120Z 2712/2818 04009KT P6SM -TSRA SCT015CB OVC025
      TEMPO 2712/2714 VRB15G25KT 1SM +TSRA BKN015CB OVC035
     FM271500 11007KT P6SM SCT015 BKN035
     FM271900 14010KT P6SM BKN035
     FM280200 13008KT P6SM SCT025
     FM280600 13006KT P6SM BKN025
     FM281500 14010KT P6SM SCT025 BKN035=



000
FTUS44 KHGX 271120
TAFCXO
TAF
KCXO 271120Z 2712/2812 06009KT P6SM -TSRA BKN015CB BKN035 OVC080
     FM271230 16008KT P6SM VCSH SCT015 BKN035
     FM271800 17013KT P6SM BKN035
     FM280200 15005KT P6SM SCT045 BKN250
     FM280700 VRB03KT 5SM BR BKN015=



000
FTUS44 KHGX 271120
TAFCXO
TAFCXO
TAF
KCXO 271120Z 2712/2812 06009KT P6SM -TSRA BKN015CB BKN035 OVC080
     FM271230 16008KT P6SM VCSH SCT015 BKN035
     FM271800 17013KT P6SM BKN035
     FM280200 15005KT P6SM SCT045 BKN250
     FM280700 VRB03KT 5SM BR BKN015=



000
FTUS44 KHGX 271120
TAFCLL
TAF
KCLL 271120Z 2712/2812 05008KT P6SM VCTS SCT035CB BKN060 BKN080
     FM271500 10006KT P6SM SCT025 BKN035
     FM271800 17014KT P6SM BKN035
     FM280200 16008KT P6SM SCT035 SCT050 BKN250
     FM280600 15005KT P6SM SCT015 OVC025=



000
FTUS44 KHGX 271120
TAFLBX
TAF
KLBX 271120Z 2712/2812 17009KT P6SM VCSH BKN015 OVC035
     FM271600 12009KT P6SM SCT025 BKN035
     FM271800 14011KT P6SM SCT035 BKN080
     FM280200 15005KT P6SM SCT025
     FM280600 15005KT P6SM SCT015 BKN025 BKN050=



000
FTUS44 KHGX 271120
TAFIAH
TAFIAH
TAF
KIAH 271120Z 2712/2818 04009KT P6SM -TSRA SCT015CB OVC025
      TEMPO 2712/2714 VRB15G25KT 1SM +TSRA BKN015CB OVC035
     FM271500 11007KT P6SM SCT015 BKN035
     FM271900 14010KT P6SM BKN035
     FM280200 13008KT P6SM SCT025
     FM280600 13006KT P6SM BKN025
     FM281500 14010KT P6SM SCT025 BKN035=



000
FTUS44 KHGX 271120
TAFUTS
TAF
KUTS 271120Z 2712/2812 11007KT P6SM -RA SCT025 BKN110
     FM271500 12006KT P6SM SCT025 BKN035
     FM271800 17006KT P6SM BKN035
     FM280200 15003KT P6SM SCT035 BKN050 BKN250
     FM280600 VRB03KT P6SM SCT015 OVC025=



000
FTUS44 KHGX 271120
TAFSGR
TAF
KSGR 271120Z 2712/2812 14006KT P6SM VCTS BKN015CB BKN070
      TEMPO 2712/2714 VRB15G25KT 4SM TSRA BKN015CB
     FM271500 11007KT P6SM SCT025 BKN035
     FM271800 15008KT P6SM VCSH BKN035
     FM280200 14005KT P6SM SCT025
     FM280600 13006KT P6SM BKN025=



000
FTUS44 KHGX 271120
TAFCXO
TAF
KCXO 271120Z 2712/2812 06009KT P6SM -TSRA BKN015CB BKN035 OVC080
     FM271230 16008KT P6SM VCSH SCT015 BKN035
     FM271800 17013KT P6SM BKN035
     FM280200 15005KT P6SM SCT045 BKN250
     FM280700 VRB03KT 5SM BR BKN015=



000
FTUS44 KHGX 271120
TAFGLS
TAFGLS
TAF
KGLS 271120Z 2712/2812 15012KT P6SM VCSH SCT009 BKN015 OVC080
     FM271600 12010KT P6SM BKN025
     FM271900 14013KT P6SM SCT025
     FM272300 15013KT P6SM SCT025 BKN250
     FM280500 15014KT P6SM SCT025 BKN050=



000
FTUS44 KHGX 271120
TAFUTS
TAF
KUTS 271120Z 2712/2812 11007KT P6SM -RA SCT025 BKN110
     FM271500 12006KT P6SM SCT025 BKN035
     FM271800 17006KT P6SM BKN035
     FM280200 15003KT P6SM SCT035 BKN050 BKN250
     FM280600 VRB03KT P6SM SCT015 OVC025=



000
FTUS44 KHGX 271120
TAFLBX
TAF
KLBX 271120Z 2712/2812 17009KT P6SM VCSH BKN015 OVC035
     FM271600 12009KT P6SM SCT025 BKN035
     FM271800 14011KT P6SM SCT035 BKN080
     FM280200 15005KT P6SM SCT025
     FM280600 15005KT P6SM SCT015 BKN025 BKN050=



000
FTUS44 KHGX 271120
TAFIAH
TAF
KIAH 271120Z 2712/2818 04009KT P6SM -TSRA SCT015CB OVC025
      TEMPO 2712/2714 VRB15G25KT 1SM +TSRA BKN015CB OVC035
     FM271500 11007KT P6SM SCT015 BKN035
     FM271900 14010KT P6SM BKN035
     FM280200 13008KT P6SM SCT025
     FM280600 13006KT P6SM BKN025
     FM281500 14010KT P6SM SCT025 BKN035=



000
FTUS44 KHGX 271120
TAFCLL
TAF
KCLL 271120Z 2712/2812 05008KT P6SM VCTS SCT035CB BKN060 BKN080
     FM271500 10006KT P6SM SCT025 BKN035
     FM271800 17014KT P6SM BKN035
     FM280200 16008KT P6SM SCT035 SCT050 BKN250
     FM280600 15005KT P6SM SCT015 OVC025=



000
FTUS44 KHGX 271120
TAFLBX
TAFLBX
TAF
KLBX 271120Z 2712/2812 17009KT P6SM VCSH BKN015 OVC035
     FM271600 12009KT P6SM SCT025 BKN035
     FM271800 14011KT P6SM SCT035 BKN080
     FM280200 15005KT P6SM SCT025
     FM280600 15005KT P6SM SCT015 BKN025 BKN050=



000
FTUS44 KHGX 271120
TAFCXO
TAF
KCXO 271120Z 2712/2812 06009KT P6SM -TSRA BKN015CB BKN035 OVC080
     FM271230 16008KT P6SM VCSH SCT015 BKN035
     FM271800 17013KT P6SM BKN035
     FM280200 15005KT P6SM SCT045 BKN250
     FM280700 VRB03KT 5SM BR BKN015=



000
FTUS44 KHGX 271120
TAFCXO
TAF
KCXO 271120Z 2712/2812 06009KT P6SM -TSRA BKN015CB BKN035 OVC080
     FM271230 16008KT P6SM VCSH SCT015 BKN035
     FM271800 17013KT P6SM BKN035
     FM280200 15005KT P6SM SCT045 BKN250
     FM280700 VRB03KT 5SM BR BKN015=



000
FTUS44 KHGX 271120
TAFLBX
TAFLBX
TAF
KLBX 271120Z 2712/2812 17009KT P6SM VCSH BKN015 OVC035
     FM271600 12009KT P6SM SCT025 BKN035
     FM271800 14011KT P6SM SCT035 BKN080
     FM280200 15005KT P6SM SCT025
     FM280600 15005KT P6SM SCT015 BKN025 BKN050=



000
FTUS44 KHGX 271120
TAFGLS
TAF
KGLS 271120Z 2712/2812 15012KT P6SM VCSH SCT009 BKN015 OVC080
     FM271600 12010KT P6SM BKN025
     FM271900 14013KT P6SM SCT025
     FM272300 15013KT P6SM SCT025 BKN250
     FM280500 15014KT P6SM SCT025 BKN050=



000
FTUS44 KHGX 271120
TAFHOU
TAF
KHOU 271120Z 2712/2812 15006KT P6SM -TSRA SCT015CB BKN035
      TEMPO 2712/2714 VRB12G22KT 2SM +TSRA BR BKN015CB OVC025
     FM271500 11007KT P6SM SCT035 BKN080
     FM271900 14010KT P6SM BKN035
     FM280200 13008KT P6SM SCT025
     FM280600 13006KT P6SM BKN025=



000
FTUS44 KHGX 271120
TAFUTS
TAF
KUTS 271120Z 2712/2812 11007KT P6SM -RA SCT025 BKN110
     FM271500 12006KT P6SM SCT025 BKN035
     FM271800 17006KT P6SM BKN035
     FM280200 15003KT P6SM SCT035 BKN050 BKN250
     FM280600 VRB03KT P6SM SCT015 OVC025=



000
FTUS44 KHGX 271120
TAFLBX
TAF
KLBX 271120Z 2712/2812 17009KT P6SM VCSH BKN015 OVC035
     FM271600 12009KT P6SM SCT025 BKN035
     FM271800 14011KT P6SM SCT035 BKN080
     FM280200 15005KT P6SM SCT025
     FM280600 15005KT P6SM SCT015 BKN025 BKN050=



000
FTUS44 KHGX 271120
TAFCLL
TAF
KCLL 271120Z 2712/2812 05008KT P6SM VCTS SCT035CB BKN060 BKN080
     FM271500 10006KT P6SM SCT025 BKN035
     FM271800 17014KT P6SM BKN035
     FM280200 16008KT P6SM SCT035 SCT050 BKN250
     FM280600 15005KT P6SM SCT015 OVC025=



000
FTUS44 KHGX 271120
TAFHOU
TAFHOU
TAF COR
KHOU 271120Z 2712/2812 VRB25KT 4SM TSRA SCT015CB BKN035
     FM271400 11007KT P6SM SCT035 BKN080
     FM271900 14010KT P6SM BKN035
     FM280200 13008KT P6SM SCT025
     FM280600 13006KT P6SM BKN025=



000
FTUS44 KHGX 271120
TAFGLS
TAF
KGLS 271120Z 2712/2812 15012KT P6SM VCSH SCT009 BKN015 OVC080
     FM271600 12010KT P6SM BKN025
     FM271900 14013KT P6SM SCT025
     FM272300 15013KT P6SM SCT025 BKN250
     FM280500 15014KT P6SM SCT025 BKN050=



000
FTUS44 KHGX 271120
TAFLBX
TAF
KLBX 271120Z 2712/2812 17009KT P6SM VCSH BKN015 OVC035
     FM271600 12009KT P6SM SCT025 BKN035
     FM271800 14011KT P6SM SCT035 BKN080
     FM280200 15005KT P6SM SCT025
     FM280600 15005KT P6SM SCT015 BKN025 BKN050=



000
FTUS44 KHGX 271120
TAFUTS
TAF
KUTS 271120Z 2712/2812 11007KT P6SM -RA SCT025 BKN110
     FM271500 12006KT P6SM SCT025 BKN035
     FM271800 17006KT P6SM BKN035
     FM280200 15003KT P6SM SCT035 BKN050 BKN250
     FM280600 VRB03KT P6SM SCT015 OVC025=



000
FTUS44 KHGX 271120
TAFSGR
TAF
KSGR 271120Z 2712/2812 14006KT P6SM VCTS BKN015CB BKN070
      TEMPO 2712/2714 VRB15G25KT 4SM TSRA BKN015CB
     FM271500 11007KT P6SM SCT025 BKN035
     FM271800 15008KT P6SM VCSH BKN035
     FM280200 14005KT P6SM SCT025
     FM280600 13006KT P6SM BKN025=



000
FTUS44 KHGX 271120
TAFGLS
TAF
KGLS 271120Z 2712/2812 15012KT P6SM VCSH SCT009 BKN015 OVC080
     FM271600 12010KT P6SM BKN025
     FM271900 14013KT P6SM SCT025
     FM272300 15013KT P6SM SCT025 BKN250
     FM280500 15014KT P6SM SCT025 BKN050=



000
FTUS44 KHGX 271120
TAFSGR
TAF
KSGR 271120Z 2712/2812 14006KT P6SM VCTS BKN015CB BKN070
      TEMPO 2712/2714 VRB15G25KT 4SM TSRA BKN015CB
     FM271500 11007KT P6SM SCT025 BKN035
     FM271800 15008KT P6SM VCSH BKN035
     FM280200 14005KT P6SM SCT025
     FM280600 13006KT P6SM BKN025=



000
FTUS44 KHGX 271120
TAFIAH
TAF
KIAH 271120Z 2712/2818 04009KT P6SM -TSRA SCT015CB OVC025
      TEMPO 2712/2714 VRB15G25KT 1SM +TSRA BKN015CB OVC035
     FM271500 11007KT P6SM SCT015 BKN035
     FM271900 14010KT P6SM BKN035
     FM280200 13008KT P6SM SCT025
     FM280600 13006KT P6SM BKN025
     FM281500 14010KT P6SM SCT025 BKN035=



000
FTUS44 KHGX 271120
TAFHOU
TAF
KHOU 271120Z 2712/2812 15006KT P6SM -TSRA SCT015CB BKN035
      TEMPO 2712/2714 VRB12G22KT 2SM +TSRA BR BKN015CB OVC025
     FM271500 11007KT P6SM SCT035 BKN080
     FM271900 14010KT P6SM BKN035
     FM280200 13008KT P6SM SCT025
     FM280600 13006KT P6SM BKN025=



000
FTUS44 KHGX 271120
TAFGLS
TAF
KGLS 271120Z 2712/2812 15012KT P6SM VCSH SCT009 BKN015 OVC080
     FM271600 12010KT P6SM BKN025
     FM271900 14013KT P6SM SCT025
     FM272300 15013KT P6SM SCT025 BKN250
     FM280500 15014KT P6SM SCT025 BKN050=



000
FTUS44 KHGX 271120
TAFCLL
TAF
KCLL 271120Z 2712/2812 05008KT P6SM VCTS SCT035CB BKN060 BKN080
     FM271500 10006KT P6SM SCT025 BKN035
     FM271800 17014KT P6SM BKN035
     FM280200 16008KT P6SM SCT035 SCT050 BKN250
     FM280600 15005KT P6SM SCT015 OVC025=



000
FTUS44 KHGX 271120
TAFHOU
TAFHOU
TAF COR
KHOU 271120Z 2712/2812 VRB25KT 4SM TSRA SCT015CB BKN035
     FM271400 11007KT P6SM SCT035 BKN080
     FM271900 14010KT P6SM BKN035
     FM280200 13008KT P6SM SCT025
     FM280600 13006KT P6SM BKN025=



000
FTUS44 KHGX 271120 CCA
TAFHOU
TAF COR
KHOU 271120Z 2712/2812 VRB25KT 4SM TSRA SCT015CB BKN035
     FM271400 11007KT P6SM SCT035 BKN080
     FM271900 14010KT P6SM BKN035
     FM280200 13008KT P6SM SCT025
     FM280600 13006KT P6SM BKN025=



000
FTUS44 KHGX 271120
TAFIAH
TAF
KIAH 271120Z 2712/2818 04009KT P6SM -TSRA SCT015CB OVC025
      TEMPO 2712/2714 VRB15G25KT 1SM +TSRA BKN015CB OVC035
     FM271500 11007KT P6SM SCT015 BKN035
     FM271900 14010KT P6SM BKN035
     FM280200 13008KT P6SM SCT025
     FM280600 13006KT P6SM BKN025
     FM281500 14010KT P6SM SCT025 BKN035=



000
FTUS44 KHGX 271120
TAFSGR
TAF
KSGR 271120Z 2712/2812 14006KT P6SM VCTS BKN015CB BKN070
      TEMPO 2712/2714 VRB15G25KT 4SM TSRA BKN015CB
     FM271500 11007KT P6SM SCT025 BKN035
     FM271800 15008KT P6SM VCSH BKN035
     FM280200 14005KT P6SM SCT025
     FM280600 13006KT P6SM BKN025=



000
FTUS44 KHGX 271120 CCA
TAFHOU
TAF COR
KHOU 271120Z 2712/2812 VRB25KT 4SM TSRA SCT015CB BKN035
     FM271400 11007KT P6SM SCT035 BKN080
     FM271900 14010KT P6SM BKN035
     FM280200 13008KT P6SM SCT025
     FM280600 13006KT P6SM BKN025=



000
FTUS44 KHGX 271120
TAFHOU
TAF
KHOU 271120Z 2712/2812 15006KT P6SM -TSRA SCT015CB BKN035
      TEMPO 2712/2714 VRB12G22KT 2SM +TSRA BR BKN015CB OVC025
     FM271500 11007KT P6SM SCT035 BKN080
     FM271900 14010KT P6SM BKN035
     FM280200 13008KT P6SM SCT025
     FM280600 13006KT P6SM BKN025=



000
FTUS44 KHGX 271120
TAFHOU
TAFHOU
TAF
KHOU 271120Z 2712/2812 15006KT P6SM -TSRA SCT015CB BKN035
      TEMPO 2712/2714 VRB12G22KT 2SM +TSRA BR BKN015CB OVC025
     FM271500 11007KT P6SM SCT035 BKN080
     FM271900 14010KT P6SM BKN035
     FM280200 13008KT P6SM SCT025
     FM280600 13006KT P6SM BKN025=



000
FTUS44 KHGX 271119
TAFHOU
TAFHOU
TAF COR
KHOU 271119Z 2709/2806 15006KT P6SM VCSH SCT015 BKN035
      TEMPO 2710/2714 VRB15G30KT 4SM TSRA BR BKN015CB OVC025
     FM271500 14008KT P6SM BKN035
     FM271900 14010KT P6SM VCSH BKN035
     FM280200 13004KT P6SM SCT025=



000
FTUS44 KHGX 271119 CCA
TAFHOU
TAF COR
KHOU 271119Z 2709/2806 15006KT P6SM VCSH SCT015 BKN035
      TEMPO 2710/2714 VRB15G30KT 4SM TSRA BR BKN015CB OVC025
     FM271500 14008KT P6SM BKN035
     FM271900 14010KT P6SM VCSH BKN035
     FM280200 13004KT P6SM SCT025=



000
FTUS44 KHGX 271119
TAFHOU
TAFHOU
TAF COR
KHOU 271119Z 2709/2806 15006KT P6SM VCSH SCT015 BKN035
      TEMPO 2710/2714 VRB15G30KT 4SM TSRA BR BKN015CB OVC025
     FM271500 14008KT P6SM BKN035
     FM271900 14010KT P6SM VCSH BKN035
     FM280200 13004KT P6SM SCT025=



000
FTUS44 KHGX 271119 CCA
TAFHOU
TAF COR
KHOU 271119Z 2709/2806 15006KT P6SM VCSH SCT015 BKN035
      TEMPO 2710/2714 VRB15G30KT 4SM TSRA BR BKN015CB OVC025
     FM271500 14008KT P6SM BKN035
     FM271900 14010KT P6SM VCSH BKN035
     FM280200 13004KT P6SM SCT025=



000
FTUS44 KHGX 271119 CCA
TAFHOU
TAF COR
KHOU 271119Z 2709/2806 15006KT P6SM VCSH SCT015 BKN035
      TEMPO 2710/2714 VRB15G30KT 4SM TSRA BR BKN015CB OVC025
     FM271500 14008KT P6SM BKN035
     FM271900 14010KT P6SM VCSH BKN035
     FM280200 13004KT P6SM SCT025=



000
FTUS44 KHGX 271040
TAFGLS
TAFGLS
TAF AMD
KGLS 271040Z 2711/2806 15012KT P6SM BKN009 BKN015 OVC080
     FM271600 12010KT P6SM BKN025
     FM271900 14014KT P6SM SCT025=



000
FTUS44 KHGX 271040 AAC
TAFGLS
TAF AMD
KGLS 271040Z 2711/2806 15012KT P6SM BKN009 BKN015 OVC080
     FM271600 12010KT P6SM BKN025
     FM271900 14014KT P6SM SCT025=



000
FTUS44 KHGX 271007 AAB
TAFSGR
TAF AMD
KSGR 271007Z 2710/2806 14006KT P6SM VCSH SCT015 BKN070
      TEMPO 2710/2713 VRB15G25KT 4SM TSRA BKN015CB
     FM271500 14008KT P6SM SCT025 BKN035
     FM271800 15008KT P6SM VCSH BKN035
     FM280200 14005KT P6SM SCT025=



000
FTUS44 KHGX 271007 AAB
TAFSGR
TAF AMD
KSGR 271007Z 2710/2806 14006KT P6SM VCSH SCT015 BKN070
      TEMPO 2710/2713 VRB15G25KT 4SM TSRA BKN015CB
     FM271500 14008KT P6SM SCT025 BKN035
     FM271800 15008KT P6SM VCSH BKN035
     FM280200 14005KT P6SM SCT025=



000
FTUS44 KHGX 271007
TAFSGR
TAFSGR
TAF AMD
KSGR 271007Z 2710/2806 14006KT P6SM VCSH SCT015 BKN070
      TEMPO 2710/2713 VRB15G25KT 4SM TSRA BKN015CB
     FM271500 14008KT P6SM SCT025 BKN035
     FM271800 15008KT P6SM VCSH BKN035
     FM280200 14005KT P6SM SCT025=



000
FTUS44 KHGX 271003
TAFGLS
TAFGLS
TAF AMD
KGLS 271003Z 2710/2806 15012KT P6SM SCT009 BKN015 OVC080
     FM271600 12010KT P6SM BKN025
     FM271900 14014KT P6SM SCT025=



000
FTUS44 KHGX 271003 AAB
TAFGLS
TAF AMD
KGLS 271003Z 2710/2806 15012KT P6SM SCT009 BKN015 OVC080
     FM271600 12010KT P6SM BKN025
     FM271900 14014KT P6SM SCT025=



000
FTUS44 KHGX 271002
TAFUTS
TAFUTS
TAF AMD
KUTS 271002Z 2710/2806 08007KT P6SM -TSRA SCT015CB BKN080
     FM271130 15005KT 6SM BR BKN015
     FM271500 16005KT P6SM BKN025
     FM271800 17006KT P6SM VCSH BKN035
     FM280200 15003KT P6SM BKN045=



000
FTUS44 KHGX 271002 AAB
TAFUTS
TAF AMD
KUTS 271002Z 2710/2806 08007KT P6SM -TSRA SCT015CB BKN080
     FM271130 15005KT 6SM BR BKN015
     FM271500 16005KT P6SM BKN025
     FM271800 17006KT P6SM VCSH BKN035
     FM280200 15003KT P6SM BKN045=



000
FTUS44 KHGX 271002 AAB
TAFUTS
TAF AMD
KUTS 271002Z 2710/2806 08007KT P6SM -TSRA SCT015CB BKN080
     FM271130 15005KT 6SM BR BKN015
     FM271500 16005KT P6SM BKN025
     FM271800 17006KT P6SM VCSH BKN035
     FM280200 15003KT P6SM BKN045=



000
FTUS44 KHGX 271001
TAFCXO
TAFCXO
TAF AMD
KCXO 271001Z 2710/2806 00000KT P6SM VCTS BKN015CB OVC025
      TEMPO 2710/2712 VRB20KT 1SM +TSRA BKN015CB
     FM271400 16008KT P6SM SCT015 BKN035
     FM271800 17014KT P6SM VCSH BKN035=



000
FTUS44 KHGX 271001 AAC
TAFCXO
TAF AMD
KCXO 271001Z 2710/2806 00000KT P6SM VCTS BKN015CB OVC025
      TEMPO 2710/2712 VRB20KT 1SM +TSRA BKN015CB
     FM271400 16008KT P6SM SCT015 BKN035
     FM271800 17014KT P6SM VCSH BKN035=



000
FTUS44 KHGX 271001 AAC
TAFCXO
TAF AMD
KCXO 271001Z 2710/2806 00000KT P6SM VCTS BKN015CB OVC025
      TEMPO 2710/2712 VRB20KT 1SM +TSRA BKN015CB
     FM271400 16008KT P6SM SCT015 BKN035
     FM271800 17014KT P6SM VCSH BKN035=



000
FTUS44 KHGX 271001 AAC
TAFCXO
TAF AMD
KCXO 271001Z 2710/2806 00000KT P6SM VCTS BKN015CB OVC025
      TEMPO 2710/2712 VRB20KT 1SM +TSRA BKN015CB
     FM271400 16008KT P6SM SCT015 BKN035
     FM271800 17014KT P6SM VCSH BKN035=



000
FTUS44 KHGX 271001 AAC
TAFCXO
TAF AMD
KCXO 271001Z 2710/2806 00000KT P6SM VCTS BKN015CB OVC025
      TEMPO 2710/2712 VRB20KT 1SM +TSRA BKN015CB
     FM271400 16008KT P6SM SCT015 BKN035
     FM271800 17014KT P6SM VCSH BKN035=



000
FTUS44 KHGX 270927
TAFCLL
TAFCLL
TAF AMD
KCLL 270927Z 2709/2806 05010KT P6SM -RA SCT015 BKN045
     FM271100 15007KT 6SM BR FEW006 BKN015
     FM271500 16008KT P6SM BKN025
     FM271800 18014KT P6SM VCSH BKN035
     FM280200 13005KT P6SM BKN045=



000
FTUS44 KHGX 270927 AAC
TAFCLL
TAF AMD
KCLL 270927Z 2709/2806 05010KT P6SM -RA SCT015 BKN045
     FM271100 15007KT 6SM BR FEW006 BKN015
     FM271500 16008KT P6SM BKN025
     FM271800 18014KT P6SM VCSH BKN035
     FM280200 13005KT P6SM BKN045=



000
FTUS44 KHGX 270845 AAA
TAFSGR
TAF AMD
KSGR 270845Z 2709/2806 14008KT P6SM VCSH SCT015 BKN035
      TEMPO 2709/2713 VRB15G25KT 4SM TSRA BKN015CB
     FM271500 14008KT P6SM SCT025 BKN035
     FM271800 15008KT P6SM VCSH BKN035
     FM280200 14005KT P6SM SCT025=



000
FTUS44 KHGX 270845 AAA
TAFSGR
TAF AMD
KSGR 270845Z 2709/2806 14008KT P6SM VCSH SCT015 BKN035
      TEMPO 2709/2713 VRB15G25KT 4SM TSRA BKN015CB
     FM271500 14008KT P6SM SCT025 BKN035
     FM271800 15008KT P6SM VCSH BKN035
     FM280200 14005KT P6SM SCT025=



000
FTUS44 KHGX 270845
TAFSGR
TAFSGR
TAF AMD
KSGR 270845Z 2709/2806 14008KT P6SM VCSH SCT015 BKN035
      TEMPO 2709/2713 VRB15G25KT 4SM TSRA BKN015CB
     FM271500 14008KT P6SM SCT025 BKN035
     FM271800 15008KT P6SM VCSH BKN035
     FM280200 14005KT P6SM SCT025=



000
FTUS44 KHGX 270844 AAB
TAFHOU
TAF AMD
KHOU 270844Z 2709/2806 15006KT P6SM VCSH SCT015 BKN035
      TEMPO 2710/2714 VRB12G22KT 4SM TSRA BR BKN015CB OVC025
     FM271500 14008KT P6SM BKN035
     FM271900 14010KT P6SM VCSH BKN035
     FM280200 13004KT P6SM SCT025=



000
FTUS44 KHGX 270844 AAB
TAFHOU
TAF AMD
KHOU 270844Z 2709/2806 15006KT P6SM VCSH SCT015 BKN035
      TEMPO 2710/2714 VRB12G22KT 4SM TSRA BR BKN015CB OVC025
     FM271500 14008KT P6SM BKN035
     FM271900 14010KT P6SM VCSH BKN035
     FM280200 13004KT P6SM SCT025=



000
FTUS44 KHGX 270844 AAB
TAFHOU
TAF AMD
KHOU 270844Z 2709/2806 15006KT P6SM VCSH SCT015 BKN035
      TEMPO 2710/2714 VRB12G22KT 4SM TSRA BR BKN015CB OVC025
     FM271500 14008KT P6SM BKN035
     FM271900 14010KT P6SM VCSH BKN035
     FM280200 13004KT P6SM SCT025=



000
FTUS44 KHGX 270844 AAB
TAFHOU
TAF AMD
KHOU 270844Z 2709/2806 15006KT P6SM VCSH SCT015 BKN035
      TEMPO 2710/2714 VRB12G22KT 4SM TSRA BR BKN015CB OVC025
     FM271500 14008KT P6SM BKN035
     FM271900 14010KT P6SM VCSH BKN035
     FM280200 13004KT P6SM SCT025=



000
FTUS44 KHGX 270844
TAFHOU
TAFHOU
TAF AMD
KHOU 270844Z 2709/2806 15006KT P6SM VCSH SCT015 BKN035
      TEMPO 2710/2714 VRB12G22KT 4SM TSRA BR BKN015CB OVC025
     FM271500 14008KT P6SM BKN035
     FM271900 14010KT P6SM VCSH BKN035
     FM280200 13004KT P6SM SCT025=



000
FTUS44 KHGX 270839 AAA
TAFIAH
TAF AMD
KIAH 270839Z 2709/2812 13007KT P6SM VCSH BKN015 OVC025
      TEMPO 2709/2713 VRB15G25KT 3SM TSRA BKN015CB OVC035
     FM271400 14008KT P6SM SCT015 BKN035
     FM271900 14010KT P6SM VCSH BKN035
     FM280200 13008KT P6SM SCT025=



000
FTUS44 KHGX 270839 AAA
TAFIAH
TAF AMD
KIAH 270839Z 2709/2812 13007KT P6SM VCSH BKN015 OVC025
      TEMPO 2709/2713 VRB15G25KT 3SM TSRA BKN015CB OVC035
     FM271400 14008KT P6SM SCT015 BKN035
     FM271900 14010KT P6SM VCSH BKN035
     FM280200 13008KT P6SM SCT025=



000
FTUS44 KHGX 270837 AAB
TAFCXO
TAF AMD
KCXO 270837Z 2709/2806 00000KT P6SM VCTS BKN015CB OVC025
      TEMPO 2709/2712 VRB20KT 3SM TSRA BKN015CB
     FM271400 16008KT P6SM SCT015 BKN035
     FM271800 17014KT P6SM VCSH BKN035=



000
FTUS44 KHGX 270837 AAB
TAFCXO
TAF AMD
KCXO 270837Z 2709/2806 00000KT P6SM VCTS BKN015CB OVC025
      TEMPO 2709/2712 VRB20KT 3SM TSRA BKN015CB
     FM271400 16008KT P6SM SCT015 BKN035
     FM271800 17014KT P6SM VCSH BKN035=



000
FTUS44 KHGX 270837 AAB
TAFCXO
TAF AMD
KCXO 270837Z 2709/2806 00000KT P6SM VCTS BKN015CB OVC025
      TEMPO 2709/2712 VRB20KT 3SM TSRA BKN015CB
     FM271400 16008KT P6SM SCT015 BKN035
     FM271800 17014KT P6SM VCSH BKN035=



000
FTUS44 KHGX 270837
TAFCXO
TAFCXO
TAF AMD
KCXO 270837Z 2709/2806 00000KT P6SM VCTS BKN015CB OVC025
      TEMPO 2709/2712 VRB20KT 3SM TSRA BKN015CB
     FM271400 16008KT P6SM SCT015 BKN035
     FM271800 17014KT P6SM VCSH BKN035=



000
FTUS44 KHGX 270837
TAFCXO
TAFCXO
TAF AMD
KCXO 270837Z 2709/2806 00000KT P6SM VCTS BKN015CB OVC025
      TEMPO 2709/2712 VRB20KT 3SM TSRA BKN015CB
     FM271400 16008KT P6SM SCT015 BKN035
     FM271800 17014KT P6SM VCSH BKN035=



000
FTUS44 KHGX 270829
TAFUTS
TAFUTS
TAF AMD
KUTS 270829Z 2708/2806 VRB15G25KT 4SM TSRA BKN015CB OVC035
     FM271100 15005KT 6SM BR BKN015
     FM271500 16005KT P6SM BKN025
     FM271800 17006KT P6SM VCSH BKN035
     FM280200 15003KT P6SM BKN045=



000
FTUS44 KHGX 270829 AAB
TAFCLL
TAF AMD
KCLL 270829Z 2708/2806 VRB15G25KT 2SM TSRA BKN015CB OVC035
     FM271100 15007KT 6SM BR FEW006 BKN015
     FM271500 16008KT P6SM BKN025
     FM271800 18014KT P6SM VCSH BKN035
     FM280200 13005KT P6SM BKN045=



000
FTUS44 KHGX 270829
TAFCLL
TAFCLL
TAF AMD
KCLL 270829Z 2708/2806 VRB15G25KT 2SM TSRA BKN015CB OVC035
     FM271100 15007KT 6SM BR FEW006 BKN015
     FM271500 16008KT P6SM BKN025
     FM271800 18014KT P6SM VCSH BKN035
     FM280200 13005KT P6SM BKN045=



000
FTUS44 KHGX 270829 AAB
TAFCLL
TAF AMD
KCLL 270829Z 2708/2806 VRB15G25KT 2SM TSRA BKN015CB OVC035
     FM271100 15007KT 6SM BR FEW006 BKN015
     FM271500 16008KT P6SM BKN025
     FM271800 18014KT P6SM VCSH BKN035
     FM280200 13005KT P6SM BKN045=



000
FTUS44 KHGX 270829 AAB
TAFCLL
TAF AMD
KCLL 270829Z 2708/2806 VRB15G25KT 2SM TSRA BKN015CB OVC035
     FM271100 15007KT 6SM BR FEW006 BKN015
     FM271500 16008KT P6SM BKN025
     FM271800 18014KT P6SM VCSH BKN035
     FM280200 13005KT P6SM BKN045=



000
FTUS44 KHGX 270829 AAA
TAFUTS
TAF AMD
KUTS 270829Z 2708/2806 VRB15G25KT 4SM TSRA BKN015CB OVC035
     FM271100 15005KT 6SM BR BKN015
     FM271500 16005KT P6SM BKN025
     FM271800 17006KT P6SM VCSH BKN035
     FM280200 15003KT P6SM BKN045=



000
FTUS44 KHGX 270829 AAA
TAFUTS
TAF AMD
KUTS 270829Z 2708/2806 VRB15G25KT 4SM TSRA BKN015CB OVC035
     FM271100 15005KT 6SM BR BKN015
     FM271500 16005KT P6SM BKN025
     FM271800 17006KT P6SM VCSH BKN035
     FM280200 15003KT P6SM BKN045=



000
FTUS44 KHGX 270530 AAA
TAFGLS
TAF AMD
KGLS 270530Z 2706/2806 14015KT P6SM FEW015 SCT022 OVC035
     FM270900 15014KT P6SM VCSH BKN025
     FM271600 12010KT P6SM BKN025
     FM271900 14014KT P6SM SCT025=



000
FTUS44 KHGX 270530
TAFHOU
TAFHOU
TAF AMD
KHOU 270530Z 2706/2806 13006KT P6SM BKN015 OVC025
     FM270900 15006KT P6SM BKN020
     FM271500 14008KT P6SM BKN035
     FM271900 14010KT P6SM VCSH BKN035
     FM280200 13004KT P6SM SCT025=



000
FTUS44 KHGX 270530 AAA
TAFHOU
TAF AMD
KHOU 270530Z 2706/2806 13006KT P6SM BKN015 OVC025
     FM270900 15006KT P6SM BKN020
     FM271500 14008KT P6SM BKN035
     FM271900 14010KT P6SM VCSH BKN035
     FM280200 13004KT P6SM SCT025=



000
FTUS44 KHGX 270530
TAFHOU
TAFHOU
TAF AMD
KHOU 270530Z 2706/2806 13006KT P6SM BKN015 OVC025
     FM270900 15006KT P6SM BKN020
     FM271500 14008KT P6SM BKN035
     FM271900 14010KT P6SM VCSH BKN035
     FM280200 13004KT P6SM SCT025=



000
FTUS44 KHGX 270530 AAA
TAFHOU
TAF AMD
KHOU 270530Z 2706/2806 13006KT P6SM BKN015 OVC025
     FM270900 15006KT P6SM BKN020
     FM271500 14008KT P6SM BKN035
     FM271900 14010KT P6SM VCSH BKN035
     FM280200 13004KT P6SM SCT025=



000
FTUS44 KHGX 270530 AAA
TAFHOU
TAF AMD
KHOU 270530Z 2706/2806 13006KT P6SM BKN015 OVC025
     FM270900 15006KT P6SM BKN020
     FM271500 14008KT P6SM BKN035
     FM271900 14010KT P6SM VCSH BKN035
     FM280200 13004KT P6SM SCT025=



000
FTUS44 KHGX 270530 AAA
TAFHOU
TAF AMD
KHOU 270530Z 2706/2806 13006KT P6SM BKN015 OVC025
     FM270900 15006KT P6SM BKN020
     FM271500 14008KT P6SM BKN035
     FM271900 14010KT P6SM VCSH BKN035
     FM280200 13004KT P6SM SCT025=



000
FTUS44 KHGX 270530
TAFGLS
TAFGLS
TAF AMD
KGLS 270530Z 2706/2806 14015KT P6SM FEW015 SCT022 OVC035
     FM270900 15014KT P6SM VCSH BKN025
     FM271600 12010KT P6SM BKN025
     FM271900 14014KT P6SM SCT025=



000
FTUS44 KHGX 270530 AAA
TAFGLS
TAF AMD
KGLS 270530Z 2706/2806 14015KT P6SM FEW015 SCT022 OVC035
     FM270900 15014KT P6SM VCSH BKN025
     FM271600 12010KT P6SM BKN025
     FM271900 14014KT P6SM SCT025=



000
FTUS44 KHGX 270530
TAFGLS
TAFGLS
TAF AMD
KGLS 270530Z 2706/2806 14015KT P6SM FEW015 SCT022 OVC035
     FM270900 15014KT P6SM VCSH BKN025
     FM271600 12010KT P6SM BKN025
     FM271900 14014KT P6SM SCT025=



000
FTUS44 KHGX 270530 AAA
TAFGLS
TAF AMD
KGLS 270530Z 2706/2806 14015KT P6SM FEW015 SCT022 OVC035
     FM270900 15014KT P6SM VCSH BKN025
     FM271600 12010KT P6SM BKN025
     FM271900 14014KT P6SM SCT025=



000
FTUS44 KHGX 270529
TAFCXO
TAFCXO
TAF AMD
KCXO 270529Z 2705/2806 13006KT P6SM BKN015 OVC025
     FM270900 00000KT 6SM BR BKN010
     FM271500 16008KT P6SM BKN015
     FM271800 17014KT P6SM VCSH BKN035=



000
FTUS44 KHGX 270529
TAFCLL
TAFCLL
TAF AMD
KCLL 270529Z 2705/2806 15009KT P6SM OVC015
     FM270900 15007KT 6SM BR FEW006 BKN015
     FM271500 16008KT P6SM BKN025
     FM271800 18014KT P6SM VCSH BKN035
     FM280200 13005KT P6SM BKN045=



000
FTUS44 KHGX 270529 AAA
TAFCXO
TAF AMD
KCXO 270529Z 2705/2806 13006KT P6SM BKN015 OVC025
     FM270900 00000KT 6SM BR BKN010
     FM271500 16008KT P6SM BKN015
     FM271800 17014KT P6SM VCSH BKN035=



000
FTUS44 KHGX 270529 AAA
TAFCXO
TAF AMD
KCXO 270529Z 2705/2806 13006KT P6SM BKN015 OVC025
     FM270900 00000KT 6SM BR BKN010
     FM271500 16008KT P6SM BKN015
     FM271800 17014KT P6SM VCSH BKN035=



000
FTUS44 KHGX 270529 AAA
TAFCXO
TAF AMD
KCXO 270529Z 2705/2806 13006KT P6SM BKN015 OVC025
     FM270900 00000KT 6SM BR BKN010
     FM271500 16008KT P6SM BKN015
     FM271800 17014KT P6SM VCSH BKN035=



000
FTUS44 KHGX 270529 AAA
TAFCXO
TAF AMD
KCXO 270529Z 2705/2806 13006KT P6SM BKN015 OVC025
     FM270900 00000KT 6SM BR BKN010
     FM271500 16008KT P6SM BKN015
     FM271800 17014KT P6SM VCSH BKN035=



000
FTUS44 KHGX 270529
TAFCLL
TAFCLL
TAF AMD
KCLL 270529Z 2705/2806 15009KT P6SM OVC015
     FM270900 15007KT 6SM BR FEW006 BKN015
     FM271500 16008KT P6SM BKN025
     FM271800 18014KT P6SM VCSH BKN035
     FM280200 13005KT P6SM BKN045=



000
FTUS44 KHGX 270529 AAA
TAFCLL
TAF AMD
KCLL 270529Z 2705/2806 15009KT P6SM OVC015
     FM270900 15007KT 6SM BR FEW006 BKN015
     FM271500 16008KT P6SM BKN025
     FM271800 18014KT P6SM VCSH BKN035
     FM280200 13005KT P6SM BKN045=



000
FTUS44 KHGX 270529 AAA
TAFCLL
TAF AMD
KCLL 270529Z 2705/2806 15009KT P6SM OVC015
     FM270900 15007KT 6SM BR FEW006 BKN015
     FM271500 16008KT P6SM BKN025
     FM271800 18014KT P6SM VCSH BKN035
     FM280200 13005KT P6SM BKN045=



000
FTUS44 KHGX 270529 AAA
TAFCLL
TAF AMD
KCLL 270529Z 2705/2806 15009KT P6SM OVC015
     FM270900 15007KT 6SM BR FEW006 BKN015
     FM271500 16008KT P6SM BKN025
     FM271800 18014KT P6SM VCSH BKN035
     FM280200 13005KT P6SM BKN045=



000
FTUS44 KHGX 270529 AAA
TAFCLL
TAF AMD
KCLL 270529Z 2705/2806 15009KT P6SM OVC015
     FM270900 15007KT 6SM BR FEW006 BKN015
     FM271500 16008KT P6SM BKN025
     FM271800 18014KT P6SM VCSH BKN035
     FM280200 13005KT P6SM BKN045=



000
FTUS44 KHGX 270529
TAFCXO
TAFCXO
TAF AMD
KCXO 270529Z 2705/2806 13006KT P6SM BKN015 OVC025
     FM270900 00000KT 6SM BR BKN010
     FM271500 16008KT P6SM BKN015
     FM271800 17014KT P6SM VCSH BKN035=



000
FTUS44 KHGX 270520
TAFLBX
TAFLBX
TAF
KLBX 270520Z 2706/2806 15010KT P6SM BKN013 OVC018
     FM271500 14009KT P6SM BKN025
     FM271800 15011KT P6SM VCSH BKN018
     FM280200 13005KT P6SM SCT025=



000
FTUS44 KHGX 270520
TAFUTS
TAFUTS
TAF
KUTS 270520Z 2706/2806 VRB04KT P6SM BKN023
     FM270900 15005KT 6SM BR BKN015
     FM271500 16005KT P6SM BKN025
     FM271800 17006KT P6SM VCSH BKN035
     FM280200 15003KT P6SM BKN045=



000
FTUS44 KHGX 270520
TAFGLS
TAFGLS
TAF
KGLS 270520Z 2706/2806 14014G23KT P6SM FEW015 SCT022 OVC030
     FM270900 15014KT P6SM VCSH BKN025
     FM271600 12010KT P6SM BKN025
     FM271900 14014KT P6SM SCT025=



000
FTUS44 KHGX 270520
TAFLBX
TAF
KLBX 270520Z 2706/2806 15010KT P6SM BKN013 OVC018
     FM271500 14009KT P6SM BKN025
     FM271800 15011KT P6SM VCSH BKN018
     FM280200 13005KT P6SM SCT025=



000
FTUS44 KHGX 270520
TAFCXO
TAFCXO
TAF
KCXO 270520Z 2706/2806 14006KT P6SM BKN020 OVC029
     FM270900 00000KT 6SM BR BKN010
     FM271500 16008KT P6SM BKN015
     FM271800 17014KT P6SM VCSH BKN035=



000
FTUS44 KHGX 270520
TAFIAH
TAFIAH
TAF
KIAH 270520Z 2706/2812 13010KT P6SM OVC018
     FM271500 14008KT P6SM BKN030
     FM271900 14010KT P6SM VCSH BKN035
     FM280200 13008KT P6SM SCT025=



000
FTUS44 KHGX 270520
TAFSGR
TAFSGR
TAF
KSGR 270520Z 2706/2806 14008KT P6SM BKN016 OVC028
     FM270900 15006KT 6SM BR BKN015
     FM271500 14008KT P6SM SCT025 BKN035
     FM271800 15008KT P6SM VCSH BKN035
     FM280200 14005KT P6SM SCT025=



000
FTUS44 KHGX 270520
TAFHOU
TAF
KHOU 270520Z 2706/2806 13006KT P6SM OVC020
     FM270900 15006KT P6SM BKN020
     FM271500 14008KT P6SM BKN035
     FM271900 14010KT P6SM VCSH BKN035
     FM280200 13004KT P6SM SCT025=



000
FTUS44 KHGX 270520
TAFIAH
TAFIAH
TAF
KIAH 270520Z 2706/2812 13010KT P6SM OVC018
     FM271500 14008KT P6SM BKN030
     FM271900 14010KT P6SM VCSH BKN035
     FM280200 13008KT P6SM SCT025=



000
FTUS44 KHGX 270520
TAFCXO
TAF
KCXO 270520Z 2706/2806 14006KT P6SM BKN020 OVC029
     FM270900 00000KT 6SM BR BKN010
     FM271500 16008KT P6SM BKN015
     FM271800 17014KT P6SM VCSH BKN035=



000
FTUS44 KHGX 270520
TAFGLS
TAFGLS
TAF
KGLS 270520Z 2706/2806 14014G23KT P6SM FEW015 SCT022 OVC030
     FM270900 15014KT P6SM VCSH BKN025
     FM271600 12010KT P6SM BKN025
     FM271900 14014KT P6SM SCT025=



000
FTUS44 KHGX 270520
TAFIAH
TAF
KIAH 270520Z 2706/2812 13010KT P6SM OVC018
     FM271500 14008KT P6SM BKN030
     FM271900 14010KT P6SM VCSH BKN035
     FM280200 13008KT P6SM SCT025=



000
FTUS44 KHGX 270520
TAFHOU
TAFHOU
TAF
KHOU 270520Z 2706/2806 13006KT P6SM OVC020
     FM270900 15006KT P6SM BKN020
     FM271500 14008KT P6SM BKN035
     FM271900 14010KT P6SM VCSH BKN035
     FM280200 13004KT P6SM SCT025=



000
FTUS44 KHGX 270520
TAFSGR
TAFSGR
TAF
KSGR 270520Z 2706/2806 14008KT P6SM BKN016 OVC028
     FM270900 15006KT 6SM BR BKN015
     FM271500 14008KT P6SM SCT025 BKN035
     FM271800 15008KT P6SM VCSH BKN035
     FM280200 14005KT P6SM SCT025=



000
FTUS44 KHGX 270520
TAFLBX
TAFLBX
TAF
KLBX 270520Z 2706/2806 15010KT P6SM BKN013 OVC018
     FM271500 14009KT P6SM BKN025
     FM271800 15011KT P6SM VCSH BKN018
     FM280200 13005KT P6SM SCT025=



000
FTUS44 KHGX 270520
TAFCLL
TAF
KCLL 270520Z 2706/2806 15010KT P6SM FEW016 OVC028
     FM270900 15007KT 6SM BR FEW006 BKN015
     FM271500 16008KT P6SM BKN025
     FM271800 18014KT P6SM VCSH BKN035
     FM280200 13005KT P6SM BKN045=



000
FTUS44 KHGX 270520
TAFGLS
TAF
KGLS 270520Z 2706/2806 14014G23KT P6SM FEW015 SCT022 OVC030
     FM270900 15014KT P6SM VCSH BKN025
     FM271600 12010KT P6SM BKN025
     FM271900 14014KT P6SM SCT025=



000
FTUS44 KHGX 270520
TAFCXO
TAF
KCXO 270520Z 2706/2806 14006KT P6SM BKN020 OVC029
     FM270900 00000KT 6SM BR BKN010
     FM271500 16008KT P6SM BKN015
     FM271800 17014KT P6SM VCSH BKN035=



000
FTUS44 KHGX 270520
TAFCLL
TAF
KCLL 270520Z 2706/2806 15010KT P6SM FEW016 OVC028
     FM270900 15007KT 6SM BR FEW006 BKN015
     FM271500 16008KT P6SM BKN025
     FM271800 18014KT P6SM VCSH BKN035
     FM280200 13005KT P6SM BKN045=



000
FTUS44 KHGX 270520
TAFSGR
TAF
KSGR 270520Z 2706/2806 14008KT P6SM BKN016 OVC028
     FM270900 15006KT 6SM BR BKN015
     FM271500 14008KT P6SM SCT025 BKN035
     FM271800 15008KT P6SM VCSH BKN035
     FM280200 14005KT P6SM SCT025=



000
FTUS44 KHGX 270520
TAFUTS
TAF
KUTS 270520Z 2706/2806 VRB04KT P6SM BKN023
     FM270900 15005KT 6SM BR BKN015
     FM271500 16005KT P6SM BKN025
     FM271800 17006KT P6SM VCSH BKN035
     FM280200 15003KT P6SM BKN045=



000
FTUS44 KHGX 270520
TAFIAH
TAF
KIAH 270520Z 2706/2812 13010KT P6SM OVC018
     FM271500 14008KT P6SM BKN030
     FM271900 14010KT P6SM VCSH BKN035
     FM280200 13008KT P6SM SCT025=



000
FTUS44 KHGX 270520
TAFHOU
TAFHOU
TAF
KHOU 270520Z 2706/2806 13006KT P6SM OVC020
     FM270900 15006KT P6SM BKN020
     FM271500 14008KT P6SM BKN035
     FM271900 14010KT P6SM VCSH BKN035
     FM280200 13004KT P6SM SCT025=



000
FTUS44 KHGX 270520
TAFCLL
TAFCLL
TAF
KCLL 270520Z 2706/2806 15010KT P6SM FEW016 OVC028
     FM270900 15007KT 6SM BR FEW006 BKN015
     FM271500 16008KT P6SM BKN025
     FM271800 18014KT P6SM VCSH BKN035
     FM280200 13005KT P6SM BKN045=



000
FTUS44 KHGX 270520
TAFCXO
TAFCXO
TAF
KCXO 270520Z 2706/2806 14006KT P6SM BKN020 OVC029
     FM270900 00000KT 6SM BR BKN010
     FM271500 16008KT P6SM BKN015
     FM271800 17014KT P6SM VCSH BKN035=



000
FTUS44 KHGX 270429 AAA
TAFGLS
TAF AMD
KGLS 270429Z 2704/2724 14014G23KT P6SM FEW015 SCT022 OVC030
     FM270900 15014KT P6SM VCSH BKN025
     FM271600 12010KT P6SM BKN025
     FM271900 14014KT P6SM SCT025=



000
FTUS44 KHGX 270429 AAA
TAFGLS
TAF AMD
KGLS 270429Z 2704/2724 14014G23KT P6SM FEW015 SCT022 OVC030
     FM270900 15014KT P6SM VCSH BKN025
     FM271600 12010KT P6SM BKN025
     FM271900 14014KT P6SM SCT025=



000
FTUS44 KHGX 270429 AAA
TAFGLS
TAF AMD
KGLS 270429Z 2704/2724 14014G23KT P6SM FEW015 SCT022 OVC030
     FM270900 15014KT P6SM VCSH BKN025
     FM271600 12010KT P6SM BKN025
     FM271900 14014KT P6SM SCT025=



000
FTUS44 KHGX 270429 AAA
TAFGLS
TAF AMD
KGLS 270429Z 2704/2724 14014G23KT P6SM FEW015 SCT022 OVC030
     FM270900 15014KT P6SM VCSH BKN025
     FM271600 12010KT P6SM BKN025
     FM271900 14014KT P6SM SCT025=



000
FTUS44 KHGX 270428 AAB
TAFLBX
TAF AMD
KLBX 270428Z 2704/2724 13009KT P6SM SCT016 BKN024 OVC035
     FM270500 15006KT 6SM BR OVC015
     FM271500 14009KT P6SM BKN025
     FM271800 15011KT P6SM VCSH BKN018=



000
FTUS44 KHGX 270428 AAB
TAFLBX
TAF AMD
KLBX 270428Z 2704/2724 13009KT P6SM SCT016 BKN024 OVC035
     FM270500 15006KT 6SM BR OVC015
     FM271500 14009KT P6SM BKN025
     FM271800 15011KT P6SM VCSH BKN018=



000
FTUS44 KHGX 270428 AAB
TAFIAH
TAF AMD
KIAH 270428Z 2704/2806 13010KT P6SM OVC018
     FM271500 14008KT P6SM BKN030
     FM271900 14010KT P6SM VCSH BKN035
     FM280200 13008KT P6SM SCT025=



000
FTUS44 KHGX 270428 AAB
TAFIAH
TAF AMD
KIAH 270428Z 2704/2806 13010KT P6SM OVC018
     FM271500 14008KT P6SM BKN030
     FM271900 14010KT P6SM VCSH BKN035
     FM280200 13008KT P6SM SCT025=



000
FTUS44 KHGX 270428
TAFCLL
TAFCLL
TAF AMD
KCLL 270428Z 2704/2724 15010KT P6SM FEW016 OVC028
     FM270900 15007KT 6SM BR FEW006 BKN015
     FM271500 16008KT P6SM BKN025
     FM271800 18014KT P6SM VCSH BKN035=



000
FTUS44 KHGX 270428
TAFCXO
TAFCXO
TAF AMD
KCXO 270428Z 2704/2724 14006KT P6SM BKN020 OVC029
     FM270900 00000KT 2SM BR BKN010
     FM271500 16008KT P6SM BKN015
     FM271800 17014KT P6SM VCSH BKN035=



000
FTUS44 KHGX 270428 AAA
TAFCXO
TAF AMD
KCXO 270428Z 2704/2724 14006KT P6SM BKN020 OVC029
     FM270900 00000KT 2SM BR BKN010
     FM271500 16008KT P6SM BKN015
     FM271800 17014KT P6SM VCSH BKN035=



000
FTUS44 KHGX 270428 AAA
TAFCXO
TAF AMD
KCXO 270428Z 2704/2724 14006KT P6SM BKN020 OVC029
     FM270900 00000KT 2SM BR BKN010
     FM271500 16008KT P6SM BKN015
     FM271800 17014KT P6SM VCSH BKN035=



000
FTUS44 KHGX 270428 AAA
TAFCLL
TAF AMD
KCLL 270428Z 2704/2724 15010KT P6SM FEW016 OVC028
     FM270900 15007KT 6SM BR FEW006 BKN015
     FM271500 16008KT P6SM BKN025
     FM271800 18014KT P6SM VCSH BKN035=



000
FTUS44 KHGX 270428 AAA
TAFCLL
TAF AMD
KCLL 270428Z 2704/2724 15010KT P6SM FEW016 OVC028
     FM270900 15007KT 6SM BR FEW006 BKN015
     FM271500 16008KT P6SM BKN025
     FM271800 18014KT P6SM VCSH BKN035=



000
FTUS44 KHGX 270428 AAA
TAFCLL
TAF AMD
KCLL 270428Z 2704/2724 15010KT P6SM FEW016 OVC028
     FM270900 15007KT 6SM BR FEW006 BKN015
     FM271500 16008KT P6SM BKN025
     FM271800 18014KT P6SM VCSH BKN035=



000
FTUS44 KHGX 270305 AAA
TAFLBX
TAF AMD
KLBX 270305Z 2703/2724 12010KT P6SM OVC017
     FM270500 15006KT 6SM BR OVC015
     FM271500 14009KT P6SM BKN025
     FM271800 15011KT P6SM VCSH BKN018=



000
FTUS44 KHGX 270305 AAA
TAFLBX
TAF AMD
KLBX 270305Z 2703/2724 12010KT P6SM OVC017
     FM270500 15006KT 6SM BR OVC015
     FM271500 14009KT P6SM BKN025
     FM271800 15011KT P6SM VCSH BKN018=



000
FTUS44 KHGX 270305 AAA
TAFLBX
TAF AMD
KLBX 270305Z 2703/2724 12010KT P6SM OVC017
     FM270500 15006KT 6SM BR OVC015
     FM271500 14009KT P6SM BKN025
     FM271800 15011KT P6SM VCSH BKN018=



000
FTUS44 KHGX 270305
TAFSGR
TAFSGR
TAF AMD
KSGR 270305Z 2703/2724 11005KT P6SM OVC016
     FM270900 15006KT 6SM BR BKN015
     FM271500 14008KT P6SM SCT025 BKN035
     FM271800 15008KT P6SM VCSH BKN035=



000
FTUS44 KHGX 270305 AAA
TAFLBX
TAF AMD
KLBX 270305Z 2703/2724 12010KT P6SM OVC017
     FM270500 15006KT 6SM BR OVC015
     FM271500 14009KT P6SM BKN025
     FM271800 15011KT P6SM VCSH BKN018=



000
FTUS44 KHGX 270305 AAA
TAFSGR
TAF AMD
KSGR 270305Z 2703/2724 11005KT P6SM OVC016
     FM270900 15006KT 6SM BR BKN015
     FM271500 14008KT P6SM SCT025 BKN035
     FM271800 15008KT P6SM VCSH BKN035=



000
FTUS44 KHGX 270305
TAFIAH
TAFIAH
TAF AMD
KIAH 270305Z 2703/2806 13012KT P6SM BKN023 BKN040
     FM270900 15006KT P6SM FEW010 BKN020
     FM271500 14008KT P6SM BKN030
     FM271900 14010KT P6SM VCSH BKN035
     FM280200 13008KT P6SM SCT025=



000
FTUS44 KHGX 270305 AAA
TAFSGR
TAF AMD
KSGR 270305Z 2703/2724 11005KT P6SM OVC016
     FM270900 15006KT 6SM BR BKN015
     FM271500 14008KT P6SM SCT025 BKN035
     FM271800 15008KT P6SM VCSH BKN035=



000
FTUS44 KHGX 270305 AAA
TAFSGR
TAF AMD
KSGR 270305Z 2703/2724 11005KT P6SM OVC016
     FM270900 15006KT 6SM BR BKN015
     FM271500 14008KT P6SM SCT025 BKN035
     FM271800 15008KT P6SM VCSH BKN035=



000
FTUS44 KHGX 270305 AAA
TAFSGR
TAF AMD
KSGR 270305Z 2703/2724 11005KT P6SM OVC016
     FM270900 15006KT 6SM BR BKN015
     FM271500 14008KT P6SM SCT025 BKN035
     FM271800 15008KT P6SM VCSH BKN035=



000
FTUS44 KHGX 270305 AAA
TAFHOU
TAF AMD
KHOU 270305Z 2703/2724 12004KT P6SM BKN020 BKN025 OVC030
     FM270900 15006KT P6SM BKN020
     FM271500 14008KT P6SM BKN035
     FM271900 14010KT P6SM VCSH BKN035=



000
FTUS44 KHGX 270305 AAA
TAFHOU
TAF AMD
KHOU 270305Z 2703/2724 12004KT P6SM BKN020 BKN025 OVC030
     FM270900 15006KT P6SM BKN020
     FM271500 14008KT P6SM BKN035
     FM271900 14010KT P6SM VCSH BKN035=



000
FTUS44 KHGX 270305
TAFLBX
TAFLBX
TAF AMD
KLBX 270305Z 2703/2724 12010KT P6SM OVC017
     FM270500 15006KT 6SM BR OVC015
     FM271500 14009KT P6SM BKN025
     FM271800 15011KT P6SM VCSH BKN018=



000
FTUS44 KHGX 270305
TAFSGR
TAFSGR
TAF AMD
KSGR 270305Z 2703/2724 11005KT P6SM OVC016
     FM270900 15006KT 6SM BR BKN015
     FM271500 14008KT P6SM SCT025 BKN035
     FM271800 15008KT P6SM VCSH BKN035=



000
FTUS44 KHGX 270305
TAFHOU
TAFHOU
TAF AMD
KHOU 270305Z 2703/2724 12004KT P6SM BKN020 BKN025 OVC030
     FM270900 15006KT P6SM BKN020
     FM271500 14008KT P6SM BKN035
     FM271900 14010KT P6SM VCSH BKN035=



000
FTUS44 KHGX 270305 AAA
TAFIAH
TAF AMD
KIAH 270305Z 2703/2806 13012KT P6SM BKN023 BKN040
     FM270900 15006KT P6SM FEW010 BKN020
     FM271500 14008KT P6SM BKN030
     FM271900 14010KT P6SM VCSH BKN035
     FM280200 13008KT P6SM SCT025=



000
FTUS44 KHGX 270305
TAFHOU
TAFHOU
TAF AMD
KHOU 270305Z 2703/2724 12004KT P6SM BKN020 BKN025 OVC030
     FM270900 15006KT P6SM BKN020
     FM271500 14008KT P6SM BKN035
     FM271900 14010KT P6SM VCSH BKN035=



000
FTUS44 KHGX 270305 AAA
TAFIAH
TAF AMD
KIAH 270305Z 2703/2806 13012KT P6SM BKN023 BKN040
     FM270900 15006KT P6SM FEW010 BKN020
     FM271500 14008KT P6SM BKN030
     FM271900 14010KT P6SM VCSH BKN035
     FM280200 13008KT P6SM SCT025=



000
FTUS44 KHGX 270305 AAA
TAFIAH
TAF AMD
KIAH 270305Z 2703/2806 13012KT P6SM BKN023 BKN040
     FM270900 15006KT P6SM FEW010 BKN020
     FM271500 14008KT P6SM BKN030
     FM271900 14010KT P6SM VCSH BKN035
     FM280200 13008KT P6SM SCT025=



000
FTUS44 KHGX 270305
TAFLBX
TAFLBX
TAF AMD
KLBX 270305Z 2703/2724 12010KT P6SM OVC017
     FM270500 15006KT 6SM BR OVC015
     FM271500 14009KT P6SM BKN025
     FM271800 15011KT P6SM VCSH BKN018=



000
FTUS44 KHGX 270305
TAFIAH
TAFIAH
TAF AMD
KIAH 270305Z 2703/2806 13012KT P6SM BKN023 BKN040
     FM270900 15006KT P6SM FEW010 BKN020
     FM271500 14008KT P6SM BKN030
     FM271900 14010KT P6SM VCSH BKN035
     FM280200 13008KT P6SM SCT025=



000
FTUS44 KHGX 262329
TAFHOU
TAF
KHOU 262329Z 2700/2724 16008KT P6SM VCSH BKN020 OVC035
     FM270200 14006KT P6SM SCT025
     FM270900 15006KT P6SM BKN020
     FM271500 14008KT P6SM BKN035
     FM271900 14010KT P6SM VCSH BKN035=



000
FTUS44 KHGX 262329
TAFGLS
TAF
KGLS 262329Z 2700/2724 13016KT P6SM SCT025 SCT035
     FM270900 15009KT P6SM VCSH BKN025
     FM271600 12009KT P6SM BKN025
     FM271900 14014KT P6SM SCT025=



000
FTUS44 KHGX 262329
TAFHOU
TAF
KHOU 262329Z 2700/2724 16008KT P6SM VCSH BKN020 OVC035
     FM270200 14006KT P6SM SCT025
     FM270900 15006KT P6SM BKN020
     FM271500 14008KT P6SM BKN035
     FM271900 14010KT P6SM VCSH BKN035=



000
FTUS44 KHGX 262329
TAFCLL
TAF
KCLL 262329Z 2700/2724 16012KT P6SM FEW028 SCT035
     FM270500 15005KT P6SM SCT025
     FM270900 15007KT 6SM BR FEW006 BKN015
     FM271500 16008KT P6SM BKN025
     FM271800 18014KT P6SM VCSH BKN035=



000
FTUS44 KHGX 262329
TAFIAH
TAF
KIAH 262329Z 2700/2806 14015KT P6SM VCSH BKN023 BKN060
     FM270300 14006KT P6SM SCT025
     FM270900 15006KT P6SM FEW010 BKN020
     FM271500 14008KT P6SM BKN030
     FM271900 14010KT P6SM VCSH BKN035
     FM280200 13008KT P6SM SCT025=



000
FTUS44 KHGX 262329
TAFUTS
TAF
KUTS 262329Z 2700/2724 16007KT P6SM VCSH BKN030 BKN040
     FM270200 15005KT P6SM SCT025
     FM270900 15005KT 6SM BR BKN015
     FM271500 16005KT P6SM BKN025
     FM271800 17006KT P6SM VCSH BKN035=



000
FTUS44 KHGX 262329
TAFCLL
TAF
KCLL 262329Z 2700/2724 16012KT P6SM FEW028 SCT035
     FM270500 15005KT P6SM SCT025
     FM270900 15007KT 6SM BR FEW006 BKN015
     FM271500 16008KT P6SM BKN025
     FM271800 18014KT P6SM VCSH BKN035=



000
FTUS44 KHGX 262329
TAFSGR
TAF
KSGR 262329Z 2700/2724 13011KT P6SM VCSH BKN025 OVC050
     FM270200 14006KT P6SM SCT025
     FM270900 15006KT 6SM BR BKN015
     FM271500 14008KT P6SM SCT025 BKN035
     FM271800 15008KT P6SM VCSH BKN035=



000
FTUS44 KHGX 262329
TAFUTS
TAF
KUTS 262329Z 2700/2724 16007KT P6SM VCSH BKN030 BKN040
     FM270200 15005KT P6SM SCT025
     FM270900 15005KT 6SM BR BKN015
     FM271500 16005KT P6SM BKN025
     FM271800 17006KT P6SM VCSH BKN035=



000
FTUS44 KHGX 262329
TAFIAH
TAF
KIAH 262329Z 2700/2806 14015KT P6SM VCSH BKN023 BKN060
     FM270300 14006KT P6SM SCT025
     FM270900 15006KT P6SM FEW010 BKN020
     FM271500 14008KT P6SM BKN030
     FM271900 14010KT P6SM VCSH BKN035
     FM280200 13008KT P6SM SCT025=



000
FTUS44 KHGX 262329
TAFCXO
TAF
KCXO 262329Z 2700/2724 13009G15KT P6SM VCSH SCT025 BKN035
     FM270200 15005KT P6SM SCT025
     FM270900 00000KT 2SM BR BKN010
     FM271500 16008KT P6SM BKN015
     FM271800 17014KT P6SM VCSH BKN035=



000
FTUS44 KHGX 262329
TAFGLS
TAF
KGLS 262329Z 2700/2724 13016KT P6SM SCT025 SCT035
     FM270900 15009KT P6SM VCSH BKN025
     FM271600 12009KT P6SM BKN025
     FM271900 14014KT P6SM SCT025=



000
FTUS44 KHGX 262329
TAFLBX
TAF
KLBX 262329Z 2700/2724 13011KT P6SM VCSH BKN015
     FM270100 14006KT P6SM SCT025
     FM270500 15006KT 6SM BR OVC015
     FM271500 14009KT P6SM BKN025
     FM271800 15011KT P6SM VCSH BKN018=



000
FTUS44 KHGX 262329
TAFUTS
TAFUTS
TAF
KUTS 262329Z 2700/2724 16007KT P6SM VCSH BKN030 BKN040
     FM270200 15005KT P6SM SCT025
     FM270900 15005KT 6SM BR BKN015
     FM271500 16005KT P6SM BKN025
     FM271800 17006KT P6SM VCSH BKN035=



000
FTUS44 KHGX 262329
TAFCXO
TAFCXO
TAF
KCXO 262329Z 2700/2724 13009G15KT P6SM VCSH SCT025 BKN035
     FM270200 15005KT P6SM SCT025
     FM270900 00000KT 2SM BR BKN010
     FM271500 16008KT P6SM BKN015
     FM271800 17014KT P6SM VCSH BKN035=



000
FTUS44 KHGX 262329
TAFLBX
TAF
KLBX 262329Z 2700/2724 13011KT P6SM VCSH BKN015
     FM270100 14006KT P6SM SCT025
     FM270500 15006KT 6SM BR OVC015
     FM271500 14009KT P6SM BKN025
     FM271800 15011KT P6SM VCSH BKN018=



000
FTUS44 KHGX 262329
TAFSGR
TAFSGR
TAF
KSGR 262329Z 2700/2724 13011KT P6SM VCSH BKN025 OVC050
     FM270200 14006KT P6SM SCT025
     FM270900 15006KT 6SM BR BKN015
     FM271500 14008KT P6SM SCT025 BKN035
     FM271800 15008KT P6SM VCSH BKN035=



000
FTUS44 KHGX 262329
TAFSGR
TAF
KSGR 262329Z 2700/2724 13011KT P6SM VCSH BKN025 OVC050
     FM270200 14006KT P6SM SCT025
     FM270900 15006KT 6SM BR BKN015
     FM271500 14008KT P6SM SCT025 BKN035
     FM271800 15008KT P6SM VCSH BKN035=



000
FTUS44 KHGX 262329
TAFCXO
TAF
KCXO 262329Z 2700/2724 13009G15KT P6SM VCSH SCT025 BKN035
     FM270200 15005KT P6SM SCT025
     FM270900 00000KT 2SM BR BKN010
     FM271500 16008KT P6SM BKN015
     FM271800 17014KT P6SM VCSH BKN035=



000
FTUS44 KHGX 262329
TAFHOU
TAFHOU
TAF
KHOU 262329Z 2700/2724 16008KT P6SM VCSH BKN020 OVC035
     FM270200 14006KT P6SM SCT025
     FM270900 15006KT P6SM BKN020
     FM271500 14008KT P6SM BKN035
     FM271900 14010KT P6SM VCSH BKN035=



000
FTUS44 KHGX 262329
TAFGLS
TAFGLS
TAF
KGLS 262329Z 2700/2724 13016KT P6SM SCT025 SCT035
     FM270900 15009KT P6SM VCSH BKN025
     FM271600 12009KT P6SM BKN025
     FM271900 14014KT P6SM SCT025=



000
FTUS44 KHGX 262329
TAFCLL
TAFCLL
TAF
KCLL 262329Z 2700/2724 16012KT P6SM FEW028 SCT035
     FM270500 15005KT P6SM SCT025
     FM270900 15007KT 6SM BR FEW006 BKN015
     FM271500 16008KT P6SM BKN025
     FM271800 18014KT P6SM VCSH BKN035=



000
FTUS44 KHGX 262329
TAFLBX
TAFLBX
TAF
KLBX 262329Z 2700/2724 13011KT P6SM VCSH BKN015
     FM270100 14006KT P6SM SCT025
     FM270500 15006KT 6SM BR OVC015
     FM271500 14009KT P6SM BKN025
     FM271800 15011KT P6SM VCSH BKN018=



000
FTUS44 KHGX 262329
TAFUTS
TAF
KUTS 262329Z 2700/2724 16007KT P6SM VCSH BKN030 BKN040
     FM270200 15005KT P6SM SCT025
     FM270900 15005KT 6SM BR BKN015
     FM271500 16005KT P6SM BKN025
     FM271800 17006KT P6SM VCSH BKN035=



000
FTUS44 KHGX 262329
TAFCXO
TAF
KCXO 262329Z 2700/2724 13009G15KT P6SM VCSH SCT025 BKN035
     FM270200 15005KT P6SM SCT025
     FM270900 00000KT 2SM BR BKN010
     FM271500 16008KT P6SM BKN015
     FM271800 17014KT P6SM VCSH BKN035=



000
FTUS44 KHGX 262329
TAFSGR
TAF
KSGR 262329Z 2700/2724 13011KT P6SM VCSH BKN025 OVC050
     FM270200 14006KT P6SM SCT025
     FM270900 15006KT 6SM BR BKN015
     FM271500 14008KT P6SM SCT025 BKN035
     FM271800 15008KT P6SM VCSH BKN035=



000
FTUS44 KHGX 262329
TAFIAH
TAF
KIAH 262329Z 2700/2806 14015KT P6SM VCSH BKN023 BKN060
     FM270300 14006KT P6SM SCT025
     FM270900 15006KT P6SM FEW010 BKN020
     FM271500 14008KT P6SM BKN030
     FM271900 14010KT P6SM VCSH BKN035
     FM280200 13008KT P6SM SCT025=



000
FTUS44 KHGX 262329
TAFCLL
TAF
KCLL 262329Z 2700/2724 16012KT P6SM FEW028 SCT035
     FM270500 15005KT P6SM SCT025
     FM270900 15007KT 6SM BR FEW006 BKN015
     FM271500 16008KT P6SM BKN025
     FM271800 18014KT P6SM VCSH BKN035=



000
FTUS44 KHGX 262329
TAFIAH
TAFIAH
TAF
KIAH 262329Z 2700/2806 14015KT P6SM VCSH BKN023 BKN060
     FM270300 14006KT P6SM SCT025
     FM270900 15006KT P6SM FEW010 BKN020
     FM271500 14008KT P6SM BKN030
     FM271900 14010KT P6SM VCSH BKN035
     FM280200 13008KT P6SM SCT025=



000
FTUS44 KHGX 262213 AAA
TAFGLS
TAF AMD
KGLS 262213Z 2622/2718 13017KT P6SM VCSH BKN027 BKN040
     FM270900 15009KT P6SM VCSH BKN025
     FM271600 12009KT P6SM BKN035=



000
FTUS44 KHGX 262213 AAA
TAFGLS
TAF AMD
KGLS 262213Z 2622/2718 13017KT P6SM VCSH BKN027 BKN040
     FM270900 15009KT P6SM VCSH BKN025
     FM271600 12009KT P6SM BKN035=



000
FTUS44 KHGX 262213 AAA
TAFLBX
TAF AMD
KLBX 262213Z 2622/2718 13011KT P6SM VCSH OVC016
     FM270100 14006KT P6SM SCT025
     FM270500 15006KT 6SM BR OVC015
     FM271500 14009KT P6SM BKN025=



000
FTUS44 KHGX 262213
TAFLBX
TAFLBX
TAF AMD
KLBX 262213Z 2622/2718 13011KT P6SM VCSH OVC016
     FM270100 14006KT P6SM SCT025
     FM270500 15006KT 6SM BR OVC015
     FM271500 14009KT P6SM BKN025=



000
FTUS44 KHGX 262213
TAFGLS
TAFGLS
TAF AMD
KGLS 262213Z 2622/2718 13017KT P6SM VCSH BKN027 BKN040
     FM270900 15009KT P6SM VCSH BKN025
     FM271600 12009KT P6SM BKN035=



000
FTUS44 KHGX 262213 AAA
TAFLBX
TAF AMD
KLBX 262213Z 2622/2718 13011KT P6SM VCSH OVC016
     FM270100 14006KT P6SM SCT025
     FM270500 15006KT 6SM BR OVC015
     FM271500 14009KT P6SM BKN025=



000
FTUS44 KHGX 262213 AAA
TAFLBX
TAF AMD
KLBX 262213Z 2622/2718 13011KT P6SM VCSH OVC016
     FM270100 14006KT P6SM SCT025
     FM270500 15006KT 6SM BR OVC015
     FM271500 14009KT P6SM BKN025=



000
FTUS44 KHGX 262212
TAFSGR
TAFSGR
TAF AMD
KSGR 262212Z 2622/2718 13011KT P6SM VCTS BKN020 BKN027 OVC050CB
     FM270300 14006KT P6SM SCT025
     FM270900 15006KT 6SM BR BKN015
     FM271500 14008KT P6SM BKN025=



000
FTUS44 KHGX 262212 AAB
TAFSGR
TAF AMD
KSGR 262212Z 2622/2718 13011KT P6SM VCTS BKN020 BKN027 OVC050CB
     FM270300 14006KT P6SM SCT025
     FM270900 15006KT 6SM BR BKN015
     FM271500 14008KT P6SM BKN025=



000
FTUS44 KHGX 262212 AAB
TAFSGR
TAF AMD
KSGR 262212Z 2622/2718 13011KT P6SM VCTS BKN020 BKN027 OVC050CB
     FM270300 14006KT P6SM SCT025
     FM270900 15006KT 6SM BR BKN015
     FM271500 14008KT P6SM BKN025=



000
FTUS44 KHGX 262209 AAB
TAFIAH
TAF AMD
KIAH 262209Z 2622/2724 14015KT P6SM VCTS BKN023 BKN060CB
      TEMPO 2622/2624 VRB25KT -TSRA
     FM270300 14006KT P6SM SCT025
     FM270900 15006KT P6SM BKN020
     FM271500 14008KT P6SM BKN035=



000
FTUS44 KHGX 262209 AAB
TAFHOU
TAF AMD
KHOU 262209Z 2622/2718 16008KT P6SM VCTS BKN020 OVC035CB
      TEMPO 2622/2624 VRB25KT -TSRA
     FM270300 14006KT P6SM SCT025
     FM270900 15006KT P6SM BKN020
     FM271500 14008KT P6SM BKN035=



000
FTUS44 KHGX 262209 AAB
TAFIAH
TAF AMD
KIAH 262209Z 2622/2724 14015KT P6SM VCTS BKN023 BKN060CB
      TEMPO 2622/2624 VRB25KT -TSRA
     FM270300 14006KT P6SM SCT025
     FM270900 15006KT P6SM BKN020
     FM271500 14008KT P6SM BKN035=



000
FTUS44 KHGX 262209
TAFIAH
TAFIAH
TAF AMD
KIAH 262209Z 2622/2724 14015KT P6SM VCTS BKN023 BKN060CB
      TEMPO 2622/2624 VRB25KT -TSRA
     FM270300 14006KT P6SM SCT025
     FM270900 15006KT P6SM BKN020
     FM271500 14008KT P6SM BKN035=



000
FTUS44 KHGX 262209
TAFHOU
TAFHOU
TAF AMD
KHOU 262209Z 2622/2718 16008KT P6SM VCTS BKN020 OVC035CB
      TEMPO 2622/2624 VRB25KT -TSRA
     FM270300 14006KT P6SM SCT025
     FM270900 15006KT P6SM BKN020
     FM271500 14008KT P6SM BKN035=



000
FTUS44 KHGX 262209 AAB
TAFHOU
TAF AMD
KHOU 262209Z 2622/2718 16008KT P6SM VCTS BKN020 OVC035CB
      TEMPO 2622/2624 VRB25KT -TSRA
     FM270300 14006KT P6SM SCT025
     FM270900 15006KT P6SM BKN020
     FM271500 14008KT P6SM BKN035=



000
FTUS44 KHGX 262208
TAFCXO
TAFCXO
TAF AMD
KCXO 262208Z 2622/2718 14011KT P6SM VCTS BKN023 BKN030 BKN050CB
     FM270200 15005KT P6SM SCT025
     FM270500 00000KT 6SM BR OVC025
     FM270900 00000KT 2SM BR BKN010
     FM271500 16008KT P6SM BKN015=



000
FTUS44 KHGX 262208
TAFUTS
TAFUTS
TAF AMD
KUTS 262208Z 2622/2718 16007KT P6SM VCTS BKN030 BKN040CB
     FM270200 15005KT P6SM SCT025
     FM270900 15007KT 6SM BR BKN015
     FM271500 16008KT P6SM BKN025=



000
FTUS44 KHGX 262208 AAA
TAFCXO
TAF AMD
KCXO 262208Z 2622/2718 14011KT P6SM VCTS BKN023 BKN030 BKN050CB
     FM270200 15005KT P6SM SCT025
     FM270500 00000KT 6SM BR OVC025
     FM270900 00000KT 2SM BR BKN010
     FM271500 16008KT P6SM BKN015=



000
FTUS44 KHGX 262208 AAB
TAFUTS
TAF AMD
KUTS 262208Z 2622/2718 16007KT P6SM VCTS BKN030 BKN040CB
     FM270200 15005KT P6SM SCT025
     FM270900 15007KT 6SM BR BKN015
     FM271500 16008KT P6SM BKN025=



000
FTUS44 KHGX 262208 AAB
TAFUTS
TAF AMD
KUTS 262208Z 2622/2718 16007KT P6SM VCTS BKN030 BKN040CB
     FM270200 15005KT P6SM SCT025
     FM270900 15007KT 6SM BR BKN015
     FM271500 16008KT P6SM BKN025=



000
FTUS44 KHGX 262055 AAA
TAFHOU
TAF AMD
KHOU 262055Z 2621/2718 13012KT P6SM VCTS BKN025CB OVC035
      TEMPO 2621/2623 VRB15G25KT 4SM TSRA BR BKN015CB
     FM270300 14006KT P6SM SCT025
     FM270900 15006KT P6SM BKN020
     FM271500 14008KT P6SM BKN035=



000
FTUS44 KHGX 262055 AAA
TAFIAH
TAF AMD
KIAH 262055Z 2621/2724 15013G19KT P6SM VCTS BKN026CB BKN050
      TEMPO 2621/2623 VRB15G25KT 4SM TSRA BR BKN015CB
     FM270300 14006KT P6SM SCT025
     FM270900 15006KT P6SM BKN020
     FM271500 14008KT P6SM BKN035=



000
FTUS44 KHGX 262055 AAA
TAFHOU
TAF AMD
KHOU 262055Z 2621/2718 13012KT P6SM VCTS BKN025CB OVC035
      TEMPO 2621/2623 VRB15G25KT 4SM TSRA BR BKN015CB
     FM270300 14006KT P6SM SCT025
     FM270900 15006KT P6SM BKN020
     FM271500 14008KT P6SM BKN035=



000
FTUS44 KHGX 262055 AAA
TAFIAH
TAF AMD
KIAH 262055Z 2621/2724 15013G19KT P6SM VCTS BKN026CB BKN050
      TEMPO 2621/2623 VRB15G25KT 4SM TSRA BR BKN015CB
     FM270300 14006KT P6SM SCT025
     FM270900 15006KT P6SM BKN020
     FM271500 14008KT P6SM BKN035=



000
FTUS44 KHGX 261916 AAA
TAFSGR
TAF AMD
KSGR 261916Z 2619/2718 15016G20KT P6SM VCSH BKN025
      TEMPO 2619/2620 5SM SHRA BKN020
     FM262000 16011KT P6SM VCTS BKN035CB
     FM270300 14006KT P6SM SCT025
     FM270900 15006KT 6SM BR BKN015
     FM271500 14008KT P6SM BKN025=



000
FTUS44 KHGX 261916
TAFSGR
TAFSGR
TAF AMD
KSGR 261916Z 2619/2718 15016G20KT P6SM VCSH BKN025
      TEMPO 2619/2620 5SM SHRA BKN020
     FM262000 16011KT P6SM VCTS BKN035CB
     FM270300 14006KT P6SM SCT025
     FM270900 15006KT 6SM BR BKN015
     FM271500 14008KT P6SM BKN025=



000
FTUS44 KHGX 261916
TAFSGR
TAFSGR
TAF AMD
KSGR 261916Z 2619/2718 15016G20KT P6SM VCSH BKN025
      TEMPO 2619/2620 5SM SHRA BKN020
     FM262000 16011KT P6SM VCTS BKN035CB
     FM270300 14006KT P6SM SCT025
     FM270900 15006KT 6SM BR BKN015
     FM271500 14008KT P6SM BKN025=



000
FTUS44 KHGX 261916 AAA
TAFSGR
TAF AMD
KSGR 261916Z 2619/2718 15016G20KT P6SM VCSH BKN025
      TEMPO 2619/2620 5SM SHRA BKN020
     FM262000 16011KT P6SM VCTS BKN035CB
     FM270300 14006KT P6SM SCT025
     FM270900 15006KT 6SM BR BKN015
     FM271500 14008KT P6SM BKN025=



000
FTUS44 KHGX 261900
TAFUTS
TAFUTS
TAF AMD
KUTS 261900Z 2619/2718 16008KT P6SM VCSH SCT028 BKN035 OVC050
      TEMPO 2619/2620 5SM SHRA BKN025
     FM262000 17008KT P6SM VCTS BKN035CB
     FM270200 15005KT P6SM SCT025
     FM270900 15007KT 6SM BR BKN015
     FM271500 16008KT P6SM BKN025=



000
FTUS44 KHGX 261900 AAA
TAFUTS
TAF AMD
KUTS 261900Z 2619/2718 16008KT P6SM VCSH SCT028 BKN035 OVC050
      TEMPO 2619/2620 5SM SHRA BKN025
     FM262000 17008KT P6SM VCTS BKN035CB
     FM270200 15005KT P6SM SCT025
     FM270900 15007KT 6SM BR BKN015
     FM271500 16008KT P6SM BKN025=



000
FTUS44 KHGX 261900 AAA
TAFUTS
TAF AMD
KUTS 261900Z 2619/2718 16008KT P6SM VCSH SCT028 BKN035 OVC050
      TEMPO 2619/2620 5SM SHRA BKN025
     FM262000 17008KT P6SM VCTS BKN035CB
     FM270200 15005KT P6SM SCT025
     FM270900 15007KT 6SM BR BKN015
     FM271500 16008KT P6SM BKN025=



000
FTUS44 KHGX 261738
TAFGLS
TAFGLS
TAF
KGLS 261738Z 2618/2718 14018G23KT P6SM BKN024 OVC070
     FM262200 15010KT P6SM SCT035
     FM270900 15009KT P6SM VCSH BKN025
     FM271600 12009KT P6SM BKN035=



000
FTUS44 KHGX 261738
TAFCXO
TAFCXO
TAF
KCXO 261738Z 2618/2718 14011KT P6SM FEW027 BKN035 OVC045
     FM262000 17008KT P6SM VCTS BKN035CB
     FM270200 15005KT P6SM SCT025
     FM270500 00000KT 6SM BR OVC025
     FM270900 00000KT 2SM BR BKN010
     FM271500 16008KT P6SM BKN015=



000
FTUS44 KHGX 261738
TAFLBX
TAFLBX
TAF
KLBX 261738Z 2618/2718 14015G18KT P6SM VCSH OVC019
     FM261900 16011KT P6SM VCTS BKN035CB
     FM270100 14006KT P6SM SCT025
     FM270500 15006KT 6SM BR OVC015
     FM271500 14009KT P6SM BKN025=



000
FTUS44 KHGX 261738
TAFHOU
TAFHOU
TAF
KHOU 261738Z 2618/2718 13014G19KT P6SM VCSH BKN020 BKN070
     FM262000 16011KT P6SM VCTS BKN035CB
     FM270300 14006KT P6SM SCT025
     FM270900 15006KT P6SM BKN020
     FM271500 14008KT P6SM BKN035=



000
FTUS44 KHGX 261738
TAFCLL
TAFCLL
TAF
KCLL 261738Z 2618/2718 17012KT P6SM SCT028 BKN035 OVC040
     FM262000 17008KT P6SM VCTS OVC035CB
     FM270200 15005KT P6SM SCT025
     FM270900 15007KT 6SM BR BKN015
     FM271500 16008KT P6SM BKN025=



000
FTUS44 KHGX 261738
TAFIAH
TAFIAH
TAF
KIAH 261738Z 2618/2724 17013KT P6SM SCT025 SCT060
     FM262000 17006KT P6SM VCTS BKN035CB
     FM270300 14006KT P6SM SCT025
     FM270900 15006KT P6SM BKN020
     FM271500 14008KT P6SM BKN035=



000
FTUS44 KHGX 261738
TAFUTS
TAFUTS
TAF
KUTS 261738Z 2618/2718 18011G19KT P6SM FEW029 BKN035
     FM262000 17008KT P6SM VCTS BKN035CB
     FM270200 15005KT P6SM SCT025
     FM270900 15007KT 6SM BR BKN015
     FM271500 16008KT P6SM BKN025=



000
FTUS44 KHGX 261738
TAFSGR
TAFSGR
TAF
KSGR 261738Z 2618/2718 15016G20KT P6SM VCSH BKN021
     FM262000 16011KT P6SM VCTS BKN035CB
     FM270300 14006KT P6SM SCT025
     FM270900 15006KT 6SM BR BKN015
     FM271500 14008KT P6SM BKN025=



000
FTUS44 KHGX 261738
TAFUTS
TAF
KUTS 261738Z 2618/2718 18011G19KT P6SM FEW029 BKN035
     FM262000 17008KT P6SM VCTS BKN035CB
     FM270200 15005KT P6SM SCT025
     FM270900 15007KT 6SM BR BKN015
     FM271500 16008KT P6SM BKN025=



000
FTUS44 KHGX 261738
TAFCXO
TAF
KCXO 261738Z 2618/2718 14011KT P6SM FEW027 BKN035 OVC045
     FM262000 17008KT P6SM VCTS BKN035CB
     FM270200 15005KT P6SM SCT025
     FM270500 00000KT 6SM BR OVC025
     FM270900 00000KT 2SM BR BKN010
     FM271500 16008KT P6SM BKN015=



000
FTUS44 KHGX 261738
TAFCLL
TAF
KCLL 261738Z 2618/2718 17012KT P6SM SCT028 BKN035 OVC040
     FM262000 17008KT P6SM VCTS OVC035CB
     FM270200 15005KT P6SM SCT025
     FM270900 15007KT 6SM BR BKN015
     FM271500 16008KT P6SM BKN025=



000
FTUS44 KHGX 261738
TAFGLS
TAF
KGLS 261738Z 2618/2718 14018G23KT P6SM BKN024 OVC070
     FM262200 15010KT P6SM SCT035
     FM270900 15009KT P6SM VCSH BKN025
     FM271600 12009KT P6SM BKN035=



000
FTUS44 KHGX 261738
TAFSGR
TAF
KSGR 261738Z 2618/2718 15016G20KT P6SM VCSH BKN021
     FM262000 16011KT P6SM VCTS BKN035CB
     FM270300 14006KT P6SM SCT025
     FM270900 15006KT 6SM BR BKN015
     FM271500 14008KT P6SM BKN025=



000
FTUS44 KHGX 261738
TAFCLL
TAF
KCLL 261738Z 2618/2718 17012KT P6SM SCT028 BKN035 OVC040
     FM262000 17008KT P6SM VCTS OVC035CB
     FM270200 15005KT P6SM SCT025
     FM270900 15007KT 6SM BR BKN015
     FM271500 16008KT P6SM BKN025=



000
FTUS44 KHGX 261738
TAFIAH
TAF
KIAH 261738Z 2618/2724 17013KT P6SM SCT025 SCT060
     FM262000 17006KT P6SM VCTS BKN035CB
     FM270300 14006KT P6SM SCT025
     FM270900 15006KT P6SM BKN020
     FM271500 14008KT P6SM BKN035=



000
FTUS44 KHGX 261738
TAFSGR
TAF
KSGR 261738Z 2618/2718 15016G20KT P6SM VCSH BKN021
     FM262000 16011KT P6SM VCTS BKN035CB
     FM270300 14006KT P6SM SCT025
     FM270900 15006KT 6SM BR BKN015
     FM271500 14008KT P6SM BKN025=



000
FTUS44 KHGX 261738
TAFUTS
TAF
KUTS 261738Z 2618/2718 18011G19KT P6SM FEW029 BKN035
     FM262000 17008KT P6SM VCTS BKN035CB
     FM270200 15005KT P6SM SCT025
     FM270900 15007KT 6SM BR BKN015
     FM271500 16008KT P6SM BKN025=



000
FTUS44 KHGX 261738
TAFHOU
TAF
KHOU 261738Z 2618/2718 13014G19KT P6SM VCSH BKN020 BKN070
     FM262000 16011KT P6SM VCTS BKN035CB
     FM270300 14006KT P6SM SCT025
     FM270900 15006KT P6SM BKN020
     FM271500 14008KT P6SM BKN035=



000
FTUS44 KHGX 261738
TAFCXO
TAF
KCXO 261738Z 2618/2718 14011KT P6SM FEW027 BKN035 OVC045
     FM262000 17008KT P6SM VCTS BKN035CB
     FM270200 15005KT P6SM SCT025
     FM270500 00000KT 6SM BR OVC025
     FM270900 00000KT 2SM BR BKN010
     FM271500 16008KT P6SM BKN015=



000
FTUS44 KHGX 261738
TAFIAH
TAF
KIAH 261738Z 2618/2724 17013KT P6SM SCT025 SCT060
     FM262000 17006KT P6SM VCTS BKN035CB
     FM270300 14006KT P6SM SCT025
     FM270900 15006KT P6SM BKN020
     FM271500 14008KT P6SM BKN035=



000
FTUS44 KHGX 261738
TAFLBX
TAF
KLBX 261738Z 2618/2718 14015G18KT P6SM VCSH OVC019
     FM261900 16011KT P6SM VCTS BKN035CB
     FM270100 14006KT P6SM SCT025
     FM270500 15006KT 6SM BR OVC015
     FM271500 14009KT P6SM BKN025=



000
FTUS44 KHGX 261738
TAFLBX
TAF
KLBX 261738Z 2618/2718 14015G18KT P6SM VCSH OVC019
     FM261900 16011KT P6SM VCTS BKN035CB
     FM270100 14006KT P6SM SCT025
     FM270500 15006KT 6SM BR OVC015
     FM271500 14009KT P6SM BKN025=



000
FTUS44 KHGX 261738
TAFHOU
TAF
KHOU 261738Z 2618/2718 13014G19KT P6SM VCSH BKN020 BKN070
     FM262000 16011KT P6SM VCTS BKN035CB
     FM270300 14006KT P6SM SCT025
     FM270900 15006KT P6SM BKN020
     FM271500 14008KT P6SM BKN035=



000
FTUS44 KHGX 261738
TAFGLS
TAF
KGLS 261738Z 2618/2718 14018G23KT P6SM BKN024 OVC070
     FM262200 15010KT P6SM SCT035
     FM270900 15009KT P6SM VCSH BKN025
     FM271600 12009KT P6SM BKN035=



000
FTUS44 KHGX 261453 AAB
TAFIAH
TAF AMD
KIAH 261453Z 2615/2718 18006KT P6SM FEW030 SCT100 SCT250
     FM262000 17006KT P6SM VCTS BKN035CB
      TEMPO 2621/2624 TSRA
     FM270400 14006KT P6SM SCT025
     FM270900 15006KT P6SM BKN020=



000
FTUS44 KHGX 261453 AAA
TAFHOU
TAF AMD
KHOU 261453Z 2615/2712 13006KT P6SM VCSH FEW030 SCT100 SCT250
     FM261900 16011KT P6SM VCTS BKN035CB
     FM270300 14006KT P6SM BKN015=



000
FTUS44 KHGX 261453 AAB
TAFIAH
TAF AMD
KIAH 261453Z 2615/2718 18006KT P6SM FEW030 SCT100 SCT250
     FM262000 17006KT P6SM VCTS BKN035CB
      TEMPO 2621/2624 TSRA
     FM270400 14006KT P6SM SCT025
     FM270900 15006KT P6SM BKN020=



000
FTUS44 KHGX 261453 AAA
TAFHOU
TAF AMD
KHOU 261453Z 2615/2712 13006KT P6SM VCSH FEW030 SCT100 SCT250
     FM261900 16011KT P6SM VCTS BKN035CB
     FM270300 14006KT P6SM BKN015=



000
FTUS44 KHGX 261453
TAFHOU
TAFHOU
TAF AMD
KHOU 261453Z 2615/2712 13006KT P6SM VCSH FEW030 SCT100 SCT250
     FM261900 16011KT P6SM VCTS BKN035CB
     FM270300 14006KT P6SM BKN015=



000
FTUS44 KHGX 261453
TAFIAH
TAFIAH
TAF AMD
KIAH 261453Z 2615/2718 18006KT P6SM FEW030 SCT100 SCT250
     FM262000 17006KT P6SM VCTS BKN035CB
      TEMPO 2621/2624 TSRA
     FM270400 14006KT P6SM SCT025
     FM270900 15006KT P6SM BKN020=



000
FTUS44 KHGX 261453 AAB
TAFIAH
TAF AMD
KIAH 261453Z 2615/2718 18006KT P6SM FEW030 SCT100 SCT250
     FM262000 17006KT P6SM VCTS BKN035CB
      TEMPO 2621/2624 TSRA
     FM270400 14006KT P6SM SCT025
     FM270900 15006KT P6SM BKN020=



000
FTUS44 KHGX 261453 AAA
TAFHOU
TAF AMD
KHOU 261453Z 2615/2712 13006KT P6SM VCSH FEW030 SCT100 SCT250
     FM261900 16011KT P6SM VCTS BKN035CB
     FM270300 14006KT P6SM BKN015=



000
FTUS44 KHGX 261453 AAB
TAFIAH
TAF AMD
KIAH 261453Z 2615/2718 18006KT P6SM FEW030 SCT100 SCT250
     FM262000 17006KT P6SM VCTS BKN035CB
      TEMPO 2621/2624 TSRA
     FM270400 14006KT P6SM SCT025
     FM270900 15006KT P6SM BKN020=



000
FTUS44 KHGX 261453 AAA
TAFHOU
TAF AMD
KHOU 261453Z 2615/2712 13006KT P6SM VCSH FEW030 SCT100 SCT250
     FM261900 16011KT P6SM VCTS BKN035CB
     FM270300 14006KT P6SM BKN015=



000
FTUS44 KHGX 261220 AAA
TAFCLL
TAF AMD
KCLL 261220Z 2612/2712 13007KT P6SM BKN250
     FM261400 17009KT P6SM SCT030 SCT250
      TEMPO 2614/2616 BKN028
     FM262000 17008KT P6SM VCTS OVC035CB
     FM270200 15005KT 6SM BR OVC015=



000
FTUS44 KHGX 261220 AAA
TAFCLL
TAF AMD
KCLL 261220Z 2612/2712 13007KT P6SM BKN250
     FM261400 17009KT P6SM SCT030 SCT250
      TEMPO 2614/2616 BKN028
     FM262000 17008KT P6SM VCTS OVC035CB
     FM270200 15005KT 6SM BR OVC015=



000
FTUS44 KHGX 261220 AAA
TAFCLL
TAF AMD
KCLL 261220Z 2612/2712 13007KT P6SM BKN250
     FM261400 17009KT P6SM SCT030 SCT250
      TEMPO 2614/2616 BKN028
     FM262000 17008KT P6SM VCTS OVC035CB
     FM270200 15005KT 6SM BR OVC015=



000
FTUS44 KHGX 261220 AAA
TAFCLL
TAF AMD
KCLL 261220Z 2612/2712 13007KT P6SM BKN250
     FM261400 17009KT P6SM SCT030 SCT250
      TEMPO 2614/2616 BKN028
     FM262000 17008KT P6SM VCTS OVC035CB
     FM270200 15005KT 6SM BR OVC015=



000
FTUS44 KHGX 261131
TAFIAH
TAFIAH
TAF AMD
KIAH 261131Z 2612/2718 VRB05KT P6SM VCSH SCT030 OVC060
      TEMPO 2612/2614 -SHRA
     FM261500 18010KT P6SM BKN027
     FM261800 17006KT P6SM VCTS BKN035CB
      TEMPO 2621/2624 TSRA
     FM270400 14006KT P6SM SCT025
     FM270900 15006KT P6SM BKN020=



000
FTUS44 KHGX 261131 AAA
TAFIAH
TAF AMD
KIAH 261131Z 2612/2718 VRB05KT P6SM VCSH SCT030 OVC060
      TEMPO 2612/2614 -SHRA
     FM261500 18010KT P6SM BKN027
     FM261800 17006KT P6SM VCTS BKN035CB
      TEMPO 2621/2624 TSRA
     FM270400 14006KT P6SM SCT025
     FM270900 15006KT P6SM BKN020=



000
FTUS44 KHGX 261131 AAA
TAFIAH
TAF AMD
KIAH 261131Z 2612/2718 VRB05KT P6SM VCSH SCT030 OVC060
      TEMPO 2612/2614 -SHRA
     FM261500 18010KT P6SM BKN027
     FM261800 17006KT P6SM VCTS BKN035CB
      TEMPO 2621/2624 TSRA
     FM270400 14006KT P6SM SCT025
     FM270900 15006KT P6SM BKN020=



000
FTUS44 KHGX 261127
TAFUTS
TAF
KUTS 261127Z 2612/2712 17005KT P6SM FEW010 OVC035
     FM261500 20010KT P6SM SCT025 BKN040
     FM262000 17008KT P6SM VCTS BKN035CB
     FM270300 15005KT 6SM BR OVC015=



000
FTUS44 KHGX 261127
TAFHOU
TAF
KHOU 261127Z 2612/2712 15006KT P6SM SCT020 BKN050 BKN090
     FM261500 18008KT P6SM VCSH BKN025
     FM261800 16011KT P6SM VCTS BKN035CB
     FM270300 14006KT P6SM BKN015=



000
FTUS44 KHGX 261127
TAFSGR
TAF
KSGR 261127Z 2612/2712 17008KT P6SM SCT030 BKN100
     FM261500 18011KT P6SM VCSH BKN025
     FM261800 16014KT P6SM VCTS BKN035CB
     FM270300 14006KT P6SM BKN015=



000
FTUS44 KHGX 261127
TAFCLL
TAF
KCLL 261127Z 2612/2712 10004KT P6SM VCTS SCT017 BKN035CB
     FM261400 19011KT P6SM BKN015
     FM262000 17008KT P6SM VCTS OVC035CB
     FM270200 15005KT 6SM BR OVC015=



000
FTUS44 KHGX 261127
TAFGLS
TAF
KGLS 261127Z 2612/2712 01005KT P6SM FEW040 BKN120
     FM261500 17014G20KT P6SM BKN015 OVC030
     FM262200 15010KT P6SM SCT035=



000
FTUS44 KHGX 261127
TAFIAH
TAF
KIAH 261127Z 2612/2718 14008KT P6SM VCSH SCT030 OVC060
      TEMPO 2612/2614 -SHRA
     FM261500 18010KT P6SM VCSH BKN025
     FM261800 17006KT P6SM VCTS BKN035CB
      TEMPO 2621/2624 TSRA
     FM270400 14006KT P6SM SCT025
     FM270900 15006KT P6SM BKN020
     FM271500 15007KT P6SM VCSH BKN025=



000
FTUS44 KHGX 261127
TAFLBX
TAF
KLBX 261127Z 2612/2712 17010KT P6SM OVC020
     FM261500 18012KT P6SM SCT015 OVC020
     FM270100 15006KT 6SM BR OVC015=



000
FTUS44 KHGX 261127
TAFCXO
TAF
KCXO 261127Z 2612/2712 00000KT P6SM VCTS BKN015CB OVC200
      TEMPO 2612/2613 -TSRA
     FM261500 18006KT P6SM SCT015 BKN025
     FM261800 18008KT P6SM BKN050
     FM270100 00000KT 4SM BR OVC025
     FM270500 00000KT 2SM BR BKN005=



000
FTUS44 KHGX 261127
TAFHOU
TAF
KHOU 261127Z 2612/2712 15006KT P6SM SCT020 BKN050 BKN090
     FM261500 18008KT P6SM VCSH BKN025
     FM261800 16011KT P6SM VCTS BKN035CB
     FM270300 14006KT P6SM BKN015=



000
FTUS44 KHGX 261127
TAFUTS
TAFUTS
TAF
KUTS 261127Z 2612/2712 17005KT P6SM FEW010 OVC035
     FM261500 20010KT P6SM SCT025 BKN040
     FM262000 17008KT P6SM VCTS BKN035CB
     FM270300 15005KT 6SM BR OVC015=



000
FTUS44 KHGX 261127
TAFGLS
TAF
KGLS 261127Z 2612/2712 01005KT P6SM FEW040 BKN120
     FM261500 17014G20KT P6SM BKN015 OVC030
     FM262200 15010KT P6SM SCT035=



000
FTUS44 KHGX 261127
TAFGLS
TAFGLS
TAF
KGLS 261127Z 2612/2712 01005KT P6SM FEW040 BKN120
     FM261500 17014G20KT P6SM BKN015 OVC030
     FM262200 15010KT P6SM SCT035=



000
FTUS44 KHGX 261127
TAFHOU
TAFHOU
TAF
KHOU 261127Z 2612/2712 15006KT P6SM SCT020 BKN050 BKN090
     FM261500 18008KT P6SM VCSH BKN025
     FM261800 16011KT P6SM VCTS BKN035CB
     FM270300 14006KT P6SM BKN015=



000
FTUS44 KHGX 261127
TAFLBX
TAFLBX
TAF
KLBX 261127Z 2612/2712 17010KT P6SM OVC020
     FM261500 18012KT P6SM SCT015 OVC020
     FM270100 15006KT 6SM BR OVC015=



000
FTUS44 KHGX 261127
TAFCLL
TAF
KCLL 261127Z 2612/2712 10004KT P6SM VCTS SCT017 BKN035CB
     FM261400 19011KT P6SM BKN015
     FM262000 17008KT P6SM VCTS OVC035CB
     FM270200 15005KT 6SM BR OVC015=



000
FTUS44 KHGX 261127
TAFCLL
TAFCLL
TAF
KCLL 261127Z 2612/2712 10004KT P6SM VCTS SCT017 BKN035CB
     FM261400 19011KT P6SM BKN015
     FM262000 17008KT P6SM VCTS OVC035CB
     FM270200 15005KT 6SM BR OVC015=



000
FTUS44 KHGX 261127
TAFSGR
TAFSGR
TAF
KSGR 261127Z 2612/2712 17008KT P6SM SCT030 BKN100
     FM261500 18011KT P6SM VCSH BKN025
     FM261800 16014KT P6SM VCTS BKN035CB
     FM270300 14006KT P6SM BKN015=



000
FTUS44 KHGX 261127
TAFLBX
TAF
KLBX 261127Z 2612/2712 17010KT P6SM OVC020
     FM261500 18012KT P6SM SCT015 OVC020
     FM270100 15006KT 6SM BR OVC015=



000
FTUS44 KHGX 261127
TAFSGR
TAF
KSGR 261127Z 2612/2712 17008KT P6SM SCT030 BKN100
     FM261500 18011KT P6SM VCSH BKN025
     FM261800 16014KT P6SM VCTS BKN035CB
     FM270300 14006KT P6SM BKN015=



000
FTUS44 KHGX 261127
TAFIAH
TAFIAH
TAF
KIAH 261127Z 2612/2718 14008KT P6SM VCSH SCT030 OVC060
      TEMPO 2612/2614 -SHRA
     FM261500 18010KT P6SM VCSH BKN025
     FM261800 17006KT P6SM VCTS BKN035CB
      TEMPO 2621/2624 TSRA
     FM270400 14006KT P6SM SCT025
     FM270900 15006KT P6SM BKN020
     FM271500 15007KT P6SM VCSH BKN025=



000
FTUS44 KHGX 261127
TAFCXO
TAF
KCXO 261127Z 2612/2712 00000KT P6SM VCTS BKN015CB OVC200
      TEMPO 2612/2613 -TSRA
     FM261500 18006KT P6SM SCT015 BKN025
     FM261800 18008KT P6SM BKN050
     FM270100 00000KT 4SM BR OVC025
     FM270500 00000KT 2SM BR BKN005=



000
FTUS44 KHGX 261030 AAC
TAFCXO
TAF AMD
KCXO 261030Z 2611/2706 00000KT P6SM VCTS BKN015CB OVC200
      TEMPO 2611/2613 -TSRA
     FM261500 18010KT P6SM SCT015 BKN025
     FM261800 18010KT P6SM OVC050
     FM270100 00000KT 4SM BR OVC025=



000
FTUS44 KHGX 261030 AAC
TAFCXO
TAF AMD
KCXO 261030Z 2611/2706 00000KT P6SM VCTS BKN015CB OVC200
      TEMPO 2611/2613 -TSRA
     FM261500 18010KT P6SM SCT015 BKN025
     FM261800 18010KT P6SM OVC050
     FM270100 00000KT 4SM BR OVC025=



000
FTUS44 KHGX 261013 AAC
TAFUTS
TAF AMD
KUTS 261013Z 2610/2706 17005KT P6SM FEW010 OVC035
     FM261500 20010KT P6SM BKN015
     FM262000 17008KT P6SM OVC035
     FM270300 15005KT 6SM BR OVC015=



000
FTUS44 KHGX 261013
TAFUTS
TAFUTS
TAF AMD
KUTS 261013Z 2610/2706 17005KT P6SM FEW010 OVC035
     FM261500 20010KT P6SM BKN015
     FM262000 17008KT P6SM OVC035
     FM270300 15005KT 6SM BR OVC015=



000
FTUS44 KHGX 261013 AAC
TAFUTS
TAF AMD
KUTS 261013Z 2610/2706 17005KT P6SM FEW010 OVC035
     FM261500 20010KT P6SM BKN015
     FM262000 17008KT P6SM OVC035
     FM270300 15005KT 6SM BR OVC015=



000
FTUS44 KHGX 261013
TAFUTS
TAFUTS
TAF AMD
KUTS 261013Z 2610/2706 17005KT P6SM FEW010 OVC035
     FM261500 20010KT P6SM BKN015
     FM262000 17008KT P6SM OVC035
     FM270300 15005KT 6SM BR OVC015=



000
FTUS44 KHGX 261013 AAC
TAFUTS
TAF AMD
KUTS 261013Z 2610/2706 17005KT P6SM FEW010 OVC035
     FM261500 20010KT P6SM BKN015
     FM262000 17008KT P6SM OVC035
     FM270300 15005KT 6SM BR OVC015=



000
FTUS44 KHGX 261013 AAC
TAFUTS
TAF AMD
KUTS 261013Z 2610/2706 17005KT P6SM FEW010 OVC035
     FM261500 20010KT P6SM BKN015
     FM262000 17008KT P6SM OVC035
     FM270300 15005KT 6SM BR OVC015=



000
FTUS44 KHGX 261010
TAFHOU
TAFHOU
TAF AMD
KHOU 261010Z 2610/2706 15010G20KT 6SM -TSRA SCT020CB BKN050 OVC070
     FM261500 18011KT P6SM VCSH BKN025
     FM261800 16014KT P6SM VCTS BKN035CB
     FM270300 14006KT P6SM BKN015=



000
FTUS44 KHGX 261010 AAF
TAFHOU
TAF AMD
KHOU 261010Z 2610/2706 15010G20KT 6SM -TSRA SCT020CB BKN050 OVC070
     FM261500 18011KT P6SM VCSH BKN025
     FM261800 16014KT P6SM VCTS BKN035CB
     FM270300 14006KT P6SM BKN015=



000
FTUS44 KHGX 261010 AAF
TAFHOU
TAF AMD
KHOU 261010Z 2610/2706 15010G20KT 6SM -TSRA SCT020CB BKN050 OVC070
     FM261500 18011KT P6SM VCSH BKN025
     FM261800 16014KT P6SM VCTS BKN035CB
     FM270300 14006KT P6SM BKN015=



000
FTUS44 KHGX 260956
TAFUTS
TAFUTS
TAF AMD
KUTS 260956Z 2610/2706 00000KT P6SM FEW009 OVC035
      TEMPO 2611/2613 3SM TSRA BKN008 OVC025CB
     FM261500 20010KT P6SM BKN015
     FM262000 17008KT P6SM OVC035
     FM270300 15005KT 6SM BR OVC015=



000
FTUS44 KHGX 260956 AAB
TAFUTS
TAF AMD
KUTS 260956Z 2610/2706 00000KT P6SM FEW009 OVC035
      TEMPO 2611/2613 3SM TSRA BKN008 OVC025CB
     FM261500 20010KT P6SM BKN015
     FM262000 17008KT P6SM OVC035
     FM270300 15005KT 6SM BR OVC015=



000
FTUS44 KHGX 260956 AAB
TAFUTS
TAF AMD
KUTS 260956Z 2610/2706 00000KT P6SM FEW009 OVC035
      TEMPO 2611/2613 3SM TSRA BKN008 OVC025CB
     FM261500 20010KT P6SM BKN015
     FM262000 17008KT P6SM OVC035
     FM270300 15005KT 6SM BR OVC015=



000
FTUS44 KHGX 260951
TAFCLL
TAFCLL
TAF AMD
KCLL 260951Z 2610/2706 10004KT P6SM BKN017
      TEMPO 2610/2612 2SM +TSRA OVC010CB
     FM261500 19011KT P6SM BKN015
     FM262000 17008KT P6SM OVC035
     FM270300 15005KT 6SM BR OVC015=



000
FTUS44 KHGX 260951 AAC
TAFCLL
TAF AMD
KCLL 260951Z 2610/2706 10004KT P6SM BKN017
      TEMPO 2610/2612 2SM +TSRA OVC010CB
     FM261500 19011KT P6SM BKN015
     FM262000 17008KT P6SM OVC035
     FM270300 15005KT 6SM BR OVC015=



000
FTUS44 KHGX 260951 AAC
TAFCLL
TAF AMD
KCLL 260951Z 2610/2706 10004KT P6SM BKN017
      TEMPO 2610/2612 2SM +TSRA OVC010CB
     FM261500 19011KT P6SM BKN015
     FM262000 17008KT P6SM OVC035
     FM270300 15005KT 6SM BR OVC015=



000
FTUS44 KHGX 260950
TAFSGR
TAFSGR
TAF AMD
KSGR 260950Z 2610/2706 17011KT P6SM -TSRA FEW030CB FEW070 BKN100
     FM261100 17008KT P6SM VCTS SCT030CB BKN100
     FM261500 18011KT P6SM VCSH BKN025
     FM261800 16014KT P6SM VCTS BKN035CB
     FM270300 14006KT P6SM BKN015=



000
FTUS44 KHGX 260950 AAG
TAFSGR
TAF AMD
KSGR 260950Z 2610/2706 17011KT P6SM -TSRA FEW030CB FEW070 BKN100
     FM261100 17008KT P6SM VCTS SCT030CB BKN100
     FM261500 18011KT P6SM VCSH BKN025
     FM261800 16014KT P6SM VCTS BKN035CB
     FM270300 14006KT P6SM BKN015=



000
FTUS44 KHGX 260950
TAFSGR
TAFSGR
TAF AMD
KSGR 260950Z 2610/2706 17011KT P6SM -TSRA FEW030CB FEW070 BKN100
     FM261100 17008KT P6SM VCTS SCT030CB BKN100
     FM261500 18011KT P6SM VCSH BKN025
     FM261800 16014KT P6SM VCTS BKN035CB
     FM270300 14006KT P6SM BKN015=



000
FTUS44 KHGX 260950 AAG
TAFSGR
TAF AMD
KSGR 260950Z 2610/2706 17011KT P6SM -TSRA FEW030CB FEW070 BKN100
     FM261100 17008KT P6SM VCTS SCT030CB BKN100
     FM261500 18011KT P6SM VCSH BKN025
     FM261800 16014KT P6SM VCTS BKN035CB
     FM270300 14006KT P6SM BKN015=



000
FTUS44 KHGX 260950 AAG
TAFSGR
TAF AMD
KSGR 260950Z 2610/2706 17011KT P6SM -TSRA FEW030CB FEW070 BKN100
     FM261100 17008KT P6SM VCTS SCT030CB BKN100
     FM261500 18011KT P6SM VCSH BKN025
     FM261800 16014KT P6SM VCTS BKN035CB
     FM270300 14006KT P6SM BKN015=



000
FTUS44 KHGX 260928 AAB
TAFCLL
TAF AMD
KCLL 260928Z 2609/2706 10004KT P6SM BKN017
     FM261500 19011KT P6SM BKN015
     FM262000 17008KT P6SM OVC035
     FM270300 15005KT 6SM BR OVC015=



000
FTUS44 KHGX 260928 AAB
TAFCLL
TAF AMD
KCLL 260928Z 2609/2706 10004KT P6SM BKN017
     FM261500 19011KT P6SM BKN015
     FM262000 17008KT P6SM OVC035
     FM270300 15005KT 6SM BR OVC015=



000
FTUS44 KHGX 260928
TAFCLL
TAFCLL
TAF AMD
KCLL 260928Z 2609/2706 10004KT P6SM BKN017
     FM261500 19011KT P6SM BKN015
     FM262000 17008KT P6SM OVC035
     FM270300 15005KT 6SM BR OVC015=



000
FTUS44 KHGX 260927
TAFGLS
TAFGLS
TAF AMD
KGLS 260927Z 2609/2706 01005KT P6SM VCTS FEW040CB BKN120
     FM261500 17014G20KT P6SM BKN015 OVC030
     FM262200 15010KT P6SM SCT035=



000
FTUS44 KHGX 260927 AAC
TAFGLS
TAF AMD
KGLS 260927Z 2609/2706 01005KT P6SM VCTS FEW040CB BKN120
     FM261500 17014G20KT P6SM BKN015 OVC030
     FM262200 15010KT P6SM SCT035=



000
FTUS44 KHGX 260924 AAE
TAFHOU
TAF AMD
KHOU 260924Z 2609/2706 15005G19KT 3SM +TSRA BKN025CB OVC050
      TEMPO 2609/2610 1SM +TSRA BKN020CB
     FM261500 18011KT P6SM VCSH BKN025
     FM261800 16014KT P6SM VCTS BKN035CB
     FM270300 14006KT P6SM BKN015=



000
FTUS44 KHGX 260924
TAFHOU
TAFHOU
TAF AMD
KHOU 260924Z 2609/2706 15005G19KT 3SM +TSRA BKN025CB OVC050
      TEMPO 2609/2610 1SM +TSRA BKN020CB
     FM261500 18011KT P6SM VCSH BKN025
     FM261800 16014KT P6SM VCTS BKN035CB
     FM270300 14006KT P6SM BKN015=



000
FTUS44 KHGX 260924 AAE
TAFHOU
TAF AMD
KHOU 260924Z 2609/2706 15005G19KT 3SM +TSRA BKN025CB OVC050
      TEMPO 2609/2610 1SM +TSRA BKN020CB
     FM261500 18011KT P6SM VCSH BKN025
     FM261800 16014KT P6SM VCTS BKN035CB
     FM270300 14006KT P6SM BKN015=



000
FTUS44 KHGX 260924 AAE
TAFHOU
TAF AMD
KHOU 260924Z 2609/2706 15005G19KT 3SM +TSRA BKN025CB OVC050
      TEMPO 2609/2610 1SM +TSRA BKN020CB
     FM261500 18011KT P6SM VCSH BKN025
     FM261800 16014KT P6SM VCTS BKN035CB
     FM270300 14006KT P6SM BKN015=



000
FTUS44 KHGX 260924 AAE
TAFHOU
TAF AMD
KHOU 260924Z 2609/2706 15005G19KT 3SM +TSRA BKN025CB OVC050
      TEMPO 2609/2610 1SM +TSRA BKN020CB
     FM261500 18011KT P6SM VCSH BKN025
     FM261800 16014KT P6SM VCTS BKN035CB
     FM270300 14006KT P6SM BKN015=



000
FTUS44 KHGX 260924
TAFHOU
TAFHOU
TAF AMD
KHOU 260924Z 2609/2706 15005G19KT 3SM +TSRA BKN025CB OVC050
      TEMPO 2609/2610 1SM +TSRA BKN020CB
     FM261500 18011KT P6SM VCSH BKN025
     FM261800 16014KT P6SM VCTS BKN035CB
     FM270300 14006KT P6SM BKN015=



000
FTUS44 KHGX 260904 AAD
TAFHOU
TAF AMD
KHOU 260904Z 2609/2706 26014G18KT P6SM TSRA SCT025CB BKN060 OVC070
     FM261500 18011KT P6SM VCSH BKN025
     FM261800 16014KT P6SM VCTS BKN035CB
     FM270300 14006KT P6SM BKN015=



000
FTUS44 KHGX 260904 AAD
TAFHOU
TAF AMD
KHOU 260904Z 2609/2706 26014G18KT P6SM TSRA SCT025CB BKN060 OVC070
     FM261500 18011KT P6SM VCSH BKN025
     FM261800 16014KT P6SM VCTS BKN035CB
     FM270300 14006KT P6SM BKN015=



000
FTUS44 KHGX 260904
TAFHOU
TAFHOU
TAF AMD
KHOU 260904Z 2609/2706 26014G18KT P6SM TSRA SCT025CB BKN060 OVC070
     FM261500 18011KT P6SM VCSH BKN025
     FM261800 16014KT P6SM VCTS BKN035CB
     FM270300 14006KT P6SM BKN015=



000
FTUS44 KHGX 260903 AAD
TAFIAH
TAF AMD
KIAH 260903Z 2609/2712 15008KT P6SM -TSRA SCT020CB OVC080
     FM261500 18010G15KT P6SM VCSH BKN025
     FM261800 16008KT P6SM VCTS BKN035CB
     FM270400 14006KT P6SM SCT025=



000
FTUS44 KHGX 260903 AAD
TAFIAH
TAF AMD
KIAH 260903Z 2609/2712 15008KT P6SM -TSRA SCT020CB OVC080
     FM261500 18010G15KT P6SM VCSH BKN025
     FM261800 16008KT P6SM VCTS BKN035CB
     FM270400 14006KT P6SM SCT025=



000
FTUS44 KHGX 260903
TAFIAH
TAFIAH
TAF AMD
KIAH 260903Z 2609/2712 15008KT P6SM -TSRA SCT020CB OVC080
     FM261500 18010G15KT P6SM VCSH BKN025
     FM261800 16008KT P6SM VCTS BKN035CB
     FM270400 14006KT P6SM SCT025=



000
FTUS44 KHGX 260900 AAF
TAFSGR
TAF AMD
KSGR 260900Z 2609/2706 15019G23KT P6SM -TSRA FEW030CB FEW070 BKN100
     FM261000 17008KT P6SM VCTS SCT015 BKN025CB
     FM261500 18011KT P6SM VCSH BKN025
     FM261800 16014KT P6SM VCTS BKN035CB
     FM270300 14006KT P6SM BKN015=



000
FTUS44 KHGX 260900 AAF
TAFSGR
TAF AMD
KSGR 260900Z 2609/2706 15019G23KT P6SM -TSRA FEW030CB FEW070 BKN100
     FM261000 17008KT P6SM VCTS SCT015 BKN025CB
     FM261500 18011KT P6SM VCSH BKN025
     FM261800 16014KT P6SM VCTS BKN035CB
     FM270300 14006KT P6SM BKN015=



000
FTUS44 KHGX 260900
TAFSGR
TAFSGR
TAF AMD
KSGR 260900Z 2609/2706 15019G23KT P6SM -TSRA FEW030CB FEW070 BKN100
     FM261000 17008KT P6SM VCTS SCT015 BKN025CB
     FM261500 18011KT P6SM VCSH BKN025
     FM261800 16014KT P6SM VCTS BKN035CB
     FM270300 14006KT P6SM BKN015=



000
FTUS44 KHGX 260824 AAB
TAFGLS
TAF AMD
KGLS 260824Z 2608/2706 34019KT P6SM -RA BKN060 BKN080 OVC100
     FM260900 18018KT P6SM VCTS SCT015 BKN025CB
     FM261500 17014G20KT P6SM BKN015 OVC030
     FM262200 15010KT P6SM SCT035=



000
FTUS44 KHGX 260824 AAB
TAFGLS
TAF AMD
KGLS 260824Z 2608/2706 34019KT P6SM -RA BKN060 BKN080 OVC100
     FM260900 18018KT P6SM VCTS SCT015 BKN025CB
     FM261500 17014G20KT P6SM BKN015 OVC030
     FM262200 15010KT P6SM SCT035=



000
FTUS44 KHGX 260824
TAFGLS
TAFGLS
TAF AMD
KGLS 260824Z 2608/2706 34019KT P6SM -RA BKN060 BKN080 OVC100
     FM260900 18018KT P6SM VCTS SCT015 BKN025CB
     FM261500 17014G20KT P6SM BKN015 OVC030
     FM262200 15010KT P6SM SCT035=



000
FTUS44 KHGX 260822 CCA
TAFSGR
TAF COR
KSGR 260822Z 2608/2706 18019G22KT 3SM +TSRA BR BKN030CB BKN070
      OVC090
      TEMPO 2608/2609 3/4SM +TSRA BKN025CB
     FM261000 17008KT P6SM VCTS SCT015 BKN025CB
     FM261500 18011KT P6SM VCSH BKN025
     FM261800 16014KT P6SM VCTS BKN035CB
     FM270300 14006KT P6SM BKN015=



000
FTUS44 KHGX 260822
TAFSGR
TAFSGR
TAF COR
KSGR 260822Z 2608/2706 18019G22KT 3SM +TSRA BR BKN030CB BKN070
      OVC090
      TEMPO 2608/2609 3/4SM +TSRA BKN025CB
     FM261000 17008KT P6SM VCTS SCT015 BKN025CB
     FM261500 18011KT P6SM VCSH BKN025
     FM261800 16014KT P6SM VCTS BKN035CB
     FM270300 14006KT P6SM BKN015=



000
FTUS44 KHGX 260822 CCA
TAFSGR
TAF COR
KSGR 260822Z 2608/2706 18019G22KT 3SM +TSRA BR BKN030CB BKN070
      OVC090
      TEMPO 2608/2609 3/4SM +TSRA BKN025CB
     FM261000 17008KT P6SM VCTS SCT015 BKN025CB
     FM261500 18011KT P6SM VCSH BKN025
     FM261800 16014KT P6SM VCTS BKN035CB
     FM270300 14006KT P6SM BKN015=



000
FTUS44 KHGX 260822 CCA
TAFSGR
TAF COR
KSGR 260822Z 2608/2706 18019G22KT 3SM +TSRA BR BKN030CB BKN070
      OVC090
      TEMPO 2608/2609 3/4SM +TSRA BKN025CB
     FM261000 17008KT P6SM VCTS SCT015 BKN025CB
     FM261500 18011KT P6SM VCSH BKN025
     FM261800 16014KT P6SM VCTS BKN035CB
     FM270300 14006KT P6SM BKN015=



000
FTUS44 KHGX 260821 AAE
TAFSGR
TAF AMD
KSGR 260821Z 2608/2706 18019G22KT 3SM +TSRA BR BKN030CB BKN070
      OVC090
      TEMPO 2609/2610 3/4SM +TSRA BKN025CB
     FM261000 17008KT P6SM VCTS SCT015 BKN025CB
     FM261500 18011KT P6SM VCSH BKN025
     FM261800 16014KT P6SM VCTS BKN035CB
     FM270300 14006KT P6SM BKN015=



000
FTUS44 KHGX 260821 AAE
TAFSGR
TAF AMD
KSGR 260821Z 2608/2706 18019G22KT 3SM +TSRA BR BKN030CB BKN070
      OVC090
      TEMPO 2609/2610 3/4SM +TSRA BKN025CB
     FM261000 17008KT P6SM VCTS SCT015 BKN025CB
     FM261500 18011KT P6SM VCSH BKN025
     FM261800 16014KT P6SM VCTS BKN035CB
     FM270300 14006KT P6SM BKN015=



000
FTUS44 KHGX 260812
TAFSGR
TAFSGR
TAF AMD
KSGR 260812Z 2608/2706 18019G22KT 3SM +TSRA BR BKN030CB BKN070
      OVC090
      TEMPO 2609/2610 1SM +TSRA BKN025CB
     FM261000 17008KT P6SM VCTS SCT015 BKN025CB
     FM261500 18011KT P6SM VCSH BKN025
     FM261800 16014KT P6SM VCTS BKN035CB
     FM270300 14006KT P6SM BKN015=



000
FTUS44 KHGX 260812 AAD
TAFSGR
TAF AMD
KSGR 260812Z 2608/2706 18019G22KT 3SM +TSRA BR BKN030CB BKN070
      OVC090
      TEMPO 2609/2610 1SM +TSRA BKN025CB
     FM261000 17008KT P6SM VCTS SCT015 BKN025CB
     FM261500 18011KT P6SM VCSH BKN025
     FM261800 16014KT P6SM VCTS BKN035CB
     FM270300 14006KT P6SM BKN015=



000
FTUS44 KHGX 260810
TAFIAH
TAFIAH
TAF AMD
KIAH 260810Z 2608/2712 15010KT P6SM -TSRA FEW020CB BKN080 OVC110
     FM260900 15008KT P6SM VCTS SCT015 BKN020CB
     FM261500 18010G15KT P6SM VCSH BKN025
     FM261800 16008KT P6SM VCTS BKN035CB
     FM270400 14006KT P6SM SCT025=



000
FTUS44 KHGX 260810 AAC
TAFIAH
TAF AMD
KIAH 260810Z 2608/2712 15010KT P6SM -TSRA FEW020CB BKN080 OVC110
     FM260900 15008KT P6SM VCTS SCT015 BKN020CB
     FM261500 18010G15KT P6SM VCSH BKN025
     FM261800 16008KT P6SM VCTS BKN035CB
     FM270400 14006KT P6SM SCT025=



000
FTUS44 KHGX 260802
TAFHOU
TAFHOU
TAF AMD
KHOU 260802Z 2608/2706 VRB15G20KT 3SM +TSRA BKN028CB OVC080
     FM260900 17008KT P6SM VCTS SCT015 BKN025CB
     FM261500 18011KT P6SM VCSH BKN025
     FM261800 16014KT P6SM VCTS BKN035CB
     FM270300 14006KT P6SM BKN015=



000
FTUS44 KHGX 260802 AAC
TAFHOU
TAF AMD
KHOU 260802Z 2608/2706 VRB15G20KT 3SM +TSRA BKN028CB OVC080
     FM260900 17008KT P6SM VCTS SCT015 BKN025CB
     FM261500 18011KT P6SM VCSH BKN025
     FM261800 16014KT P6SM VCTS BKN035CB
     FM270300 14006KT P6SM BKN015=



000
FTUS44 KHGX 260802 AAC
TAFHOU
TAF AMD
KHOU 260802Z 2608/2706 VRB15G20KT 3SM +TSRA BKN028CB OVC080
     FM260900 17008KT P6SM VCTS SCT015 BKN025CB
     FM261500 18011KT P6SM VCSH BKN025
     FM261800 16014KT P6SM VCTS BKN035CB
     FM270300 14006KT P6SM BKN015=



000
FTUS44 KHGX 260800 AAC
TAFSGR
TAF AMD
KSGR 260800Z 2608/2706 14011G27KT 2SM +TSRA BR SCT030CB BKN070
      OVC100
     FM261000 17008KT P6SM VCTS SCT015 BKN025CB
     FM261500 18011KT P6SM VCSH BKN025
     FM261800 16014KT P6SM VCTS BKN035CB
     FM270300 14006KT P6SM BKN015=



000
FTUS44 KHGX 260800
TAFSGR
TAFSGR
TAF AMD
KSGR 260800Z 2608/2706 14011G27KT 2SM +TSRA BR SCT030CB BKN070
      OVC100
     FM261000 17008KT P6SM VCTS SCT015 BKN025CB
     FM261500 18011KT P6SM VCSH BKN025
     FM261800 16014KT P6SM VCTS BKN035CB
     FM270300 14006KT P6SM BKN015=



000
FTUS44 KHGX 260800 AAC
TAFSGR
TAF AMD
KSGR 260800Z 2608/2706 14011G27KT 2SM +TSRA BR SCT030CB BKN070
      OVC100
     FM261000 17008KT P6SM VCTS SCT015 BKN025CB
     FM261500 18011KT P6SM VCSH BKN025
     FM261800 16014KT P6SM VCTS BKN035CB
     FM270300 14006KT P6SM BKN015=



000
FTUS44 KHGX 260800 AAC
TAFSGR
TAF AMD
KSGR 260800Z 2608/2706 14011G27KT 2SM +TSRA BR SCT030CB BKN070
      OVC100
     FM261000 17008KT P6SM VCTS SCT015 BKN025CB
     FM261500 18011KT P6SM VCSH BKN025
     FM261800 16014KT P6SM VCTS BKN035CB
     FM270300 14006KT P6SM BKN015=



000
FTUS44 KHGX 260800 AAC
TAFSGR
TAF AMD
KSGR 260800Z 2608/2706 14011G27KT 2SM +TSRA BR SCT030CB BKN070
      OVC100
     FM261000 17008KT P6SM VCTS SCT015 BKN025CB
     FM261500 18011KT P6SM VCSH BKN025
     FM261800 16014KT P6SM VCTS BKN035CB
     FM270300 14006KT P6SM BKN015=



000
FTUS44 KHGX 260753
TAFSGR
TAFSGR
TAF AMD
KSGR 260753Z 2608/2706 19018G34KT 1 1/2SM +TSRA SCT040CB SCT080
      BKN100
     FM260900 17008KT P6SM SCT015 BKN025
     FM261500 18011KT P6SM VCSH BKN025
     FM261800 16014KT P6SM VCTS BKN035CB
     FM270300 14006KT P6SM BKN015=



000
FTUS44 KHGX 260753 AAB
TAFSGR
TAF AMD
KSGR 260753Z 2608/2706 19018G34KT 1 1/2SM +TSRA SCT040CB SCT080
      BKN100
     FM260900 17008KT P6SM SCT015 BKN025
     FM261500 18011KT P6SM VCSH BKN025
     FM261800 16014KT P6SM VCTS BKN035CB
     FM270300 14006KT P6SM BKN015=



000
FTUS44 KHGX 260753 AAB
TAFSGR
TAF AMD
KSGR 260753Z 2608/2706 19018G34KT 1 1/2SM +TSRA SCT040CB SCT080
      BKN100
     FM260900 17008KT P6SM SCT015 BKN025
     FM261500 18011KT P6SM VCSH BKN025
     FM261800 16014KT P6SM VCTS BKN035CB
     FM270300 14006KT P6SM BKN015=



000
FTUS44 KHGX 260753 AAB
TAFSGR
TAF AMD
KSGR 260753Z 2608/2706 19018G34KT 1 1/2SM +TSRA SCT040CB SCT080
      BKN100
     FM260900 17008KT P6SM SCT015 BKN025
     FM261500 18011KT P6SM VCSH BKN025
     FM261800 16014KT P6SM VCTS BKN035CB
     FM270300 14006KT P6SM BKN015=



000
FTUS44 KHGX 260729 AAB
TAFIAH
TAF AMD
KIAH 260729Z 2607/2712 21008G15KT 3SM TSRA FEW008 SCT020CB OVC080
     FM260900 15008KT P6SM SCT015 BKN025
     FM261500 18010G15KT P6SM VCSH BKN025
     FM261800 16008KT P6SM VCTS BKN035CB
     FM270400 14006KT P6SM SCT025=



000
FTUS44 KHGX 260729 AAB
TAFIAH
TAF AMD
KIAH 260729Z 2607/2712 21008G15KT 3SM TSRA FEW008 SCT020CB OVC080
     FM260900 15008KT P6SM SCT015 BKN025
     FM261500 18010G15KT P6SM VCSH BKN025
     FM261800 16008KT P6SM VCTS BKN035CB
     FM270400 14006KT P6SM SCT025=



000
FTUS44 KHGX 260729 AAB
TAFIAH
TAF AMD
KIAH 260729Z 2607/2712 21008G15KT 3SM TSRA FEW008 SCT020CB OVC080
     FM260900 15008KT P6SM SCT015 BKN025
     FM261500 18010G15KT P6SM VCSH BKN025
     FM261800 16008KT P6SM VCTS BKN035CB
     FM270400 14006KT P6SM SCT025=



000
FTUS44 KHGX 260729 AAB
TAFIAH
TAF AMD
KIAH 260729Z 2607/2712 21008G15KT 3SM TSRA FEW008 SCT020CB OVC080
     FM260900 15008KT P6SM SCT015 BKN025
     FM261500 18010G15KT P6SM VCSH BKN025
     FM261800 16008KT P6SM VCTS BKN035CB
     FM270400 14006KT P6SM SCT025=



000
FTUS44 KHGX 260728
TAFCXO
TAFCXO
TAF AMD
KCXO 260728Z 2607/2706 13010KT P6SM VCTS SCT007 BKN015CB BKN070
     FM261500 18010KT P6SM SCT015 BKN025
     FM261800 18010KT P6SM OVC050
     FM270100 00000KT 4SM BR OVC025=



000
FTUS44 KHGX 260728 AAB
TAFCXO
TAF AMD
KCXO 260728Z 2607/2706 13010KT P6SM VCTS SCT007 BKN015CB BKN070
     FM261500 18010KT P6SM SCT015 BKN025
     FM261800 18010KT P6SM OVC050
     FM270100 00000KT 4SM BR OVC025=



000
FTUS44 KHGX 260728 AAB
TAFCXO
TAF AMD
KCXO 260728Z 2607/2706 13010KT P6SM VCTS SCT007 BKN015CB BKN070
     FM261500 18010KT P6SM SCT015 BKN025
     FM261800 18010KT P6SM OVC050
     FM270100 00000KT 4SM BR OVC025=



000
FTUS44 KHGX 260728 AAB
TAFCXO
TAF AMD
KCXO 260728Z 2607/2706 13010KT P6SM VCTS SCT007 BKN015CB BKN070
     FM261500 18010KT P6SM SCT015 BKN025
     FM261800 18010KT P6SM OVC050
     FM270100 00000KT 4SM BR OVC025=



000
FTUS44 KHGX 260728 AAB
TAFCXO
TAF AMD
KCXO 260728Z 2607/2706 13010KT P6SM VCTS SCT007 BKN015CB BKN070
     FM261500 18010KT P6SM SCT015 BKN025
     FM261800 18010KT P6SM OVC050
     FM270100 00000KT 4SM BR OVC025=



000
FTUS44 KHGX 260725 AAA
TAFUTS
TAF AMD
KUTS 260725Z 2607/2706 11004KT P6SM OVC010
     FM261500 20010KT P6SM BKN015
     FM262000 17008KT P6SM OVC035
     FM270300 15005KT 6SM BR OVC015=



000
FTUS44 KHGX 260725 AAA
TAFUTS
TAF AMD
KUTS 260725Z 2607/2706 11004KT P6SM OVC010
     FM261500 20010KT P6SM BKN015
     FM262000 17008KT P6SM OVC035
     FM270300 15005KT 6SM BR OVC015=



000
FTUS44 KHGX 260725
TAFUTS
TAFUTS
TAF AMD
KUTS 260725Z 2607/2706 11004KT P6SM OVC010
     FM261500 20010KT P6SM BKN015
     FM262000 17008KT P6SM OVC035
     FM270300 15005KT 6SM BR OVC015=



000
FTUS44 KHGX 260724 AAA
TAFCLL
TAF AMD
KCLL 260724Z 2607/2706 11005KT P6SM FEW005 BKN120
     FM261500 19011KT P6SM BKN015
     FM262000 17008KT P6SM OVC035
     FM270300 15005KT 6SM BR OVC015=



000
FTUS44 KHGX 260724 AAA
TAFCLL
TAF AMD
KCLL 260724Z 2607/2706 11005KT P6SM FEW005 BKN120
     FM261500 19011KT P6SM BKN015
     FM262000 17008KT P6SM OVC035
     FM270300 15005KT 6SM BR OVC015=



000
FTUS44 KHGX 260724 AAA
TAFCLL
TAF AMD
KCLL 260724Z 2607/2706 11005KT P6SM FEW005 BKN120
     FM261500 19011KT P6SM BKN015
     FM262000 17008KT P6SM OVC035
     FM270300 15005KT 6SM BR OVC015=



000
FTUS44 KHGX 260724
TAFCLL
TAFCLL
TAF AMD
KCLL 260724Z 2607/2706 11005KT P6SM FEW005 BKN120
     FM261500 19011KT P6SM BKN015
     FM262000 17008KT P6SM OVC035
     FM270300 15005KT 6SM BR OVC015=



000
FTUS44 KHGX 260723 AAA
TAFGLS
TAF AMD
KGLS 260723Z 2607/2706 34019KT P6SM -RA BKN060 BKN080 OVC100
      TEMPO 2608/2609 VRB35KT 3SM TSRA SCT015 BKN025CB
     FM260900 18018KT P6SM VCTS SCT015 BKN025CB
     FM261500 17014G20KT P6SM BKN015 OVC030
     FM262200 15010KT P6SM SCT035=



000
FTUS44 KHGX 260723 AAA
TAFGLS
TAF AMD
KGLS 260723Z 2607/2706 34019KT P6SM -RA BKN060 BKN080 OVC100
      TEMPO 2608/2609 VRB35KT 3SM TSRA SCT015 BKN025CB
     FM260900 18018KT P6SM VCTS SCT015 BKN025CB
     FM261500 17014G20KT P6SM BKN015 OVC030
     FM262200 15010KT P6SM SCT035=



000
FTUS44 KHGX 260723
TAFGLS
TAFGLS
TAF AMD
KGLS 260723Z 2607/2706 34019KT P6SM -RA BKN060 BKN080 OVC100
      TEMPO 2608/2609 VRB35KT 3SM TSRA SCT015 BKN025CB
     FM260900 18018KT P6SM VCTS SCT015 BKN025CB
     FM261500 17014G20KT P6SM BKN015 OVC030
     FM262200 15010KT P6SM SCT035=



000
FTUS44 KHGX 260716 AAB
TAFLBX
TAF AMD
KLBX 260716Z 2607/2706 02010KT 6SM -TSRA SCT007 BKN025CB OVC070
      TEMPO 2607/2609 VRB35KT 1SM +TSRA BKN007 BKN020CB
     FM260900 17010KT P6SM OVC020
     FM261500 18012KT P6SM SCT015 OVC020
     FM270100 15006KT 6SM BR OVC015=



000
FTUS44 KHGX 260716 AAB
TAFLBX
TAF AMD
KLBX 260716Z 2607/2706 02010KT 6SM -TSRA SCT007 BKN025CB OVC070
      TEMPO 2607/2609 VRB35KT 1SM +TSRA BKN007 BKN020CB
     FM260900 17010KT P6SM OVC020
     FM261500 18012KT P6SM SCT015 OVC020
     FM270100 15006KT 6SM BR OVC015=



000
FTUS44 KHGX 260647 AAB
TAFHOU
TAF AMD
KHOU 260647Z 2607/2706 VRB15G20KT 3SM +TSRA BR BKN028CB OVC080
      TEMPO 2607/2609 VRB40KT 1SM +TSRA OVC012CB
     FM260900 17008KT P6SM SCT015 BKN025
     FM261500 18011KT P6SM VCSH BKN025
     FM261800 16014KT P6SM VCTS BKN035CB
     FM270300 14006KT P6SM BKN015=



000
FTUS44 KHGX 260647 AAB
TAFHOU
TAF AMD
KHOU 260647Z 2607/2706 VRB15G20KT 3SM +TSRA BR BKN028CB OVC080
      TEMPO 2607/2609 VRB40KT 1SM +TSRA OVC012CB
     FM260900 17008KT P6SM SCT015 BKN025
     FM261500 18011KT P6SM VCSH BKN025
     FM261800 16014KT P6SM VCTS BKN035CB
     FM270300 14006KT P6SM BKN015=



000
FTUS44 KHGX 260647 AAB
TAFHOU
TAF AMD
KHOU 260647Z 2607/2706 VRB15G20KT 3SM +TSRA BR BKN028CB OVC080
      TEMPO 2607/2609 VRB40KT 1SM +TSRA OVC012CB
     FM260900 17008KT P6SM SCT015 BKN025
     FM261500 18011KT P6SM VCSH BKN025
     FM261800 16014KT P6SM VCTS BKN035CB
     FM270300 14006KT P6SM BKN015=



000
FTUS44 KHGX 260647 AAB
TAFHOU
TAF AMD
KHOU 260647Z 2607/2706 VRB15G20KT 3SM +TSRA BR BKN028CB OVC080
      TEMPO 2607/2609 VRB40KT 1SM +TSRA OVC012CB
     FM260900 17008KT P6SM SCT015 BKN025
     FM261500 18011KT P6SM VCSH BKN025
     FM261800 16014KT P6SM VCTS BKN035CB
     FM270300 14006KT P6SM BKN015=



000
FTUS44 KHGX 260647
TAFHOU
TAFHOU
TAF AMD
KHOU 260647Z 2607/2706 VRB15G20KT 3SM +TSRA BR BKN028CB OVC080
      TEMPO 2607/2609 VRB40KT 1SM +TSRA OVC012CB
     FM260900 17008KT P6SM SCT015 BKN025
     FM261500 18011KT P6SM VCSH BKN025
     FM261800 16014KT P6SM VCTS BKN035CB
     FM270300 14006KT P6SM BKN015=



000
FTUS44 KHGX 260647
TAFHOU
TAFHOU
TAF AMD
KHOU 260647Z 2607/2706 VRB15G20KT 3SM +TSRA BR BKN028CB OVC080
      TEMPO 2607/2609 VRB40KT 1SM +TSRA OVC012CB
     FM260900 17008KT P6SM SCT015 BKN025
     FM261500 18011KT P6SM VCSH BKN025
     FM261800 16014KT P6SM VCTS BKN035CB
     FM270300 14006KT P6SM BKN015=



000
FTUS44 KHGX 260639
TAFSGR
TAFSGR
TAF AMD
KSGR 260639Z 2607/2706 15015G23KT 3SM +TSRA BR SCT025CB BKN060
     FM260800 15006KT P6SM VCTS SCT020CB BKN050
     FM260900 17008KT P6SM SCT015 BKN025
     FM261500 18011KT P6SM VCSH BKN025
     FM261800 16014KT P6SM VCTS BKN035CB
     FM270300 14006KT P6SM BKN015=



000
FTUS44 KHGX 260639 AAA
TAFSGR
TAF AMD
KSGR 260639Z 2607/2706 15015G23KT 3SM +TSRA BR SCT025CB BKN060
     FM260800 15006KT P6SM VCTS SCT020CB BKN050
     FM260900 17008KT P6SM SCT015 BKN025
     FM261500 18011KT P6SM VCSH BKN025
     FM261800 16014KT P6SM VCTS BKN035CB
     FM270300 14006KT P6SM BKN015=



000
FTUS44 KHGX 260639 AAA
TAFSGR
TAF AMD
KSGR 260639Z 2607/2706 15015G23KT 3SM +TSRA BR SCT025CB BKN060
     FM260800 15006KT P6SM VCTS SCT020CB BKN050
     FM260900 17008KT P6SM SCT015 BKN025
     FM261500 18011KT P6SM VCSH BKN025
     FM261800 16014KT P6SM VCTS BKN035CB
     FM270300 14006KT P6SM BKN015=



000
FTUS44 KHGX 260639 AAA
TAFSGR
TAF AMD
KSGR 260639Z 2607/2706 15015G23KT 3SM +TSRA BR SCT025CB BKN060
     FM260800 15006KT P6SM VCTS SCT020CB BKN050
     FM260900 17008KT P6SM SCT015 BKN025
     FM261500 18011KT P6SM VCSH BKN025
     FM261800 16014KT P6SM VCTS BKN035CB
     FM270300 14006KT P6SM BKN015=



000
FTUS44 KHGX 260639 AAA
TAFSGR
TAF AMD
KSGR 260639Z 2607/2706 15015G23KT 3SM +TSRA BR SCT025CB BKN060
     FM260800 15006KT P6SM VCTS SCT020CB BKN050
     FM260900 17008KT P6SM SCT015 BKN025
     FM261500 18011KT P6SM VCSH BKN025
     FM261800 16014KT P6SM VCTS BKN035CB
     FM270300 14006KT P6SM BKN015=



000
FTUS44 KHGX 260637
TAFCXO
TAFCXO
TAF AMD
KCXO 260637Z 2607/2706 14010KT P6SM VCTS BKN008 BKN012CB
     FM261500 18010KT P6SM SCT015 BKN025
     FM261800 18010KT P6SM OVC050
     FM270100 00000KT 4SM BR OVC025=



000
FTUS44 KHGX 260637 AAA
TAFCXO
TAF AMD
KCXO 260637Z 2607/2706 14010KT P6SM VCTS BKN008 BKN012CB
     FM261500 18010KT P6SM SCT015 BKN025
     FM261800 18010KT P6SM OVC050
     FM270100 00000KT 4SM BR OVC025=



000
FTUS44 KHGX 260637 AAA
TAFCXO
TAF AMD
KCXO 260637Z 2607/2706 14010KT P6SM VCTS BKN008 BKN012CB
     FM261500 18010KT P6SM SCT015 BKN025
     FM261800 18010KT P6SM OVC050
     FM270100 00000KT 4SM BR OVC025=



000
FTUS44 KHGX 260637
TAFCXO
TAFCXO
TAF AMD
KCXO 260637Z 2607/2706 14010KT P6SM VCTS BKN008 BKN012CB
     FM261500 18010KT P6SM SCT015 BKN025
     FM261800 18010KT P6SM OVC050
     FM270100 00000KT 4SM BR OVC025=



000
FTUS44 KHGX 260637 AAA
TAFCXO
TAF AMD
KCXO 260637Z 2607/2706 14010KT P6SM VCTS BKN008 BKN012CB
     FM261500 18010KT P6SM SCT015 BKN025
     FM261800 18010KT P6SM OVC050
     FM270100 00000KT 4SM BR OVC025=



000
FTUS44 KHGX 260628 AAA
TAFIAH
TAF AMD
KIAH 260628Z 2606/2712 15008KT P6SM -TSRA FEW008 SCT020CB OVC100
      TEMPO 2606/2608 VRB35KT 1SM +TSRA BKN020CB
     FM260900 15008KT P6SM SCT015 BKN025
     FM261500 18010G15KT P6SM VCSH BKN025
     FM261800 16008KT P6SM VCTS BKN035CB
     FM270400 14006KT P6SM SCT025=



000
FTUS44 KHGX 260628
TAFIAH
TAFIAH
TAF AMD
KIAH 260628Z 2606/2712 15008KT P6SM -TSRA FEW008 SCT020CB OVC100
      TEMPO 2606/2608 VRB35KT 1SM +TSRA BKN020CB
     FM260900 15008KT P6SM SCT015 BKN025
     FM261500 18010G15KT P6SM VCSH BKN025
     FM261800 16008KT P6SM VCTS BKN035CB
     FM270400 14006KT P6SM SCT025=



000
FTUS44 KHGX 260628
TAFIAH
TAFIAH
TAF AMD
KIAH 260628Z 2606/2712 15008KT P6SM -TSRA FEW008 SCT020CB OVC100
      TEMPO 2606/2608 VRB35KT 1SM +TSRA BKN020CB
     FM260900 15008KT P6SM SCT015 BKN025
     FM261500 18010G15KT P6SM VCSH BKN025
     FM261800 16008KT P6SM VCTS BKN035CB
     FM270400 14006KT P6SM SCT025=



000
FTUS44 KHGX 260628 AAA
TAFIAH
TAF AMD
KIAH 260628Z 2606/2712 15008KT P6SM -TSRA FEW008 SCT020CB OVC100
      TEMPO 2606/2608 VRB35KT 1SM +TSRA BKN020CB
     FM260900 15008KT P6SM SCT015 BKN025
     FM261500 18010G15KT P6SM VCSH BKN025
     FM261800 16008KT P6SM VCTS BKN035CB
     FM270400 14006KT P6SM SCT025=



000
FTUS44 KHGX 260628 AAA
TAFIAH
TAF AMD
KIAH 260628Z 2606/2712 15008KT P6SM -TSRA FEW008 SCT020CB OVC100
      TEMPO 2606/2608 VRB35KT 1SM +TSRA BKN020CB
     FM260900 15008KT P6SM SCT015 BKN025
     FM261500 18010G15KT P6SM VCSH BKN025
     FM261800 16008KT P6SM VCTS BKN035CB
     FM270400 14006KT P6SM SCT025=



000
FTUS44 KHGX 260626
TAFHOU
TAFHOU
TAF AMD
KHOU 260626Z 2606/2706 VRB15G20KT 3SM +TSRA BR BKN028CB OVC080
      TEMPO 2607/2609 VRB35KT 1SM +TSRA OVC012CB
     FM260900 17008KT P6SM SCT015 BKN025
     FM261500 18011KT P6SM VCSH BKN025
     FM261800 16014KT P6SM VCTS BKN035CB
     FM270300 14006KT P6SM BKN015=



000
FTUS44 KHGX 260626 AAA
TAFHOU
TAF AMD
KHOU 260626Z 2606/2706 VRB15G20KT 3SM +TSRA BR BKN028CB OVC080
      TEMPO 2607/2609 VRB35KT 1SM +TSRA OVC012CB
     FM260900 17008KT P6SM SCT015 BKN025
     FM261500 18011KT P6SM VCSH BKN025
     FM261800 16014KT P6SM VCTS BKN035CB
     FM270300 14006KT P6SM BKN015=



000
FTUS44 KHGX 260626 AAA
TAFHOU
TAF AMD
KHOU 260626Z 2606/2706 VRB15G20KT 3SM +TSRA BR BKN028CB OVC080
      TEMPO 2607/2609 VRB35KT 1SM +TSRA OVC012CB
     FM260900 17008KT P6SM SCT015 BKN025
     FM261500 18011KT P6SM VCSH BKN025
     FM261800 16014KT P6SM VCTS BKN035CB
     FM270300 14006KT P6SM BKN015=



000
FTUS44 KHGX 260626
TAFHOU
TAFHOU
TAF AMD
KHOU 260626Z 2606/2706 VRB15G20KT 3SM +TSRA BR BKN028CB OVC080
      TEMPO 2607/2609 VRB35KT 1SM +TSRA OVC012CB
     FM260900 17008KT P6SM SCT015 BKN025
     FM261500 18011KT P6SM VCSH BKN025
     FM261800 16014KT P6SM VCTS BKN035CB
     FM270300 14006KT P6SM BKN015=



000
FTUS44 KHGX 260626 AAA
TAFHOU
TAF AMD
KHOU 260626Z 2606/2706 VRB15G20KT 3SM +TSRA BR BKN028CB OVC080
      TEMPO 2607/2609 VRB35KT 1SM +TSRA OVC012CB
     FM260900 17008KT P6SM SCT015 BKN025
     FM261500 18011KT P6SM VCSH BKN025
     FM261800 16014KT P6SM VCTS BKN035CB
     FM270300 14006KT P6SM BKN015=



000
FTUS44 KHGX 260623 AAA
TAFLBX
TAF AMD
KLBX 260623Z 2606/2706 04015KT P6SM -RA VCTS BKN011 BKN016CB OVC023
      TEMPO 2607/2609 VRB35KT 1SM +TSRA BKN010CB BKN025
     FM260900 17010KT P6SM OVC020
     FM261500 18012KT P6SM SCT015 OVC020
     FM270100 15006KT 6SM BR OVC015=



000
FTUS44 KHGX 260623 AAA
TAFLBX
TAF AMD
KLBX 260623Z 2606/2706 04015KT P6SM -RA VCTS BKN011 BKN016CB OVC023
      TEMPO 2607/2609 VRB35KT 1SM +TSRA BKN010CB BKN025
     FM260900 17010KT P6SM OVC020
     FM261500 18012KT P6SM SCT015 OVC020
     FM270100 15006KT 6SM BR OVC015=



000
FTUS44 KHGX 260532
TAFUTS
TAFUTS
TAF
KUTS 260532Z 2606/2706 VRB04KT P6SM VCTS BKN008CB
     FM260700 17004KT 5SM BR BKN006
     FM261500 20010KT P6SM BKN015
     FM262000 17008KT P6SM OVC035
     FM270300 15005KT 6SM BR OVC015=



000
FTUS44 KHGX 260532
TAFUTS
TAF
KUTS 260532Z 2606/2706 VRB04KT P6SM VCTS BKN008CB
     FM260700 17004KT 5SM BR BKN006
     FM261500 20010KT P6SM BKN015
     FM262000 17008KT P6SM OVC035
     FM270300 15005KT 6SM BR OVC015=



000
FTUS44 KHGX 260532
TAFCXO
TAF
KCXO 260532Z 2606/2706 12011KT P6SM -RA VCTS SCT009CB SCT080 BKN090
     FM260700 17004KT 6SM BR SCT005 BKN012
     FM261500 18010KT P6SM SCT015 BKN025
     FM261800 18010KT P6SM OVC050
     FM270100 00000KT 4SM BR OVC025=



000
FTUS44 KHGX 260532
TAFGLS
TAF
KGLS 260532Z 2606/2706 34017G22KT P6SM VCTS OVC018CB
      TEMPO 2606/2608 VRB35KT 3SM TSRA BKN010 BKN020CB
     FM260800 18018KT P6SM BKN015 BKN025
     FM261500 17014G20KT P6SM BKN015 OVC030
     FM262200 15010KT P6SM SCT035=



000
FTUS44 KHGX 260532
TAFCLL
TAFCLL
TAF
KCLL 260532Z 2606/2706 12006KT P6SM FEW005
     FM260700 17004KT 6SM BR BKN006 BKN012
     FM261500 19011KT P6SM BKN015
     FM262000 17008KT P6SM OVC035
     FM270300 15005KT 6SM BR OVC015=



000
FTUS44 KHGX 260532
TAFCXO
TAFCXO
TAF
KCXO 260532Z 2606/2706 12011KT P6SM -RA VCTS SCT009CB SCT080 BKN090
     FM260700 17004KT 6SM BR SCT005 BKN012
     FM261500 18010KT P6SM SCT015 BKN025
     FM261800 18010KT P6SM OVC050
     FM270100 00000KT 4SM BR OVC025=



000
FTUS44 KHGX 260532
TAFSGR
TAFSGR
TAF
KSGR 260532Z 2606/2706 17008KT 1SM +TSRA BR FEW006 SCT010 OVC018CB
     FM260800 15006KT P6SM VCTS SCT020CB BKN050
     FM260900 17008KT P6SM SCT015 BKN025
     FM261500 18011KT P6SM VCSH BKN025
     FM261800 16014KT P6SM VCTS BKN035CB
     FM270300 14006KT P6SM BKN015=



000
FTUS44 KHGX 260532
TAFLBX
TAFLBX
TAF
KLBX 260532Z 2606/2706 04015KT P6SM -RA VCTS BKN011 BKN016CB OVC023
      TEMPO 2606/2608 VRB35KT 3SM TSRA BKN010CB BKN025
     FM260800 17010KT P6SM OVC020
     FM261500 18012KT P6SM SCT015 OVC020
     FM270100 15006KT 6SM BR OVC015=



000
FTUS44 KHGX 260532
TAFHOU
TAF
KHOU 260532Z 2606/2706 VRB15G30KT 1 1/2SM +TSRA BR SCT012 OVC028CB
     FM260800 15006KT P6SM VCTS SCT020CB BKN050
     FM260900 17008KT P6SM SCT015 BKN025
     FM261500 18011KT P6SM VCSH BKN025
     FM261800 16014KT P6SM VCTS BKN035CB
     FM270300 14006KT P6SM BKN015=



000
FTUS44 KHGX 260532
TAFIAH
TAF
KIAH 260532Z 2606/2712 15017G21KT 6SM TSRA FEW008 SCT020CB OVC080
      TEMPO 2606/2608 3SM +TSRA BKN020CB
     FM260900 15008KT P6SM SCT015 BKN025
     FM261500 18010G15KT P6SM VCSH BKN025
     FM261800 16008KT P6SM VCTS BKN035CB
     FM270400 14006KT P6SM SCT025=



000
FTUS44 KHGX 260532
TAFCLL
TAF
KCLL 260532Z 2606/2706 12006KT P6SM FEW005
     FM260700 17004KT 6SM BR BKN006 BKN012
     FM261500 19011KT P6SM BKN015
     FM262000 17008KT P6SM OVC035
     FM270300 15005KT 6SM BR OVC015=



000
FTUS44 KHGX 260532
TAFLBX
TAF
KLBX 260532Z 2606/2706 04015KT P6SM -RA VCTS BKN011 BKN016CB OVC023
      TEMPO 2606/2608 VRB35KT 3SM TSRA BKN010CB BKN025
     FM260800 17010KT P6SM OVC020
     FM261500 18012KT P6SM SCT015 OVC020
     FM270100 15006KT 6SM BR OVC015=



000
FTUS44 KHGX 260532
TAFSGR
TAF
KSGR 260532Z 2606/2706 17008KT 1SM +TSRA BR FEW006 SCT010 OVC018CB
     FM260800 15006KT P6SM VCTS SCT020CB BKN050
     FM260900 17008KT P6SM SCT015 BKN025
     FM261500 18011KT P6SM VCSH BKN025
     FM261800 16014KT P6SM VCTS BKN035CB
     FM270300 14006KT P6SM BKN015=



000
FTUS44 KHGX 260532
TAFUTS
TAF
KUTS 260532Z 2606/2706 VRB04KT P6SM VCTS BKN008CB
     FM260700 17004KT 5SM BR BKN006
     FM261500 20010KT P6SM BKN015
     FM262000 17008KT P6SM OVC035
     FM270300 15005KT 6SM BR OVC015=



000
FTUS44 KHGX 260532
TAFGLS
TAF
KGLS 260532Z 2606/2706 34017G22KT P6SM VCTS OVC018CB
      TEMPO 2606/2608 VRB35KT 3SM TSRA BKN010 BKN020CB
     FM260800 18018KT P6SM BKN015 BKN025
     FM261500 17014G20KT P6SM BKN015 OVC030
     FM262200 15010KT P6SM SCT035=



000
FTUS44 KHGX 260532
TAFCXO
TAF
KCXO 260532Z 2606/2706 12011KT P6SM -RA VCTS SCT009CB SCT080 BKN090
     FM260700 17004KT 6SM BR SCT005 BKN012
     FM261500 18010KT P6SM SCT015 BKN025
     FM261800 18010KT P6SM OVC050
     FM270100 00000KT 4SM BR OVC025=



000
FTUS44 KHGX 260532
TAFHOU
TAFHOU
TAF
KHOU 260532Z 2606/2706 VRB15G30KT 1 1/2SM +TSRA BR SCT012 OVC028CB
     FM260800 15006KT P6SM VCTS SCT020CB BKN050
     FM260900 17008KT P6SM SCT015 BKN025
     FM261500 18011KT P6SM VCSH BKN025
     FM261800 16014KT P6SM VCTS BKN035CB
     FM270300 14006KT P6SM BKN015=



000
FTUS44 KHGX 260532
TAFGLS
TAFGLS
TAF
KGLS 260532Z 2606/2706 34017G22KT P6SM VCTS OVC018CB
      TEMPO 2606/2608 VRB35KT 3SM TSRA BKN010 BKN020CB
     FM260800 18018KT P6SM BKN015 BKN025
     FM261500 17014G20KT P6SM BKN015 OVC030
     FM262200 15010KT P6SM SCT035=



000
FTUS44 KHGX 260532
TAFIAH
TAFIAH
TAF
KIAH 260532Z 2606/2712 15017G21KT 6SM TSRA FEW008 SCT020CB OVC080
      TEMPO 2606/2608 3SM +TSRA BKN020CB
     FM260900 15008KT P6SM SCT015 BKN025
     FM261500 18010G15KT P6SM VCSH BKN025
     FM261800 16008KT P6SM VCTS BKN035CB
     FM270400 14006KT P6SM SCT025=



000
FTUS44 KHGX 260532
TAFIAH
TAF
KIAH 260532Z 2606/2712 15017G21KT 6SM TSRA FEW008 SCT020CB OVC080
      TEMPO 2606/2608 3SM +TSRA BKN020CB
     FM260900 15008KT P6SM SCT015 BKN025
     FM261500 18010G15KT P6SM VCSH BKN025
     FM261800 16008KT P6SM VCTS BKN035CB
     FM270400 14006KT P6SM SCT025=



000
FTUS44 KHGX 260532
TAFSGR
TAF
KSGR 260532Z 2606/2706 17008KT 1SM +TSRA BR FEW006 SCT010 OVC018CB
     FM260800 15006KT P6SM VCTS SCT020CB BKN050
     FM260900 17008KT P6SM SCT015 BKN025
     FM261500 18011KT P6SM VCSH BKN025
     FM261800 16014KT P6SM VCTS BKN035CB
     FM270300 14006KT P6SM BKN015=



000
FTUS44 KHGX 260532
TAFCLL
TAF
KCLL 260532Z 2606/2706 12006KT P6SM FEW005
     FM260700 17004KT 6SM BR BKN006 BKN012
     FM261500 19011KT P6SM BKN015
     FM262000 17008KT P6SM OVC035
     FM270300 15005KT 6SM BR OVC015=



000
FTUS44 KHGX 260532
TAFCXO
TAF
KCXO 260532Z 2606/2706 12011KT P6SM -RA VCTS SCT009CB SCT080 BKN090
     FM260700 17004KT 6SM BR SCT005 BKN012
     FM261500 18010KT P6SM SCT015 BKN025
     FM261800 18010KT P6SM OVC050
     FM270100 00000KT 4SM BR OVC025=



000
FTUS44 KHGX 260532
TAFCLL
TAF
KCLL 260532Z 2606/2706 12006KT P6SM FEW005
     FM260700 17004KT 6SM BR BKN006 BKN012
     FM261500 19011KT P6SM BKN015
     FM262000 17008KT P6SM OVC035
     FM270300 15005KT 6SM BR OVC015=



000
FTUS44 KHGX 260532
TAFUTS
TAF
KUTS 260532Z 2606/2706 VRB04KT P6SM VCTS BKN008CB
     FM260700 17004KT 5SM BR BKN006
     FM261500 20010KT P6SM BKN015
     FM262000 17008KT P6SM OVC035
     FM270300 15005KT 6SM BR OVC015=



000
FTUS44 KHGX 260532
TAFHOU
TAF
KHOU 260532Z 2606/2706 VRB15G30KT 1 1/2SM +TSRA BR SCT012 OVC028CB
     FM260800 15006KT P6SM VCTS SCT020CB BKN050
     FM260900 17008KT P6SM SCT015 BKN025
     FM261500 18011KT P6SM VCSH BKN025
     FM261800 16014KT P6SM VCTS BKN035CB
     FM270300 14006KT P6SM BKN015=



000
FTUS44 KHGX 260532
TAFLBX
TAF
KLBX 260532Z 2606/2706 04015KT P6SM -RA VCTS BKN011 BKN016CB OVC023
      TEMPO 2606/2608 VRB35KT 3SM TSRA BKN010CB BKN025
     FM260800 17010KT P6SM OVC020
     FM261500 18012KT P6SM SCT015 OVC020
     FM270100 15006KT 6SM BR OVC015=



000
FTUS44 KHGX 260532
TAFGLS
TAF
KGLS 260532Z 2606/2706 34017G22KT P6SM VCTS OVC018CB
      TEMPO 2606/2608 VRB35KT 3SM TSRA BKN010 BKN020CB
     FM260800 18018KT P6SM BKN015 BKN025
     FM261500 17014G20KT P6SM BKN015 OVC030
     FM262200 15010KT P6SM SCT035=



000
FTUS44 KHGX 260532
TAFIAH
TAF
KIAH 260532Z 2606/2712 15017G21KT 6SM TSRA FEW008 SCT020CB OVC080
      TEMPO 2606/2608 3SM +TSRA BKN020CB
     FM260900 15008KT P6SM SCT015 BKN025
     FM261500 18010G15KT P6SM VCSH BKN025
     FM261800 16008KT P6SM VCTS BKN035CB
     FM270400 14006KT P6SM SCT025=



000
FTUS44 KHGX 260532
TAFGLS
TAF
KGLS 260532Z 2606/2706 34017G22KT P6SM VCTS OVC018CB
      TEMPO 2606/2608 VRB35KT 3SM TSRA BKN010 BKN020CB
     FM260800 18018KT P6SM BKN015 BKN025
     FM261500 17014G20KT P6SM BKN015 OVC030
     FM262200 15010KT P6SM SCT035=



000
FTUS44 KHGX 260532
TAFCXO
TAF
KCXO 260532Z 2606/2706 12011KT P6SM -RA VCTS SCT009CB SCT080 BKN090
     FM260700 17004KT 6SM BR SCT005 BKN012
     FM261500 18010KT P6SM SCT015 BKN025
     FM261800 18010KT P6SM OVC050
     FM270100 00000KT 4SM BR OVC025=



000
FTUS44 KHGX 260532
TAFSGR
TAF
KSGR 260532Z 2606/2706 17008KT 1SM +TSRA BR FEW006 SCT010 OVC018CB
     FM260800 15006KT P6SM VCTS SCT020CB BKN050
     FM260900 17008KT P6SM SCT015 BKN025
     FM261500 18011KT P6SM VCSH BKN025
     FM261800 16014KT P6SM VCTS BKN035CB
     FM270300 14006KT P6SM BKN015=



000
FTUS44 KHGX 260532
TAFLBX
TAF
KLBX 260532Z 2606/2706 04015KT P6SM -RA VCTS BKN011 BKN016CB OVC023
      TEMPO 2606/2608 VRB35KT 3SM TSRA BKN010CB BKN025
     FM260800 17010KT P6SM OVC020
     FM261500 18012KT P6SM SCT015 OVC020
     FM270100 15006KT 6SM BR OVC015=



000
FTUS44 KHGX 260532
TAFUTS
TAF
KUTS 260532Z 2606/2706 VRB04KT P6SM VCTS BKN008CB
     FM260700 17004KT 5SM BR BKN006
     FM261500 20010KT P6SM BKN015
     FM262000 17008KT P6SM OVC035
     FM270300 15005KT 6SM BR OVC015=



000
FTUS44 KHGX 260532
TAFHOU
TAF
KHOU 260532Z 2606/2706 VRB15G30KT 1 1/2SM +TSRA BR SCT012 OVC028CB
     FM260800 15006KT P6SM VCTS SCT020CB BKN050
     FM260900 17008KT P6SM SCT015 BKN025
     FM261500 18011KT P6SM VCSH BKN025
     FM261800 16014KT P6SM VCTS BKN035CB
     FM270300 14006KT P6SM BKN015=



000
FTUS44 KHGX 260447
TAFIAH
TAFIAH
TAF AMD
KIAH 260447Z 2605/2706 15010KT 6SM TSRA FEW020CB BKN050 BKN070
     FM260900 17010KT P6SM SCT015 BKN025
     FM261500 18011G16KT P6SM VCSH BKN025
     FM261800 16014KT P6SM VCTS BKN035CB=



000
FTUS44 KHGX 260447 AAL
TAFIAH
TAF AMD
KIAH 260447Z 2605/2706 15010KT 6SM TSRA FEW020CB BKN050 BKN070
     FM260900 17010KT P6SM SCT015 BKN025
     FM261500 18011G16KT P6SM VCSH BKN025
     FM261800 16014KT P6SM VCTS BKN035CB=



000
FTUS44 KHGX 260447 AAL
TAFIAH
TAF AMD
KIAH 260447Z 2605/2706 15010KT 6SM TSRA FEW020CB BKN050 BKN070
     FM260900 17010KT P6SM SCT015 BKN025
     FM261500 18011G16KT P6SM VCSH BKN025
     FM261800 16014KT P6SM VCTS BKN035CB=



000
FTUS44 KHGX 260447 AAL
TAFIAH
TAF AMD
KIAH 260447Z 2605/2706 15010KT 6SM TSRA FEW020CB BKN050 BKN070
     FM260900 17010KT P6SM SCT015 BKN025
     FM261500 18011G16KT P6SM VCSH BKN025
     FM261800 16014KT P6SM VCTS BKN035CB=



000
FTUS44 KHGX 260446
TAFUTS
TAFUTS
TAF AMD
KUTS 260446Z 2605/2624 VRB06G16KT P6SM -RA VCTS BKN008 BKN012CB
      BKN110
     FM260700 17004KT 6SM BR FEW006 BKN012
     FM261500 20010KT P6SM BKN015=



000
FTUS44 KHGX 260446
TAFUTS
TAFUTS
TAF AMD
KUTS 260446Z 2605/2624 VRB06G16KT P6SM -RA VCTS BKN008 BKN012CB
      BKN110
     FM260700 17004KT 6SM BR FEW006 BKN012
     FM261500 20010KT P6SM BKN015=



000
FTUS44 KHGX 260446 AAH
TAFUTS
TAF AMD
KUTS 260446Z 2605/2624 VRB06G16KT P6SM -RA VCTS BKN008 BKN012CB
      BKN110
     FM260700 17004KT 6SM BR FEW006 BKN012
     FM261500 20010KT P6SM BKN015=



000
FTUS44 KHGX 260446 AAH
TAFUTS
TAF AMD
KUTS 260446Z 2605/2624 VRB06G16KT P6SM -RA VCTS BKN008 BKN012CB
      BKN110
     FM260700 17004KT 6SM BR FEW006 BKN012
     FM261500 20010KT P6SM BKN015=



000
FTUS44 KHGX 260445
TAFLBX
TAFLBX
TAF AMD
KLBX 260445Z 2605/2624 15009KT P6SM VCTS FEW015CB BKN030 OVC080
      TEMPO 2606/2608 VRB35KT 3SM TSRA BKN010CB BKN025
     FM260800 15009KT P6SM SCT025
     FM261500 17014KT P6SM BKN015=



000
FTUS44 KHGX 260445 AAC
TAFLBX
TAF AMD
KLBX 260445Z 2605/2624 15009KT P6SM VCTS FEW015CB BKN030 OVC080
      TEMPO 2606/2608 VRB35KT 3SM TSRA BKN010CB BKN025
     FM260800 15009KT P6SM SCT025
     FM261500 17014KT P6SM BKN015=



000
FTUS44 KHGX 260445
TAFLBX
TAFLBX
TAF AMD
KLBX 260445Z 2605/2624 15009KT P6SM VCTS FEW015CB BKN030 OVC080
      TEMPO 2606/2608 VRB35KT 3SM TSRA BKN010CB BKN025
     FM260800 15009KT P6SM SCT025
     FM261500 17014KT P6SM BKN015=



000
FTUS44 KHGX 260443 AAA
TAFGLS
TAF AMD
KGLS 260443Z 2605/2624 14011KT P6SM VCTS FEW023CB BKN070 OVC110
      TEMPO 2605/2607 VRB35KT 3SM TSRA BKN010 BKN020CB
     FM260800 18015KT P6SM BKN015 BKN025
     FM261500 17014KT P6SM BKN015=



000
FTUS44 KHGX 260443 AAA
TAFGLS
TAF AMD
KGLS 260443Z 2605/2624 14011KT P6SM VCTS FEW023CB BKN070 OVC110
      TEMPO 2605/2607 VRB35KT 3SM TSRA BKN010 BKN020CB
     FM260800 18015KT P6SM BKN015 BKN025
     FM261500 17014KT P6SM BKN015=



000
FTUS44 KHGX 260443
TAFGLS
TAFGLS
TAF AMD
KGLS 260443Z 2605/2624 14011KT P6SM VCTS FEW023CB BKN070 OVC110
      TEMPO 2605/2607 VRB35KT 3SM TSRA BKN010 BKN020CB
     FM260800 18015KT P6SM BKN015 BKN025
     FM261500 17014KT P6SM BKN015=



000
FTUS44 KHGX 260443
TAFGLS
TAFGLS
TAF AMD
KGLS 260443Z 2605/2624 14011KT P6SM VCTS FEW023CB BKN070 OVC110
      TEMPO 2605/2607 VRB35KT 3SM TSRA BKN010 BKN020CB
     FM260800 18015KT P6SM BKN015 BKN025
     FM261500 17014KT P6SM BKN015=



000
FTUS44 KHGX 260437 AAM
TAFSGR
TAF AMD
KSGR 260437Z 2605/2624 02004KT 1 1/2SM +TSRA FEW010 BKN028CB OVC040
      TEMPO 2605/2607 VRB35KT 1/2SM +TSRA VV010CB
     FM260700 13006KT P6SM VCTS SCT030CB BKN050
     FM260900 17010KT P6SM SCT015 BKN025
     FM261500 18011G16KT P6SM VCSH BKN025
     FM261800 16014KT P6SM VCTS BKN035CB=



000
FTUS44 KHGX 260437 AAM
TAFSGR
TAF AMD
KSGR 260437Z 2605/2624 02004KT 1 1/2SM +TSRA FEW010 BKN028CB OVC040
      TEMPO 2605/2607 VRB35KT 1/2SM +TSRA VV010CB
     FM260700 13006KT P6SM VCTS SCT030CB BKN050
     FM260900 17010KT P6SM SCT015 BKN025
     FM261500 18011G16KT P6SM VCSH BKN025
     FM261800 16014KT P6SM VCTS BKN035CB=



000
FTUS44 KHGX 260437
TAFSGR
TAFSGR
TAF AMD
KSGR 260437Z 2605/2624 02004KT 1 1/2SM +TSRA FEW010 BKN028CB OVC040
      TEMPO 2605/2607 VRB35KT 1/2SM +TSRA VV010CB
     FM260700 13006KT P6SM VCTS SCT030CB BKN050
     FM260900 17010KT P6SM SCT015 BKN025
     FM261500 18011G16KT P6SM VCSH BKN025
     FM261800 16014KT P6SM VCTS BKN035CB=



000
FTUS44 KHGX 260431 AAG
TAFUTS
TAF AMD
KUTS 260431Z 2605/2624 VRB06KT P6SM -TSRA BKN006CB BKN100 BKN110
     FM260700 17004KT 6SM BR FEW006 BKN012
     FM261500 20010KT P6SM BKN015=



000
FTUS44 KHGX 260431 AAG
TAFUTS
TAF AMD
KUTS 260431Z 2605/2624 VRB06KT P6SM -TSRA BKN006CB BKN100 BKN110
     FM260700 17004KT 6SM BR FEW006 BKN012
     FM261500 20010KT P6SM BKN015=



000
FTUS44 KHGX 260423 AAH
TAFHOU
TAF AMD
KHOU 260423Z 2604/2624 34012KT 1 1/2SM +TSRA SCT010 SCT014CB OVC023
      TEMPO 2604/2607 VRB30KT 1SM +TSRA BKN013CB OVC025
     FM260800 15006KT P6SM VCTS SCT020CB BKN050
     FM260900 17010KT P6SM SCT015 BKN025
     FM261500 18011G16KT P6SM VCSH BKN025
     FM261800 16014KT P6SM VCTS BKN035CB=



000
FTUS44 KHGX 260423 AAH
TAFHOU
TAF AMD
KHOU 260423Z 2604/2624 34012KT 1 1/2SM +TSRA SCT010 SCT014CB OVC023
      TEMPO 2604/2607 VRB30KT 1SM +TSRA BKN013CB OVC025
     FM260800 15006KT P6SM VCTS SCT020CB BKN050
     FM260900 17010KT P6SM SCT015 BKN025
     FM261500 18011G16KT P6SM VCSH BKN025
     FM261800 16014KT P6SM VCTS BKN035CB=



000
FTUS44 KHGX 260421 AAL
TAFSGR
TAF AMD
KSGR 260421Z 2604/2624 02004KT 1 1/2SM +TSRA FEW010 BKN028CB OVC040
      TEMPO 2604/2607 VRB35KT 1/2SM +TSRA BKN008 OVC025CB
     FM260700 13006KT P6SM VCTS SCT030CB BKN050
     FM260900 17010KT P6SM SCT015 BKN025
     FM261500 18011G16KT P6SM VCSH BKN025
     FM261800 16014KT P6SM VCTS BKN035CB=



000
FTUS44 KHGX 260421 AAL
TAFSGR
TAF AMD
KSGR 260421Z 2604/2624 02004KT 1 1/2SM +TSRA FEW010 BKN028CB OVC040
      TEMPO 2604/2607 VRB35KT 1/2SM +TSRA BKN008 OVC025CB
     FM260700 13006KT P6SM VCTS SCT030CB BKN050
     FM260900 17010KT P6SM SCT015 BKN025
     FM261500 18011G16KT P6SM VCSH BKN025
     FM261800 16014KT P6SM VCTS BKN035CB=



000
FTUS44 KHGX 260421
TAFSGR
TAFSGR
TAF AMD
KSGR 260421Z 2604/2624 02004KT 1 1/2SM +TSRA FEW010 BKN028CB OVC040
      TEMPO 2604/2607 VRB35KT 1/2SM +TSRA BKN008 OVC025CB
     FM260700 13006KT P6SM VCTS SCT030CB BKN050
     FM260900 17010KT P6SM SCT015 BKN025
     FM261500 18011G16KT P6SM VCSH BKN025
     FM261800 16014KT P6SM VCTS BKN035CB=



000
FTUS44 KHGX 260421
TAFSGR
TAFSGR
TAF AMD
KSGR 260421Z 2604/2624 02004KT 1 1/2SM +TSRA FEW010 BKN028CB OVC040
      TEMPO 2604/2607 VRB35KT 1/2SM +TSRA BKN008 OVC025CB
     FM260700 13006KT P6SM VCTS SCT030CB BKN050
     FM260900 17010KT P6SM SCT015 BKN025
     FM261500 18011G16KT P6SM VCSH BKN025
     FM261800 16014KT P6SM VCTS BKN035CB=



000
FTUS44 KHGX 260421 AAL
TAFSGR
TAF AMD
KSGR 260421Z 2604/2624 02004KT 1 1/2SM +TSRA FEW010 BKN028CB OVC040
      TEMPO 2604/2607 VRB35KT 1/2SM +TSRA BKN008 OVC025CB
     FM260700 13006KT P6SM VCTS SCT030CB BKN050
     FM260900 17010KT P6SM SCT015 BKN025
     FM261500 18011G16KT P6SM VCSH BKN025
     FM261800 16014KT P6SM VCTS BKN035CB=



000
FTUS44 KHGX 260421 AAL
TAFSGR
TAF AMD
KSGR 260421Z 2604/2624 02004KT 1 1/2SM +TSRA FEW010 BKN028CB OVC040
      TEMPO 2604/2607 VRB35KT 1/2SM +TSRA BKN008 OVC025CB
     FM260700 13006KT P6SM VCTS SCT030CB BKN050
     FM260900 17010KT P6SM SCT015 BKN025
     FM261500 18011G16KT P6SM VCSH BKN025
     FM261800 16014KT P6SM VCTS BKN035CB=



000
FTUS44 KHGX 260417
TAFHOU
TAFHOU
TAF AMD
KHOU 260417Z 2604/2624 34012KT 1 1/2SM +TSRA SCT010 BKN014CB OVC023
     FM260800 15006KT P6SM VCTS SCT020CB BKN050
     FM260900 17010KT P6SM SCT015 BKN025
     FM261500 18011G16KT P6SM VCSH BKN025
     FM261800 16014KT P6SM VCTS BKN035CB=



000
FTUS44 KHGX 260417
TAFHOU
TAFHOU
TAF AMD
KHOU 260417Z 2604/2624 34012KT 1 1/2SM +TSRA SCT010 BKN014CB OVC023
     FM260800 15006KT P6SM VCTS SCT020CB BKN050
     FM260900 17010KT P6SM SCT015 BKN025
     FM261500 18011G16KT P6SM VCSH BKN025
     FM261800 16014KT P6SM VCTS BKN035CB=



000
FTUS44 KHGX 260417 AAG
TAFHOU
TAF AMD
KHOU 260417Z 2604/2624 34012KT 1 1/2SM +TSRA SCT010 BKN014CB OVC023
     FM260800 15006KT P6SM VCTS SCT020CB BKN050
     FM260900 17010KT P6SM SCT015 BKN025
     FM261500 18011G16KT P6SM VCSH BKN025
     FM261800 16014KT P6SM VCTS BKN035CB=



000
FTUS44 KHGX 260417 AAG
TAFHOU
TAF AMD
KHOU 260417Z 2604/2624 34012KT 1 1/2SM +TSRA SCT010 BKN014CB OVC023
     FM260800 15006KT P6SM VCTS SCT020CB BKN050
     FM260900 17010KT P6SM SCT015 BKN025
     FM261500 18011G16KT P6SM VCSH BKN025
     FM261800 16014KT P6SM VCTS BKN035CB=



000
FTUS44 KHGX 260417 AAG
TAFHOU
TAF AMD
KHOU 260417Z 2604/2624 34012KT 1 1/2SM +TSRA SCT010 BKN014CB OVC023
     FM260800 15006KT P6SM VCTS SCT020CB BKN050
     FM260900 17010KT P6SM SCT015 BKN025
     FM261500 18011G16KT P6SM VCSH BKN025
     FM261800 16014KT P6SM VCTS BKN035CB=



000
FTUS44 KHGX 260414 AAK
TAFIAH
TAF AMD
KIAH 260414Z 2604/2706 18008KT 3SM +TSRA FEW006 SCT020CB BKN050
     FM260600 13006KT P6SM VCTS SCT020CB BKN050
     FM260900 17010KT P6SM SCT015 BKN025
     FM261500 18011G16KT P6SM VCSH BKN025
     FM261800 16014KT P6SM VCTS BKN035CB=



000
FTUS44 KHGX 260414 AAK
TAFIAH
TAF AMD
KIAH 260414Z 2604/2706 18008KT 3SM +TSRA FEW006 SCT020CB BKN050
     FM260600 13006KT P6SM VCTS SCT020CB BKN050
     FM260900 17010KT P6SM SCT015 BKN025
     FM261500 18011G16KT P6SM VCSH BKN025
     FM261800 16014KT P6SM VCTS BKN035CB=



000
FTUS44 KHGX 260414
TAFIAH
TAFIAH
TAF AMD
KIAH 260414Z 2604/2706 18008KT 3SM +TSRA FEW006 SCT020CB BKN050
     FM260600 13006KT P6SM VCTS SCT020CB BKN050
     FM260900 17010KT P6SM SCT015 BKN025
     FM261500 18011G16KT P6SM VCSH BKN025
     FM261800 16014KT P6SM VCTS BKN035CB=



000
FTUS44 KHGX 260407
TAFSGR
TAFSGR
TAF AMD
KSGR 260407Z 2604/2624 02004KT 1 1/2SM +TSRA FEW010 BKN028CB OVC040
      TEMPO 2604/2606 1/2SM +TSRA BKN008 OVC025CB
     FM260700 13006KT P6SM VCTS SCT030CB BKN050
     FM260900 17010KT P6SM SCT015 BKN025
     FM261500 18011G16KT P6SM VCSH BKN025
     FM261800 16014KT P6SM VCTS BKN035CB=



000
FTUS44 KHGX 260407 AAK
TAFSGR
TAF AMD
KSGR 260407Z 2604/2624 02004KT 1 1/2SM +TSRA FEW010 BKN028CB OVC040
      TEMPO 2604/2606 1/2SM +TSRA BKN008 OVC025CB
     FM260700 13006KT P6SM VCTS SCT030CB BKN050
     FM260900 17010KT P6SM SCT015 BKN025
     FM261500 18011G16KT P6SM VCSH BKN025
     FM261800 16014KT P6SM VCTS BKN035CB=



000
FTUS44 KHGX 260407 AAK
TAFSGR
TAF AMD
KSGR 260407Z 2604/2624 02004KT 1 1/2SM +TSRA FEW010 BKN028CB OVC040
      TEMPO 2604/2606 1/2SM +TSRA BKN008 OVC025CB
     FM260700 13006KT P6SM VCTS SCT030CB BKN050
     FM260900 17010KT P6SM SCT015 BKN025
     FM261500 18011G16KT P6SM VCSH BKN025
     FM261800 16014KT P6SM VCTS BKN035CB=



000
FTUS44 KHGX 260407 AAK
TAFSGR
TAF AMD
KSGR 260407Z 2604/2624 02004KT 1 1/2SM +TSRA FEW010 BKN028CB OVC040
      TEMPO 2604/2606 1/2SM +TSRA BKN008 OVC025CB
     FM260700 13006KT P6SM VCTS SCT030CB BKN050
     FM260900 17010KT P6SM SCT015 BKN025
     FM261500 18011G16KT P6SM VCSH BKN025
     FM261800 16014KT P6SM VCTS BKN035CB=



000
FTUS44 KHGX 260405
TAFIAH
TAFIAH
TAF AMD
KIAH 260405Z 2604/2706 16007KT 2SM +TSRA FEW006 SCT022CB OVC045
     FM260600 13006KT P6SM VCTS SCT030CB BKN050
     FM260900 17010KT P6SM SCT015 BKN025
     FM261500 18011G16KT P6SM VCSH BKN025
     FM261800 16014KT P6SM VCTS BKN035CB=



000
FTUS44 KHGX 260405 AAJ
TAFIAH
TAF AMD
KIAH 260405Z 2604/2706 16007KT 2SM +TSRA FEW006 SCT022CB OVC045
     FM260600 13006KT P6SM VCTS SCT030CB BKN050
     FM260900 17010KT P6SM SCT015 BKN025
     FM261500 18011G16KT P6SM VCSH BKN025
     FM261800 16014KT P6SM VCTS BKN035CB=



000
FTUS44 KHGX 260405 AAJ
TAFIAH
TAF AMD
KIAH 260405Z 2604/2706 16007KT 2SM +TSRA FEW006 SCT022CB OVC045
     FM260600 13006KT P6SM VCTS SCT030CB BKN050
     FM260900 17010KT P6SM SCT015 BKN025
     FM261500 18011G16KT P6SM VCSH BKN025
     FM261800 16014KT P6SM VCTS BKN035CB=



000
FTUS44 KHGX 260405
TAFIAH
TAFIAH
TAF AMD
KIAH 260405Z 2604/2706 16007KT 2SM +TSRA FEW006 SCT022CB OVC045
     FM260600 13006KT P6SM VCTS SCT030CB BKN050
     FM260900 17010KT P6SM SCT015 BKN025
     FM261500 18011G16KT P6SM VCSH BKN025
     FM261800 16014KT P6SM VCTS BKN035CB=



000
FTUS44 KHGX 260356
TAFIAH
TAFIAH
TAF AMD
KIAH 260356Z 2604/2706 29009G17KT 2SM +TSRA SCT006 BKN011 OVC021CB
     FM260600 13006KT P6SM VCTS SCT030CB BKN050
     FM260900 17010KT P6SM SCT015 BKN025
     FM261500 18011G16KT P6SM VCSH BKN025
     FM261800 16014KT P6SM VCTS BKN035CB=



000
FTUS44 KHGX 260356 AAI
TAFIAH
TAF AMD
KIAH 260356Z 2604/2706 29009G17KT 2SM +TSRA SCT006 BKN011 OVC021CB
     FM260600 13006KT P6SM VCTS SCT030CB BKN050
     FM260900 17010KT P6SM SCT015 BKN025
     FM261500 18011G16KT P6SM VCSH BKN025
     FM261800 16014KT P6SM VCTS BKN035CB=



000
FTUS44 KHGX 260356
TAFIAH
TAFIAH
TAF AMD
KIAH 260356Z 2604/2706 29009G17KT 2SM +TSRA SCT006 BKN011 OVC021CB
     FM260600 13006KT P6SM VCTS SCT030CB BKN050
     FM260900 17010KT P6SM SCT015 BKN025
     FM261500 18011G16KT P6SM VCSH BKN025
     FM261800 16014KT P6SM VCTS BKN035CB=



000
FTUS44 KHGX 260356 AAI
TAFIAH
TAF AMD
KIAH 260356Z 2604/2706 29009G17KT 2SM +TSRA SCT006 BKN011 OVC021CB
     FM260600 13006KT P6SM VCTS SCT030CB BKN050
     FM260900 17010KT P6SM SCT015 BKN025
     FM261500 18011G16KT P6SM VCSH BKN025
     FM261800 16014KT P6SM VCTS BKN035CB=



000
FTUS44 KHGX 260356 AAI
TAFIAH
TAF AMD
KIAH 260356Z 2604/2706 29009G17KT 2SM +TSRA SCT006 BKN011 OVC021CB
     FM260600 13006KT P6SM VCTS SCT030CB BKN050
     FM260900 17010KT P6SM SCT015 BKN025
     FM261500 18011G16KT P6SM VCSH BKN025
     FM261800 16014KT P6SM VCTS BKN035CB=



000
FTUS44 KHGX 260356 AAI
TAFIAH
TAF AMD
KIAH 260356Z 2604/2706 29009G17KT 2SM +TSRA SCT006 BKN011 OVC021CB
     FM260600 13006KT P6SM VCTS SCT030CB BKN050
     FM260900 17010KT P6SM SCT015 BKN025
     FM261500 18011G16KT P6SM VCSH BKN025
     FM261800 16014KT P6SM VCTS BKN035CB=



000
FTUS44 KHGX 260353
TAFSGR
TAFSGR
TAF AMD
KSGR 260353Z 2604/2624 02004KT 1 1/2SM +TSRA FEW010 BKN028CB OVC040
     FM260700 13006KT P6SM VCTS SCT030CB BKN050
     FM260900 17010KT P6SM SCT015 BKN025
     FM261500 18011G16KT P6SM VCSH BKN025
     FM261800 16014KT P6SM VCTS BKN035CB=



000
FTUS44 KHGX 260353 AAJ
TAFSGR
TAF AMD
KSGR 260353Z 2604/2624 02004KT 1 1/2SM +TSRA FEW010 BKN028CB OVC040
     FM260700 13006KT P6SM VCTS SCT030CB BKN050
     FM260900 17010KT P6SM SCT015 BKN025
     FM261500 18011G16KT P6SM VCSH BKN025
     FM261800 16014KT P6SM VCTS BKN035CB=



000
FTUS44 KHGX 260353 AAJ
TAFSGR
TAF AMD
KSGR 260353Z 2604/2624 02004KT 1 1/2SM +TSRA FEW010 BKN028CB OVC040
     FM260700 13006KT P6SM VCTS SCT030CB BKN050
     FM260900 17010KT P6SM SCT015 BKN025
     FM261500 18011G16KT P6SM VCSH BKN025
     FM261800 16014KT P6SM VCTS BKN035CB=



000
FTUS44 KHGX 260335 AAF
TAFHOU
TAF AMD
KHOU 260335Z 2604/2624 34021G32KT 1 1/2SM +TSRA SCT010 BKN014CB
      OVC023
     FM260500 15006KT P6SM VCTS SCT030CB BKN050
     FM260900 17010KT P6SM SCT015 BKN025
     FM261500 18011G16KT P6SM VCSH BKN025
     FM261800 16014KT P6SM VCTS BKN035CB=



000
FTUS44 KHGX 260335
TAFHOU
TAFHOU
TAF AMD
KHOU 260335Z 2604/2624 34021G32KT 1 1/2SM +TSRA SCT010 BKN014CB
      OVC023
     FM260500 15006KT P6SM VCTS SCT030CB BKN050
     FM260900 17010KT P6SM SCT015 BKN025
     FM261500 18011G16KT P6SM VCSH BKN025
     FM261800 16014KT P6SM VCTS BKN035CB=



000
FTUS44 KHGX 260331
TAFIAH
TAFIAH
TAF AMD
KIAH 260331Z 2604/2706 29009G17KT 2SM +TSRA SCT006 BKN011 OVC021CB
      TEMPO 2604/2605 VRB40KT 1/2SM +TSRA SCT006 BKN011 OVC015CB
     FM260500 13006KT P6SM VCTS SCT030CB BKN050
     FM260900 17010KT P6SM SCT015 BKN025
     FM261500 18011G16KT P6SM VCSH BKN025
     FM261800 16014KT P6SM VCTS BKN035CB=



000
FTUS44 KHGX 260331 AAH
TAFIAH
TAF AMD
KIAH 260331Z 2604/2706 29009G17KT 2SM +TSRA SCT006 BKN011 OVC021CB
      TEMPO 2604/2605 VRB40KT 1/2SM +TSRA SCT006 BKN011 OVC015CB
     FM260500 13006KT P6SM VCTS SCT030CB BKN050
     FM260900 17010KT P6SM SCT015 BKN025
     FM261500 18011G16KT P6SM VCSH BKN025
     FM261800 16014KT P6SM VCTS BKN035CB=



000
FTUS44 KHGX 260331 AAH
TAFIAH
TAF AMD
KIAH 260331Z 2604/2706 29009G17KT 2SM +TSRA SCT006 BKN011 OVC021CB
      TEMPO 2604/2605 VRB40KT 1/2SM +TSRA SCT006 BKN011 OVC015CB
     FM260500 13006KT P6SM VCTS SCT030CB BKN050
     FM260900 17010KT P6SM SCT015 BKN025
     FM261500 18011G16KT P6SM VCSH BKN025
     FM261800 16014KT P6SM VCTS BKN035CB=



000
FTUS44 KHGX 260331
TAFIAH
TAFIAH
TAF AMD
KIAH 260331Z 2604/2706 29009G17KT 2SM +TSRA SCT006 BKN011 OVC021CB
      TEMPO 2604/2605 VRB40KT 1/2SM +TSRA SCT006 BKN011 OVC015CB
     FM260500 13006KT P6SM VCTS SCT030CB BKN050
     FM260900 17010KT P6SM SCT015 BKN025
     FM261500 18011G16KT P6SM VCSH BKN025
     FM261800 16014KT P6SM VCTS BKN035CB=



000
FTUS44 KHGX 260331 AAH
TAFIAH
TAF AMD
KIAH 260331Z 2604/2706 29009G17KT 2SM +TSRA SCT006 BKN011 OVC021CB
      TEMPO 2604/2605 VRB40KT 1/2SM +TSRA SCT006 BKN011 OVC015CB
     FM260500 13006KT P6SM VCTS SCT030CB BKN050
     FM260900 17010KT P6SM SCT015 BKN025
     FM261500 18011G16KT P6SM VCSH BKN025
     FM261800 16014KT P6SM VCTS BKN035CB=



000
FTUS44 KHGX 260331 AAH
TAFIAH
TAF AMD
KIAH 260331Z 2604/2706 29009G17KT 2SM +TSRA SCT006 BKN011 OVC021CB
      TEMPO 2604/2605 VRB40KT 1/2SM +TSRA SCT006 BKN011 OVC015CB
     FM260500 13006KT P6SM VCTS SCT030CB BKN050
     FM260900 17010KT P6SM SCT015 BKN025
     FM261500 18011G16KT P6SM VCSH BKN025
     FM261800 16014KT P6SM VCTS BKN035CB=



000
FTUS44 KHGX 260319
TAFUTS
TAFUTS
TAF COR
KUTS 260319Z 2603/2624 VRB05KT P6SM -TSRA FEW014CB SCT090 BKN110
     FM260700 17004KT 6SM BR FEW006 BKN012
     FM261500 20010KT P6SM BKN015=



000
FTUS44 KHGX 260319 CCA
TAFUTS
TAF COR
KUTS 260319Z 2603/2624 VRB05KT P6SM -TSRA FEW014CB SCT090 BKN110
     FM260700 17004KT 6SM BR FEW006 BKN012
     FM261500 20010KT P6SM BKN015=



000
FTUS44 KHGX 260319 CCA
TAFUTS
TAF COR
KUTS 260319Z 2603/2624 VRB05KT P6SM -TSRA FEW014CB SCT090 BKN110
     FM260700 17004KT 6SM BR FEW006 BKN012
     FM261500 20010KT P6SM BKN015=



000
FTUS44 KHGX 260318
TAFUTS
TAFUTS
TAF AMD
KUTS 260318Z 2603/2624 VRB05KT P6SM -RA FEW014 SCT090 BKN110
     FM260700 17004KT 6SM BR FEW006 BKN012
     FM261500 20010KT P6SM BKN015=



000
FTUS44 KHGX 260318 AAF
TAFUTS
TAF AMD
KUTS 260318Z 2603/2624 VRB05KT P6SM -RA FEW014 SCT090 BKN110
     FM260700 17004KT 6SM BR FEW006 BKN012
     FM261500 20010KT P6SM BKN015=



000
FTUS44 KHGX 260318 AAF
TAFUTS
TAF AMD
KUTS 260318Z 2603/2624 VRB05KT P6SM -RA FEW014 SCT090 BKN110
     FM260700 17004KT 6SM BR FEW006 BKN012
     FM261500 20010KT P6SM BKN015=



000
FTUS44 KHGX 260313
TAFSGR
TAFSGR
TAF AMD
KSGR 260313Z 2603/2624 32017G32KT 3SM TSRA SCT008 OVC027CB
      TEMPO 2603/2605 VRB40KT 1/2SM +TSRA SCT007 BKN020 OVC025CB
     FM260500 13006KT P6SM VCTS SCT030CB BKN050
     FM260900 17010KT P6SM SCT015 BKN025
     FM261500 18011G16KT P6SM VCSH BKN025
     FM261800 16014KT P6SM VCTS BKN035CB=



000
FTUS44 KHGX 260313 AAI
TAFSGR
TAF AMD
KSGR 260313Z 2603/2624 32017G32KT 3SM TSRA SCT008 OVC027CB
      TEMPO 2603/2605 VRB40KT 1/2SM +TSRA SCT007 BKN020 OVC025CB
     FM260500 13006KT P6SM VCTS SCT030CB BKN050
     FM260900 17010KT P6SM SCT015 BKN025
     FM261500 18011G16KT P6SM VCSH BKN025
     FM261800 16014KT P6SM VCTS BKN035CB=



000
FTUS44 KHGX 260313 AAI
TAFSGR
TAF AMD
KSGR 260313Z 2603/2624 32017G32KT 3SM TSRA SCT008 OVC027CB
      TEMPO 2603/2605 VRB40KT 1/2SM +TSRA SCT007 BKN020 OVC025CB
     FM260500 13006KT P6SM VCTS SCT030CB BKN050
     FM260900 17010KT P6SM SCT015 BKN025
     FM261500 18011G16KT P6SM VCSH BKN025
     FM261800 16014KT P6SM VCTS BKN035CB=



000
FTUS44 KHGX 260313 AAI
TAFSGR
TAF AMD
KSGR 260313Z 2603/2624 32017G32KT 3SM TSRA SCT008 OVC027CB
      TEMPO 2603/2605 VRB40KT 1/2SM +TSRA SCT007 BKN020 OVC025CB
     FM260500 13006KT P6SM VCTS SCT030CB BKN050
     FM260900 17010KT P6SM SCT015 BKN025
     FM261500 18011G16KT P6SM VCSH BKN025
     FM261800 16014KT P6SM VCTS BKN035CB=



000
FTUS44 KHGX 260312
TAFHOU
TAFHOU
TAF AMD
KHOU 260312Z 2603/2624 14007G17KT P6SM TSRA SCT018 BKN024CB OVC030
      TEMPO 2603/2605 VRB40KT 1SM +TSRA SCT010 BKN020CB
     FM260500 15006KT P6SM VCTS SCT030CB BKN050
     FM260900 17010KT P6SM SCT015 BKN025
     FM261500 18011G16KT P6SM VCSH BKN025
     FM261800 16014KT P6SM VCTS BKN035CB=



000
FTUS44 KHGX 260312
TAFHOU
TAFHOU
TAF AMD
KHOU 260312Z 2603/2624 14007G17KT P6SM TSRA SCT018 BKN024CB OVC030
      TEMPO 2603/2605 VRB40KT 1SM +TSRA SCT010 BKN020CB
     FM260500 15006KT P6SM VCTS SCT030CB BKN050
     FM260900 17010KT P6SM SCT015 BKN025
     FM261500 18011G16KT P6SM VCSH BKN025
     FM261800 16014KT P6SM VCTS BKN035CB=



000
FTUS44 KHGX 260312 AAE
TAFHOU
TAF AMD
KHOU 260312Z 2603/2624 14007G17KT P6SM TSRA SCT018 BKN024CB OVC030
      TEMPO 2603/2605 VRB40KT 1SM +TSRA SCT010 BKN020CB
     FM260500 15006KT P6SM VCTS SCT030CB BKN050
     FM260900 17010KT P6SM SCT015 BKN025
     FM261500 18011G16KT P6SM VCSH BKN025
     FM261800 16014KT P6SM VCTS BKN035CB=



000
FTUS44 KHGX 260301
TAFSGR
TAFSGR
TAF AMD
KSGR 260301Z 2603/2624 33013G32KT 2SM TSRA SCT009 BKN025CB OVC030
      TEMPO 2603/2605 VRB40KT 1/2SM +TSRA SCT007 BKN020 OVC025CB
     FM260500 13006KT P6SM VCTS SCT030CB BKN050
     FM260900 17010KT P6SM SCT015 BKN025
     FM261500 18011G16KT P6SM VCSH BKN025
     FM261800 16014KT P6SM VCTS BKN035CB=



000
FTUS44 KHGX 260301 AAH
TAFSGR
TAF AMD
KSGR 260301Z 2603/2624 33013G32KT 2SM TSRA SCT009 BKN025CB OVC030
      TEMPO 2603/2605 VRB40KT 1/2SM +TSRA SCT007 BKN020 OVC025CB
     FM260500 13006KT P6SM VCTS SCT030CB BKN050
     FM260900 17010KT P6SM SCT015 BKN025
     FM261500 18011G16KT P6SM VCSH BKN025
     FM261800 16014KT P6SM VCTS BKN035CB=



000
FTUS44 KHGX 260301 AAH
TAFSGR
TAF AMD
KSGR 260301Z 2603/2624 33013G32KT 2SM TSRA SCT009 BKN025CB OVC030
      TEMPO 2603/2605 VRB40KT 1/2SM +TSRA SCT007 BKN020 OVC025CB
     FM260500 13006KT P6SM VCTS SCT030CB BKN050
     FM260900 17010KT P6SM SCT015 BKN025
     FM261500 18011G16KT P6SM VCSH BKN025
     FM261800 16014KT P6SM VCTS BKN035CB=



000
FTUS44 KHGX 260251 AAG
TAFSGR
TAF AMD
KSGR 260251Z 2603/2624 35015G21KT 3SM TSRA FEW013 SCT019 OVC025CB
      TEMPO 2603/2604 VRB40KT 1/2SM +TSRA SCT007 BKN020 OVC025CB
     FM260400 13006KT P6SM VCTS SCT030CB BKN050
     FM260900 17010KT P6SM SCT015 BKN025
     FM261500 18011G16KT P6SM VCSH BKN025
     FM261800 16014KT P6SM VCTS BKN035CB=



000
FTUS44 KHGX 260251 AAG
TAFSGR
TAF AMD
KSGR 260251Z 2603/2624 35015G21KT 3SM TSRA FEW013 SCT019 OVC025CB
      TEMPO 2603/2604 VRB40KT 1/2SM +TSRA SCT007 BKN020 OVC025CB
     FM260400 13006KT P6SM VCTS SCT030CB BKN050
     FM260900 17010KT P6SM SCT015 BKN025
     FM261500 18011G16KT P6SM VCSH BKN025
     FM261800 16014KT P6SM VCTS BKN035CB=



000
FTUS44 KHGX 260251 AAG
TAFSGR
TAF AMD
KSGR 260251Z 2603/2624 35015G21KT 3SM TSRA FEW013 SCT019 OVC025CB
      TEMPO 2603/2604 VRB40KT 1/2SM +TSRA SCT007 BKN020 OVC025CB
     FM260400 13006KT P6SM VCTS SCT030CB BKN050
     FM260900 17010KT P6SM SCT015 BKN025
     FM261500 18011G16KT P6SM VCSH BKN025
     FM261800 16014KT P6SM VCTS BKN035CB=



000
FTUS44 KHGX 260251 AAG
TAFSGR
TAF AMD
KSGR 260251Z 2603/2624 35015G21KT 3SM TSRA FEW013 SCT019 OVC025CB
      TEMPO 2603/2604 VRB40KT 1/2SM +TSRA SCT007 BKN020 OVC025CB
     FM260400 13006KT P6SM VCTS SCT030CB BKN050
     FM260900 17010KT P6SM SCT015 BKN025
     FM261500 18011G16KT P6SM VCSH BKN025
     FM261800 16014KT P6SM VCTS BKN035CB=



000
FTUS44 KHGX 260243
TAFSGR
TAFSGR
TAF AMD
KSGR 260243Z 2603/2624 35015G21KT 3SM TSRA FEW013 SCT019 OVC025CB
      TEMPO 2603/2604 VRB40KT 1/2SM +TSRA SCT007 BKN015 OVC025CB
     FM260400 13006KT P6SM VCTS SCT030CB BKN050
     FM260900 17010KT P6SM SCT015 BKN025
     FM261500 18011G16KT P6SM VCSH BKN025
     FM261800 16014KT P6SM VCTS BKN035CB=



000
FTUS44 KHGX 260243 AAF
TAFSGR
TAF AMD
KSGR 260243Z 2603/2624 35015G21KT 3SM TSRA FEW013 SCT019 OVC025CB
      TEMPO 2603/2604 VRB40KT 1/2SM +TSRA SCT007 BKN015 OVC025CB
     FM260400 13006KT P6SM VCTS SCT030CB BKN050
     FM260900 17010KT P6SM SCT015 BKN025
     FM261500 18011G16KT P6SM VCSH BKN025
     FM261800 16014KT P6SM VCTS BKN035CB=



000
FTUS44 KHGX 260241
TAFIAH
TAFIAH
TAF AMD
KIAH 260241Z 2603/2706 36014G22KT 2SM +TSRA SCT006 BKN011 OVC018CB
      TEMPO 2603/2605 VRB40KT 1/2SM +TSRA SCT006 BKN011 OVC015CB
     FM260500 13006KT P6SM VCTS SCT030CB BKN050
     FM260900 17010KT P6SM SCT015 BKN025
     FM261500 18011G16KT P6SM VCSH BKN025
     FM261800 16014KT P6SM VCTS BKN035CB=



000
FTUS44 KHGX 260241 AAG
TAFIAH
TAF AMD
KIAH 260241Z 2603/2706 36014G22KT 2SM +TSRA SCT006 BKN011 OVC018CB
      TEMPO 2603/2605 VRB40KT 1/2SM +TSRA SCT006 BKN011 OVC015CB
     FM260500 13006KT P6SM VCTS SCT030CB BKN050
     FM260900 17010KT P6SM SCT015 BKN025
     FM261500 18011G16KT P6SM VCSH BKN025
     FM261800 16014KT P6SM VCTS BKN035CB=



000
FTUS44 KHGX 260241 AAG
TAFIAH
TAF AMD
KIAH 260241Z 2603/2706 36014G22KT 2SM +TSRA SCT006 BKN011 OVC018CB
      TEMPO 2603/2605 VRB40KT 1/2SM +TSRA SCT006 BKN011 OVC015CB
     FM260500 13006KT P6SM VCTS SCT030CB BKN050
     FM260900 17010KT P6SM SCT015 BKN025
     FM261500 18011G16KT P6SM VCSH BKN025
     FM261800 16014KT P6SM VCTS BKN035CB=



000
FTUS44 KHGX 260233
TAFIAH
TAFIAH
TAF AMD
KIAH 260233Z 2603/2706 36014G22KT 2SM +TSRA SCT006 BKN011 OVC018CB
      TEMPO 2603/2605 1/2SM +TSRA SCT006 BKN011 OVC015CB
     FM260500 13006KT P6SM VCTS SCT030CB BKN050
     FM260900 17010KT P6SM SCT015 BKN025
     FM261500 18011G16KT P6SM VCSH BKN025
     FM261800 16014KT P6SM VCTS BKN035CB=



000
FTUS44 KHGX 260233 AAF
TAFIAH
TAF AMD
KIAH 260233Z 2603/2706 36014G22KT 2SM +TSRA SCT006 BKN011 OVC018CB
      TEMPO 2603/2605 1/2SM +TSRA SCT006 BKN011 OVC015CB
     FM260500 13006KT P6SM VCTS SCT030CB BKN050
     FM260900 17010KT P6SM SCT015 BKN025
     FM261500 18011G16KT P6SM VCSH BKN025
     FM261800 16014KT P6SM VCTS BKN035CB=



000
FTUS44 KHGX 260233 AAF
TAFIAH
TAF AMD
KIAH 260233Z 2603/2706 36014G22KT 2SM +TSRA SCT006 BKN011 OVC018CB
      TEMPO 2603/2605 1/2SM +TSRA SCT006 BKN011 OVC015CB
     FM260500 13006KT P6SM VCTS SCT030CB BKN050
     FM260900 17010KT P6SM SCT015 BKN025
     FM261500 18011G16KT P6SM VCSH BKN025
     FM261800 16014KT P6SM VCTS BKN035CB=



000
FTUS44 KHGX 260228
TAFCXO
TAFCXO
TAF AMD
KCXO 260228Z 2602/2624 00000KT 4SM +TSRA SCT025CB BKN050 OVC080
     FM260400 15011KT P6SM VCTS SCT035CB BKN050
     FM260700 17004KT 6SM BR SCT005 BKN012
     FM261500 18010KT P6SM SCT015 BKN025
     FM261800 18010KT P6SM OVC050=



000
FTUS44 KHGX 260228 AAD
TAFCXO
TAF AMD
KCXO 260228Z 2602/2624 00000KT 4SM +TSRA SCT025CB BKN050 OVC080
     FM260400 15011KT P6SM VCTS SCT035CB BKN050
     FM260700 17004KT 6SM BR SCT005 BKN012
     FM261500 18010KT P6SM SCT015 BKN025
     FM261800 18010KT P6SM OVC050=



000
FTUS44 KHGX 260228
TAFCXO
TAFCXO
TAF AMD
KCXO 260228Z 2602/2624 00000KT 4SM +TSRA SCT025CB BKN050 OVC080
     FM260400 15011KT P6SM VCTS SCT035CB BKN050
     FM260700 17004KT 6SM BR SCT005 BKN012
     FM261500 18010KT P6SM SCT015 BKN025
     FM261800 18010KT P6SM OVC050=



000
FTUS44 KHGX 260228 AAD
TAFCXO
TAF AMD
KCXO 260228Z 2602/2624 00000KT 4SM +TSRA SCT025CB BKN050 OVC080
     FM260400 15011KT P6SM VCTS SCT035CB BKN050
     FM260700 17004KT 6SM BR SCT005 BKN012
     FM261500 18010KT P6SM SCT015 BKN025
     FM261800 18010KT P6SM OVC050=



000
FTUS44 KHGX 260228 AAD
TAFCXO
TAF AMD
KCXO 260228Z 2602/2624 00000KT 4SM +TSRA SCT025CB BKN050 OVC080
     FM260400 15011KT P6SM VCTS SCT035CB BKN050
     FM260700 17004KT 6SM BR SCT005 BKN012
     FM261500 18010KT P6SM SCT015 BKN025
     FM261800 18010KT P6SM OVC050=



000
FTUS44 KHGX 260226
TAFLBX
TAFLBX
TAF AMD
KLBX 260226Z 2602/2624 17012KT P6SM VCSH BKN015 BKN022 OVC029
      TEMPO 2604/2606 VRB35KT 3SM TSRA BKN010 BKN025CB
     FM260600 15009KT P6SM SCT025
     FM261500 17014KT P6SM BKN015=



000
FTUS44 KHGX 260226 AAB
TAFLBX
TAF AMD
KLBX 260226Z 2602/2624 17012KT P6SM VCSH BKN015 BKN022 OVC029
      TEMPO 2604/2606 VRB35KT 3SM TSRA BKN010 BKN025CB
     FM260600 15009KT P6SM SCT025
     FM261500 17014KT P6SM BKN015=



000
FTUS44 KHGX 260226 AAB
TAFLBX
TAF AMD
KLBX 260226Z 2602/2624 17012KT P6SM VCSH BKN015 BKN022 OVC029
      TEMPO 2604/2606 VRB35KT 3SM TSRA BKN010 BKN025CB
     FM260600 15009KT P6SM SCT025
     FM261500 17014KT P6SM BKN015=



000
FTUS44 KHGX 260224
TAFSGR
TAFSGR
TAF AMD
KSGR 260224Z 2602/2624 VRB05KT 1 1/2SM +TSRA BR SCT010 BKN018CB
      TEMPO 2602/2604 VRB40KT 1/2SM +TSRA SCT007 OVC015CB
     FM260400 13006KT P6SM VCTS SCT030CB BKN050
     FM260900 17010KT P6SM SCT015 BKN025
     FM261500 18011G16KT P6SM VCSH BKN025
     FM261800 16014KT P6SM VCTS BKN035CB=



000
FTUS44 KHGX 260224 AAE
TAFSGR
TAF AMD
KSGR 260224Z 2602/2624 VRB05KT 1 1/2SM +TSRA BR SCT010 BKN018CB
      TEMPO 2602/2604 VRB40KT 1/2SM +TSRA SCT007 OVC015CB
     FM260400 13006KT P6SM VCTS SCT030CB BKN050
     FM260900 17010KT P6SM SCT015 BKN025
     FM261500 18011G16KT P6SM VCSH BKN025
     FM261800 16014KT P6SM VCTS BKN035CB=



000
FTUS44 KHGX 260224 AAE
TAFSGR
TAF AMD
KSGR 260224Z 2602/2624 VRB05KT 1 1/2SM +TSRA BR SCT010 BKN018CB
      TEMPO 2602/2604 VRB40KT 1/2SM +TSRA SCT007 OVC015CB
     FM260400 13006KT P6SM VCTS SCT030CB BKN050
     FM260900 17010KT P6SM SCT015 BKN025
     FM261500 18011G16KT P6SM VCSH BKN025
     FM261800 16014KT P6SM VCTS BKN035CB=



000
FTUS44 KHGX 260224 AAE
TAFSGR
TAF AMD
KSGR 260224Z 2602/2624 VRB05KT 1 1/2SM +TSRA BR SCT010 BKN018CB
      TEMPO 2602/2604 VRB40KT 1/2SM +TSRA SCT007 OVC015CB
     FM260400 13006KT P6SM VCTS SCT030CB BKN050
     FM260900 17010KT P6SM SCT015 BKN025
     FM261500 18011G16KT P6SM VCSH BKN025
     FM261800 16014KT P6SM VCTS BKN035CB=



000
FTUS44 KHGX 260156
TAFIAH
TAFIAH
TAF AMD
KIAH 260156Z 2602/2706 35014G29KT 6SM -TSRA SQ BKN022CB BKN045
      TEMPO 2602/2604 VRB40KT 1SM +TSRA SCT010 BKN025CB
     FM260500 13006KT P6SM VCTS SCT030CB BKN050
     FM260900 17010KT P6SM SCT015 BKN025
     FM261500 18011G16KT P6SM VCSH BKN025
     FM261800 16014KT P6SM VCTS BKN035CB=



000
FTUS44 KHGX 260156 AAE
TAFIAH
TAF AMD
KIAH 260156Z 2602/2706 35014G29KT 6SM -TSRA SQ BKN022CB BKN045
      TEMPO 2602/2604 VRB40KT 1SM +TSRA SCT010 BKN025CB
     FM260500 13006KT P6SM VCTS SCT030CB BKN050
     FM260900 17010KT P6SM SCT015 BKN025
     FM261500 18011G16KT P6SM VCSH BKN025
     FM261800 16014KT P6SM VCTS BKN035CB=



000
FTUS44 KHGX 260154
TAFUTS
TAFUTS
TAF AMD
KUTS 260154Z 2602/2624 VRB04KT P6SM TSRA SCT030CB SCT070 BKN090
     FM260400 17004KT P6SM VCTS SCT035CB BKN050
     FM260700 17004KT 6SM BR FEW006 BKN012
     FM261500 20010KT P6SM BKN015=



000
FTUS44 KHGX 260154 AAE
TAFUTS
TAF AMD
KUTS 260154Z 2602/2624 VRB04KT P6SM TSRA SCT030CB SCT070 BKN090
     FM260400 17004KT P6SM VCTS SCT035CB BKN050
     FM260700 17004KT 6SM BR FEW006 BKN012
     FM261500 20010KT P6SM BKN015=



000
FTUS44 KHGX 260154
TAFUTS
TAFUTS
TAF AMD
KUTS 260154Z 2602/2624 VRB04KT P6SM TSRA SCT030CB SCT070 BKN090
     FM260400 17004KT P6SM VCTS SCT035CB BKN050
     FM260700 17004KT 6SM BR FEW006 BKN012
     FM261500 20010KT P6SM BKN015=



000
FTUS44 KHGX 260154 AAE
TAFUTS
TAF AMD
KUTS 260154Z 2602/2624 VRB04KT P6SM TSRA SCT030CB SCT070 BKN090
     FM260400 17004KT P6SM VCTS SCT035CB BKN050
     FM260700 17004KT 6SM BR FEW006 BKN012
     FM261500 20010KT P6SM BKN015=



000
FTUS44 KHGX 260151
TAFSGR
TAFSGR
TAF AMD
KSGR 260151Z 2602/2624 VRB05KT 3SM TSRA SCT015 BKN025CB OVC040
      TEMPO 2602/2604 VRB40KT 1/2SM +TSRA SCT007 OVC015CB
     FM260400 13006KT P6SM VCTS SCT030CB BKN050
     FM260900 17010KT P6SM SCT015 BKN025
     FM261500 18011G16KT P6SM VCSH BKN025
     FM261800 16014KT P6SM VCTS BKN035CB=



000
FTUS44 KHGX 260151 AAD
TAFSGR
TAF AMD
KSGR 260151Z 2602/2624 VRB05KT 3SM TSRA SCT015 BKN025CB OVC040
      TEMPO 2602/2604 VRB40KT 1/2SM +TSRA SCT007 OVC015CB
     FM260400 13006KT P6SM VCTS SCT030CB BKN050
     FM260900 17010KT P6SM SCT015 BKN025
     FM261500 18011G16KT P6SM VCSH BKN025
     FM261800 16014KT P6SM VCTS BKN035CB=



000
FTUS44 KHGX 260151
TAFSGR
TAFSGR
TAF AMD
KSGR 260151Z 2602/2624 VRB05KT 3SM TSRA SCT015 BKN025CB OVC040
      TEMPO 2602/2604 VRB40KT 1/2SM +TSRA SCT007 OVC015CB
     FM260400 13006KT P6SM VCTS SCT030CB BKN050
     FM260900 17010KT P6SM SCT015 BKN025
     FM261500 18011G16KT P6SM VCSH BKN025
     FM261800 16014KT P6SM VCTS BKN035CB=



000
FTUS44 KHGX 260151 AAD
TAFSGR
TAF AMD
KSGR 260151Z 2602/2624 VRB05KT 3SM TSRA SCT015 BKN025CB OVC040
      TEMPO 2602/2604 VRB40KT 1/2SM +TSRA SCT007 OVC015CB
     FM260400 13006KT P6SM VCTS SCT030CB BKN050
     FM260900 17010KT P6SM SCT015 BKN025
     FM261500 18011G16KT P6SM VCSH BKN025
     FM261800 16014KT P6SM VCTS BKN035CB=



000
FTUS44 KHGX 260149
TAFHOU
TAFHOU
TAF AMD
KHOU 260149Z 2602/2624 15010KT P6SM -TSRA SCT020 BKN035CB OVC090
      TEMPO 2603/2605 VRB40KT 1SM +TSRA SCT010 BKN025CB
     FM260500 15006KT P6SM VCTS SCT030CB BKN050
     FM260900 17010KT P6SM SCT015 BKN025
     FM261500 18011G16KT P6SM VCSH BKN025
     FM261800 16014KT P6SM VCTS BKN035CB=



000
FTUS44 KHGX 260149
TAFHOU
TAFHOU
TAF AMD
KHOU 260149Z 2602/2624 15010KT P6SM -TSRA SCT020 BKN035CB OVC090
      TEMPO 2603/2605 VRB40KT 1SM +TSRA SCT010 BKN025CB
     FM260500 15006KT P6SM VCTS SCT030CB BKN050
     FM260900 17010KT P6SM SCT015 BKN025
     FM261500 18011G16KT P6SM VCSH BKN025
     FM261800 16014KT P6SM VCTS BKN035CB=



000
FTUS44 KHGX 260149 AAD
TAFHOU
TAF AMD
KHOU 260149Z 2602/2624 15010KT P6SM -TSRA SCT020 BKN035CB OVC090
      TEMPO 2603/2605 VRB40KT 1SM +TSRA SCT010 BKN025CB
     FM260500 15006KT P6SM VCTS SCT030CB BKN050
     FM260900 17010KT P6SM SCT015 BKN025
     FM261500 18011G16KT P6SM VCSH BKN025
     FM261800 16014KT P6SM VCTS BKN035CB=



000
FTUS44 KHGX 260149 AAD
TAFHOU
TAF AMD
KHOU 260149Z 2602/2624 15010KT P6SM -TSRA SCT020 BKN035CB OVC090
      TEMPO 2603/2605 VRB40KT 1SM +TSRA SCT010 BKN025CB
     FM260500 15006KT P6SM VCTS SCT030CB BKN050
     FM260900 17010KT P6SM SCT015 BKN025
     FM261500 18011G16KT P6SM VCSH BKN025
     FM261800 16014KT P6SM VCTS BKN035CB=



000
FTUS44 KHGX 260123 AAC
TAFSGR
TAF AMD
KSGR 260123Z 2601/2624 16009KT P6SM TSRA SCT015 BKN025CB OVC040
      TEMPO 2602/2604 VRB40KT 1SM +TSRA SCT010 BKN025CB
     FM260400 13006KT P6SM VCTS SCT030CB BKN050
     FM260900 17010KT P6SM SCT015 BKN025
     FM261500 18011G16KT P6SM VCSH BKN025
     FM261800 16014KT P6SM VCTS BKN035CB=



000
FTUS44 KHGX 260123 AAC
TAFSGR
TAF AMD
KSGR 260123Z 2601/2624 16009KT P6SM TSRA SCT015 BKN025CB OVC040
      TEMPO 2602/2604 VRB40KT 1SM +TSRA SCT010 BKN025CB
     FM260400 13006KT P6SM VCTS SCT030CB BKN050
     FM260900 17010KT P6SM SCT015 BKN025
     FM261500 18011G16KT P6SM VCSH BKN025
     FM261800 16014KT P6SM VCTS BKN035CB=



000
FTUS44 KHGX 260123
TAFSGR
TAFSGR
TAF AMD
KSGR 260123Z 2601/2624 16009KT P6SM TSRA SCT015 BKN025CB OVC040
      TEMPO 2602/2604 VRB40KT 1SM +TSRA SCT010 BKN025CB
     FM260400 13006KT P6SM VCTS SCT030CB BKN050
     FM260900 17010KT P6SM SCT015 BKN025
     FM261500 18011G16KT P6SM VCSH BKN025
     FM261800 16014KT P6SM VCTS BKN035CB=



000
FTUS44 KHGX 260123 AAC
TAFSGR
TAF AMD
KSGR 260123Z 2601/2624 16009KT P6SM TSRA SCT015 BKN025CB OVC040
      TEMPO 2602/2604 VRB40KT 1SM +TSRA SCT010 BKN025CB
     FM260400 13006KT P6SM VCTS SCT030CB BKN050
     FM260900 17010KT P6SM SCT015 BKN025
     FM261500 18011G16KT P6SM VCSH BKN025
     FM261800 16014KT P6SM VCTS BKN035CB=



000
FTUS44 KHGX 260115
TAFHOU
TAFHOU
TAF AMD
KHOU 260115Z 2601/2624 16012G19KT P6SM -TSRA SCT019 BKN025CB OVC040
      TEMPO 2602/2604 VRB40KT 1SM +TSRA SCT010 BKN025CB
     FM260400 13006KT P6SM VCTS SCT030CB BKN050
     FM260900 17010KT P6SM SCT015 BKN025
     FM261500 18011G16KT P6SM VCSH BKN025
     FM261800 16014KT P6SM VCTS BKN035CB=



000
FTUS44 KHGX 260115 AAC
TAFHOU
TAF AMD
KHOU 260115Z 2601/2624 16012G19KT P6SM -TSRA SCT019 BKN025CB OVC040
      TEMPO 2602/2604 VRB40KT 1SM +TSRA SCT010 BKN025CB
     FM260400 13006KT P6SM VCTS SCT030CB BKN050
     FM260900 17010KT P6SM SCT015 BKN025
     FM261500 18011G16KT P6SM VCSH BKN025
     FM261800 16014KT P6SM VCTS BKN035CB=



000
FTUS44 KHGX 260115 AAC
TAFHOU
TAF AMD
KHOU 260115Z 2601/2624 16012G19KT P6SM -TSRA SCT019 BKN025CB OVC040
      TEMPO 2602/2604 VRB40KT 1SM +TSRA SCT010 BKN025CB
     FM260400 13006KT P6SM VCTS SCT030CB BKN050
     FM260900 17010KT P6SM SCT015 BKN025
     FM261500 18011G16KT P6SM VCSH BKN025
     FM261800 16014KT P6SM VCTS BKN035CB=



000
FTUS44 KHGX 260115
TAFHOU
TAFHOU
TAF AMD
KHOU 260115Z 2601/2624 16012G19KT P6SM -TSRA SCT019 BKN025CB OVC040
      TEMPO 2602/2604 VRB40KT 1SM +TSRA SCT010 BKN025CB
     FM260400 13006KT P6SM VCTS SCT030CB BKN050
     FM260900 17010KT P6SM SCT015 BKN025
     FM261500 18011G16KT P6SM VCSH BKN025
     FM261800 16014KT P6SM VCTS BKN035CB=



000
FTUS44 KHGX 260115 AAC
TAFHOU
TAF AMD
KHOU 260115Z 2601/2624 16012G19KT P6SM -TSRA SCT019 BKN025CB OVC040
      TEMPO 2602/2604 VRB40KT 1SM +TSRA SCT010 BKN025CB
     FM260400 13006KT P6SM VCTS SCT030CB BKN050
     FM260900 17010KT P6SM SCT015 BKN025
     FM261500 18011G16KT P6SM VCSH BKN025
     FM261800 16014KT P6SM VCTS BKN035CB=



000
FTUS44 KHGX 260115 AAC
TAFHOU
TAF AMD
KHOU 260115Z 2601/2624 16012G19KT P6SM -TSRA SCT019 BKN025CB OVC040
      TEMPO 2602/2604 VRB40KT 1SM +TSRA SCT010 BKN025CB
     FM260400 13006KT P6SM VCTS SCT030CB BKN050
     FM260900 17010KT P6SM SCT015 BKN025
     FM261500 18011G16KT P6SM VCSH BKN025
     FM261800 16014KT P6SM VCTS BKN035CB=



000
FTUS44 KHGX 260112 AAB
TAFSGR
TAF AMD
KSGR 260112Z 2601/2624 16009KT P6SM -TSRA SCT020 BKN025CB OVC040
      TEMPO 2602/2604 VRB40KT 1SM +TSRA SCT010 BKN025CB
     FM260400 13006KT P6SM VCTS SCT030CB BKN050
     FM260900 17010KT P6SM SCT015 BKN025
     FM261500 18011G16KT P6SM VCSH BKN025
     FM261800 16014KT P6SM VCTS BKN035CB=



000
FTUS44 KHGX 260112
TAFSGR
TAFSGR
TAF AMD
KSGR 260112Z 2601/2624 16009KT P6SM -TSRA SCT020 BKN025CB OVC040
      TEMPO 2602/2604 VRB40KT 1SM +TSRA SCT010 BKN025CB
     FM260400 13006KT P6SM VCTS SCT030CB BKN050
     FM260900 17010KT P6SM SCT015 BKN025
     FM261500 18011G16KT P6SM VCSH BKN025
     FM261800 16014KT P6SM VCTS BKN035CB=



000
FTUS44 KHGX 260111
TAFHOU
TAFHOU
TAF AMD
KHOU 260111Z 2601/2624 16012G19KT P6SM -TSRA BKN019 BKN025CB OVC040
      TEMPO 2602/2604 VRB40KT 1SM +TSRA SCT010 BKN025CB
     FM260400 13006KT P6SM VCTS SCT030CB BKN050
     FM260900 17010KT P6SM SCT015 BKN025
     FM261500 18011G16KT P6SM VCSH BKN025
     FM261800 16014KT P6SM VCTS BKN035CB=



000
FTUS44 KHGX 260111 AAB
TAFHOU
TAF AMD
KHOU 260111Z 2601/2624 16012G19KT P6SM -TSRA BKN019 BKN025CB OVC040
      TEMPO 2602/2604 VRB40KT 1SM +TSRA SCT010 BKN025CB
     FM260400 13006KT P6SM VCTS SCT030CB BKN050
     FM260900 17010KT P6SM SCT015 BKN025
     FM261500 18011G16KT P6SM VCSH BKN025
     FM261800 16014KT P6SM VCTS BKN035CB=



000
FTUS44 KHGX 260111 AAB
TAFHOU
TAF AMD
KHOU 260111Z 2601/2624 16012G19KT P6SM -TSRA BKN019 BKN025CB OVC040
      TEMPO 2602/2604 VRB40KT 1SM +TSRA SCT010 BKN025CB
     FM260400 13006KT P6SM VCTS SCT030CB BKN050
     FM260900 17010KT P6SM SCT015 BKN025
     FM261500 18011G16KT P6SM VCSH BKN025
     FM261800 16014KT P6SM VCTS BKN035CB=



000
FTUS44 KHGX 260110 AAD
TAFIAH
TAF AMD
KIAH 260110Z 2601/2706 17009G18KT P6SM -TSRA SCT025CB BKN050 OVC100
      TEMPO 2602/2604 VRB40KT 1SM +TSRA SCT010 BKN025CB
     FM260500 13006KT P6SM VCTS SCT030CB BKN050
     FM260900 17010KT P6SM SCT015 BKN025
     FM261500 18011G16KT P6SM VCSH BKN025
     FM261800 16014KT P6SM VCTS BKN035CB=



000
FTUS44 KHGX 260110
TAFIAH
TAFIAH
TAF AMD
KIAH 260110Z 2601/2706 17009G18KT P6SM -TSRA SCT025CB BKN050 OVC100
      TEMPO 2602/2604 VRB40KT 1SM +TSRA SCT010 BKN025CB
     FM260500 13006KT P6SM VCTS SCT030CB BKN050
     FM260900 17010KT P6SM SCT015 BKN025
     FM261500 18011G16KT P6SM VCSH BKN025
     FM261800 16014KT P6SM VCTS BKN035CB=



000
FTUS44 KHGX 260110 AAD
TAFIAH
TAF AMD
KIAH 260110Z 2601/2706 17009G18KT P6SM -TSRA SCT025CB BKN050 OVC100
      TEMPO 2602/2604 VRB40KT 1SM +TSRA SCT010 BKN025CB
     FM260500 13006KT P6SM VCTS SCT030CB BKN050
     FM260900 17010KT P6SM SCT015 BKN025
     FM261500 18011G16KT P6SM VCSH BKN025
     FM261800 16014KT P6SM VCTS BKN035CB=



000
FTUS44 KHGX 260110 AAD
TAFIAH
TAF AMD
KIAH 260110Z 2601/2706 17009G18KT P6SM -TSRA SCT025CB BKN050 OVC100
      TEMPO 2602/2604 VRB40KT 1SM +TSRA SCT010 BKN025CB
     FM260500 13006KT P6SM VCTS SCT030CB BKN050
     FM260900 17010KT P6SM SCT015 BKN025
     FM261500 18011G16KT P6SM VCSH BKN025
     FM261800 16014KT P6SM VCTS BKN035CB=



000
FTUS44 KHGX 260108 AAC
TAFIAH
TAF AMD
KIAH 260108Z 2601/2706 17009G18KT P6SM VCTS SCT025CB BKN050 OVC100
      TEMPO 2602/2604 VRB40KT 1SM +TSRA SCT010 BKN025CB
     FM260500 13006KT P6SM VCTS SCT030CB BKN050
     FM260900 17010KT P6SM SCT015 BKN025
     FM261500 18011G16KT P6SM VCSH BKN025
     FM261800 16014KT P6SM VCTS BKN035CB=



000
FTUS44 KHGX 260108 AAC
TAFIAH
TAF AMD
KIAH 260108Z 2601/2706 17009G18KT P6SM VCTS SCT025CB BKN050 OVC100
      TEMPO 2602/2604 VRB40KT 1SM +TSRA SCT010 BKN025CB
     FM260500 13006KT P6SM VCTS SCT030CB BKN050
     FM260900 17010KT P6SM SCT015 BKN025
     FM261500 18011G16KT P6SM VCSH BKN025
     FM261800 16014KT P6SM VCTS BKN035CB=



000
FTUS44 KHGX 260108 AAC
TAFIAH
TAF AMD
KIAH 260108Z 2601/2706 17009G18KT P6SM VCTS SCT025CB BKN050 OVC100
      TEMPO 2602/2604 VRB40KT 1SM +TSRA SCT010 BKN025CB
     FM260500 13006KT P6SM VCTS SCT030CB BKN050
     FM260900 17010KT P6SM SCT015 BKN025
     FM261500 18011G16KT P6SM VCSH BKN025
     FM261800 16014KT P6SM VCTS BKN035CB=



000
FTUS44 KHGX 260105
TAFUTS
TAFUTS
TAF AMD
KUTS 260105Z 2601/2624 23009KT 5SM TSRA FEW011 SCT025CB BKN040
     FM260200 23008KT P6SM VCTS SCT025CB BKN040 OVC070
     FM260400 17004KT P6SM BKN050
     FM260700 17004KT 6SM BR FEW006 BKN012
     FM261500 20010KT P6SM BKN015=



000
FTUS44 KHGX 260105 AAD
TAFUTS
TAF AMD
KUTS 260105Z 2601/2624 23009KT 5SM TSRA FEW011 SCT025CB BKN040
     FM260200 23008KT P6SM VCTS SCT025CB BKN040 OVC070
     FM260400 17004KT P6SM BKN050
     FM260700 17004KT 6SM BR FEW006 BKN012
     FM261500 20010KT P6SM BKN015=



000
FTUS44 KHGX 260105 AAD
TAFUTS
TAF AMD
KUTS 260105Z 2601/2624 23009KT 5SM TSRA FEW011 SCT025CB BKN040
     FM260200 23008KT P6SM VCTS SCT025CB BKN040 OVC070
     FM260400 17004KT P6SM BKN050
     FM260700 17004KT 6SM BR FEW006 BKN012
     FM261500 20010KT P6SM BKN015=



000
FTUS44 KHGX 260105 AAD
TAFUTS
TAF AMD
KUTS 260105Z 2601/2624 23009KT 5SM TSRA FEW011 SCT025CB BKN040
     FM260200 23008KT P6SM VCTS SCT025CB BKN040 OVC070
     FM260400 17004KT P6SM BKN050
     FM260700 17004KT 6SM BR FEW006 BKN012
     FM261500 20010KT P6SM BKN015=



000
FTUS44 KHGX 260105 AAD
TAFUTS
TAF AMD
KUTS 260105Z 2601/2624 23009KT 5SM TSRA FEW011 SCT025CB BKN040
     FM260200 23008KT P6SM VCTS SCT025CB BKN040 OVC070
     FM260400 17004KT P6SM BKN050
     FM260700 17004KT 6SM BR FEW006 BKN012
     FM261500 20010KT P6SM BKN015=



000
FTUS44 KHGX 260105
TAFUTS
TAFUTS
TAF AMD
KUTS 260105Z 2601/2624 23009KT 5SM TSRA FEW011 SCT025CB BKN040
     FM260200 23008KT P6SM VCTS SCT025CB BKN040 OVC070
     FM260400 17004KT P6SM BKN050
     FM260700 17004KT 6SM BR FEW006 BKN012
     FM261500 20010KT P6SM BKN015=



000
FTUS44 KHGX 260059 AAC
TAFCXO
TAF AMD
KCXO 260059Z 2601/2624 14008KT 3SM TSRA FEW016 BKN024CB OVC035
      TEMPO 2601/2603 VRB35KT 1SM +TSRA BKN015 BKN025CB
     FM260400 15011KT P6SM VCTS SCT035CB BKN050
     FM260700 17004KT 6SM BR SCT005 BKN012
     FM261500 18010KT P6SM SCT015 BKN025
     FM261800 18010KT P6SM OVC050=



000
FTUS44 KHGX 260059
TAFCXO
TAFCXO
TAF AMD
KCXO 260059Z 2601/2624 14008KT 3SM TSRA FEW016 BKN024CB OVC035
      TEMPO 2601/2603 VRB35KT 1SM +TSRA BKN015 BKN025CB
     FM260400 15011KT P6SM VCTS SCT035CB BKN050
     FM260700 17004KT 6SM BR SCT005 BKN012
     FM261500 18010KT P6SM SCT015 BKN025
     FM261800 18010KT P6SM OVC050=



000
FTUS44 KHGX 260051
TAFCLL
TAFCLL
TAF AMD
KCLL 260051Z 2601/2624 10009KT P6SM -TSRA FEW006 SCT025CB BKN090
     FM260200 16009KT P6SM VCTS SCT025CB BKN050
     FM260700 17004KT 6SM BR SCT006 BKN012
     FM261500 19011KT P6SM BKN015=



000
FTUS44 KHGX 260043 AAA
TAFSGR
TAF AMD
KSGR 260043Z 2601/2624 16013KT P6SM VCSH SCT021 BKN027 OVC040
      TEMPO 2602/2604 VRB35KT 1SM +TSRA SCT010 BKN030CB
     FM260400 13006KT P6SM VCTS SCT030CB BKN050
     FM260900 17010KT P6SM SCT015 BKN025
     FM261500 18011G16KT P6SM VCSH BKN025
     FM261800 16014KT P6SM VCTS BKN035CB=



000
FTUS44 KHGX 260043 AAA
TAFSGR
TAF AMD
KSGR 260043Z 2601/2624 16013KT P6SM VCSH SCT021 BKN027 OVC040
      TEMPO 2602/2604 VRB35KT 1SM +TSRA SCT010 BKN030CB
     FM260400 13006KT P6SM VCTS SCT030CB BKN050
     FM260900 17010KT P6SM SCT015 BKN025
     FM261500 18011G16KT P6SM VCSH BKN025
     FM261800 16014KT P6SM VCTS BKN035CB=



000
FTUS44 KHGX 260043
TAFSGR
TAFSGR
TAF AMD
KSGR 260043Z 2601/2624 16013KT P6SM VCSH SCT021 BKN027 OVC040
      TEMPO 2602/2604 VRB35KT 1SM +TSRA SCT010 BKN030CB
     FM260400 13006KT P6SM VCTS SCT030CB BKN050
     FM260900 17010KT P6SM SCT015 BKN025
     FM261500 18011G16KT P6SM VCSH BKN025
     FM261800 16014KT P6SM VCTS BKN035CB=



000
FTUS44 KHGX 260040 AAC
TAFUTS
TAF AMD
KUTS 260040Z 2601/2624 23010G21KT 3SM TSRA FEW011 OVC019CB
      TEMPO 2601/2602 VRB40KT 3/4SM +TSRA SCT010 BKN015CB
     FM260400 17004KT P6SM BKN050
     FM260700 17004KT 6SM BR FEW006 BKN012
     FM261500 20010KT P6SM BKN015=



000
FTUS44 KHGX 260040
TAFUTS
TAFUTS
TAF AMD
KUTS 260040Z 2601/2624 23010G21KT 3SM TSRA FEW011 OVC019CB
      TEMPO 2601/2602 VRB40KT 3/4SM +TSRA SCT010 BKN015CB
     FM260400 17004KT P6SM BKN050
     FM260700 17004KT 6SM BR FEW006 BKN012
     FM261500 20010KT P6SM BKN015=



000
FTUS44 KHGX 260040 AAC
TAFUTS
TAF AMD
KUTS 260040Z 2601/2624 23010G21KT 3SM TSRA FEW011 OVC019CB
      TEMPO 2601/2602 VRB40KT 3/4SM +TSRA SCT010 BKN015CB
     FM260400 17004KT P6SM BKN050
     FM260700 17004KT 6SM BR FEW006 BKN012
     FM261500 20010KT P6SM BKN015=



000
FTUS44 KHGX 260040 AAC
TAFUTS
TAF AMD
KUTS 260040Z 2601/2624 23010G21KT 3SM TSRA FEW011 OVC019CB
      TEMPO 2601/2602 VRB40KT 3/4SM +TSRA SCT010 BKN015CB
     FM260400 17004KT P6SM BKN050
     FM260700 17004KT 6SM BR FEW006 BKN012
     FM261500 20010KT P6SM BKN015=



000
FTUS44 KHGX 260040
TAFUTS
TAFUTS
TAF AMD
KUTS 260040Z 2601/2624 23010G21KT 3SM TSRA FEW011 OVC019CB
      TEMPO 2601/2602 VRB40KT 3/4SM +TSRA SCT010 BKN015CB
     FM260400 17004KT P6SM BKN050
     FM260700 17004KT 6SM BR FEW006 BKN012
     FM261500 20010KT P6SM BKN015=



000
FTUS44 KHGX 260040 AAC
TAFUTS
TAF AMD
KUTS 260040Z 2601/2624 23010G21KT 3SM TSRA FEW011 OVC019CB
      TEMPO 2601/2602 VRB40KT 3/4SM +TSRA SCT010 BKN015CB
     FM260400 17004KT P6SM BKN050
     FM260700 17004KT 6SM BR FEW006 BKN012
     FM261500 20010KT P6SM BKN015=



000
FTUS44 KHGX 260039 AAB
TAFUTS
TAF AMD
KUTS 260039Z 2601/2624 VRB06KT P6SM VCTS SCT020CB OVC060
      TEMPO 2601/2602 VRB40KT 3/4SM +TSRA SCT010 BKN015CB
     FM260400 17004KT P6SM BKN050
     FM260700 17004KT 6SM BR FEW006 BKN012
     FM261500 20010KT P6SM BKN015=



000
FTUS44 KHGX 260039 AAB
TAFUTS
TAF AMD
KUTS 260039Z 2601/2624 VRB06KT P6SM VCTS SCT020CB OVC060
      TEMPO 2601/2602 VRB40KT 3/4SM +TSRA SCT010 BKN015CB
     FM260400 17004KT P6SM BKN050
     FM260700 17004KT 6SM BR FEW006 BKN012
     FM261500 20010KT P6SM BKN015=



000
FTUS44 KHGX 260038
TAFIAH
TAFIAH
TAF AMD
KIAH 260038Z 2601/2706 16007KT P6SM VCTS SCT027CB BKN050 BKN090
      TEMPO 2603/2605 VRB35KT 1SM +TSRA SCT010 BKN030CB
     FM260500 13006KT P6SM VCTS SCT030CB BKN050
     FM260900 17010KT P6SM SCT015 BKN025
     FM261500 18011G16KT P6SM VCSH BKN025
     FM261800 16014KT P6SM VCTS BKN035CB=



000
FTUS44 KHGX 260038 AAB
TAFIAH
TAF AMD
KIAH 260038Z 2601/2706 16007KT P6SM VCTS SCT027CB BKN050 BKN090
      TEMPO 2603/2605 VRB35KT 1SM +TSRA SCT010 BKN030CB
     FM260500 13006KT P6SM VCTS SCT030CB BKN050
     FM260900 17010KT P6SM SCT015 BKN025
     FM261500 18011G16KT P6SM VCSH BKN025
     FM261800 16014KT P6SM VCTS BKN035CB=



000
FTUS44 KHGX 260038 AAB
TAFIAH
TAF AMD
KIAH 260038Z 2601/2706 16007KT P6SM VCTS SCT027CB BKN050 BKN090
      TEMPO 2603/2605 VRB35KT 1SM +TSRA SCT010 BKN030CB
     FM260500 13006KT P6SM VCTS SCT030CB BKN050
     FM260900 17010KT P6SM SCT015 BKN025
     FM261500 18011G16KT P6SM VCSH BKN025
     FM261800 16014KT P6SM VCTS BKN035CB=



000
FTUS44 KHGX 260033
TAFCXO
TAFCXO
TAF AMD
KCXO 260033Z 2601/2624 16010KT P6SM VCTS SCT035CB SCT060 BKN080
      TEMPO 2601/2603 VRB35KT 1SM +TSRA BKN015 BKN030CB
     FM260400 15011KT P6SM VCTS SCT035CB BKN050
     FM260700 17004KT 6SM BR SCT005 BKN012
     FM261500 18010KT P6SM SCT015 BKN025
     FM261800 18010KT P6SM OVC050=



000
FTUS44 KHGX 260033 AAB
TAFCXO
TAF AMD
KCXO 260033Z 2601/2624 16010KT P6SM VCTS SCT035CB SCT060 BKN080
      TEMPO 2601/2603 VRB35KT 1SM +TSRA BKN015 BKN030CB
     FM260400 15011KT P6SM VCTS SCT035CB BKN050
     FM260700 17004KT 6SM BR SCT005 BKN012
     FM261500 18010KT P6SM SCT015 BKN025
     FM261800 18010KT P6SM OVC050=



000
FTUS44 KHGX 260033 AAB
TAFCXO
TAF AMD
KCXO 260033Z 2601/2624 16010KT P6SM VCTS SCT035CB SCT060 BKN080
      TEMPO 2601/2603 VRB35KT 1SM +TSRA BKN015 BKN030CB
     FM260400 15011KT P6SM VCTS SCT035CB BKN050
     FM260700 17004KT 6SM BR SCT005 BKN012
     FM261500 18010KT P6SM SCT015 BKN025
     FM261800 18010KT P6SM OVC050=



000
FTUS44 KHGX 260033 AAB
TAFCXO
TAF AMD
KCXO 260033Z 2601/2624 16010KT P6SM VCTS SCT035CB SCT060 BKN080
      TEMPO 2601/2603 VRB35KT 1SM +TSRA BKN015 BKN030CB
     FM260400 15011KT P6SM VCTS SCT035CB BKN050
     FM260700 17004KT 6SM BR SCT005 BKN012
     FM261500 18010KT P6SM SCT015 BKN025
     FM261800 18010KT P6SM OVC050=



000
FTUS44 KHGX 260033 AAB
TAFCXO
TAF AMD
KCXO 260033Z 2601/2624 16010KT P6SM VCTS SCT035CB SCT060 BKN080
      TEMPO 2601/2603 VRB35KT 1SM +TSRA BKN015 BKN030CB
     FM260400 15011KT P6SM VCTS SCT035CB BKN050
     FM260700 17004KT 6SM BR SCT005 BKN012
     FM261500 18010KT P6SM SCT015 BKN025
     FM261800 18010KT P6SM OVC050=



000
FTUS44 KHGX 260016 AAA
TAFUTS
TAF AMD
KUTS 260016Z 2600/2624 VRB06KT P6SM VCTS SCT020CB OVC060
      TEMPO 2600/2602 VRB40KT 1SM +TSRA SCT010 BKN020CB
     FM260400 17004KT P6SM BKN050
     FM260700 17004KT 6SM BR FEW006 BKN012
     FM261500 20010KT P6SM BKN015=



000
FTUS44 KHGX 260016
TAFUTS
TAFUTS
TAF AMD
KUTS 260016Z 2600/2624 VRB06KT P6SM VCTS SCT020CB OVC060
      TEMPO 2600/2602 VRB40KT 1SM +TSRA SCT010 BKN020CB
     FM260400 17004KT P6SM BKN050
     FM260700 17004KT 6SM BR FEW006 BKN012
     FM261500 20010KT P6SM BKN015=



000
FTUS44 KHGX 260016 AAA
TAFUTS
TAF AMD
KUTS 260016Z 2600/2624 VRB06KT P6SM VCTS SCT020CB OVC060
      TEMPO 2600/2602 VRB40KT 1SM +TSRA SCT010 BKN020CB
     FM260400 17004KT P6SM BKN050
     FM260700 17004KT 6SM BR FEW006 BKN012
     FM261500 20010KT P6SM BKN015=



000
FTUS44 KHGX 260016 AAA
TAFUTS
TAF AMD
KUTS 260016Z 2600/2624 VRB06KT P6SM VCTS SCT020CB OVC060
      TEMPO 2600/2602 VRB40KT 1SM +TSRA SCT010 BKN020CB
     FM260400 17004KT P6SM BKN050
     FM260700 17004KT 6SM BR FEW006 BKN012
     FM261500 20010KT P6SM BKN015=



000
FTUS44 KHGX 260016
TAFUTS
TAFUTS
TAF AMD
KUTS 260016Z 2600/2624 VRB06KT P6SM VCTS SCT020CB OVC060
      TEMPO 2600/2602 VRB40KT 1SM +TSRA SCT010 BKN020CB
     FM260400 17004KT P6SM BKN050
     FM260700 17004KT 6SM BR FEW006 BKN012
     FM261500 20010KT P6SM BKN015=



000
FTUS44 KHGX 260016 AAA
TAFUTS
TAF AMD
KUTS 260016Z 2600/2624 VRB06KT P6SM VCTS SCT020CB OVC060
      TEMPO 2600/2602 VRB40KT 1SM +TSRA SCT010 BKN020CB
     FM260400 17004KT P6SM BKN050
     FM260700 17004KT 6SM BR FEW006 BKN012
     FM261500 20010KT P6SM BKN015=



000
FTUS44 KHGX 260015
TAFCLL
TAFCLL
TAF AMD
KCLL 260015Z 2600/2624 13008KT 5SM TSRA BR SCT023CB BKN080 OVC090
     FM260200 16009KT P6SM VCTS SCT025CB BKN050
     FM260700 17004KT 6SM BR SCT006 BKN012
     FM261500 19011KT P6SM BKN015=



000
FTUS44 KHGX 260015 AAC
TAFCLL
TAF AMD
KCLL 260015Z 2600/2624 13008KT 5SM TSRA BR SCT023CB BKN080 OVC090
     FM260200 16009KT P6SM VCTS SCT025CB BKN050
     FM260700 17004KT 6SM BR SCT006 BKN012
     FM261500 19011KT P6SM BKN015=



000
FTUS44 KHGX 260015 AAC
TAFCLL
TAF AMD
KCLL 260015Z 2600/2624 13008KT 5SM TSRA BR SCT023CB BKN080 OVC090
     FM260200 16009KT P6SM VCTS SCT025CB BKN050
     FM260700 17004KT 6SM BR SCT006 BKN012
     FM261500 19011KT P6SM BKN015=



000
FTUS44 KHGX 260015
TAFCLL
TAFCLL
TAF AMD
KCLL 260015Z 2600/2624 13008KT 5SM TSRA BR SCT023CB BKN080 OVC090
     FM260200 16009KT P6SM VCTS SCT025CB BKN050
     FM260700 17004KT 6SM BR SCT006 BKN012
     FM261500 19011KT P6SM BKN015=



000
FTUS44 KHGX 260015 AAC
TAFCLL
TAF AMD
KCLL 260015Z 2600/2624 13008KT 5SM TSRA BR SCT023CB BKN080 OVC090
     FM260200 16009KT P6SM VCTS SCT025CB BKN050
     FM260700 17004KT 6SM BR SCT006 BKN012
     FM261500 19011KT P6SM BKN015=



000
FTUS44 KHGX 260015 AAC
TAFCLL
TAF AMD
KCLL 260015Z 2600/2624 13008KT 5SM TSRA BR SCT023CB BKN080 OVC090
     FM260200 16009KT P6SM VCTS SCT025CB BKN050
     FM260700 17004KT 6SM BR SCT006 BKN012
     FM261500 19011KT P6SM BKN015=



000
FTUS44 KHGX 260008
TAFIAH
TAFIAH
TAF AMD
KIAH 260008Z 2600/2706 16009KT P6SM VCSH SCT027 BKN050 BKN090
      TEMPO 2602/2604 VRB35KT 1SM +TSRA SCT010 BKN030CB
     FM260400 13006KT P6SM VCTS SCT030CB BKN050
     FM260900 17010KT P6SM SCT015 BKN025
     FM261500 18011G16KT P6SM VCSH BKN025
     FM261800 16014KT P6SM VCTS BKN035CB=



000
FTUS44 KHGX 260008 AAA
TAFIAH
TAF AMD
KIAH 260008Z 2600/2706 16009KT P6SM VCSH SCT027 BKN050 BKN090
      TEMPO 2602/2604 VRB35KT 1SM +TSRA SCT010 BKN030CB
     FM260400 13006KT P6SM VCTS SCT030CB BKN050
     FM260900 17010KT P6SM SCT015 BKN025
     FM261500 18011G16KT P6SM VCSH BKN025
     FM261800 16014KT P6SM VCTS BKN035CB=



000
FTUS44 KHGX 260006
TAFLBX
TAFLBX
TAF AMD
KLBX 260006Z 2600/2624 17018G23KT P6SM VCSH BKN020 BKN029 OVC070
      TEMPO 2603/2605 VRB35KT 3SM TSRA BKN010 BKN025CB
     FM260600 15009KT P6SM SCT025
     FM261500 17014KT P6SM BKN015=



000
FTUS44 KHGX 260006 AAA
TAFLBX
TAF AMD
KLBX 260006Z 2600/2624 17018G23KT P6SM VCSH BKN020 BKN029 OVC070
      TEMPO 2603/2605 VRB35KT 3SM TSRA BKN010 BKN025CB
     FM260600 15009KT P6SM SCT025
     FM261500 17014KT P6SM BKN015=



000
FTUS44 KHGX 260005 AAA
TAFHOU
TAF AMD
KHOU 260005Z 2600/2624 16012G19KT P6SM VCSH BKN019 BKN035 OVC070
      TEMPO 2602/2604 VRB35KT 1SM +TSRA SCT010 BKN030CB
     FM260400 13006KT P6SM VCTS SCT030CB BKN050
     FM260900 17010KT P6SM SCT015 BKN025
     FM261500 18011G16KT P6SM VCSH BKN025
     FM261800 16014KT P6SM VCTS BKN035CB=



000
FTUS44 KHGX 260005 AAA
TAFHOU
TAF AMD
KHOU 260005Z 2600/2624 16012G19KT P6SM VCSH BKN019 BKN035 OVC070
      TEMPO 2602/2604 VRB35KT 1SM +TSRA SCT010 BKN030CB
     FM260400 13006KT P6SM VCTS SCT030CB BKN050
     FM260900 17010KT P6SM SCT015 BKN025
     FM261500 18011G16KT P6SM VCSH BKN025
     FM261800 16014KT P6SM VCTS BKN035CB=



000
FTUS44 KHGX 260005
TAFHOU
TAFHOU
TAF AMD
KHOU 260005Z 2600/2624 16012G19KT P6SM VCSH BKN019 BKN035 OVC070
      TEMPO 2602/2604 VRB35KT 1SM +TSRA SCT010 BKN030CB
     FM260400 13006KT P6SM VCTS SCT030CB BKN050
     FM260900 17010KT P6SM SCT015 BKN025
     FM261500 18011G16KT P6SM VCSH BKN025
     FM261800 16014KT P6SM VCTS BKN035CB=



000
FTUS44 KHGX 260004 AAA
TAFCXO
TAF AMD
KCXO 260004Z 2600/2624 16010KT P6SM VCTS SCT035CB SCT060 BKN080
      TEMPO 2602/2604 VRB35KT 1SM TSRA BKN035CB
     FM260400 15011KT P6SM VCTS SCT035CB BKN050
     FM260700 17004KT 6SM BR SCT005 BKN012
     FM261500 18010KT P6SM SCT015 BKN025
     FM261800 18010KT P6SM OVC050=



000
FTUS44 KHGX 260004 AAA
TAFCXO
TAF AMD
KCXO 260004Z 2600/2624 16010KT P6SM VCTS SCT035CB SCT060 BKN080
      TEMPO 2602/2604 VRB35KT 1SM TSRA BKN035CB
     FM260400 15011KT P6SM VCTS SCT035CB BKN050
     FM260700 17004KT 6SM BR SCT005 BKN012
     FM261500 18010KT P6SM SCT015 BKN025
     FM261800 18010KT P6SM OVC050=



000
FTUS44 KHGX 260004
TAFCXO
TAFCXO
TAF AMD
KCXO 260004Z 2600/2624 16010KT P6SM VCTS SCT035CB SCT060 BKN080
      TEMPO 2602/2604 VRB35KT 1SM TSRA BKN035CB
     FM260400 15011KT P6SM VCTS SCT035CB BKN050
     FM260700 17004KT 6SM BR SCT005 BKN012
     FM261500 18010KT P6SM SCT015 BKN025
     FM261800 18010KT P6SM OVC050=



000
FTUS44 KHGX 260003
TAFCLL
TAFCLL
TAF AMD
KCLL 260003Z 2600/2624 17012KT 2SM TSRA BKN023CB BKN090 OVC100
     FM260200 16009KT P6SM VCTS SCT025CB BKN050
     FM260700 17004KT 6SM BR SCT006 BKN012
     FM261500 19011KT P6SM BKN015=



000
FTUS44 KHGX 260003 AAB
TAFCLL
TAF AMD
KCLL 260003Z 2600/2624 17012KT 2SM TSRA BKN023CB BKN090 OVC100
     FM260200 16009KT P6SM VCTS SCT025CB BKN050
     FM260700 17004KT 6SM BR SCT006 BKN012
     FM261500 19011KT P6SM BKN015=



000
FTUS44 KHGX 252339 AAA
TAFCLL
TAF AMD
KCLL 252339Z 2600/2624 32018G25KT P6SM TSRA SCT012 BKN025CB OVC050
      TEMPO 2600/2601 1SM +TSRA SCT006 OVC015CB
     FM260200 16009KT P6SM VCTS SCT025CB BKN050
     FM260700 17004KT 6SM BR SCT006 BKN012
     FM261500 19011KT P6SM BKN015=



000
FTUS44 KHGX 252339 AAA
TAFCLL
TAF AMD
KCLL 252339Z 2600/2624 32018G25KT P6SM TSRA SCT012 BKN025CB OVC050
      TEMPO 2600/2601 1SM +TSRA SCT006 OVC015CB
     FM260200 16009KT P6SM VCTS SCT025CB BKN050
     FM260700 17004KT 6SM BR SCT006 BKN012
     FM261500 19011KT P6SM BKN015=



000
FTUS44 KHGX 252339 AAA
TAFCLL
TAF AMD
KCLL 252339Z 2600/2624 32018G25KT P6SM TSRA SCT012 BKN025CB OVC050
      TEMPO 2600/2601 1SM +TSRA SCT006 OVC015CB
     FM260200 16009KT P6SM VCTS SCT025CB BKN050
     FM260700 17004KT 6SM BR SCT006 BKN012
     FM261500 19011KT P6SM BKN015=



000
FTUS44 KHGX 252339
TAFCLL
TAFCLL
TAF AMD
KCLL 252339Z 2600/2624 32018G25KT P6SM TSRA SCT012 BKN025CB OVC050
      TEMPO 2600/2601 1SM +TSRA SCT006 OVC015CB
     FM260200 16009KT P6SM VCTS SCT025CB BKN050
     FM260700 17004KT 6SM BR SCT006 BKN012
     FM261500 19011KT P6SM BKN015=



000
FTUS44 KHGX 252339 AAA
TAFCLL
TAF AMD
KCLL 252339Z 2600/2624 32018G25KT P6SM TSRA SCT012 BKN025CB OVC050
      TEMPO 2600/2601 1SM +TSRA SCT006 OVC015CB
     FM260200 16009KT P6SM VCTS SCT025CB BKN050
     FM260700 17004KT 6SM BR SCT006 BKN012
     FM261500 19011KT P6SM BKN015=



000
FTUS44 KHGX 252339
TAFCLL
TAFCLL
TAF AMD
KCLL 252339Z 2600/2624 32018G25KT P6SM TSRA SCT012 BKN025CB OVC050
      TEMPO 2600/2601 1SM +TSRA SCT006 OVC015CB
     FM260200 16009KT P6SM VCTS SCT025CB BKN050
     FM260700 17004KT 6SM BR SCT006 BKN012
     FM261500 19011KT P6SM BKN015=



000
FTUS44 KHGX 252336
TAFHOU
TAF
KHOU 252336Z 2600/2624 16013G20KT P6SM VCSH SCT020 SCT030 BKN080
      TEMPO 2602/2604 VRB35KT 1SM +TSRA SCT010 BKN030CB
     FM260400 13006KT P6SM VCTS SCT030CB BKN050
     FM260900 17010KT P6SM SCT015 BKN025
     FM261500 18011G16KT P6SM VCSH BKN025
     FM261800 16014KT P6SM VCTS BKN035CB=



000
FTUS44 KHGX 252336
TAFLBX
TAFLBX
TAF
KLBX 252336Z 2600/2624 16016G26KT P6SM VCSH BKN017 BKN025 BKN070
      TEMPO 2603/2605 VRB35KT 3SM TSRA BKN010 BKN025CB
     FM260600 15009KT P6SM SCT025
     FM261500 17014KT P6SM BKN015=



000
FTUS44 KHGX 252336
TAFGLS
TAF
KGLS 252336Z 2600/2624 14016G20KT P6SM VCSH OVC014
      TEMPO 2604/2607 VRB35KT 3SM TSRA BKN010 BKN025CB
     FM260800 18015KT P6SM BKN015 BKN025
     FM261500 17014KT P6SM BKN015=



000
FTUS44 KHGX 252336
TAFCLL
TAF
KCLL 252336Z 2600/2624 32018G25KT P6SM TSRA SCT012 BKN025CB OVC050
      TEMPO 2600/2601 VRB40KT 3/4SM +TSRA BKN006 BKN011 OVC025CB
     FM260100 16009KT P6SM VCTS SCT025CB BKN050
     FM260700 17004KT 6SM BR SCT006 BKN012
     FM261500 19011KT P6SM BKN015=



000
FTUS44 KHGX 252336
TAFLBX
TAF
KLBX 252336Z 2600/2624 16016G26KT P6SM VCSH BKN017 BKN025 BKN070
      TEMPO 2603/2605 VRB35KT 3SM TSRA BKN010 BKN025CB
     FM260600 15009KT P6SM SCT025
     FM261500 17014KT P6SM BKN015=



000
FTUS44 KHGX 252336
TAFIAH
TAF
KIAH 252336Z 2600/2706 17010G18KT P6SM VCSH SCT030 BKN060 BKN080
      TEMPO 2602/2604 VRB35KT 1SM +TSRA SCT010 BKN030CB
     FM260400 13006KT P6SM VCTS SCT030CB BKN050
     FM260900 17010KT P6SM SCT015 BKN025
     FM261500 18011G16KT P6SM VCSH BKN025
     FM261800 16014KT P6SM VCTS BKN035CB=



000
FTUS44 KHGX 252336
TAFCLL
TAFCLL
TAF
KCLL 252336Z 2600/2624 32018G25KT P6SM TSRA SCT012 BKN025CB OVC050
      TEMPO 2600/2601 VRB40KT 3/4SM +TSRA BKN006 BKN011 OVC025CB
     FM260100 16009KT P6SM VCTS SCT025CB BKN050
     FM260700 17004KT 6SM BR SCT006 BKN012
     FM261500 19011KT P6SM BKN015=



000
FTUS44 KHGX 252336
TAFUTS
TAF
KUTS 252336Z 2600/2624 VRB06KT P6SM VCTS FEW050CB BKN250
      TEMPO 2600/2602 VRB40KT 1SM +TSRA SCT010 BKN025CB
     FM260400 17004KT P6SM BKN050
     FM260700 17004KT 6SM BR FEW006 BKN012
     FM261500 20010KT P6SM BKN015=



000
FTUS44 KHGX 252336
TAFGLS
TAF
KGLS 252336Z 2600/2624 14016G20KT P6SM VCSH OVC014
      TEMPO 2604/2607 VRB35KT 3SM TSRA BKN010 BKN025CB
     FM260800 18015KT P6SM BKN015 BKN025
     FM261500 17014KT P6SM BKN015=



000
FTUS44 KHGX 252336
TAFCXO
TAF
KCXO 252336Z 2600/2624 16012G20KT P6SM VCTS SCT030CB SCT060 BKN080
      TEMPO 2602/2604 VRB35KT 1SM TSRA BKN035CB
     FM260400 15011KT P6SM VCTS SCT035CB BKN050
     FM260700 17004KT 6SM BR SCT005 BKN012
     FM261500 18010KT P6SM SCT015 BKN025
     FM261800 18010KT P6SM OVC050=



000
FTUS44 KHGX 252336
TAFSGR
TAF
KSGR 252336Z 2600/2624 15013KT P6SM VCSH SCT020 BKN035 OVC080
      TEMPO 2602/2604 VRB35KT 1SM +TSRA SCT010 BKN030CB
     FM260400 13006KT P6SM VCTS SCT030CB BKN050
     FM260900 17010KT P6SM SCT015 BKN025
     FM261500 18011G16KT P6SM VCSH BKN025
     FM261800 16014KT P6SM VCTS BKN035CB=



000
FTUS44 KHGX 252336
TAFHOU
TAF
KHOU 252336Z 2600/2624 16013G20KT P6SM VCSH SCT020 SCT030 BKN080
      TEMPO 2602/2604 VRB35KT 1SM +TSRA SCT010 BKN030CB
     FM260400 13006KT P6SM VCTS SCT030CB BKN050
     FM260900 17010KT P6SM SCT015 BKN025
     FM261500 18011G16KT P6SM VCSH BKN025
     FM261800 16014KT P6SM VCTS BKN035CB=



000
FTUS44 KHGX 252336
TAFSGR
TAF
KSGR 252336Z 2600/2624 15013KT P6SM VCSH SCT020 BKN035 OVC080
      TEMPO 2602/2604 VRB35KT 1SM +TSRA SCT010 BKN030CB
     FM260400 13006KT P6SM VCTS SCT030CB BKN050
     FM260900 17010KT P6SM SCT015 BKN025
     FM261500 18011G16KT P6SM VCSH BKN025
     FM261800 16014KT P6SM VCTS BKN035CB=



000
FTUS44 KHGX 252336
TAFHOU
TAFHOU
TAF
KHOU 252336Z 2600/2624 16013G20KT P6SM VCSH SCT020 SCT030 BKN080
      TEMPO 2602/2604 VRB35KT 1SM +TSRA SCT010 BKN030CB
     FM260400 13006KT P6SM VCTS SCT030CB BKN050
     FM260900 17010KT P6SM SCT015 BKN025
     FM261500 18011G16KT P6SM VCSH BKN025
     FM261800 16014KT P6SM VCTS BKN035CB=



000
FTUS44 KHGX 252336
TAFIAH
TAFIAH
TAF
KIAH 252336Z 2600/2706 17010G18KT P6SM VCSH SCT030 BKN060 BKN080
      TEMPO 2602/2604 VRB35KT 1SM +TSRA SCT010 BKN030CB
     FM260400 13006KT P6SM VCTS SCT030CB BKN050
     FM260900 17010KT P6SM SCT015 BKN025
     FM261500 18011G16KT P6SM VCSH BKN025
     FM261800 16014KT P6SM VCTS BKN035CB=



000
FTUS44 KHGX 252336
TAFCXO
TAFCXO
TAF
KCXO 252336Z 2600/2624 16012G20KT P6SM VCTS SCT030CB SCT060 BKN080
      TEMPO 2602/2604 VRB35KT 1SM TSRA BKN035CB
     FM260400 15011KT P6SM VCTS SCT035CB BKN050
     FM260700 17004KT 6SM BR SCT005 BKN012
     FM261500 18010KT P6SM SCT015 BKN025
     FM261800 18010KT P6SM OVC050=



000
FTUS44 KHGX 252336
TAFGLS
TAFGLS
TAF
KGLS 252336Z 2600/2624 14016G20KT P6SM VCSH OVC014
      TEMPO 2604/2607 VRB35KT 3SM TSRA BKN010 BKN025CB
     FM260800 18015KT P6SM BKN015 BKN025
     FM261500 17014KT P6SM BKN015=



000
FTUS44 KHGX 252336
TAFLBX
TAFLBX
TAF
KLBX 252336Z 2600/2624 16016G26KT P6SM VCSH BKN017 BKN025 BKN070
      TEMPO 2603/2605 VRB35KT 3SM TSRA BKN010 BKN025CB
     FM260600 15009KT P6SM SCT025
     FM261500 17014KT P6SM BKN015=



000
FTUS44 KHGX 252336
TAFSGR
TAFSGR
TAF
KSGR 252336Z 2600/2624 15013KT P6SM VCSH SCT020 BKN035 OVC080
      TEMPO 2602/2604 VRB35KT 1SM +TSRA SCT010 BKN030CB
     FM260400 13006KT P6SM VCTS SCT030CB BKN050
     FM260900 17010KT P6SM SCT015 BKN025
     FM261500 18011G16KT P6SM VCSH BKN025
     FM261800 16014KT P6SM VCTS BKN035CB=



000
FTUS44 KHGX 252336
TAFUTS
TAFUTS
TAF
KUTS 252336Z 2600/2624 VRB06KT P6SM VCTS FEW050CB BKN250
      TEMPO 2600/2602 VRB40KT 1SM +TSRA SCT010 BKN025CB
     FM260400 17004KT P6SM BKN050
     FM260700 17004KT 6SM BR FEW006 BKN012
     FM261500 20010KT P6SM BKN015=



000
FTUS44 KHGX 252336
TAFCLL
TAFCLL
TAF
KCLL 252336Z 2600/2624 32018G25KT P6SM TSRA SCT012 BKN025CB OVC050
      TEMPO 2600/2601 VRB40KT 3/4SM +TSRA BKN006 BKN011 OVC025CB
     FM260100 16009KT P6SM VCTS SCT025CB BKN050
     FM260700 17004KT 6SM BR SCT006 BKN012
     FM261500 19011KT P6SM BKN015=



000
FTUS44 KHGX 252336
TAFUTS
TAF
KUTS 252336Z 2600/2624 VRB06KT P6SM VCTS FEW050CB BKN250
      TEMPO 2600/2602 VRB40KT 1SM +TSRA SCT010 BKN025CB
     FM260400 17004KT P6SM BKN050
     FM260700 17004KT 6SM BR FEW006 BKN012
     FM261500 20010KT P6SM BKN015=



000
FTUS44 KHGX 252336
TAFSGR
TAF
KSGR 252336Z 2600/2624 15013KT P6SM VCSH SCT020 BKN035 OVC080
      TEMPO 2602/2604 VRB35KT 1SM +TSRA SCT010 BKN030CB
     FM260400 13006KT P6SM VCTS SCT030CB BKN050
     FM260900 17010KT P6SM SCT015 BKN025
     FM261500 18011G16KT P6SM VCSH BKN025
     FM261800 16014KT P6SM VCTS BKN035CB=



000
FTUS44 KHGX 252336
TAFLBX
TAF
KLBX 252336Z 2600/2624 16016G26KT P6SM VCSH BKN017 BKN025 BKN070
      TEMPO 2603/2605 VRB35KT 3SM TSRA BKN010 BKN025CB
     FM260600 15009KT P6SM SCT025
     FM261500 17014KT P6SM BKN015=



000
FTUS44 KHGX 252336
TAFUTS
TAF
KUTS 252336Z 2600/2624 VRB06KT P6SM VCTS FEW050CB BKN250
      TEMPO 2600/2602 VRB40KT 1SM +TSRA SCT010 BKN025CB
     FM260400 17004KT P6SM BKN050
     FM260700 17004KT 6SM BR FEW006 BKN012
     FM261500 20010KT P6SM BKN015=



000
FTUS44 KHGX 252336
TAFHOU
TAF
KHOU 252336Z 2600/2624 16013G20KT P6SM VCSH SCT020 SCT030 BKN080
      TEMPO 2602/2604 VRB35KT 1SM +TSRA SCT010 BKN030CB
     FM260400 13006KT P6SM VCTS SCT030CB BKN050
     FM260900 17010KT P6SM SCT015 BKN025
     FM261500 18011G16KT P6SM VCSH BKN025
     FM261800 16014KT P6SM VCTS BKN035CB=



000
FTUS44 KHGX 252336
TAFIAH
TAF
KIAH 252336Z 2600/2706 17010G18KT P6SM VCSH SCT030 BKN060 BKN080
      TEMPO 2602/2604 VRB35KT 1SM +TSRA SCT010 BKN030CB
     FM260400 13006KT P6SM VCTS SCT030CB BKN050
     FM260900 17010KT P6SM SCT015 BKN025
     FM261500 18011G16KT P6SM VCSH BKN025
     FM261800 16014KT P6SM VCTS BKN035CB=



000
FTUS44 KHGX 252336
TAFGLS
TAF
KGLS 252336Z 2600/2624 14016G20KT P6SM VCSH OVC014
      TEMPO 2604/2607 VRB35KT 3SM TSRA BKN010 BKN025CB
     FM260800 18015KT P6SM BKN015 BKN025
     FM261500 17014KT P6SM BKN015=



000
FTUS44 KHGX 252336
TAFIAH
TAF
KIAH 252336Z 2600/2706 17010G18KT P6SM VCSH SCT030 BKN060 BKN080
      TEMPO 2602/2604 VRB35KT 1SM +TSRA SCT010 BKN030CB
     FM260400 13006KT P6SM VCTS SCT030CB BKN050
     FM260900 17010KT P6SM SCT015 BKN025
     FM261500 18011G16KT P6SM VCSH BKN025
     FM261800 16014KT P6SM VCTS BKN035CB=



000
FTUS44 KHGX 252336
TAFCXO
TAF
KCXO 252336Z 2600/2624 16012G20KT P6SM VCTS SCT030CB SCT060 BKN080
      TEMPO 2602/2604 VRB35KT 1SM TSRA BKN035CB
     FM260400 15011KT P6SM VCTS SCT035CB BKN050
     FM260700 17004KT 6SM BR SCT005 BKN012
     FM261500 18010KT P6SM SCT015 BKN025
     FM261800 18010KT P6SM OVC050=



000
FTUS44 KHGX 252336
TAFSGR
TAF
KSGR 252336Z 2600/2624 15013KT P6SM VCSH SCT020 BKN035 OVC080
      TEMPO 2602/2604 VRB35KT 1SM +TSRA SCT010 BKN030CB
     FM260400 13006KT P6SM VCTS SCT030CB BKN050
     FM260900 17010KT P6SM SCT015 BKN025
     FM261500 18011G16KT P6SM VCSH BKN025
     FM261800 16014KT P6SM VCTS BKN035CB=



000
FTUS44 KHGX 252336
TAFHOU
TAFHOU
TAF
KHOU 252336Z 2600/2624 16013G20KT P6SM VCSH SCT020 SCT030 BKN080
      TEMPO 2602/2604 VRB35KT 1SM +TSRA SCT010 BKN030CB
     FM260400 13006KT P6SM VCTS SCT030CB BKN050
     FM260900 17010KT P6SM SCT015 BKN025
     FM261500 18011G16KT P6SM VCSH BKN025
     FM261800 16014KT P6SM VCTS BKN035CB=



000
FTUS44 KHGX 252336
TAFCXO
TAFCXO
TAF
KCXO 252336Z 2600/2624 16012G20KT P6SM VCTS SCT030CB SCT060 BKN080
      TEMPO 2602/2604 VRB35KT 1SM TSRA BKN035CB
     FM260400 15011KT P6SM VCTS SCT035CB BKN050
     FM260700 17004KT 6SM BR SCT005 BKN012
     FM261500 18010KT P6SM SCT015 BKN025
     FM261800 18010KT P6SM OVC050=



000
FTUS44 KHGX 252336
TAFUTS
TAFUTS
TAF
KUTS 252336Z 2600/2624 VRB06KT P6SM VCTS FEW050CB BKN250
      TEMPO 2600/2602 VRB40KT 1SM +TSRA SCT010 BKN025CB
     FM260400 17004KT P6SM BKN050
     FM260700 17004KT 6SM BR FEW006 BKN012
     FM261500 20010KT P6SM BKN015=



000
FTUS44 KHGX 252336
TAFSGR
TAFSGR
TAF
KSGR 252336Z 2600/2624 15013KT P6SM VCSH SCT020 BKN035 OVC080
      TEMPO 2602/2604 VRB35KT 1SM +TSRA SCT010 BKN030CB
     FM260400 13006KT P6SM VCTS SCT030CB BKN050
     FM260900 17010KT P6SM SCT015 BKN025
     FM261500 18011G16KT P6SM VCSH BKN025
     FM261800 16014KT P6SM VCTS BKN035CB=



000
FTUS44 KHGX 252336
TAFUTS
TAF
KUTS 252336Z 2600/2624 VRB06KT P6SM VCTS FEW050CB BKN250
      TEMPO 2600/2602 VRB40KT 1SM +TSRA SCT010 BKN025CB
     FM260400 17004KT P6SM BKN050
     FM260700 17004KT 6SM BR FEW006 BKN012
     FM261500 20010KT P6SM BKN015=



000
FTUS44 KHGX 252336
TAFLBX
TAF
KLBX 252336Z 2600/2624 16016G26KT P6SM VCSH BKN017 BKN025 BKN070
      TEMPO 2603/2605 VRB35KT 3SM TSRA BKN010 BKN025CB
     FM260600 15009KT P6SM SCT025
     FM261500 17014KT P6SM BKN015=



000
FTUS44 KHGX 252336
TAFIAH
TAF
KIAH 252336Z 2600/2706 17010G18KT P6SM VCSH SCT030 BKN060 BKN080
      TEMPO 2602/2604 VRB35KT 1SM +TSRA SCT010 BKN030CB
     FM260400 13006KT P6SM VCTS SCT030CB BKN050
     FM260900 17010KT P6SM SCT015 BKN025
     FM261500 18011G16KT P6SM VCSH BKN025
     FM261800 16014KT P6SM VCTS BKN035CB=



000
FTUS44 KHGX 252336
TAFHOU
TAF
KHOU 252336Z 2600/2624 16013G20KT P6SM VCSH SCT020 SCT030 BKN080
      TEMPO 2602/2604 VRB35KT 1SM +TSRA SCT010 BKN030CB
     FM260400 13006KT P6SM VCTS SCT030CB BKN050
     FM260900 17010KT P6SM SCT015 BKN025
     FM261500 18011G16KT P6SM VCSH BKN025
     FM261800 16014KT P6SM VCTS BKN035CB=



000
FTUS44 KHGX 252336
TAFGLS
TAFGLS
TAF
KGLS 252336Z 2600/2624 14016G20KT P6SM VCSH OVC014
      TEMPO 2604/2607 VRB35KT 3SM TSRA BKN010 BKN025CB
     FM260800 18015KT P6SM BKN015 BKN025
     FM261500 17014KT P6SM BKN015=



000
FTUS44 KHGX 252336
TAFGLS
TAF
KGLS 252336Z 2600/2624 14016G20KT P6SM VCSH OVC014
      TEMPO 2604/2607 VRB35KT 3SM TSRA BKN010 BKN025CB
     FM260800 18015KT P6SM BKN015 BKN025
     FM261500 17014KT P6SM BKN015=



000
FTUS44 KHGX 252336
TAFCLL
TAF
KCLL 252336Z 2600/2624 32018G25KT P6SM TSRA SCT012 BKN025CB OVC050
      TEMPO 2600/2601 VRB40KT 3/4SM +TSRA BKN006 BKN011 OVC025CB
     FM260100 16009KT P6SM VCTS SCT025CB BKN050
     FM260700 17004KT 6SM BR SCT006 BKN012
     FM261500 19011KT P6SM BKN015=



000
FTUS44 KHGX 252336
TAFCXO
TAF
KCXO 252336Z 2600/2624 16012G20KT P6SM VCTS SCT030CB SCT060 BKN080
      TEMPO 2602/2604 VRB35KT 1SM TSRA BKN035CB
     FM260400 15011KT P6SM VCTS SCT035CB BKN050
     FM260700 17004KT 6SM BR SCT005 BKN012
     FM261500 18010KT P6SM SCT015 BKN025
     FM261800 18010KT P6SM OVC050=



000
FTUS44 KHGX 252336
TAFCLL
TAF
KCLL 252336Z 2600/2624 32018G25KT P6SM TSRA SCT012 BKN025CB OVC050
      TEMPO 2600/2601 VRB40KT 3/4SM +TSRA BKN006 BKN011 OVC025CB
     FM260100 16009KT P6SM VCTS SCT025CB BKN050
     FM260700 17004KT 6SM BR SCT006 BKN012
     FM261500 19011KT P6SM BKN015=



000
FTUS44 KHGX 252336
TAFIAH
TAFIAH
TAF
KIAH 252336Z 2600/2706 17010G18KT P6SM VCSH SCT030 BKN060 BKN080
      TEMPO 2602/2604 VRB35KT 1SM +TSRA SCT010 BKN030CB
     FM260400 13006KT P6SM VCTS SCT030CB BKN050
     FM260900 17010KT P6SM SCT015 BKN025
     FM261500 18011G16KT P6SM VCSH BKN025
     FM261800 16014KT P6SM VCTS BKN035CB=



000
FTUS44 KHGX 252313 AAG
TAFCLL
TAF AMD
KCLL 252313Z 2523/2618 32018G25KT P6SM TSRA SCT012 BKN025CB OVC050
      TEMPO 2523/2601 VRB40KT 3/4SM +TSRA BKN006 BKN011 OVC025CB
     FM260100 16009KT P6SM VCTS SCT025CB BKN050
     FM260700 17004KT 6SM BR SCT006 BKN012
     FM261500 19011KT P6SM BKN015=



000
FTUS44 KHGX 252313
TAFCLL
TAFCLL
TAF AMD
KCLL 252313Z 2523/2618 32018G25KT P6SM TSRA SCT012 BKN025CB OVC050
      TEMPO 2523/2601 VRB40KT 3/4SM +TSRA BKN006 BKN011 OVC025CB
     FM260100 16009KT P6SM VCTS SCT025CB BKN050
     FM260700 17004KT 6SM BR SCT006 BKN012
     FM261500 19011KT P6SM BKN015=



000
FTUS44 KHGX 252313 AAG
TAFCLL
TAF AMD
KCLL 252313Z 2523/2618 32018G25KT P6SM TSRA SCT012 BKN025CB OVC050
      TEMPO 2523/2601 VRB40KT 3/4SM +TSRA BKN006 BKN011 OVC025CB
     FM260100 16009KT P6SM VCTS SCT025CB BKN050
     FM260700 17004KT 6SM BR SCT006 BKN012
     FM261500 19011KT P6SM BKN015=



000
FTUS44 KHGX 252310
TAFUTS
TAFUTS
TAF AMD
KUTS 252310Z 2523/2618 VRB06KT P6SM VCTS FEW050CB BKN250
      TEMPO 2523/2602 VRB40KT +TSRA SCT010 BKN025CB
     FM260400 17004KT P6SM BKN050
     FM260700 17004KT 6SM BR FEW006 BKN012
     FM261500 20010KT P6SM BKN015=



000
FTUS44 KHGX 252310 AAC
TAFUTS
TAF AMD
KUTS 252310Z 2523/2618 VRB06KT P6SM VCTS FEW050CB BKN250
      TEMPO 2523/2602 VRB40KT +TSRA SCT010 BKN025CB
     FM260400 17004KT P6SM BKN050
     FM260700 17004KT 6SM BR FEW006 BKN012
     FM261500 20010KT P6SM BKN015=



000
FTUS44 KHGX 252310 AAC
TAFUTS
TAF AMD
KUTS 252310Z 2523/2618 VRB06KT P6SM VCTS FEW050CB BKN250
      TEMPO 2523/2602 VRB40KT +TSRA SCT010 BKN025CB
     FM260400 17004KT P6SM BKN050
     FM260700 17004KT 6SM BR FEW006 BKN012
     FM261500 20010KT P6SM BKN015=



000
FTUS44 KHGX 252310
TAFUTS
TAFUTS
TAF AMD
KUTS 252310Z 2523/2618 VRB06KT P6SM VCTS FEW050CB BKN250
      TEMPO 2523/2602 VRB40KT +TSRA SCT010 BKN025CB
     FM260400 17004KT P6SM BKN050
     FM260700 17004KT 6SM BR FEW006 BKN012
     FM261500 20010KT P6SM BKN015=



000
FTUS44 KHGX 252310 AAC
TAFUTS
TAF AMD
KUTS 252310Z 2523/2618 VRB06KT P6SM VCTS FEW050CB BKN250
      TEMPO 2523/2602 VRB40KT +TSRA SCT010 BKN025CB
     FM260400 17004KT P6SM BKN050
     FM260700 17004KT 6SM BR FEW006 BKN012
     FM261500 20010KT P6SM BKN015=



000
FTUS44 KHGX 252310 AAC
TAFUTS
TAF AMD
KUTS 252310Z 2523/2618 VRB06KT P6SM VCTS FEW050CB BKN250
      TEMPO 2523/2602 VRB40KT +TSRA SCT010 BKN025CB
     FM260400 17004KT P6SM BKN050
     FM260700 17004KT 6SM BR FEW006 BKN012
     FM261500 20010KT P6SM BKN015=



000
FTUS44 KHGX 252308
TAFCLL
TAFCLL
TAF AMD
KCLL 252308Z 2523/2618 32018G25KT P6SM TSRA SCT012 BKN025CB OVC050
      TEMPO 2523/2524 VRB40KT 1SM +TSRA BKN006 BKN011 OVC025CB
     FM260100 16009KT P6SM VCTS SCT025CB BKN050
     FM260700 17004KT 6SM BR SCT006 BKN012
     FM261500 19011KT P6SM BKN015=



000
FTUS44 KHGX 252308
TAFCLL
TAFCLL
TAF AMD
KCLL 252308Z 2523/2618 32018G25KT P6SM TSRA SCT012 BKN025CB OVC050
      TEMPO 2523/2524 VRB40KT 1SM +TSRA BKN006 BKN011 OVC025CB
     FM260100 16009KT P6SM VCTS SCT025CB BKN050
     FM260700 17004KT 6SM BR SCT006 BKN012
     FM261500 19011KT P6SM BKN015=



000
FTUS44 KHGX 252308 AAF
TAFCLL
TAF AMD
KCLL 252308Z 2523/2618 32018G25KT P6SM TSRA SCT012 BKN025CB OVC050
      TEMPO 2523/2524 VRB40KT 1SM +TSRA BKN006 BKN011 OVC025CB
     FM260100 16009KT P6SM VCTS SCT025CB BKN050
     FM260700 17004KT 6SM BR SCT006 BKN012
     FM261500 19011KT P6SM BKN015=



000
FTUS44 KHGX 252308 AAF
TAFCLL
TAF AMD
KCLL 252308Z 2523/2618 32018G25KT P6SM TSRA SCT012 BKN025CB OVC050
      TEMPO 2523/2524 VRB40KT 1SM +TSRA BKN006 BKN011 OVC025CB
     FM260100 16009KT P6SM VCTS SCT025CB BKN050
     FM260700 17004KT 6SM BR SCT006 BKN012
     FM261500 19011KT P6SM BKN015=



000
FTUS44 KHGX 252308 AAF
TAFCLL
TAF AMD
KCLL 252308Z 2523/2618 32018G25KT P6SM TSRA SCT012 BKN025CB OVC050
      TEMPO 2523/2524 VRB40KT 1SM +TSRA BKN006 BKN011 OVC025CB
     FM260100 16009KT P6SM VCTS SCT025CB BKN050
     FM260700 17004KT 6SM BR SCT006 BKN012
     FM261500 19011KT P6SM BKN015=



000
FTUS44 KHGX 252253
TAFLBX
TAFLBX
TAF AMD
KLBX 252253Z 2523/2618 16016G26KT P6SM VCSH SCT017 BKN025 BKN070
     FM260400 15009KT P6SM SCT025
     FM261500 17014KT P6SM BKN015=



000
FTUS44 KHGX 252253 AAD
TAFLBX
TAF AMD
KLBX 252253Z 2523/2618 16016G26KT P6SM VCSH SCT017 BKN025 BKN070
     FM260400 15009KT P6SM SCT025
     FM261500 17014KT P6SM BKN015=



000
FTUS44 KHGX 252249 AAE
TAFCLL
TAF AMD
KCLL 252249Z 2523/2618 32018G25KT P6SM -TSRA FEW012 SCT030CB OVC050
      TEMPO 2523/2524 VRB40KT 2SM +TSRA BKN022CB
     FM260200 15009KT P6SM BKN050
     FM260700 17004KT 6SM BR SCT006 BKN012
     FM261500 19011KT P6SM BKN015=



000
FTUS44 KHGX 252249 AAE
TAFCLL
TAF AMD
KCLL 252249Z 2523/2618 32018G25KT P6SM -TSRA FEW012 SCT030CB OVC050
      TEMPO 2523/2524 VRB40KT 2SM +TSRA BKN022CB
     FM260200 15009KT P6SM BKN050
     FM260700 17004KT 6SM BR SCT006 BKN012
     FM261500 19011KT P6SM BKN015=



000
FTUS44 KHGX 252249 AAE
TAFCLL
TAF AMD
KCLL 252249Z 2523/2618 32018G25KT P6SM -TSRA FEW012 SCT030CB OVC050
      TEMPO 2523/2524 VRB40KT 2SM +TSRA BKN022CB
     FM260200 15009KT P6SM BKN050
     FM260700 17004KT 6SM BR SCT006 BKN012
     FM261500 19011KT P6SM BKN015=



000
FTUS44 KHGX 252249 AAE
TAFCLL
TAF AMD
KCLL 252249Z 2523/2618 32018G25KT P6SM -TSRA FEW012 SCT030CB OVC050
      TEMPO 2523/2524 VRB40KT 2SM +TSRA BKN022CB
     FM260200 15009KT P6SM BKN050
     FM260700 17004KT 6SM BR SCT006 BKN012
     FM261500 19011KT P6SM BKN015=



000
FTUS44 KHGX 252237 AAD
TAFCLL
TAF AMD
KCLL 252237Z 2523/2618 32018G25KT P6SM -TSRA FEW018 SCT035CB OVC050
      TEMPO 2523/2524 VRB40KT 2SM +TSRA BKN025CB
     FM260200 15009KT P6SM BKN050
     FM260700 17004KT 6SM BR SCT006 BKN012
     FM261500 19011KT P6SM BKN015=



000
FTUS44 KHGX 252237 AAD
TAFCLL
TAF AMD
KCLL 252237Z 2523/2618 32018G25KT P6SM -TSRA FEW018 SCT035CB OVC050
      TEMPO 2523/2524 VRB40KT 2SM +TSRA BKN025CB
     FM260200 15009KT P6SM BKN050
     FM260700 17004KT 6SM BR SCT006 BKN012
     FM261500 19011KT P6SM BKN015=



000
FTUS44 KHGX 252237 AAD
TAFCLL
TAF AMD
KCLL 252237Z 2523/2618 32018G25KT P6SM -TSRA FEW018 SCT035CB OVC050
      TEMPO 2523/2524 VRB40KT 2SM +TSRA BKN025CB
     FM260200 15009KT P6SM BKN050
     FM260700 17004KT 6SM BR SCT006 BKN012
     FM261500 19011KT P6SM BKN015=



000
FTUS44 KHGX 252237 AAD
TAFCLL
TAF AMD
KCLL 252237Z 2523/2618 32018G25KT P6SM -TSRA FEW018 SCT035CB OVC050
      TEMPO 2523/2524 VRB40KT 2SM +TSRA BKN025CB
     FM260200 15009KT P6SM BKN050
     FM260700 17004KT 6SM BR SCT006 BKN012
     FM261500 19011KT P6SM BKN015=



000
FTUS44 KHGX 252237
TAFCLL
TAFCLL
TAF AMD
KCLL 252237Z 2523/2618 32018G25KT P6SM -TSRA FEW018 SCT035CB OVC050
      TEMPO 2523/2524 VRB40KT 2SM +TSRA BKN025CB
     FM260200 15009KT P6SM BKN050
     FM260700 17004KT 6SM BR SCT006 BKN012
     FM261500 19011KT P6SM BKN015=



000
FTUS44 KHGX 252237
TAFCLL
TAFCLL
TAF AMD
KCLL 252237Z 2523/2618 32018G25KT P6SM -TSRA FEW018 SCT035CB OVC050
      TEMPO 2523/2524 VRB40KT 2SM +TSRA BKN025CB
     FM260200 15009KT P6SM BKN050
     FM260700 17004KT 6SM BR SCT006 BKN012
     FM261500 19011KT P6SM BKN015=



000
FTUS44 KHGX 252231
TAFGLS
TAFGLS
TAF AMD
KGLS 252231Z 2523/2618 14016G20KT P6SM VCSH OVC014
     FM260300 18015KT P6SM SCT030
     FM261500 17014KT P6SM BKN015=



000
FTUS44 KHGX 252231 AAC
TAFGLS
TAF AMD
KGLS 252231Z 2523/2618 14016G20KT P6SM VCSH OVC014
     FM260300 18015KT P6SM SCT030
     FM261500 17014KT P6SM BKN015=



000
FTUS44 KHGX 252220 AAC
TAFLBX
TAF AMD
KLBX 252220Z 2522/2618 16018G26KT P6SM VCSH SCT018 OVC070
     FM260400 15009KT P6SM SCT025
     FM261500 17014KT P6SM BKN015=



000
FTUS44 KHGX 252220 AAC
TAFLBX
TAF AMD
KLBX 252220Z 2522/2618 16018G26KT P6SM VCSH SCT018 OVC070
     FM260400 15009KT P6SM SCT025
     FM261500 17014KT P6SM BKN015=



000
FTUS44 KHGX 252220
TAFLBX
TAFLBX
TAF AMD
KLBX 252220Z 2522/2618 16018G26KT P6SM VCSH SCT018 OVC070
     FM260400 15009KT P6SM SCT025
     FM261500 17014KT P6SM BKN015=



000
FTUS44 KHGX 252220 AAC
TAFLBX
TAF AMD
KLBX 252220Z 2522/2618 16018G26KT P6SM VCSH SCT018 OVC070
     FM260400 15009KT P6SM SCT025
     FM261500 17014KT P6SM BKN015=



000
FTUS44 KHGX 252220 AAC
TAFLBX
TAF AMD
KLBX 252220Z 2522/2618 16018G26KT P6SM VCSH SCT018 OVC070
     FM260400 15009KT P6SM SCT025
     FM261500 17014KT P6SM BKN015=



000
FTUS44 KHGX 252210 AAC
TAFIAH
TAF AMD
KIAH 252210Z 2522/2624 16017G25KT P6SM VCSH SCT035 BKN060 BKN090
      TEMPO 2601/2603 VRB35KT TSRA BKN035CB
     FM260400 13006KT P6SM BKN050
     FM260900 13007KT P6SM SCT015 BKN025
     FM261500 15011KT P6SM VCSH BKN025
     FM261800 16014KT P6SM VCTS BKN045CB=



000
FTUS44 KHGX 252210
TAFSGR
TAFSGR
TAF AMD
KSGR 252210Z 2522/2618 15013KT P6SM VCSH SCT027 BKN035 OVC080
      TEMPO 2601/2603 VRB35KT TSRA BKN030CB
     FM260400 14010KT P6SM SCT025
     FM261500 17012KT P6SM BKN015=



000
FTUS44 KHGX 252210
TAFIAH
TAFIAH
TAF AMD
KIAH 252210Z 2522/2624 16017G25KT P6SM VCSH SCT035 BKN060 BKN090
      TEMPO 2601/2603 VRB35KT TSRA BKN035CB
     FM260400 13006KT P6SM BKN050
     FM260900 13007KT P6SM SCT015 BKN025
     FM261500 15011KT P6SM VCSH BKN025
     FM261800 16014KT P6SM VCTS BKN045CB=



000
FTUS44 KHGX 252210 AAC
TAFSGR
TAF AMD
KSGR 252210Z 2522/2618 15013KT P6SM VCSH SCT027 BKN035 OVC080
      TEMPO 2601/2603 VRB35KT TSRA BKN030CB
     FM260400 14010KT P6SM SCT025
     FM261500 17012KT P6SM BKN015=



000
FTUS44 KHGX 252210 AAC
TAFSGR
TAF AMD
KSGR 252210Z 2522/2618 15013KT P6SM VCSH SCT027 BKN035 OVC080
      TEMPO 2601/2603 VRB35KT TSRA BKN030CB
     FM260400 14010KT P6SM SCT025
     FM261500 17012KT P6SM BKN015=



000
FTUS44 KHGX 252210 AAC
TAFIAH
TAF AMD
KIAH 252210Z 2522/2624 16017G25KT P6SM VCSH SCT035 BKN060 BKN090
      TEMPO 2601/2603 VRB35KT TSRA BKN035CB
     FM260400 13006KT P6SM BKN050
     FM260900 13007KT P6SM SCT015 BKN025
     FM261500 15011KT P6SM VCSH BKN025
     FM261800 16014KT P6SM VCTS BKN045CB=



000
FTUS44 KHGX 252206 AAC
TAFHOU
TAF AMD
KHOU 252206Z 2522/2618 16013G27KT P6SM VCSH SCT024 SCT040 BKN080
      TEMPO 2601/2603 VRB30KT TSRA BKN025CB
     FM260400 15007KT P6SM FEW025
     FM261500 17012KT P6SM BKN015=



000
FTUS44 KHGX 252206 AAC
TAFHOU
TAF AMD
KHOU 252206Z 2522/2618 16013G27KT P6SM VCSH SCT024 SCT040 BKN080
      TEMPO 2601/2603 VRB30KT TSRA BKN025CB
     FM260400 15007KT P6SM FEW025
     FM261500 17012KT P6SM BKN015=



000
FTUS44 KHGX 252206
TAFHOU
TAFHOU
TAF AMD
KHOU 252206Z 2522/2618 16013G27KT P6SM VCSH SCT024 SCT040 BKN080
      TEMPO 2601/2603 VRB30KT TSRA BKN025CB
     FM260400 15007KT P6SM FEW025
     FM261500 17012KT P6SM BKN015=



000
FTUS44 KHGX 252205 AAB
TAFCXO
TAF AMD
KCXO 252205Z 2522/2618 15016G25KT P6SM VCSH FEW030 SCT040 BKN100
      TEMPO 2601/2603 VRB35KT TSRA BKN035CB
     FM260300 15005KT P6SM BKN050
     FM260700 17004KT 6SM BR SCT005 BKN012
     FM261500 18010KT P6SM SCT015 BKN025=



000
FTUS44 KHGX 252205 AAB
TAFCXO
TAF AMD
KCXO 252205Z 2522/2618 15016G25KT P6SM VCSH FEW030 SCT040 BKN100
      TEMPO 2601/2603 VRB35KT TSRA BKN035CB
     FM260300 15005KT P6SM BKN050
     FM260700 17004KT 6SM BR SCT005 BKN012
     FM261500 18010KT P6SM SCT015 BKN025=



000
FTUS44 KHGX 252205 AAB
TAFCXO
TAF AMD
KCXO 252205Z 2522/2618 15016G25KT P6SM VCSH FEW030 SCT040 BKN100
      TEMPO 2601/2603 VRB35KT TSRA BKN035CB
     FM260300 15005KT P6SM BKN050
     FM260700 17004KT 6SM BR SCT005 BKN012
     FM261500 18010KT P6SM SCT015 BKN025=



000
FTUS44 KHGX 252205 AAB
TAFCXO
TAF AMD
KCXO 252205Z 2522/2618 15016G25KT P6SM VCSH FEW030 SCT040 BKN100
      TEMPO 2601/2603 VRB35KT TSRA BKN035CB
     FM260300 15005KT P6SM BKN050
     FM260700 17004KT 6SM BR SCT005 BKN012
     FM261500 18010KT P6SM SCT015 BKN025=



000
FTUS44 KHGX 252205
TAFCXO
TAFCXO
TAF AMD
KCXO 252205Z 2522/2618 15016G25KT P6SM VCSH FEW030 SCT040 BKN100
      TEMPO 2601/2603 VRB35KT TSRA BKN035CB
     FM260300 15005KT P6SM BKN050
     FM260700 17004KT 6SM BR SCT005 BKN012
     FM261500 18010KT P6SM SCT015 BKN025=



000
FTUS44 KHGX 252142
TAFCLL
TAFCLL
TAF AMD
KCLL 252142Z 2522/2618 14012G20KT P6SM -TSRA FEW040 BKN070CB BKN100
      TEMPO 2522/2524 VRB40KT 2SM +TSRA BKN025CB
     FM260200 15009KT P6SM BKN050
     FM260700 17004KT 6SM BR SCT006 BKN012
     FM261500 19011KT P6SM BKN015=



000
FTUS44 KHGX 252142
TAFCLL
TAFCLL
TAF AMD
KCLL 252142Z 2522/2618 14012G20KT P6SM -TSRA FEW040 BKN070CB BKN100
      TEMPO 2522/2524 VRB40KT 2SM +TSRA BKN025CB
     FM260200 15009KT P6SM BKN050
     FM260700 17004KT 6SM BR SCT006 BKN012
     FM261500 19011KT P6SM BKN015=



000
FTUS44 KHGX 252142 AAC
TAFCLL
TAF AMD
KCLL 252142Z 2522/2618 14012G20KT P6SM -TSRA FEW040 BKN070CB BKN100
      TEMPO 2522/2524 VRB40KT 2SM +TSRA BKN025CB
     FM260200 15009KT P6SM BKN050
     FM260700 17004KT 6SM BR SCT006 BKN012
     FM261500 19011KT P6SM BKN015=



000
FTUS44 KHGX 252142 AAC
TAFCLL
TAF AMD
KCLL 252142Z 2522/2618 14012G20KT P6SM -TSRA FEW040 BKN070CB BKN100
      TEMPO 2522/2524 VRB40KT 2SM +TSRA BKN025CB
     FM260200 15009KT P6SM BKN050
     FM260700 17004KT 6SM BR SCT006 BKN012
     FM261500 19011KT P6SM BKN015=



000
FTUS44 KHGX 252108 AAB
TAFGLS
TAF AMD
KGLS 252108Z 2521/2618 14016G24KT P6SM VCSH SCT012 OVC021
     FM252300 14015G25KT P6SM VCTS SCT025CB BKN070
     FM260300 18015KT P6SM SCT030
     FM261500 17014KT P6SM BKN015=



000
FTUS44 KHGX 252108 AAB
TAFGLS
TAF AMD
KGLS 252108Z 2521/2618 14016G24KT P6SM VCSH SCT012 OVC021
     FM252300 14015G25KT P6SM VCTS SCT025CB BKN070
     FM260300 18015KT P6SM SCT030
     FM261500 17014KT P6SM BKN015=



000
FTUS44 KHGX 252108 AAB
TAFLBX
TAF AMD
KLBX 252108Z 2521/2618 16016G27KT P6SM VCSH BKN021 BKN070
     FM252300 16015G25KT P6SM VCTS BKN025CB OVC070
     FM260400 15009KT P6SM SCT025
     FM261500 17014KT P6SM BKN015=



000
FTUS44 KHGX 252108 AAB
TAFLBX
TAF AMD
KLBX 252108Z 2521/2618 16016G27KT P6SM VCSH BKN021 BKN070
     FM252300 16015G25KT P6SM VCTS BKN025CB OVC070
     FM260400 15009KT P6SM SCT025
     FM261500 17014KT P6SM BKN015=



000
FTUS44 KHGX 252108 AAB
TAFLBX
TAF AMD
KLBX 252108Z 2521/2618 16016G27KT P6SM VCSH BKN021 BKN070
     FM252300 16015G25KT P6SM VCTS BKN025CB OVC070
     FM260400 15009KT P6SM SCT025
     FM261500 17014KT P6SM BKN015=



000
FTUS44 KHGX 252108
TAFGLS
TAFGLS
TAF AMD
KGLS 252108Z 2521/2618 14016G24KT P6SM VCSH SCT012 OVC021
     FM252300 14015G25KT P6SM VCTS SCT025CB BKN070
     FM260300 18015KT P6SM SCT030
     FM261500 17014KT P6SM BKN015=



000
FTUS44 KHGX 252108 AAB
TAFGLS
TAF AMD
KGLS 252108Z 2521/2618 14016G24KT P6SM VCSH SCT012 OVC021
     FM252300 14015G25KT P6SM VCTS SCT025CB BKN070
     FM260300 18015KT P6SM SCT030
     FM261500 17014KT P6SM BKN015=



000
FTUS44 KHGX 252108
TAFLBX
TAFLBX
TAF AMD
KLBX 252108Z 2521/2618 16016G27KT P6SM VCSH BKN021 BKN070
     FM252300 16015G25KT P6SM VCTS BKN025CB OVC070
     FM260400 15009KT P6SM SCT025
     FM261500 17014KT P6SM BKN015=



000
FTUS44 KHGX 252108 AAB
TAFLBX
TAF AMD
KLBX 252108Z 2521/2618 16016G27KT P6SM VCSH BKN021 BKN070
     FM252300 16015G25KT P6SM VCTS BKN025CB OVC070
     FM260400 15009KT P6SM SCT025
     FM261500 17014KT P6SM BKN015=



000
FTUS44 KHGX 252107
TAFSGR
TAFSGR
TAF AMD
KSGR 252107Z 2521/2618 16021G27KT P6SM VCSH FEW035 BKN080
      TEMPO 2522/2602 VRB35KT TSRA BKN030CB
     FM260400 14010KT P6SM SCT025
     FM261500 17012KT P6SM BKN015=



000
FTUS44 KHGX 252107
TAFSGR
TAFSGR
TAF AMD
KSGR 252107Z 2521/2618 16021G27KT P6SM VCSH FEW035 BKN080
      TEMPO 2522/2602 VRB35KT TSRA BKN030CB
     FM260400 14010KT P6SM SCT025
     FM261500 17012KT P6SM BKN015=



000
FTUS44 KHGX 252107 AAB
TAFSGR
TAF AMD
KSGR 252107Z 2521/2618 16021G27KT P6SM VCSH FEW035 BKN080
      TEMPO 2522/2602 VRB35KT TSRA BKN030CB
     FM260400 14010KT P6SM SCT025
     FM261500 17012KT P6SM BKN015=



000
FTUS44 KHGX 252107
TAFHOU
TAFHOU
TAF AMD
KHOU 252107Z 2521/2618 15015G23KT P6SM VCSH SCT029 BKN040 BKN070
      TEMPO 2522/2602 VRB30KT TSRA BKN025CB
     FM260400 15007KT P6SM FEW025
     FM261500 17012KT P6SM BKN015=



000
FTUS44 KHGX 252107 AAB
TAFSGR
TAF AMD
KSGR 252107Z 2521/2618 16021G27KT P6SM VCSH FEW035 BKN080
      TEMPO 2522/2602 VRB35KT TSRA BKN030CB
     FM260400 14010KT P6SM SCT025
     FM261500 17012KT P6SM BKN015=



000
FTUS44 KHGX 252107 AAB
TAFHOU
TAF AMD
KHOU 252107Z 2521/2618 15015G23KT P6SM VCSH SCT029 BKN040 BKN070
      TEMPO 2522/2602 VRB30KT TSRA BKN025CB
     FM260400 15007KT P6SM FEW025
     FM261500 17012KT P6SM BKN015=



000
FTUS44 KHGX 252107
TAFHOU
TAFHOU
TAF AMD
KHOU 252107Z 2521/2618 15015G23KT P6SM VCSH SCT029 BKN040 BKN070
      TEMPO 2522/2602 VRB30KT TSRA BKN025CB
     FM260400 15007KT P6SM FEW025
     FM261500 17012KT P6SM BKN015=



000
FTUS44 KHGX 252107 AAB
TAFHOU
TAF AMD
KHOU 252107Z 2521/2618 15015G23KT P6SM VCSH SCT029 BKN040 BKN070
      TEMPO 2522/2602 VRB30KT TSRA BKN025CB
     FM260400 15007KT P6SM FEW025
     FM261500 17012KT P6SM BKN015=



000
FTUS44 KHGX 252107 AAB
TAFHOU
TAF AMD
KHOU 252107Z 2521/2618 15015G23KT P6SM VCSH SCT029 BKN040 BKN070
      TEMPO 2522/2602 VRB30KT TSRA BKN025CB
     FM260400 15007KT P6SM FEW025
     FM261500 17012KT P6SM BKN015=



000
FTUS44 KHGX 252107 AAB
TAFSGR
TAF AMD
KSGR 252107Z 2521/2618 16021G27KT P6SM VCSH FEW035 BKN080
      TEMPO 2522/2602 VRB35KT TSRA BKN030CB
     FM260400 14010KT P6SM SCT025
     FM261500 17012KT P6SM BKN015=



000
FTUS44 KHGX 252106 AAB
TAFIAH
TAF AMD
KIAH 252106Z 2521/2624 16015G25KT P6SM VCSH BKN035 BKN070 OVC250
      TEMPO 2522/2602 VRB35KT TSRA BKN035CB
     FM260400 13006KT P6SM BKN050
     FM260900 13007KT P6SM SCT015 BKN025
     FM261500 15011KT P6SM VCSH BKN025
     FM261800 16014KT P6SM VCTS BKN045CB=



000
FTUS44 KHGX 252106 AAB
TAFIAH
TAF AMD
KIAH 252106Z 2521/2624 16015G25KT P6SM VCSH BKN035 BKN070 OVC250
      TEMPO 2522/2602 VRB35KT TSRA BKN035CB
     FM260400 13006KT P6SM BKN050
     FM260900 13007KT P6SM SCT015 BKN025
     FM261500 15011KT P6SM VCSH BKN025
     FM261800 16014KT P6SM VCTS BKN045CB=



000
FTUS44 KHGX 252106
TAFIAH
TAFIAH
TAF AMD
KIAH 252106Z 2521/2624 16015G25KT P6SM VCSH BKN035 BKN070 OVC250
      TEMPO 2522/2602 VRB35KT TSRA BKN035CB
     FM260400 13006KT P6SM BKN050
     FM260900 13007KT P6SM SCT015 BKN025
     FM261500 15011KT P6SM VCSH BKN025
     FM261800 16014KT P6SM VCTS BKN045CB=



000
FTUS44 KHGX 252103
TAFUTS
TAFUTS
TAF AMD
KUTS 252103Z 2521/2618 VRB06KT P6SM VCTS FEW050CB BKN250
      TEMPO 2522/2602 VRB40KT TSRA BKN035CB
     FM260400 17004KT P6SM BKN050
     FM260700 17004KT 6SM BR FEW006 BKN012
     FM261500 20010KT P6SM BKN015=



000
FTUS44 KHGX 252103 AAB
TAFUTS
TAF AMD
KUTS 252103Z 2521/2618 VRB06KT P6SM VCTS FEW050CB BKN250
      TEMPO 2522/2602 VRB40KT TSRA BKN035CB
     FM260400 17004KT P6SM BKN050
     FM260700 17004KT 6SM BR FEW006 BKN012
     FM261500 20010KT P6SM BKN015=



000
FTUS44 KHGX 252103 AAB
TAFUTS
TAF AMD
KUTS 252103Z 2521/2618 VRB06KT P6SM VCTS FEW050CB BKN250
      TEMPO 2522/2602 VRB40KT TSRA BKN035CB
     FM260400 17004KT P6SM BKN050
     FM260700 17004KT 6SM BR FEW006 BKN012
     FM261500 20010KT P6SM BKN015=



000
FTUS44 KHGX 252103 AAB
TAFCLL
TAF AMD
KCLL 252103Z 2521/2618 14012G20KT P6SM VCTS FEW040 BKN070CB BKN100
      TEMPO 2521/2524 VRB40KT TSRA BKN025CB
     FM260200 15009KT P6SM BKN050
     FM260700 17004KT 6SM BR SCT006 BKN012
     FM261500 19011KT P6SM BKN015=



000
FTUS44 KHGX 252103
TAFCLL
TAFCLL
TAF AMD
KCLL 252103Z 2521/2618 14012G20KT P6SM VCTS FEW040 BKN070CB BKN100
      TEMPO 2521/2524 VRB40KT TSRA BKN025CB
     FM260200 15009KT P6SM BKN050
     FM260700 17004KT 6SM BR SCT006 BKN012
     FM261500 19011KT P6SM BKN015=



000
FTUS44 KHGX 252103 AAB
TAFCLL
TAF AMD
KCLL 252103Z 2521/2618 14012G20KT P6SM VCTS FEW040 BKN070CB BKN100
      TEMPO 2521/2524 VRB40KT TSRA BKN025CB
     FM260200 15009KT P6SM BKN050
     FM260700 17004KT 6SM BR SCT006 BKN012
     FM261500 19011KT P6SM BKN015=



000
FTUS44 KHGX 251921
TAFGLS
TAFGLS
TAF AMD
KGLS 251921Z 2519/2618 13016KT P6SM SCT250
     FM252100 14015G25KT P6SM VCSH FEW050 BKN250
      TEMPO 2522/2602 TSRA BKN050CB
     FM260300 18015KT P6SM SCT030
     FM261500 17014KT P6SM BKN015=



000
FTUS44 KHGX 251921 AAA
TAFGLS
TAF AMD
KGLS 251921Z 2519/2618 13016KT P6SM SCT250
     FM252100 14015G25KT P6SM VCSH FEW050 BKN250
      TEMPO 2522/2602 TSRA BKN050CB
     FM260300 18015KT P6SM SCT030
     FM261500 17014KT P6SM BKN015=



000
FTUS44 KHGX 251921 AAA
TAFGLS
TAF AMD
KGLS 251921Z 2519/2618 13016KT P6SM SCT250
     FM252100 14015G25KT P6SM VCSH FEW050 BKN250
      TEMPO 2522/2602 TSRA BKN050CB
     FM260300 18015KT P6SM SCT030
     FM261500 17014KT P6SM BKN015=



000
FTUS44 KHGX 251921 AAA
TAFGLS
TAF AMD
KGLS 251921Z 2519/2618 13016KT P6SM SCT250
     FM252100 14015G25KT P6SM VCSH FEW050 BKN250
      TEMPO 2522/2602 TSRA BKN050CB
     FM260300 18015KT P6SM SCT030
     FM261500 17014KT P6SM BKN015=



000
FTUS44 KHGX 251919
TAFLBX
TAFLBX
TAF AMD
KLBX 251919Z 2519/2618 15016G24KT P6SM VCSH SCT023 BKN028
      TEMPO 2520/2524 TSRA BKN025CB
     FM260200 15009KT P6SM SCT025
     FM261500 17014KT P6SM BKN015=



000
FTUS44 KHGX 251919 AAA
TAFLBX
TAF AMD
KLBX 251919Z 2519/2618 15016G24KT P6SM VCSH SCT023 BKN028
      TEMPO 2520/2524 TSRA BKN025CB
     FM260200 15009KT P6SM SCT025
     FM261500 17014KT P6SM BKN015=



000
FTUS44 KHGX 251919 AAA
TAFLBX
TAF AMD
KLBX 251919Z 2519/2618 15016G24KT P6SM VCSH SCT023 BKN028
      TEMPO 2520/2524 TSRA BKN025CB
     FM260200 15009KT P6SM SCT025
     FM261500 17014KT P6SM BKN015=



000
FTUS44 KHGX 251918 AAA
TAFSGR
TAF AMD
KSGR 251918Z 2519/2618 15019G27KT P6SM VCSH SCT030 BKN045
      TEMPO 2521/2601 VRB35KT TSRA BKN030CB
     FM260200 14010KT P6SM SCT025
     FM261500 17012KT P6SM BKN015=



000
FTUS44 KHGX 251918 AAA
TAFSGR
TAF AMD
KSGR 251918Z 2519/2618 15019G27KT P6SM VCSH SCT030 BKN045
      TEMPO 2521/2601 VRB35KT TSRA BKN030CB
     FM260200 14010KT P6SM SCT025
     FM261500 17012KT P6SM BKN015=



000
FTUS44 KHGX 251918
TAFSGR
TAFSGR
TAF AMD
KSGR 251918Z 2519/2618 15019G27KT P6SM VCSH SCT030 BKN045
      TEMPO 2521/2601 VRB35KT TSRA BKN030CB
     FM260200 14010KT P6SM SCT025
     FM261500 17012KT P6SM BKN015=



000
FTUS44 KHGX 251917
TAFHOU
TAFHOU
TAF AMD
KHOU 251917Z 2519/2618 15012G19KT P6SM VCSH SCT027 SCT180 BKN300
      TEMPO 2521/2601 VRB30KT TSRA BKN025CB
     FM260300 15007KT P6SM FEW025
     FM261500 17012KT P6SM BKN015=



000
FTUS44 KHGX 251917 AAA
TAFHOU
TAF AMD
KHOU 251917Z 2519/2618 15012G19KT P6SM VCSH SCT027 SCT180 BKN300
      TEMPO 2521/2601 VRB30KT TSRA BKN025CB
     FM260300 15007KT P6SM FEW025
     FM261500 17012KT P6SM BKN015=



000
FTUS44 KHGX 251917 AAA
TAFHOU
TAF AMD
KHOU 251917Z 2519/2618 15012G19KT P6SM VCSH SCT027 SCT180 BKN300
      TEMPO 2521/2601 VRB30KT TSRA BKN025CB
     FM260300 15007KT P6SM FEW025
     FM261500 17012KT P6SM BKN015=



000
FTUS44 KHGX 251916 AAA
TAFIAH
TAF AMD
KIAH 251916Z 2519/2624 16016G24KT P6SM VCSH BKN035 BKN250
      TEMPO 2521/2601 VRB35KT TSRA BKN035CB
     FM260300 13006KT P6SM BKN050
     FM260900 13007KT P6SM SCT015 BKN025
     FM261500 15011KT P6SM VCSH BKN025
     FM261800 16014KT P6SM VCTS BKN045CB=



000
FTUS44 KHGX 251916 AAA
TAFIAH
TAF AMD
KIAH 251916Z 2519/2624 16016G24KT P6SM VCSH BKN035 BKN250
      TEMPO 2521/2601 VRB35KT TSRA BKN035CB
     FM260300 13006KT P6SM BKN050
     FM260900 13007KT P6SM SCT015 BKN025
     FM261500 15011KT P6SM VCSH BKN025
     FM261800 16014KT P6SM VCTS BKN045CB=



000
FTUS44 KHGX 251914 AAA
TAFUTS
TAF AMD
KUTS 251914Z 2519/2618 16012G22KT P6SM VCTS FEW050CB FEW070 BKN250
      TEMPO 2521/2601 VRB40KT TSRA BKN035CB
     FM260300 17004KT P6SM BKN050
     FM260700 17004KT 6SM BR FEW006 BKN012
     FM261500 20010KT P6SM BKN015=



000
FTUS44 KHGX 251914
TAFUTS
TAFUTS
TAF AMD
KUTS 251914Z 2519/2618 16012G22KT P6SM VCTS FEW050CB FEW070 BKN250
      TEMPO 2521/2601 VRB40KT TSRA BKN035CB
     FM260300 17004KT P6SM BKN050
     FM260700 17004KT 6SM BR FEW006 BKN012
     FM261500 20010KT P6SM BKN015=



000
FTUS44 KHGX 251914 AAA
TAFCXO
TAF AMD
KCXO 251914Z 2519/2618 15016G25KT P6SM VCSH FEW030 SCT040 BKN100
      TEMPO 2521/2601 VRB35KT TSRA BKN035CB
     FM260300 15005KT P6SM BKN050
     FM260700 17004KT 6SM BR SCT005 BKN012
     FM261500 18010KT P6SM SCT015 BKN025=



000
FTUS44 KHGX 251912
TAFCLL
TAFCLL
TAF AMD
KCLL 251912Z 2519/2618 15016G24KT P6SM VCTS FEW040 BKN050CB BKN100
      TEMPO 2520/2524 VRB40KT TSRA BKN025CB
     FM260200 15009KT P6SM BKN050
     FM260700 17004KT 6SM BR SCT006 BKN012
     FM261500 19011KT P6SM BKN015=



000
FTUS44 KHGX 251912 AAA
TAFCLL
TAF AMD
KCLL 251912Z 2519/2618 15016G24KT P6SM VCTS FEW040 BKN050CB BKN100
      TEMPO 2520/2524 VRB40KT TSRA BKN025CB
     FM260200 15009KT P6SM BKN050
     FM260700 17004KT 6SM BR SCT006 BKN012
     FM261500 19011KT P6SM BKN015=



000
FTUS44 KHGX 251912 AAA
TAFCLL
TAF AMD
KCLL 251912Z 2519/2618 15016G24KT P6SM VCTS FEW040 BKN050CB BKN100
      TEMPO 2520/2524 VRB40KT TSRA BKN025CB
     FM260200 15009KT P6SM BKN050
     FM260700 17004KT 6SM BR SCT006 BKN012
     FM261500 19011KT P6SM BKN015=



000
FTUS44 KHGX 251720
TAFGLS
TAFGLS
TAF
KGLS 251720Z 2518/2618 14015KT P6SM VCSH SCT015 SCT029 BKN100
      TEMPO 2521/2601 VRB35KT TSRA BKN030CB
     FM260300 18015KT P6SM SCT030
     FM261500 17014KT P6SM BKN015=



000
FTUS44 KHGX 251720
TAFUTS
TAF
KUTS 251720Z 2518/2618 16010G20KT P6SM VCTS SCT025 BKN040CB
      TEMPO 2520/2524 VRB35KT TSRA BKN025CB
     FM260200 17004KT P6SM BKN050
     FM260700 17004KT 6SM BR FEW006 BKN012
     FM261500 20010KT P6SM BKN015=



000
FTUS44 KHGX 251720
TAFGLS
TAF
KGLS 251720Z 2518/2618 14015KT P6SM VCSH SCT015 SCT029 BKN100
      TEMPO 2521/2601 VRB35KT TSRA BKN030CB
     FM260300 18015KT P6SM SCT030
     FM261500 17014KT P6SM BKN015=



000
FTUS44 KHGX 251720
TAFIAH
TAF
KIAH 251720Z 2518/2624 16014G22KT P6SM VCTS SCT025 BKN035CB
      TEMPO 2519/2523 VRB30KT TSRA BKN025CB
     FM260200 13006KT P6SM BKN050
     FM260900 13007KT P6SM SCT015 BKN025
     FM261500 15011KT P6SM VCSH BKN025
     FM261800 16014KT P6SM VCTS BKN045CB=



000
FTUS44 KHGX 251720
TAFSGR
TAF
KSGR 251720Z 2518/2618 17014G22KT P6SM VCTS FEW025 BKN035CB
      TEMPO 2519/2523 VRB25KT TSRA BKN025CB
     FM260200 14006KT P6SM SCT025
     FM261500 17012KT P6SM BKN015=



000
FTUS44 KHGX 251720
TAFLBX
TAF
KLBX 251720Z 2518/2618 16014G24KT P6SM VCTS SCT025 BKN090CB
      TEMPO 2519/2523 TSRA BKN025CB
     FM260200 15009KT P6SM SCT025
     FM261500 17014KT P6SM BKN015=



000
FTUS44 KHGX 251720
TAFCXO
TAF
KCXO 251720Z 2518/2618 16015KT P6SM VCTS SCT025 BKN035CB
      TEMPO 2519/2523 VRB35KT TSRA BKN025CB
     FM260100 15005KT P6SM BKN050
     FM260700 17004KT 6SM BR SCT005 BKN012
     FM261500 18010KT P6SM SCT015 BKN025=



000
FTUS44 KHGX 251720
TAFHOU
TAF
KHOU 251720Z 2518/2618 15015G23KT P6SM VCTS SCT025 BKN035CB
      TEMPO 2519/2523 VRB30KT TSRA BKN025CB
     FM260200 15005KT P6SM FEW025
     FM261500 17012KT P6SM BKN015=



000
FTUS44 KHGX 251720
TAFCLL
TAF
KCLL 251720Z 2518/2618 16014G24KT P6SM VCTS SCT025 BKN040CB
      TEMPO 2519/2523 VRB35KT TSRA BKN025CB
     FM260200 15009KT P6SM BKN050
     FM260700 17004KT 6SM BR SCT006 BKN012
     FM261500 19011KT P6SM BKN015=



000
FTUS44 KHGX 251720
TAFLBX
TAF
KLBX 251720Z 2518/2618 16014G24KT P6SM VCTS SCT025 BKN090CB
      TEMPO 2519/2523 TSRA BKN025CB
     FM260200 15009KT P6SM SCT025
     FM261500 17014KT P6SM BKN015=



000
FTUS44 KHGX 251720
TAFGLS
TAF
KGLS 251720Z 2518/2618 14015KT P6SM VCSH SCT015 SCT029 BKN100
      TEMPO 2521/2601 VRB35KT TSRA BKN030CB
     FM260300 18015KT P6SM SCT030
     FM261500 17014KT P6SM BKN015=



000
FTUS44 KHGX 251720
TAFUTS
TAF
KUTS 251720Z 2518/2618 16010G20KT P6SM VCTS SCT025 BKN040CB
      TEMPO 2520/2524 VRB35KT TSRA BKN025CB
     FM260200 17004KT P6SM BKN050
     FM260700 17004KT 6SM BR FEW006 BKN012
     FM261500 20010KT P6SM BKN015=



000
FTUS44 KHGX 251720
TAFHOU
TAF
KHOU 251720Z 2518/2618 15015G23KT P6SM VCTS SCT025 BKN035CB
      TEMPO 2519/2523 VRB30KT TSRA BKN025CB
     FM260200 15005KT P6SM FEW025
     FM261500 17012KT P6SM BKN015=



000
FTUS44 KHGX 251720
TAFIAH
TAF
KIAH 251720Z 2518/2624 16014G22KT P6SM VCTS SCT025 BKN035CB
      TEMPO 2519/2523 VRB30KT TSRA BKN025CB
     FM260200 13006KT P6SM BKN050
     FM260900 13007KT P6SM SCT015 BKN025
     FM261500 15011KT P6SM VCSH BKN025
     FM261800 16014KT P6SM VCTS BKN045CB=



000
FTUS44 KHGX 251720
TAFCLL
TAF
KCLL 251720Z 2518/2618 16014G24KT P6SM VCTS SCT025 BKN040CB
      TEMPO 2519/2523 VRB35KT TSRA BKN025CB
     FM260200 15009KT P6SM BKN050
     FM260700 17004KT 6SM BR SCT006 BKN012
     FM261500 19011KT P6SM BKN015=



000
FTUS44 KHGX 251720
TAFSGR
TAF
KSGR 251720Z 2518/2618 17014G22KT P6SM VCTS FEW025 BKN035CB
      TEMPO 2519/2523 VRB25KT TSRA BKN025CB
     FM260200 14006KT P6SM SCT025
     FM261500 17012KT P6SM BKN015=



000
FTUS44 KHGX 251720
TAFCXO
TAF
KCXO 251720Z 2518/2618 16015KT P6SM VCTS SCT025 BKN035CB
      TEMPO 2519/2523 VRB35KT TSRA BKN025CB
     FM260100 15005KT P6SM BKN050
     FM260700 17004KT 6SM BR SCT005 BKN012
     FM261500 18010KT P6SM SCT015 BKN025=



000
FTUS44 KHGX 251607
TAFCXO
TAFCXO
TAF AMD
KCXO 251607Z 2516/2612 16014KT P6SM VCSH FEW022 SCT030 BKN035
     FM251800 16014KT 6SM TSRA BR SCT025 BKN040CB
     FM260100 15005KT P6SM BKN050
     FM260700 17004KT 6SM BR SCT005 BKN012=



000
FTUS44 KHGX 251607 AAC
TAFCXO
TAF AMD
KCXO 251607Z 2516/2612 16014KT P6SM VCSH FEW022 SCT030 BKN035
     FM251800 16014KT 6SM TSRA BR SCT025 BKN040CB
     FM260100 15005KT P6SM BKN050
     FM260700 17004KT 6SM BR SCT005 BKN012=



000
FTUS44 KHGX 251607 AAC
TAFCXO
TAF AMD
KCXO 251607Z 2516/2612 16014KT P6SM VCSH FEW022 SCT030 BKN035
     FM251800 16014KT 6SM TSRA BR SCT025 BKN040CB
     FM260100 15005KT P6SM BKN050
     FM260700 17004KT 6SM BR SCT005 BKN012=



000
FTUS44 KHGX 251607
TAFCXO
TAFCXO
TAF AMD
KCXO 251607Z 2516/2612 16014KT P6SM VCSH FEW022 SCT030 BKN035
     FM251800 16014KT 6SM TSRA BR SCT025 BKN040CB
     FM260100 15005KT P6SM BKN050
     FM260700 17004KT 6SM BR SCT005 BKN012=



000
FTUS44 KHGX 251607 AAC
TAFCXO
TAF AMD
KCXO 251607Z 2516/2612 16014KT P6SM VCSH FEW022 SCT030 BKN035
     FM251800 16014KT 6SM TSRA BR SCT025 BKN040CB
     FM260100 15005KT P6SM BKN050
     FM260700 17004KT 6SM BR SCT005 BKN012=



000
FTUS44 KHGX 251606
TAFLBX
TAFLBX
TAF AMD
KLBX 251606Z 2516/2612 16014G24KT P6SM VCSH BKN021 BKN028 OVC090
     FM251800 15014G24KT P6SM VCTS SCT030CB BKN250
      TEMPO 2519/2523 TSRA BKN030CB
     FM260200 15009KT P6SM SCT030=



000
FTUS44 KHGX 251606 AAB
TAFLBX
TAF AMD
KLBX 251606Z 2516/2612 16014G24KT P6SM VCSH BKN021 BKN028 OVC090
     FM251800 15014G24KT P6SM VCTS SCT030CB BKN250
      TEMPO 2519/2523 TSRA BKN030CB
     FM260200 15009KT P6SM SCT030=



000
FTUS44 KHGX 251606 AAB
TAFLBX
TAF AMD
KLBX 251606Z 2516/2612 16014G24KT P6SM VCSH BKN021 BKN028 OVC090
     FM251800 15014G24KT P6SM VCTS SCT030CB BKN250
      TEMPO 2519/2523 TSRA BKN030CB
     FM260200 15009KT P6SM SCT030=



000
FTUS44 KHGX 251606 AAB
TAFHOU
TAF AMD
KHOU 251606Z 2516/2612 15014G22KT P6SM VCSH SCT020 SCT250
     FM251800 16014G22KT P6SM VCTS BKN040CB
      TEMPO 2519/2523 VRB10G30KT TSRA
     FM260200 15005KT P6SM SCT030=



000
FTUS44 KHGX 251606 AAB
TAFHOU
TAF AMD
KHOU 251606Z 2516/2612 15014G22KT P6SM VCSH SCT020 SCT250
     FM251800 16014G22KT P6SM VCTS BKN040CB
      TEMPO 2519/2523 VRB10G30KT TSRA
     FM260200 15005KT P6SM SCT030=



000
FTUS44 KHGX 251606
TAFHOU
TAFHOU
TAF AMD
KHOU 251606Z 2516/2612 15014G22KT P6SM VCSH SCT020 SCT250
     FM251800 16014G22KT P6SM VCTS BKN040CB
      TEMPO 2519/2523 VRB10G30KT TSRA
     FM260200 15005KT P6SM SCT030=



000
FTUS44 KHGX 251606
TAFHOU
TAFHOU
TAF AMD
KHOU 251606Z 2516/2612 15014G22KT P6SM VCSH SCT020 SCT250
     FM251800 16014G22KT P6SM VCTS BKN040CB
      TEMPO 2519/2523 VRB10G30KT TSRA
     FM260200 15005KT P6SM SCT030=



000
FTUS44 KHGX 251605 AAC
TAFUTS
TAF AMD
KUTS 251605Z 2516/2612 16009G19KT P6SM BKN021
     FM251800 17010KT P6SM VCTS SCT025 BKN040CB
      TEMPO 2520/2524 VRB15G35KT TSRA BKN025 OVC035CB
     FM260200 17004KT P6SM BKN050
     FM260700 17004KT 6SM BR BKN012=



000
FTUS44 KHGX 251605
TAFUTS
TAFUTS
TAF AMD
KUTS 251605Z 2516/2612 16009G19KT P6SM BKN021
     FM251800 17010KT P6SM VCTS SCT025 BKN040CB
      TEMPO 2520/2524 VRB15G35KT TSRA BKN025 OVC035CB
     FM260200 17004KT P6SM BKN050
     FM260700 17004KT 6SM BR BKN012=



000
FTUS44 KHGX 251603 AAC
TAFCLL
TAF AMD
KCLL 251603Z 2516/2612 16018G23KT P6SM BKN021 OVC028
     FM251700 16013G21KT P6SM VCTS SCT025 BKN040CB
      TEMPO 2519/2523 VRB10G30KT TSRA
     FM260200 15009KT P6SM BKN050
     FM260700 17004KT 6SM BR BKN012=



000
FTUS44 KHGX 251603
TAFCLL
TAFCLL
TAF AMD
KCLL 251603Z 2516/2612 16018G23KT P6SM BKN021 OVC028
     FM251700 16013G21KT P6SM VCTS SCT025 BKN040CB
      TEMPO 2519/2523 VRB10G30KT TSRA
     FM260200 15009KT P6SM BKN050
     FM260700 17004KT 6SM BR BKN012=



000
FTUS44 KHGX 251603 AAC
TAFCLL
TAF AMD
KCLL 251603Z 2516/2612 16018G23KT P6SM BKN021 OVC028
     FM251700 16013G21KT P6SM VCTS SCT025 BKN040CB
      TEMPO 2519/2523 VRB10G30KT TSRA
     FM260200 15009KT P6SM BKN050
     FM260700 17004KT 6SM BR BKN012=



000
FTUS44 KHGX 251535 AAA
TAFSGR
TAF AMD
KSGR 251535Z 2516/2612 17013G20KT P6SM VCSH FEW025 SCT035
     FM251800 15012KT P6SM VCTS SCT025 BKN040CB
      TEMPO 2519/2523 VRB10G25KT TSRA
     FM260200 14006KT P6SM SCT030=



000
FTUS44 KHGX 251535 AAA
TAFSGR
TAF AMD
KSGR 251535Z 2516/2612 17013G20KT P6SM VCSH FEW025 SCT035
     FM251800 15012KT P6SM VCTS SCT025 BKN040CB
      TEMPO 2519/2523 VRB10G25KT TSRA
     FM260200 14006KT P6SM SCT030=



000
FTUS44 KHGX 251512 AAA
TAFLBX
TAF AMD
KLBX 251512Z 2515/2612 16014G21KT P6SM VCSH FEW021 SCT028 BKN080
     FM251800 15013G20KT P6SM VCTS SCT030CB BKN250
      TEMPO 2519/2523 VRB10G25KT TSRA BKN030CB
     FM260200 15009KT P6SM SCT030=



000
FTUS44 KHGX 251512
TAFHOU
TAFHOU
TAF AMD
KHOU 251512Z 2515/2612 17009KT P6SM VCSH SCT015 SCT025 SCT250
     FM251800 16012G19KT P6SM VCTS BKN040CB
      TEMPO 2519/2523 VRB10G30KT TSRA
     FM260200 15005KT P6SM SCT030=



000
FTUS44 KHGX 251512
TAFLBX
TAFLBX
TAF AMD
KLBX 251512Z 2515/2612 16014G21KT P6SM VCSH FEW021 SCT028 BKN080
     FM251800 15013G20KT P6SM VCTS SCT030CB BKN250
      TEMPO 2519/2523 VRB10G25KT TSRA BKN030CB
     FM260200 15009KT P6SM SCT030=



000
FTUS44 KHGX 251512
TAFGLS
TAFGLS
TAF AMD
KGLS 251512Z 2515/2612 14011KT P6SM FEW014 BKN025 BKN030
     FM251800 15016KT P6SM VCSH SCT029 BKN250
      TEMPO 2521/2601 VRB15G35KT TSRA BKN030CB
     FM260300 18015KT P6SM SCT030=



000
FTUS44 KHGX 251512 AAA
TAFHOU
TAF AMD
KHOU 251512Z 2515/2612 17009KT P6SM VCSH SCT015 SCT025 SCT250
     FM251800 16012G19KT P6SM VCTS BKN040CB
      TEMPO 2519/2523 VRB10G30KT TSRA
     FM260200 15005KT P6SM SCT030=



000
FTUS44 KHGX 251512 AAB
TAFGLS
TAF AMD
KGLS 251512Z 2515/2612 14011KT P6SM FEW014 BKN025 BKN030
     FM251800 15016KT P6SM VCSH SCT029 BKN250
      TEMPO 2521/2601 VRB15G35KT TSRA BKN030CB
     FM260300 18015KT P6SM SCT030=



000
FTUS44 KHGX 251511 AAA
TAFIAH
TAF AMD
KIAH 251511Z 2515/2618 17009KT P6SM BKN019
     FM251600 16012G18KT P6SM VCSH BKN025
     FM251800 16012G18KT P6SM VCTS BKN040CB
      TEMPO 2519/2523 VRB10G30KT TSRA
     FM260200 13006KT P6SM BKN050
     FM260900 13007KT P6SM SCT015 BKN025
     FM261500 15011KT P6SM VCSH BKN030=



000
FTUS44 KHGX 251511 AAA
TAFIAH
TAF AMD
KIAH 251511Z 2515/2618 17009KT P6SM BKN019
     FM251600 16012G18KT P6SM VCSH BKN025
     FM251800 16012G18KT P6SM VCTS BKN040CB
      TEMPO 2519/2523 VRB10G30KT TSRA
     FM260200 13006KT P6SM BKN050
     FM260900 13007KT P6SM SCT015 BKN025
     FM261500 15011KT P6SM VCSH BKN030=



000
FTUS44 KHGX 251511
TAFIAH
TAFIAH
TAF AMD
KIAH 251511Z 2515/2618 17009KT P6SM BKN019
     FM251600 16012G18KT P6SM VCSH BKN025
     FM251800 16012G18KT P6SM VCTS BKN040CB
      TEMPO 2519/2523 VRB10G30KT TSRA
     FM260200 13006KT P6SM BKN050
     FM260900 13007KT P6SM SCT015 BKN025
     FM261500 15011KT P6SM VCSH BKN030=



000
FTUS44 KHGX 251443 AAB
TAFUTS
TAF AMD
KUTS 251443Z 2515/2612 17009KT P6SM OVC015
     FM251800 17010KT P6SM VCTS SCT025 BKN040CB
      TEMPO 2520/2524 VRB15G35KT TSRA BKN025 OVC035CB
     FM260200 17004KT P6SM BKN050
     FM260700 17004KT 6SM BR BKN012=



000
FTUS44 KHGX 251443 AAB
TAFUTS
TAF AMD
KUTS 251443Z 2515/2612 17009KT P6SM OVC015
     FM251800 17010KT P6SM VCTS SCT025 BKN040CB
      TEMPO 2520/2524 VRB15G35KT TSRA BKN025 OVC035CB
     FM260200 17004KT P6SM BKN050
     FM260700 17004KT 6SM BR BKN012=



000
FTUS44 KHGX 251443 AAB
TAFUTS
TAF AMD
KUTS 251443Z 2515/2612 17009KT P6SM OVC015
     FM251800 17010KT P6SM VCTS SCT025 BKN040CB
      TEMPO 2520/2524 VRB15G35KT TSRA BKN025 OVC035CB
     FM260200 17004KT P6SM BKN050
     FM260700 17004KT 6SM BR BKN012=



000
FTUS44 KHGX 251443 AAB
TAFUTS
TAF AMD
KUTS 251443Z 2515/2612 17009KT P6SM OVC015
     FM251800 17010KT P6SM VCTS SCT025 BKN040CB
      TEMPO 2520/2524 VRB15G35KT TSRA BKN025 OVC035CB
     FM260200 17004KT P6SM BKN050
     FM260700 17004KT 6SM BR BKN012=



000
FTUS44 KHGX 251443 AAB
TAFCLL
TAF AMD
KCLL 251443Z 2515/2612 17014KT P6SM OVC010
      TEMPO 2515/2517 SCT015 BKN025
     FM251700 16013G21KT P6SM VCTS SCT025 BKN040CB
      TEMPO 2519/2523 VRB10G30KT TSRA
     FM260200 15009KT P6SM BKN050
     FM260700 17004KT 6SM BR BKN012=



000
FTUS44 KHGX 251443 AAB
TAFCLL
TAF AMD
KCLL 251443Z 2515/2612 17014KT P6SM OVC010
      TEMPO 2515/2517 SCT015 BKN025
     FM251700 16013G21KT P6SM VCTS SCT025 BKN040CB
      TEMPO 2519/2523 VRB10G30KT TSRA
     FM260200 15009KT P6SM BKN050
     FM260700 17004KT 6SM BR BKN012=



000
FTUS44 KHGX 251443 AAB
TAFCLL
TAF AMD
KCLL 251443Z 2515/2612 17014KT P6SM OVC010
      TEMPO 2515/2517 SCT015 BKN025
     FM251700 16013G21KT P6SM VCTS SCT025 BKN040CB
      TEMPO 2519/2523 VRB10G30KT TSRA
     FM260200 15009KT P6SM BKN050
     FM260700 17004KT 6SM BR BKN012=



000
FTUS44 KHGX 251443
TAFCXO
TAFCXO
TAF AMD
KCXO 251443Z 2515/2612 15011KT P6SM OVC010
     FM251600 16009KT P6SM VCSH BKN025
     FM251800 16010KT 6SM TSRA BR SCT025 BKN040CB
     FM260100 15005KT P6SM BKN050
     FM260700 17004KT 6SM BR BKN012
      TEMPO 2609/2612 2SM BR OVC005=



000
FTUS44 KHGX 251443
TAFUTS
TAFUTS
TAF AMD
KUTS 251443Z 2515/2612 17009KT P6SM OVC015
     FM251800 17010KT P6SM VCTS SCT025 BKN040CB
      TEMPO 2520/2524 VRB15G35KT TSRA BKN025 OVC035CB
     FM260200 17004KT P6SM BKN050
     FM260700 17004KT 6SM BR BKN012=



000
FTUS44 KHGX 251443
TAFCLL
TAFCLL
TAF AMD
KCLL 251443Z 2515/2612 17014KT P6SM OVC010
      TEMPO 2515/2517 SCT015 BKN025
     FM251700 16013G21KT P6SM VCTS SCT025 BKN040CB
      TEMPO 2519/2523 VRB10G30KT TSRA
     FM260200 15009KT P6SM BKN050
     FM260700 17004KT 6SM BR BKN012=



000
FTUS44 KHGX 251443 AAB
TAFCXO
TAF AMD
KCXO 251443Z 2515/2612 15011KT P6SM OVC010
     FM251600 16009KT P6SM VCSH BKN025
     FM251800 16010KT 6SM TSRA BR SCT025 BKN040CB
     FM260100 15005KT P6SM BKN050
     FM260700 17004KT 6SM BR BKN012
      TEMPO 2609/2612 2SM BR OVC005=



000
FTUS44 KHGX 251443 AAB
TAFCXO
TAF AMD
KCXO 251443Z 2515/2612 15011KT P6SM OVC010
     FM251600 16009KT P6SM VCSH BKN025
     FM251800 16010KT 6SM TSRA BR SCT025 BKN040CB
     FM260100 15005KT P6SM BKN050
     FM260700 17004KT 6SM BR BKN012
      TEMPO 2609/2612 2SM BR OVC005=



000
FTUS44 KHGX 251230
TAFGLS
TAFGLS
TAF AMD
KGLS 251230Z 2513/2612 15013KT P6SM FEW080 SCT250
      TEMPO 2513/2514 SCT020 BKN027
     FM251500 15016KT P6SM SCT025
     FM251800 15016KT P6SM VCSH SCT029 BKN250
      TEMPO 2521/2601 VRB15G35KT TSRA BKN030CB
     FM260300 18015KT P6SM SCT030=



000
FTUS44 KHGX 251230
TAFGLS
TAFGLS
TAF AMD
KGLS 251230Z 2513/2612 15013KT P6SM FEW080 SCT250
      TEMPO 2513/2514 SCT020 BKN027
     FM251500 15016KT P6SM SCT025
     FM251800 15016KT P6SM VCSH SCT029 BKN250
      TEMPO 2521/2601 VRB15G35KT TSRA BKN030CB
     FM260300 18015KT P6SM SCT030=



000
FTUS44 KHGX 251230 AAA
TAFGLS
TAF AMD
KGLS 251230Z 2513/2612 15013KT P6SM FEW080 SCT250
      TEMPO 2513/2514 SCT020 BKN027
     FM251500 15016KT P6SM SCT025
     FM251800 15016KT P6SM VCSH SCT029 BKN250
      TEMPO 2521/2601 VRB15G35KT TSRA BKN030CB
     FM260300 18015KT P6SM SCT030=



000
FTUS44 KHGX 251230 AAA
TAFGLS
TAF AMD
KGLS 251230Z 2513/2612 15013KT P6SM FEW080 SCT250
      TEMPO 2513/2514 SCT020 BKN027
     FM251500 15016KT P6SM SCT025
     FM251800 15016KT P6SM VCSH SCT029 BKN250
      TEMPO 2521/2601 VRB15G35KT TSRA BKN030CB
     FM260300 18015KT P6SM SCT030=



000
FTUS44 KHGX 251230 AAA
TAFGLS
TAF AMD
KGLS 251230Z 2513/2612 15013KT P6SM FEW080 SCT250
      TEMPO 2513/2514 SCT020 BKN027
     FM251500 15016KT P6SM SCT025
     FM251800 15016KT P6SM VCSH SCT029 BKN250
      TEMPO 2521/2601 VRB15G35KT TSRA BKN030CB
     FM260300 18015KT P6SM SCT030=



000
FTUS44 KHGX 251229 AAA
TAFCLL
TAF AMD
KCLL 251229Z 2512/2612 17009KT P6SM OVC012
      TEMPO 2513/2514 OVC006
     FM251400 16011KT P6SM SCT015 BKN025
     FM251500 16012KT P6SM VCSH BKN025
     FM251700 16013G21KT P6SM VCTS BKN040CB
      TEMPO 2519/2523 VRB10G30KT TSRA
     FM260200 15009KT P6SM BKN050
     FM260700 17004KT 6SM BR BKN012=



000
FTUS44 KHGX 251229 AAA
TAFCLL
TAF AMD
KCLL 251229Z 2512/2612 17009KT P6SM OVC012
      TEMPO 2513/2514 OVC006
     FM251400 16011KT P6SM SCT015 BKN025
     FM251500 16012KT P6SM VCSH BKN025
     FM251700 16013G21KT P6SM VCTS BKN040CB
      TEMPO 2519/2523 VRB10G30KT TSRA
     FM260200 15009KT P6SM BKN050
     FM260700 17004KT 6SM BR BKN012=



000
FTUS44 KHGX 251229
TAFCLL
TAFCLL
TAF AMD
KCLL 251229Z 2512/2612 17009KT P6SM OVC012
      TEMPO 2513/2514 OVC006
     FM251400 16011KT P6SM SCT015 BKN025
     FM251500 16012KT P6SM VCSH BKN025
     FM251700 16013G21KT P6SM VCTS BKN040CB
      TEMPO 2519/2523 VRB10G30KT TSRA
     FM260200 15009KT P6SM BKN050
     FM260700 17004KT 6SM BR BKN012=



000
FTUS44 KHGX 251229
TAFCLL
TAFCLL
TAF AMD
KCLL 251229Z 2512/2612 17009KT P6SM OVC012
      TEMPO 2513/2514 OVC006
     FM251400 16011KT P6SM SCT015 BKN025
     FM251500 16012KT P6SM VCSH BKN025
     FM251700 16013G21KT P6SM VCTS BKN040CB
      TEMPO 2519/2523 VRB10G30KT TSRA
     FM260200 15009KT P6SM BKN050
     FM260700 17004KT 6SM BR BKN012=



000
FTUS44 KHGX 251229 AAA
TAFCLL
TAF AMD
KCLL 251229Z 2512/2612 17009KT P6SM OVC012
      TEMPO 2513/2514 OVC006
     FM251400 16011KT P6SM SCT015 BKN025
     FM251500 16012KT P6SM VCSH BKN025
     FM251700 16013G21KT P6SM VCTS BKN040CB
      TEMPO 2519/2523 VRB10G30KT TSRA
     FM260200 15009KT P6SM BKN050
     FM260700 17004KT 6SM BR BKN012=



000
FTUS44 KHGX 251229 AAA
TAFCLL
TAF AMD
KCLL 251229Z 2512/2612 17009KT P6SM OVC012
      TEMPO 2513/2514 OVC006
     FM251400 16011KT P6SM SCT015 BKN025
     FM251500 16012KT P6SM VCSH BKN025
     FM251700 16013G21KT P6SM VCTS BKN040CB
      TEMPO 2519/2523 VRB10G30KT TSRA
     FM260200 15009KT P6SM BKN050
     FM260700 17004KT 6SM BR BKN012=



000
FTUS44 KHGX 251228 AAA
TAFUTS
TAF AMD
KUTS 251228Z 2512/2612 16007KT P6SM FEW015 SCT080 SCT100
     FM251400 17007KT P6SM SCT015 BKN025
     FM251500 17007KT P6SM BKN025
     FM251800 17010KT P6SM VCTS SCT025 BKN040CB
      TEMPO 2520/2524 VRB15G35KT TSRA BKN025 OVC035CB
     FM260200 17004KT P6SM BKN050
     FM260700 17004KT 6SM BR BKN012=



000
FTUS44 KHGX 251228 AAA
TAFUTS
TAF AMD
KUTS 251228Z 2512/2612 16007KT P6SM FEW015 SCT080 SCT100
     FM251400 17007KT P6SM SCT015 BKN025
     FM251500 17007KT P6SM BKN025
     FM251800 17010KT P6SM VCTS SCT025 BKN040CB
      TEMPO 2520/2524 VRB15G35KT TSRA BKN025 OVC035CB
     FM260200 17004KT P6SM BKN050
     FM260700 17004KT 6SM BR BKN012=



000
FTUS44 KHGX 251228
TAFUTS
TAFUTS
TAF AMD
KUTS 251228Z 2512/2612 16007KT P6SM FEW015 SCT080 SCT100
     FM251400 17007KT P6SM SCT015 BKN025
     FM251500 17007KT P6SM BKN025
     FM251800 17010KT P6SM VCTS SCT025 BKN040CB
      TEMPO 2520/2524 VRB15G35KT TSRA BKN025 OVC035CB
     FM260200 17004KT P6SM BKN050
     FM260700 17004KT 6SM BR BKN012=



000
FTUS44 KHGX 251228 AAA
TAFUTS
TAF AMD
KUTS 251228Z 2512/2612 16007KT P6SM FEW015 SCT080 SCT100
     FM251400 17007KT P6SM SCT015 BKN025
     FM251500 17007KT P6SM BKN025
     FM251800 17010KT P6SM VCTS SCT025 BKN040CB
      TEMPO 2520/2524 VRB15G35KT TSRA BKN025 OVC035CB
     FM260200 17004KT P6SM BKN050
     FM260700 17004KT 6SM BR BKN012=



000
FTUS44 KHGX 251228
TAFUTS
TAFUTS
TAF AMD
KUTS 251228Z 2512/2612 16007KT P6SM FEW015 SCT080 SCT100
     FM251400 17007KT P6SM SCT015 BKN025
     FM251500 17007KT P6SM BKN025
     FM251800 17010KT P6SM VCTS SCT025 BKN040CB
      TEMPO 2520/2524 VRB15G35KT TSRA BKN025 OVC035CB
     FM260200 17004KT P6SM BKN050
     FM260700 17004KT 6SM BR BKN012=



000
FTUS44 KHGX 251227 AAA
TAFCXO
TAF AMD
KCXO 251227Z 2512/2612 14004KT P6SM SCT002
      TEMPO 2513/2514 SCT005 BKN010
     FM251400 15005KT P6SM SCT015 BKN025
     FM251600 16009KT P6SM VCSH BKN025
     FM251800 16010KT 6SM TSRA BR SCT025 BKN040CB
     FM260100 15005KT P6SM BKN050
     FM260700 17004KT 6SM BR BKN012
      TEMPO 2609/2612 2SM BR OVC005=



000
FTUS44 KHGX 251227 AAA
TAFCXO
TAF AMD
KCXO 251227Z 2512/2612 14004KT P6SM SCT002
      TEMPO 2513/2514 SCT005 BKN010
     FM251400 15005KT P6SM SCT015 BKN025
     FM251600 16009KT P6SM VCSH BKN025
     FM251800 16010KT 6SM TSRA BR SCT025 BKN040CB
     FM260100 15005KT P6SM BKN050
     FM260700 17004KT 6SM BR BKN012
      TEMPO 2609/2612 2SM BR OVC005=



000
FTUS44 KHGX 251227
TAFCXO
TAFCXO
TAF AMD
KCXO 251227Z 2512/2612 14004KT P6SM SCT002
      TEMPO 2513/2514 SCT005 BKN010
     FM251400 15005KT P6SM SCT015 BKN025
     FM251600 16009KT P6SM VCSH BKN025
     FM251800 16010KT 6SM TSRA BR SCT025 BKN040CB
     FM260100 15005KT P6SM BKN050
     FM260700 17004KT 6SM BR BKN012
      TEMPO 2609/2612 2SM BR OVC005=



000
FTUS44 KHGX 251227 AAA
TAFCXO
TAF AMD
KCXO 251227Z 2512/2612 14004KT P6SM SCT002
      TEMPO 2513/2514 SCT005 BKN010
     FM251400 15005KT P6SM SCT015 BKN025
     FM251600 16009KT P6SM VCSH BKN025
     FM251800 16010KT 6SM TSRA BR SCT025 BKN040CB
     FM260100 15005KT P6SM BKN050
     FM260700 17004KT 6SM BR BKN012
      TEMPO 2609/2612 2SM BR OVC005=



000
FTUS44 KHGX 251227
TAFCXO
TAFCXO
TAF AMD
KCXO 251227Z 2512/2612 14004KT P6SM SCT002
      TEMPO 2513/2514 SCT005 BKN010
     FM251400 15005KT P6SM SCT015 BKN025
     FM251600 16009KT P6SM VCSH BKN025
     FM251800 16010KT 6SM TSRA BR SCT025 BKN040CB
     FM260100 15005KT P6SM BKN050
     FM260700 17004KT 6SM BR BKN012
      TEMPO 2609/2612 2SM BR OVC005=



000
FTUS44 KHGX 251227 AAA
TAFCXO
TAF AMD
KCXO 251227Z 2512/2612 14004KT P6SM SCT002
      TEMPO 2513/2514 SCT005 BKN010
     FM251400 15005KT P6SM SCT015 BKN025
     FM251600 16009KT P6SM VCSH BKN025
     FM251800 16010KT 6SM TSRA BR SCT025 BKN040CB
     FM260100 15005KT P6SM BKN050
     FM260700 17004KT 6SM BR BKN012
      TEMPO 2609/2612 2SM BR OVC005=



000
FTUS44 KHGX 251159
TAFCXO
TAF
KCXO 251159Z 2512/2612 15004KT P6SM BKN002
      TEMPO 2513/2514 5SM BR SCT005 BKN010
     FM251400 15005KT P6SM SCT015 BKN025
     FM251600 16009KT P6SM VCSH BKN025
     FM251800 16010KT 6SM TSRA BR SCT025 BKN040CB
     FM260100 15005KT P6SM BKN050
     FM260700 17004KT 6SM BR BKN012
      TEMPO 2609/2612 2SM BR OVC005=



000
FTUS44 KHGX 251159
TAFCXO
TAFCXO
TAF
KCXO 251159Z 2512/2612 15004KT P6SM BKN002
      TEMPO 2513/2514 5SM BR SCT005 BKN010
     FM251400 15005KT P6SM SCT015 BKN025
     FM251600 16009KT P6SM VCSH BKN025
     FM251800 16010KT 6SM TSRA BR SCT025 BKN040CB
     FM260100 15005KT P6SM BKN050
     FM260700 17004KT 6SM BR BKN012
      TEMPO 2609/2612 2SM BR OVC005=



000
FTUS44 KHGX 251159
TAFCXO
TAF
KCXO 251159Z 2512/2612 15004KT P6SM BKN002
      TEMPO 2513/2514 5SM BR SCT005 BKN010
     FM251400 15005KT P6SM SCT015 BKN025
     FM251600 16009KT P6SM VCSH BKN025
     FM251800 16010KT 6SM TSRA BR SCT025 BKN040CB
     FM260100 15005KT P6SM BKN050
     FM260700 17004KT 6SM BR BKN012
      TEMPO 2609/2612 2SM BR OVC005=



000
FTUS44 KHGX 251159
TAFCXO
TAF
KCXO 251159Z 2512/2612 15004KT P6SM BKN002
      TEMPO 2513/2514 5SM BR SCT005 BKN010
     FM251400 15005KT P6SM SCT015 BKN025
     FM251600 16009KT P6SM VCSH BKN025
     FM251800 16010KT 6SM TSRA BR SCT025 BKN040CB
     FM260100 15005KT P6SM BKN050
     FM260700 17004KT 6SM BR BKN012
      TEMPO 2609/2612 2SM BR OVC005=



000
FTUS44 KHGX 251159
TAFCXO
TAF
KCXO 251159Z 2512/2612 15004KT P6SM BKN002
      TEMPO 2513/2514 5SM BR SCT005 BKN010
     FM251400 15005KT P6SM SCT015 BKN025
     FM251600 16009KT P6SM VCSH BKN025
     FM251800 16010KT 6SM TSRA BR SCT025 BKN040CB
     FM260100 15005KT P6SM BKN050
     FM260700 17004KT 6SM BR BKN012
      TEMPO 2609/2612 2SM BR OVC005=



000
FTUS44 KHGX 251159
TAFCXO
TAFCXO
TAF
KCXO 251159Z 2512/2612 15004KT P6SM BKN002
      TEMPO 2513/2514 5SM BR SCT005 BKN010
     FM251400 15005KT P6SM SCT015 BKN025
     FM251600 16009KT P6SM VCSH BKN025
     FM251800 16010KT 6SM TSRA BR SCT025 BKN040CB
     FM260100 15005KT P6SM BKN050
     FM260700 17004KT 6SM BR BKN012
      TEMPO 2609/2612 2SM BR OVC005=



000
FTUS44 KHGX 251130
TAFCXO
TAF
KCXO 251130Z 2512/2612 00000KT 1/2SM FG OVC002
      TEMPO 2513/2514 5SM BR SCT005 BKN010
     FM251400 15005KT P6SM SCT015 BKN025
     FM251600 16009KT P6SM VCSH BKN025
     FM251800 16010KT 6SM TSRA BR SCT025 BKN040CB
     FM260100 15005KT P6SM BKN050
     FM260700 17004KT 6SM BR BKN012
      TEMPO 2609/2612 2SM BR OVC005=



000
FTUS44 KHGX 251130
TAFUTS
TAF
KUTS 251130Z 2512/2612 16005KT P6SM BKN250
      TEMPO 2512/2513 BKN011
     FM251300 17006KT P6SM SCT015 BKN025
     FM251500 17007KT P6SM BKN025
     FM251800 17010KT P6SM VCTS SCT025 BKN040CB
      TEMPO 2520/2524 VRB15G35KT TSRA BKN025 OVC035CB
     FM260200 17004KT P6SM BKN050
     FM260700 17004KT 6SM BR BKN012=



000
FTUS44 KHGX 251130
TAFCLL
TAF
KCLL 251130Z 2512/2612 17009KT P6SM OVC006
      TEMPO 2512/2513 OVC006
     FM251300 16011KT P6SM SCT015 BKN025
     FM251500 16012KT P6SM VCSH BKN025
     FM251700 16013G21KT P6SM VCTS BKN040CB
      TEMPO 2519/2523 VRB10G30KT TSRA
     FM260200 15009KT P6SM BKN050
     FM260700 17004KT 6SM BR BKN012=



000
FTUS44 KHGX 251130
TAFLBX
TAF
KLBX 251130Z 2512/2612 14003KT P6SM SCT023 BKN030
     FM251300 15009KT P6SM BKN025
     FM251500 15012KT P6SM VCSH BKN027
     FM251800 15013G20KT P6SM VCTS SCT030CB BKN250
      TEMPO 2519/2523 VRB10G25KT TSRA BKN030CB
     FM260200 15009KT P6SM SCT030=



000
FTUS44 KHGX 251130
TAFIAH
TAF
KIAH 251130Z 2512/2618 13003KT P6SM FEW020 OVC250
      TEMPO 2512/2513 BKN021
     FM251300 15008KT P6SM SCT015 BKN025
     FM251600 16012G18KT P6SM VCSH BKN030
     FM251800 16012G18KT P6SM VCTS BKN040CB
      TEMPO 2519/2523 VRB10G30KT TSRA
     FM260200 13006KT P6SM BKN050
     FM260900 13007KT P6SM SCT015 BKN025
     FM261500 15011KT P6SM VCSH BKN030=



000
FTUS44 KHGX 251130
TAFGLS
TAF
KGLS 251130Z 2512/2612 15013KT P6SM FEW080 SCT250
      TEMPO 2512/2513 BKN015
     FM251500 15016KT P6SM SCT025
     FM251800 15016KT P6SM VCSH SCT029 BKN250
      TEMPO 2521/2601 VRB15G35KT TSRA BKN030CB
     FM260300 18015KT P6SM SCT030=



000
FTUS44 KHGX 251130
TAFSGR
TAF
KSGR 251130Z 2512/2612 15006KT P6SM FEW090 BKN250
     FM251300 15008KT P6SM SCT025
     FM251500 15011KT P6SM VCSH BKN027
     FM251800 15012KT P6SM VCTS SCT025 BKN040CB
      TEMPO 2519/2523 VRB10G25KT TSRA
     FM260200 14006KT P6SM SCT030=



000
FTUS44 KHGX 251130
TAFHOU
TAF
KHOU 251130Z 2512/2612 11003KT P6SM FEW090 BKN250
      TEMPO 2512/2513 BKN021
     FM251300 15007KT P6SM SCT015 BKN025
     FM251500 15012G19KT P6SM VCSH BKN030
     FM251800 16012G19KT P6SM VCTS BKN040CB
      TEMPO 2519/2523 VRB10G30KT TSRA
     FM260200 15005KT P6SM SCT030=



000
FTUS44 KHGX 251130
TAFHOU
TAFHOU
TAF
KHOU 251130Z 2512/2612 11003KT P6SM FEW090 BKN250
      TEMPO 2512/2513 BKN021
     FM251300 15007KT P6SM SCT015 BKN025
     FM251500 15012G19KT P6SM VCSH BKN030
     FM251800 16012G19KT P6SM VCTS BKN040CB
      TEMPO 2519/2523 VRB10G30KT TSRA
     FM260200 15005KT P6SM SCT030=



000
FTUS44 KHGX 251130
TAFCXO
TAFCXO
TAF
KCXO 251130Z 2512/2612 00000KT 1/2SM FG OVC002
      TEMPO 2513/2514 5SM BR SCT005 BKN010
     FM251400 15005KT P6SM SCT015 BKN025
     FM251600 16009KT P6SM VCSH BKN025
     FM251800 16010KT 6SM TSRA BR SCT025 BKN040CB
     FM260100 15005KT P6SM BKN050
     FM260700 17004KT 6SM BR BKN012
      TEMPO 2609/2612 2SM BR OVC005=



000
FTUS44 KHGX 251130
TAFUTS
TAFUTS
TAF
KUTS 251130Z 2512/2612 16005KT P6SM BKN250
      TEMPO 2512/2513 BKN011
     FM251300 17006KT P6SM SCT015 BKN025
     FM251500 17007KT P6SM BKN025
     FM251800 17010KT P6SM VCTS SCT025 BKN040CB
      TEMPO 2520/2524 VRB15G35KT TSRA BKN025 OVC035CB
     FM260200 17004KT P6SM BKN050
     FM260700 17004KT 6SM BR BKN012=



000
FTUS44 KHGX 251130
TAFLBX
TAFLBX
TAF
KLBX 251130Z 2512/2612 14003KT P6SM SCT023 BKN030
     FM251300 15009KT P6SM BKN025
     FM251500 15012KT P6SM VCSH BKN027
     FM251800 15013G20KT P6SM VCTS SCT030CB BKN250
      TEMPO 2519/2523 VRB10G25KT TSRA BKN030CB
     FM260200 15009KT P6SM SCT030=



000
FTUS44 KHGX 251130
TAFCLL
TAF
KCLL 251130Z 2512/2612 17009KT P6SM OVC006
      TEMPO 2512/2513 OVC006
     FM251300 16011KT P6SM SCT015 BKN025
     FM251500 16012KT P6SM VCSH BKN025
     FM251700 16013G21KT P6SM VCTS BKN040CB
      TEMPO 2519/2523 VRB10G30KT TSRA
     FM260200 15009KT P6SM BKN050
     FM260700 17004KT 6SM BR BKN012=



000
FTUS44 KHGX 251130
TAFIAH
TAFIAH
TAF
KIAH 251130Z 2512/2618 13003KT P6SM FEW020 OVC250
      TEMPO 2512/2513 BKN021
     FM251300 15008KT P6SM SCT015 BKN025
     FM251600 16012G18KT P6SM VCSH BKN030
     FM251800 16012G18KT P6SM VCTS BKN040CB
      TEMPO 2519/2523 VRB10G30KT TSRA
     FM260200 13006KT P6SM BKN050
     FM260900 13007KT P6SM SCT015 BKN025
     FM261500 15011KT P6SM VCSH BKN030=



000
FTUS44 KHGX 251130
TAFSGR
TAFSGR
TAF
KSGR 251130Z 2512/2612 15006KT P6SM FEW090 BKN250
     FM251300 15008KT P6SM SCT025
     FM251500 15011KT P6SM VCSH BKN027
     FM251800 15012KT P6SM VCTS SCT025 BKN040CB
      TEMPO 2519/2523 VRB10G25KT TSRA
     FM260200 14006KT P6SM SCT030=



000
FTUS44 KHGX 251130
TAFGLS
TAFGLS
TAF
KGLS 251130Z 2512/2612 15013KT P6SM FEW080 SCT250
      TEMPO 2512/2513 BKN015
     FM251500 15016KT P6SM SCT025
     FM251800 15016KT P6SM VCSH SCT029 BKN250
      TEMPO 2521/2601 VRB15G35KT TSRA BKN030CB
     FM260300 18015KT P6SM SCT030=



000
FTUS44 KHGX 251040 AAB
TAFCXO
TAF AMD
KCXO 251040Z 2511/2606 00000KT 6SM BR BKN002 BKN007
      TEMPO 2512/2514 SCT005 BKN010
     FM251400 15005KT P6SM SCT015 BKN025
     FM251500 16009KT P6SM VCSH BKN025
     FM251800 16010KT 6SM TSRA BR SCT025 BKN040CB
     FM260100 15005KT P6SM BKN050=



000
FTUS44 KHGX 251040
TAFCXO
TAFCXO
TAF AMD
KCXO 251040Z 2511/2606 00000KT 6SM BR BKN002 BKN007
      TEMPO 2512/2514 SCT005 BKN010
     FM251400 15005KT P6SM SCT015 BKN025
     FM251500 16009KT P6SM VCSH BKN025
     FM251800 16010KT 6SM TSRA BR SCT025 BKN040CB
     FM260100 15005KT P6SM BKN050=



000
FTUS44 KHGX 251040 AAB
TAFCXO
TAF AMD
KCXO 251040Z 2511/2606 00000KT 6SM BR BKN002 BKN007
      TEMPO 2512/2514 SCT005 BKN010
     FM251400 15005KT P6SM SCT015 BKN025
     FM251500 16009KT P6SM VCSH BKN025
     FM251800 16010KT 6SM TSRA BR SCT025 BKN040CB
     FM260100 15005KT P6SM BKN050=



000
FTUS44 KHGX 251040 AAB
TAFCXO
TAF AMD
KCXO 251040Z 2511/2606 00000KT 6SM BR BKN002 BKN007
      TEMPO 2512/2514 SCT005 BKN010
     FM251400 15005KT P6SM SCT015 BKN025
     FM251500 16009KT P6SM VCSH BKN025
     FM251800 16010KT 6SM TSRA BR SCT025 BKN040CB
     FM260100 15005KT P6SM BKN050=



000
FTUS44 KHGX 251034 AAA
TAFUTS
TAF AMD
KUTS 251034Z 2511/2606 16005KT P6SM BKN250
      TEMPO 2511/2513 BKN011
     FM251300 17006KT P6SM SCT015 BKN025
     FM251500 17007KT P6SM VCSH BKN025
     FM251700 17009KT 6SM TSRA BR SCT025 BKN040CB
     FM260100 17004KT P6SM BKN050=



000
FTUS44 KHGX 251034
TAFUTS
TAFUTS
TAF AMD
KUTS 251034Z 2511/2606 16005KT P6SM BKN250
      TEMPO 2511/2513 BKN011
     FM251300 17006KT P6SM SCT015 BKN025
     FM251500 17007KT P6SM VCSH BKN025
     FM251700 17009KT 6SM TSRA BR SCT025 BKN040CB
     FM260100 17004KT P6SM BKN050=



000
FTUS44 KHGX 251034
TAFUTS
TAFUTS
TAF AMD
KUTS 251034Z 2511/2606 16005KT P6SM BKN250
      TEMPO 2511/2513 BKN011
     FM251300 17006KT P6SM SCT015 BKN025
     FM251500 17007KT P6SM VCSH BKN025
     FM251700 17009KT 6SM TSRA BR SCT025 BKN040CB
     FM260100 17004KT P6SM BKN050=



000
FTUS44 KHGX 251034 AAA
TAFUTS
TAF AMD
KUTS 251034Z 2511/2606 16005KT P6SM BKN250
      TEMPO 2511/2513 BKN011
     FM251300 17006KT P6SM SCT015 BKN025
     FM251500 17007KT P6SM VCSH BKN025
     FM251700 17009KT 6SM TSRA BR SCT025 BKN040CB
     FM260100 17004KT P6SM BKN050=



000
FTUS44 KHGX 251034 AAA
TAFUTS
TAF AMD
KUTS 251034Z 2511/2606 16005KT P6SM BKN250
      TEMPO 2511/2513 BKN011
     FM251300 17006KT P6SM SCT015 BKN025
     FM251500 17007KT P6SM VCSH BKN025
     FM251700 17009KT 6SM TSRA BR SCT025 BKN040CB
     FM260100 17004KT P6SM BKN050=



000
FTUS44 KHGX 251034 AAA
TAFUTS
TAF AMD
KUTS 251034Z 2511/2606 16005KT P6SM BKN250
      TEMPO 2511/2513 BKN011
     FM251300 17006KT P6SM SCT015 BKN025
     FM251500 17007KT P6SM VCSH BKN025
     FM251700 17009KT 6SM TSRA BR SCT025 BKN040CB
     FM260100 17004KT P6SM BKN050=



000
FTUS44 KHGX 250924 AAB
TAFHOU
TAF AMD
KHOU 250924Z 2509/2606 12003KT P6SM SKC
      TEMPO 2509/2513 BKN021
     FM251300 15007KT P6SM SCT015 BKN025
     FM251500 15011KT P6SM VCSH BKN030
     FM251800 15012KT P6SM VCTS BKN040CB
      TEMPO 2519/2523 VRB10G30KT TSRA
     FM260200 14005KT P6SM BKN050=



000
FTUS44 KHGX 250924 AAA
TAFIAH
TAF AMD
KIAH 250924Z 2509/2612 14003KT P6SM FEW020
      TEMPO 2509/2513 BKN021
     FM251300 15008KT P6SM SCT015 BKN025
     FM251600 15011KT P6SM VCSH BKN030
     FM251800 15012KT P6SM VCTS BKN040CB
      TEMPO 2519/2523 VRB10G30KT TSRA
     FM260200 13006KT P6SM BKN050
     FM260900 13007KT P6SM SCT015 BKN025=



000
FTUS44 KHGX 250924 AAB
TAFHOU
TAF AMD
KHOU 250924Z 2509/2606 12003KT P6SM SKC
      TEMPO 2509/2513 BKN021
     FM251300 15007KT P6SM SCT015 BKN025
     FM251500 15011KT P6SM VCSH BKN030
     FM251800 15012KT P6SM VCTS BKN040CB
      TEMPO 2519/2523 VRB10G30KT TSRA
     FM260200 14005KT P6SM BKN050=



000
FTUS44 KHGX 250924 AAA
TAFIAH
TAF AMD
KIAH 250924Z 2509/2612 14003KT P6SM FEW020
      TEMPO 2509/2513 BKN021
     FM251300 15008KT P6SM SCT015 BKN025
     FM251600 15011KT P6SM VCSH BKN030
     FM251800 15012KT P6SM VCTS BKN040CB
      TEMPO 2519/2523 VRB10G30KT TSRA
     FM260200 13006KT P6SM BKN050
     FM260900 13007KT P6SM SCT015 BKN025=



000
FTUS44 KHGX 250823 AAA
TAFCLL
TAF AMD
KCLL 250823Z 2508/2606 15008KT P6SM BKN008
      TEMPO 2509/2513 OVC006
     FM251300 16011KT P6SM SCT015 BKN025
     FM251500 16013KT P6SM VCSH BKN025
     FM251700 16013KT P6SM VCTS BKN040CB
      TEMPO 2520/2524 VRB10G30KT TSRA
     FM260200 15009KT P6SM BKN050=



000
FTUS44 KHGX 250823 AAA
TAFCLL
TAF AMD
KCLL 250823Z 2508/2606 15008KT P6SM BKN008
      TEMPO 2509/2513 OVC006
     FM251300 16011KT P6SM SCT015 BKN025
     FM251500 16013KT P6SM VCSH BKN025
     FM251700 16013KT P6SM VCTS BKN040CB
      TEMPO 2520/2524 VRB10G30KT TSRA
     FM260200 15009KT P6SM BKN050=



000
FTUS44 KHGX 250823
TAFCLL
TAFCLL
TAF AMD
KCLL 250823Z 2508/2606 15008KT P6SM BKN008
      TEMPO 2509/2513 OVC006
     FM251300 16011KT P6SM SCT015 BKN025
     FM251500 16013KT P6SM VCSH BKN025
     FM251700 16013KT P6SM VCTS BKN040CB
      TEMPO 2520/2524 VRB10G30KT TSRA
     FM260200 15009KT P6SM BKN050=



000
FTUS44 KHGX 250823
TAFCLL
TAFCLL
TAF AMD
KCLL 250823Z 2508/2606 15008KT P6SM BKN008
      TEMPO 2509/2513 OVC006
     FM251300 16011KT P6SM SCT015 BKN025
     FM251500 16013KT P6SM VCSH BKN025
     FM251700 16013KT P6SM VCTS BKN040CB
      TEMPO 2520/2524 VRB10G30KT TSRA
     FM260200 15009KT P6SM BKN050=



000
FTUS44 KHGX 250823 AAA
TAFCLL
TAF AMD
KCLL 250823Z 2508/2606 15008KT P6SM BKN008
      TEMPO 2509/2513 OVC006
     FM251300 16011KT P6SM SCT015 BKN025
     FM251500 16013KT P6SM VCSH BKN025
     FM251700 16013KT P6SM VCTS BKN040CB
      TEMPO 2520/2524 VRB10G30KT TSRA
     FM260200 15009KT P6SM BKN050=



000
FTUS44 KHGX 250823 AAA
TAFCLL
TAF AMD
KCLL 250823Z 2508/2606 15008KT P6SM BKN008
      TEMPO 2509/2513 OVC006
     FM251300 16011KT P6SM SCT015 BKN025
     FM251500 16013KT P6SM VCSH BKN025
     FM251700 16013KT P6SM VCTS BKN040CB
      TEMPO 2520/2524 VRB10G30KT TSRA
     FM260200 15009KT P6SM BKN050=



000
FTUS44 KHGX 250730
TAFCXO
TAFCXO
TAF AMD
KCXO 250730Z 2508/2606 15004KT P6SM BKN013
      TEMPO 2509/2513 5SM BR
     FM251300 15005KT P6SM SCT015 BKN025
     FM251500 16009KT P6SM VCSH BKN025
     FM251800 16010KT 6SM TSRA BR SCT025 BKN040CB
     FM260100 15005KT P6SM BKN050=



000
FTUS44 KHGX 250730
TAFHOU
TAFHOU
TAF AMD
KHOU 250730Z 2508/2606 12003KT P6SM BKN020
      TEMPO 2509/2513 BKN015
     FM251300 15007KT P6SM SCT015 BKN025
     FM251500 16009KT P6SM VCSH BKN025
     FM251800 15011KT 6SM TSRA BR SCT025 BKN040CB
     FM260200 14005KT P6SM BKN050=



000
FTUS44 KHGX 250730 AAA
TAFCXO
TAF AMD
KCXO 250730Z 2508/2606 15004KT P6SM BKN013
      TEMPO 2509/2513 5SM BR
     FM251300 15005KT P6SM SCT015 BKN025
     FM251500 16009KT P6SM VCSH BKN025
     FM251800 16010KT 6SM TSRA BR SCT025 BKN040CB
     FM260100 15005KT P6SM BKN050=



000
FTUS44 KHGX 250730 AAA
TAFCXO
TAF AMD
KCXO 250730Z 2508/2606 15004KT P6SM BKN013
      TEMPO 2509/2513 5SM BR
     FM251300 15005KT P6SM SCT015 BKN025
     FM251500 16009KT P6SM VCSH BKN025
     FM251800 16010KT 6SM TSRA BR SCT025 BKN040CB
     FM260100 15005KT P6SM BKN050=



000
FTUS44 KHGX 250730 AAA
TAFCXO
TAF AMD
KCXO 250730Z 2508/2606 15004KT P6SM BKN013
      TEMPO 2509/2513 5SM BR
     FM251300 15005KT P6SM SCT015 BKN025
     FM251500 16009KT P6SM VCSH BKN025
     FM251800 16010KT 6SM TSRA BR SCT025 BKN040CB
     FM260100 15005KT P6SM BKN050=



000
FTUS44 KHGX 250730
TAFCXO
TAFCXO
TAF AMD
KCXO 250730Z 2508/2606 15004KT P6SM BKN013
      TEMPO 2509/2513 5SM BR
     FM251300 15005KT P6SM SCT015 BKN025
     FM251500 16009KT P6SM VCSH BKN025
     FM251800 16010KT 6SM TSRA BR SCT025 BKN040CB
     FM260100 15005KT P6SM BKN050=



000
FTUS44 KHGX 250730 AAA
TAFHOU
TAF AMD
KHOU 250730Z 2508/2606 12003KT P6SM BKN020
      TEMPO 2509/2513 BKN015
     FM251300 15007KT P6SM SCT015 BKN025
     FM251500 16009KT P6SM VCSH BKN025
     FM251800 15011KT 6SM TSRA BR SCT025 BKN040CB
     FM260200 14005KT P6SM BKN050=



000
FTUS44 KHGX 250730 AAA
TAFCXO
TAF AMD
KCXO 250730Z 2508/2606 15004KT P6SM BKN013
      TEMPO 2509/2513 5SM BR
     FM251300 15005KT P6SM SCT015 BKN025
     FM251500 16009KT P6SM VCSH BKN025
     FM251800 16010KT 6SM TSRA BR SCT025 BKN040CB
     FM260100 15005KT P6SM BKN050=



000
FTUS44 KHGX 250730 AAA
TAFHOU
TAF AMD
KHOU 250730Z 2508/2606 12003KT P6SM BKN020
      TEMPO 2509/2513 BKN015
     FM251300 15007KT P6SM SCT015 BKN025
     FM251500 16009KT P6SM VCSH BKN025
     FM251800 15011KT 6SM TSRA BR SCT025 BKN040CB
     FM260200 14005KT P6SM BKN050=



000
FTUS44 KHGX 250730
TAFHOU
TAFHOU
TAF AMD
KHOU 250730Z 2508/2606 12003KT P6SM BKN020
      TEMPO 2509/2513 BKN015
     FM251300 15007KT P6SM SCT015 BKN025
     FM251500 16009KT P6SM VCSH BKN025
     FM251800 15011KT 6SM TSRA BR SCT025 BKN040CB
     FM260200 14005KT P6SM BKN050=



000
FTUS44 KHGX 250520
TAFCXO
TAF
KCXO 250520Z 2506/2606 13005KT P6SM BKN030
      TEMPO 2509/2513 5SM BR BKN015
     FM251300 15005KT P6SM SCT015 BKN025
     FM251500 16009KT P6SM VCSH BKN025
     FM251800 16010KT 6SM TSRA BR SCT025 BKN040CB
     FM260100 15005KT P6SM BKN050=



000
FTUS44 KHGX 250520
TAFSGR
TAF
KSGR 250520Z 2506/2606 17007KT P6SM FEW020
      TEMPO 2509/2513 BKN015
     FM251300 15008KT P6SM SCT015 BKN025
     FM251500 15011KT P6SM VCSH BKN025
     FM251800 15012KT 6SM TSRA BR SCT025 BKN040CB
     FM260200 14006KT P6SM BKN050=



000
FTUS44 KHGX 250520
TAFCLL
TAF
KCLL 250520Z 2506/2606 16008KT P6SM SCT015
      TEMPO 2509/2513 5SM BR BKN015
     FM251300 16011KT P6SM SCT015 BKN025
     FM251500 16013KT P6SM VCSH BKN025
     FM251700 16013KT 6SM TSRA BR SCT025 BKN040CB
     FM260100 15009KT P6SM BKN050=



000
FTUS44 KHGX 250520
TAFCXO
TAF
KCXO 250520Z 2506/2606 13005KT P6SM BKN030
      TEMPO 2509/2513 5SM BR BKN015
     FM251300 15005KT P6SM SCT015 BKN025
     FM251500 16009KT P6SM VCSH BKN025
     FM251800 16010KT 6SM TSRA BR SCT025 BKN040CB
     FM260100 15005KT P6SM BKN050=



000
FTUS44 KHGX 250520
TAFIAH
TAF
KIAH 250520Z 2506/2612 15003KT P6SM FEW020
      TEMPO 2509/2513 BKN015
     FM251300 15008KT P6SM SCT015 BKN025
     FM251500 15011KT P6SM VCSH BKN025
     FM251800 15012KT 6SM TSRA BR SCT025 BKN040CB
     FM260200 13006KT P6SM BKN050
     FM260900 13007KT P6SM SCT015 BKN025=



000
FTUS44 KHGX 250520
TAFGLS
TAF
KGLS 250520Z 2506/2606 16014KT P6SM SCT018
      TEMPO 2509/2513 BKN015
     FM251300 15014KT P6SM SCT015 BKN025
     FM251500 14014KT P6SM VCSH BKN025
     FM251800 14014KT 6SM TSRA BR SCT025 BKN040CB
     FM260200 14015KT P6SM BKN050=



000
FTUS44 KHGX 250520
TAFUTS
TAF
KUTS 250520Z 2506/2606 17005KT P6SM SCT015
      TEMPO 2509/2513 5SM BR BKN015
     FM251300 17006KT P6SM SCT015 BKN025
     FM251500 17007KT P6SM VCSH BKN025
     FM251700 17009KT 6SM TSRA BR SCT025 BKN040CB
     FM260100 17004KT P6SM BKN050=



000
FTUS44 KHGX 250520
TAFIAH
TAF
KIAH 250520Z 2506/2612 15003KT P6SM FEW020
      TEMPO 2509/2513 BKN015
     FM251300 15008KT P6SM SCT015 BKN025
     FM251500 15011KT P6SM VCSH BKN025
     FM251800 15012KT 6SM TSRA BR SCT025 BKN040CB
     FM260200 13006KT P6SM BKN050
     FM260900 13007KT P6SM SCT015 BKN025=



000
FTUS44 KHGX 250520
TAFGLS
TAFGLS
TAF
KGLS 250520Z 2506/2606 16014KT P6SM SCT018
      TEMPO 2509/2513 BKN015
     FM251300 15014KT P6SM SCT015 BKN025
     FM251500 14014KT P6SM VCSH BKN025
     FM251800 14014KT 6SM TSRA BR SCT025 BKN040CB
     FM260200 14015KT P6SM BKN050=



000
FTUS44 KHGX 250520
TAFCLL
TAF
KCLL 250520Z 2506/2606 16008KT P6SM SCT015
      TEMPO 2509/2513 5SM BR BKN015
     FM251300 16011KT P6SM SCT015 BKN025
     FM251500 16013KT P6SM VCSH BKN025
     FM251700 16013KT 6SM TSRA BR SCT025 BKN040CB
     FM260100 15009KT P6SM BKN050=



000
FTUS44 KHGX 250520
TAFSGR
TAF
KSGR 250520Z 2506/2606 17007KT P6SM FEW020
      TEMPO 2509/2513 BKN015
     FM251300 15008KT P6SM SCT015 BKN025
     FM251500 15011KT P6SM VCSH BKN025
     FM251800 15012KT 6SM TSRA BR SCT025 BKN040CB
     FM260200 14006KT P6SM BKN050=



000
FTUS44 KHGX 250520
TAFGLS
TAF
KGLS 250520Z 2506/2606 16014KT P6SM SCT018
      TEMPO 2509/2513 BKN015
     FM251300 15014KT P6SM SCT015 BKN025
     FM251500 14014KT P6SM VCSH BKN025
     FM251800 14014KT 6SM TSRA BR SCT025 BKN040CB
     FM260200 14015KT P6SM BKN050=



000
FTUS44 KHGX 250520
TAFCLL
TAFCLL
TAF
KCLL 250520Z 2506/2606 16008KT P6SM SCT015
      TEMPO 2509/2513 5SM BR BKN015
     FM251300 16011KT P6SM SCT015 BKN025
     FM251500 16013KT P6SM VCSH BKN025
     FM251700 16013KT 6SM TSRA BR SCT025 BKN040CB
     FM260100 15009KT P6SM BKN050=



000
FTUS44 KHGX 250520
TAFIAH
TAFIAH
TAF
KIAH 250520Z 2506/2612 15003KT P6SM FEW020
      TEMPO 2509/2513 BKN015
     FM251300 15008KT P6SM SCT015 BKN025
     FM251500 15011KT P6SM VCSH BKN025
     FM251800 15012KT 6SM TSRA BR SCT025 BKN040CB
     FM260200 13006KT P6SM BKN050
     FM260900 13007KT P6SM SCT015 BKN025=



000
FTUS44 KHGX 250520
TAFUTS
TAFUTS
TAF
KUTS 250520Z 2506/2606 17005KT P6SM SCT015
      TEMPO 2509/2513 5SM BR BKN015
     FM251300 17006KT P6SM SCT015 BKN025
     FM251500 17007KT P6SM VCSH BKN025
     FM251700 17009KT 6SM TSRA BR SCT025 BKN040CB
     FM260100 17004KT P6SM BKN050=



000
FTUS44 KHGX 250520
TAFHOU
TAFHOU
TAF
KHOU 250520Z 2506/2606 14003KT P6SM FEW020
      TEMPO 2509/2513 BKN015
     FM251300 15007KT P6SM SCT015 BKN025
     FM251500 16009KT P6SM VCSH BKN025
     FM251800 15011KT 6SM TSRA BR SCT025 BKN040CB
     FM260200 14005KT P6SM BKN050=



000
FTUS44 KHGX 250520
TAFLBX
TAFLBX
TAF
KLBX 250520Z 2506/2606 16006KT P6SM FEW020
      TEMPO 2509/2513 BKN015
     FM251300 15009KT P6SM SCT015 BKN025
     FM251500 15012KT P6SM VCSH BKN025
     FM251800 15013G20KT 6SM TSRA BR SCT025 BKN040CB
     FM260200 15009KT P6SM BKN050=



000
FTUS44 KHGX 250520
TAFLBX
TAF
KLBX 250520Z 2506/2606 16006KT P6SM FEW020
      TEMPO 2509/2513 BKN015
     FM251300 15009KT P6SM SCT015 BKN025
     FM251500 15012KT P6SM VCSH BKN025
     FM251800 15013G20KT 6SM TSRA BR SCT025 BKN040CB
     FM260200 15009KT P6SM BKN050=



000
FTUS44 KHGX 250520
TAFHOU
TAF
KHOU 250520Z 2506/2606 14003KT P6SM FEW020
      TEMPO 2509/2513 BKN015
     FM251300 15007KT P6SM SCT015 BKN025
     FM251500 16009KT P6SM VCSH BKN025
     FM251800 15011KT 6SM TSRA BR SCT025 BKN040CB
     FM260200 14005KT P6SM BKN050=



000
FTUS44 KHGX 250520
TAFLBX
TAF
KLBX 250520Z 2506/2606 16006KT P6SM FEW020
      TEMPO 2509/2513 BKN015
     FM251300 15009KT P6SM SCT015 BKN025
     FM251500 15012KT P6SM VCSH BKN025
     FM251800 15013G20KT 6SM TSRA BR SCT025 BKN040CB
     FM260200 15009KT P6SM BKN050=



000
FTUS44 KHGX 250520
TAFHOU
TAF
KHOU 250520Z 2506/2606 14003KT P6SM FEW020
      TEMPO 2509/2513 BKN015
     FM251300 15007KT P6SM SCT015 BKN025
     FM251500 16009KT P6SM VCSH BKN025
     FM251800 15011KT 6SM TSRA BR SCT025 BKN040CB
     FM260200 14005KT P6SM BKN050=



000
FTUS44 KHGX 250520
TAFUTS
TAF
KUTS 250520Z 2506/2606 17005KT P6SM SCT015
      TEMPO 2509/2513 5SM BR BKN015
     FM251300 17006KT P6SM SCT015 BKN025
     FM251500 17007KT P6SM VCSH BKN025
     FM251700 17009KT 6SM TSRA BR SCT025 BKN040CB
     FM260100 17004KT P6SM BKN050=



000
FTUS44 KHGX 250520
TAFIAH
TAFIAH
TAF
KIAH 250520Z 2506/2612 15003KT P6SM FEW020
      TEMPO 2509/2513 BKN015
     FM251300 15008KT P6SM SCT015 BKN025
     FM251500 15011KT P6SM VCSH BKN025
     FM251800 15012KT 6SM TSRA BR SCT025 BKN040CB
     FM260200 13006KT P6SM BKN050
     FM260900 13007KT P6SM SCT015 BKN025=



000
FTUS44 KHGX 250520
TAFHOU
TAFHOU
TAF
KHOU 250520Z 2506/2606 14003KT P6SM FEW020
      TEMPO 2509/2513 BKN015
     FM251300 15007KT P6SM SCT015 BKN025
     FM251500 16009KT P6SM VCSH BKN025
     FM251800 15011KT 6SM TSRA BR SCT025 BKN040CB
     FM260200 14005KT P6SM BKN050=



000
FTUS44 KHGX 250520
TAFCLL
TAFCLL
TAF
KCLL 250520Z 2506/2606 16008KT P6SM SCT015
      TEMPO 2509/2513 5SM BR BKN015
     FM251300 16011KT P6SM SCT015 BKN025
     FM251500 16013KT P6SM VCSH BKN025
     FM251700 16013KT 6SM TSRA BR SCT025 BKN040CB
     FM260100 15009KT P6SM BKN050=



000
FTUS44 KHGX 250520
TAFUTS
TAFUTS
TAF
KUTS 250520Z 2506/2606 17005KT P6SM SCT015
      TEMPO 2509/2513 5SM BR BKN015
     FM251300 17006KT P6SM SCT015 BKN025
     FM251500 17007KT P6SM VCSH BKN025
     FM251700 17009KT 6SM TSRA BR SCT025 BKN040CB
     FM260100 17004KT P6SM BKN050=



000
FTUS44 KHGX 250520
TAFSGR
TAFSGR
TAF
KSGR 250520Z 2506/2606 17007KT P6SM FEW020
      TEMPO 2509/2513 BKN015
     FM251300 15008KT P6SM SCT015 BKN025
     FM251500 15011KT P6SM VCSH BKN025
     FM251800 15012KT 6SM TSRA BR SCT025 BKN040CB
     FM260200 14006KT P6SM BKN050=



000
FTUS44 KHGX 250520
TAFLBX
TAFLBX
TAF
KLBX 250520Z 2506/2606 16006KT P6SM FEW020
      TEMPO 2509/2513 BKN015
     FM251300 15009KT P6SM SCT015 BKN025
     FM251500 15012KT P6SM VCSH BKN025
     FM251800 15013G20KT 6SM TSRA BR SCT025 BKN040CB
     FM260200 15009KT P6SM BKN050=



000
FTUS44 KHGX 250520
TAFCXO
TAFCXO
TAF
KCXO 250520Z 2506/2606 13005KT P6SM BKN030
      TEMPO 2509/2513 5SM BR BKN015
     FM251300 15005KT P6SM SCT015 BKN025
     FM251500 16009KT P6SM VCSH BKN025
     FM251800 16010KT 6SM TSRA BR SCT025 BKN040CB
     FM260100 15005KT P6SM BKN050=



000
FTUS44 KHGX 250302 AAA
TAFHOU
TAF AMD
KHOU 250302Z 2503/2524 15006KT P6SM FEW022
      TEMPO 2509/2513 BKN015
     FM251300 15008KT P6SM BKN025
     FM251500 16012KT P6SM VCSH BKN025
     FM251800 15014G22KT 6SM TSRA BR SCT025 BKN040CB=



000
FTUS44 KHGX 250302
TAFHOU
TAFHOU
TAF AMD
KHOU 250302Z 2503/2524 15006KT P6SM FEW022
      TEMPO 2509/2513 BKN015
     FM251300 15008KT P6SM BKN025
     FM251500 16012KT P6SM VCSH BKN025
     FM251800 15014G22KT 6SM TSRA BR SCT025 BKN040CB=



000
FTUS44 KHGX 250302 AAA
TAFHOU
TAF AMD
KHOU 250302Z 2503/2524 15006KT P6SM FEW022
      TEMPO 2509/2513 BKN015
     FM251300 15008KT P6SM BKN025
     FM251500 16012KT P6SM VCSH BKN025
     FM251800 15014G22KT 6SM TSRA BR SCT025 BKN040CB=



000
FTUS44 KHGX 250302 AAA
TAFHOU
TAF AMD
KHOU 250302Z 2503/2524 15006KT P6SM FEW022
      TEMPO 2509/2513 BKN015
     FM251300 15008KT P6SM BKN025
     FM251500 16012KT P6SM VCSH BKN025
     FM251800 15014G22KT 6SM TSRA BR SCT025 BKN040CB=



000
FTUS44 KHGX 250301
TAFIAH
TAFIAH
TAF AMD
KIAH 250301Z 2503/2606 16005KT P6SM FEW020 SCT100
      TEMPO 2509/2513 BKN015
     FM251300 15008KT P6SM BKN025
     FM251500 16012KT P6SM VCSH BKN025
     FM251800 15014G22KT 6SM TSRA BR SCT025 BKN040CB
     FM260200 14009KT P6SM VCSH BKN050=



000
FTUS44 KHGX 250301 AAA
TAFIAH
TAF AMD
KIAH 250301Z 2503/2606 16005KT P6SM FEW020 SCT100
      TEMPO 2509/2513 BKN015
     FM251300 15008KT P6SM BKN025
     FM251500 16012KT P6SM VCSH BKN025
     FM251800 15014G22KT 6SM TSRA BR SCT025 BKN040CB
     FM260200 14009KT P6SM VCSH BKN050=



000
FTUS44 KHGX 250301 AAA
TAFIAH
TAF AMD
KIAH 250301Z 2503/2606 16005KT P6SM FEW020 SCT100
      TEMPO 2509/2513 BKN015
     FM251300 15008KT P6SM BKN025
     FM251500 16012KT P6SM VCSH BKN025
     FM251800 15014G22KT 6SM TSRA BR SCT025 BKN040CB
     FM260200 14009KT P6SM VCSH BKN050=



000
FTUS44 KHGX 250301 AAA
TAFIAH
TAF AMD
KIAH 250301Z 2503/2606 16005KT P6SM FEW020 SCT100
      TEMPO 2509/2513 BKN015
     FM251300 15008KT P6SM BKN025
     FM251500 16012KT P6SM VCSH BKN025
     FM251800 15014G22KT 6SM TSRA BR SCT025 BKN040CB
     FM260200 14009KT P6SM VCSH BKN050=



000
FTUS44 KHGX 250301 AAA
TAFIAH
TAF AMD
KIAH 250301Z 2503/2606 16005KT P6SM FEW020 SCT100
      TEMPO 2509/2513 BKN015
     FM251300 15008KT P6SM BKN025
     FM251500 16012KT P6SM VCSH BKN025
     FM251800 15014G22KT 6SM TSRA BR SCT025 BKN040CB
     FM260200 14009KT P6SM VCSH BKN050=



000
FTUS44 KHGX 242320
TAFUTS
TAF
KUTS 242320Z 2500/2524 17004KT P6SM SCT025
      TEMPO 2509/2513 5SM BR BKN020
     FM251300 17006KT P6SM BKN025
     FM251500 17007KT P6SM VCSH BKN025
     FM251700 17009KT 6SM TSRA BR SCT025 BKN040CB=



000
FTUS44 KHGX 242320
TAFSGR
TAFSGR
TAF
KSGR 242320Z 2500/2524 16007KT P6SM SCT027
      TEMPO 2509/2513 BKN020
     FM251300 15008KT P6SM BKN025
     FM251500 16012KT P6SM VCSH BKN025
     FM251800 15014G22KT 6SM TSRA BR SCT025 BKN040CB=



000
FTUS44 KHGX 242320
TAFHOU
TAF
KHOU 242320Z 2500/2524 16007KT P6SM FEW025 SCT100
      TEMPO 2509/2513 BKN020
     FM251300 15008KT P6SM BKN025
     FM251500 16012KT P6SM VCSH BKN025
     FM251800 15014G22KT 6SM TSRA BR SCT025 BKN040CB=



000
FTUS44 KHGX 242320
TAFSGR
TAF
KSGR 242320Z 2500/2524 16007KT P6SM SCT027
      TEMPO 2509/2513 BKN020
     FM251300 15008KT P6SM BKN025
     FM251500 16012KT P6SM VCSH BKN025
     FM251800 15014G22KT 6SM TSRA BR SCT025 BKN040CB=



000
FTUS44 KHGX 242320
TAFLBX
TAF
KLBX 242320Z 2500/2524 17010KT P6SM SCT026
      TEMPO 2509/2513 BKN020
     FM251300 15008KT P6SM BKN025
     FM251500 16013KT P6SM VCSH BKN025
     FM251900 16015G22KT 6SM TSRA BR SCT025 BKN040CB=



000
FTUS44 KHGX 242320
TAFCLL
TAFCLL
TAF
KCLL 242320Z 2500/2524 16010KT P6SM FEW030 SCT070
      TEMPO 2509/2513 5SM BR BKN020
     FM251300 16011KT P6SM BKN025
     FM251500 16013KT P6SM VCSH BKN025
     FM251700 17013KT 6SM TSRA BR SCT025 BKN040CB=



000
FTUS44 KHGX 242320
TAFLBX
TAFLBX
TAF
KLBX 242320Z 2500/2524 17010KT P6SM SCT026
      TEMPO 2509/2513 BKN020
     FM251300 15008KT P6SM BKN025
     FM251500 16013KT P6SM VCSH BKN025
     FM251900 16015G22KT 6SM TSRA BR SCT025 BKN040CB=



000
FTUS44 KHGX 242320
TAFGLS
TAFGLS
TAF
KGLS 242320Z 2500/2524 17017KT P6SM SCT020
      TEMPO 2509/2513 BKN020
     FM251300 15013KT P6SM BKN025
     FM251500 15015KT P6SM VCSH BKN025
     FM251900 15015G21KT 6SM TSRA BR SCT025 BKN040CB=



000
FTUS44 KHGX 242320
TAFLBX
TAFLBX
TAF
KLBX 242320Z 2500/2524 17010KT P6SM SCT026
      TEMPO 2509/2513 BKN020
     FM251300 15008KT P6SM BKN025
     FM251500 16013KT P6SM VCSH BKN025
     FM251900 16015G22KT 6SM TSRA BR SCT025 BKN040CB=



000
FTUS44 KHGX 242320
TAFCXO
TAFCXO
TAF
KCXO 242320Z 2500/2524 16005KT P6SM FEW025
      TEMPO 2509/2513 5SM BR BKN020
     FM251300 15008KT P6SM BKN025
     FM251500 16010KT P6SM VCSH BKN025
     FM251800 17011KT 6SM TSRA BR SCT025 BKN040CB=



000
FTUS44 KHGX 242320
TAFUTS
TAFUTS
TAF
KUTS 242320Z 2500/2524 17004KT P6SM SCT025
      TEMPO 2509/2513 5SM BR BKN020
     FM251300 17006KT P6SM BKN025
     FM251500 17007KT P6SM VCSH BKN025
     FM251700 17009KT 6SM TSRA BR SCT025 BKN040CB=



000
FTUS44 KHGX 242320
TAFIAH
TAF
KIAH 242320Z 2500/2606 15007KT P6SM SCT026 SCT120
      TEMPO 2509/2513 BKN020
     FM251300 15008KT P6SM BKN025
     FM251500 16012KT P6SM VCSH BKN025
     FM251800 15014G22KT 6SM TSRA BR SCT025 BKN040CB
     FM260200 14009KT P6SM VCSH BKN050=



000
FTUS44 KHGX 242320
TAFIAH
TAFIAH
TAF
KIAH 242320Z 2500/2606 15007KT P6SM SCT026 SCT120
      TEMPO 2509/2513 BKN020
     FM251300 15008KT P6SM BKN025
     FM251500 16012KT P6SM VCSH BKN025
     FM251800 15014G22KT 6SM TSRA BR SCT025 BKN040CB
     FM260200 14009KT P6SM VCSH BKN050=



000
FTUS44 KHGX 242320
TAFHOU
TAFHOU
TAF
KHOU 242320Z 2500/2524 16007KT P6SM FEW025 SCT100
      TEMPO 2509/2513 BKN020
     FM251300 15008KT P6SM BKN025
     FM251500 16012KT P6SM VCSH BKN025
     FM251800 15014G22KT 6SM TSRA BR SCT025 BKN040CB=



000
FTUS44 KHGX 242320
TAFCXO
TAFCXO
TAF
KCXO 242320Z 2500/2524 16005KT P6SM FEW025
      TEMPO 2509/2513 5SM BR BKN020
     FM251300 15008KT P6SM BKN025
     FM251500 16010KT P6SM VCSH BKN025
     FM251800 17011KT 6SM TSRA BR SCT025 BKN040CB=



000
FTUS44 KHGX 242320
TAFSGR
TAFSGR
TAF
KSGR 242320Z 2500/2524 16007KT P6SM SCT027
      TEMPO 2509/2513 BKN020
     FM251300 15008KT P6SM BKN025
     FM251500 16012KT P6SM VCSH BKN025
     FM251800 15014G22KT 6SM TSRA BR SCT025 BKN040CB=



000
FTUS44 KHGX 242320
TAFCLL
TAFCLL
TAF
KCLL 242320Z 2500/2524 16010KT P6SM FEW030 SCT070
      TEMPO 2509/2513 5SM BR BKN020
     FM251300 16011KT P6SM BKN025
     FM251500 16013KT P6SM VCSH BKN025
     FM251700 17013KT 6SM TSRA BR SCT025 BKN040CB=



000
FTUS44 KHGX 242320
TAFSGR
TAF
KSGR 242320Z 2500/2524 16007KT P6SM SCT027
      TEMPO 2509/2513 BKN020
     FM251300 15008KT P6SM BKN025
     FM251500 16012KT P6SM VCSH BKN025
     FM251800 15014G22KT 6SM TSRA BR SCT025 BKN040CB=



000
FTUS44 KHGX 242320
TAFHOU
TAF
KHOU 242320Z 2500/2524 16007KT P6SM FEW025 SCT100
      TEMPO 2509/2513 BKN020
     FM251300 15008KT P6SM BKN025
     FM251500 16012KT P6SM VCSH BKN025
     FM251800 15014G22KT 6SM TSRA BR SCT025 BKN040CB=



000
FTUS44 KHGX 242320
TAFUTS
TAF
KUTS 242320Z 2500/2524 17004KT P6SM SCT025
      TEMPO 2509/2513 5SM BR BKN020
     FM251300 17006KT P6SM BKN025
     FM251500 17007KT P6SM VCSH BKN025
     FM251700 17009KT 6SM TSRA BR SCT025 BKN040CB=



000
FTUS44 KHGX 242320
TAFGLS
TAF
KGLS 242320Z 2500/2524 17017KT P6SM SCT020
      TEMPO 2509/2513 BKN020
     FM251300 15013KT P6SM BKN025
     FM251500 15015KT P6SM VCSH BKN025
     FM251900 15015G21KT 6SM TSRA BR SCT025 BKN040CB=



000
FTUS44 KHGX 242320
TAFHOU
TAFHOU
TAF
KHOU 242320Z 2500/2524 16007KT P6SM FEW025 SCT100
      TEMPO 2509/2513 BKN020
     FM251300 15008KT P6SM BKN025
     FM251500 16012KT P6SM VCSH BKN025
     FM251800 15014G22KT 6SM TSRA BR SCT025 BKN040CB=



000
FTUS44 KHGX 242320
TAFHOU
TAF
KHOU 242320Z 2500/2524 16007KT P6SM FEW025 SCT100
      TEMPO 2509/2513 BKN020
     FM251300 15008KT P6SM BKN025
     FM251500 16012KT P6SM VCSH BKN025
     FM251800 15014G22KT 6SM TSRA BR SCT025 BKN040CB=



000
FTUS44 KHGX 242320
TAFGLS
TAF
KGLS 242320Z 2500/2524 17017KT P6SM SCT020
      TEMPO 2509/2513 BKN020
     FM251300 15013KT P6SM BKN025
     FM251500 15015KT P6SM VCSH BKN025
     FM251900 15015G21KT 6SM TSRA BR SCT025 BKN040CB=



000
FTUS44 KHGX 242320
TAFIAH
TAF
KIAH 242320Z 2500/2606 15007KT P6SM SCT026 SCT120
      TEMPO 2509/2513 BKN020
     FM251300 15008KT P6SM BKN025
     FM251500 16012KT P6SM VCSH BKN025
     FM251800 15014G22KT 6SM TSRA BR SCT025 BKN040CB
     FM260200 14009KT P6SM VCSH BKN050=



000
FTUS44 KHGX 242320
TAFUTS
TAF
KUTS 242320Z 2500/2524 17004KT P6SM SCT025
      TEMPO 2509/2513 5SM BR BKN020
     FM251300 17006KT P6SM BKN025
     FM251500 17007KT P6SM VCSH BKN025
     FM251700 17009KT 6SM TSRA BR SCT025 BKN040CB=



000
FTUS44 KHGX 242320
TAFGLS
TAF
KGLS 242320Z 2500/2524 17017KT P6SM SCT020
      TEMPO 2509/2513 BKN020
     FM251300 15013KT P6SM BKN025
     FM251500 15015KT P6SM VCSH BKN025
     FM251900 15015G21KT 6SM TSRA BR SCT025 BKN040CB=



000
FTUS44 KHGX 242320
TAFGLS
TAFGLS
TAF
KGLS 242320Z 2500/2524 17017KT P6SM SCT020
      TEMPO 2509/2513 BKN020
     FM251300 15013KT P6SM BKN025
     FM251500 15015KT P6SM VCSH BKN025
     FM251900 15015G21KT 6SM TSRA BR SCT025 BKN040CB=



000
FTUS44 KHGX 242320
TAFHOU
TAF
KHOU 242320Z 2500/2524 16007KT P6SM FEW025 SCT100
      TEMPO 2509/2513 BKN020
     FM251300 15008KT P6SM BKN025
     FM251500 16012KT P6SM VCSH BKN025
     FM251800 15014G22KT 6SM TSRA BR SCT025 BKN040CB=



000
FTUS44 KHGX 242320
TAFUTS
TAF
KUTS 242320Z 2500/2524 17004KT P6SM SCT025
      TEMPO 2509/2513 5SM BR BKN020
     FM251300 17006KT P6SM BKN025
     FM251500 17007KT P6SM VCSH BKN025
     FM251700 17009KT 6SM TSRA BR SCT025 BKN040CB=



000
FTUS44 KHGX 242320
TAFGLS
TAF
KGLS 242320Z 2500/2524 17017KT P6SM SCT020
      TEMPO 2509/2513 BKN020
     FM251300 15013KT P6SM BKN025
     FM251500 15015KT P6SM VCSH BKN025
     FM251900 15015G21KT 6SM TSRA BR SCT025 BKN040CB=



000
FTUS44 KHGX 242320
TAFIAH
TAF
KIAH 242320Z 2500/2606 15007KT P6SM SCT026 SCT120
      TEMPO 2509/2513 BKN020
     FM251300 15008KT P6SM BKN025
     FM251500 16012KT P6SM VCSH BKN025
     FM251800 15014G22KT 6SM TSRA BR SCT025 BKN040CB
     FM260200 14009KT P6SM VCSH BKN050=



000
FTUS44 KHGX 242320
TAFSGR
TAF
KSGR 242320Z 2500/2524 16007KT P6SM SCT027
      TEMPO 2509/2513 BKN020
     FM251300 15008KT P6SM BKN025
     FM251500 16012KT P6SM VCSH BKN025
     FM251800 15014G22KT 6SM TSRA BR SCT025 BKN040CB=



000
FTUS44 KHGX 242320
TAFCLL
TAF
KCLL 242320Z 2500/2524 16010KT P6SM FEW030 SCT070
      TEMPO 2509/2513 5SM BR BKN020
     FM251300 16011KT P6SM BKN025
     FM251500 16013KT P6SM VCSH BKN025
     FM251700 17013KT 6SM TSRA BR SCT025 BKN040CB=



000
FTUS44 KHGX 242320
TAFCLL
TAF
KCLL 242320Z 2500/2524 16010KT P6SM FEW030 SCT070
      TEMPO 2509/2513 5SM BR BKN020
     FM251300 16011KT P6SM BKN025
     FM251500 16013KT P6SM VCSH BKN025
     FM251700 17013KT 6SM TSRA BR SCT025 BKN040CB=



000
FTUS44 KHGX 242320
TAFCLL
TAF
KCLL 242320Z 2500/2524 16010KT P6SM FEW030 SCT070
      TEMPO 2509/2513 5SM BR BKN020
     FM251300 16011KT P6SM BKN025
     FM251500 16013KT P6SM VCSH BKN025
     FM251700 17013KT 6SM TSRA BR SCT025 BKN040CB=



000
FTUS44 KHGX 242320
TAFCXO
TAF
KCXO 242320Z 2500/2524 16005KT P6SM FEW025
      TEMPO 2509/2513 5SM BR BKN020
     FM251300 15008KT P6SM BKN025
     FM251500 16010KT P6SM VCSH BKN025
     FM251800 17011KT 6SM TSRA BR SCT025 BKN040CB=



000
FTUS44 KHGX 242320
TAFIAH
TAF
KIAH 242320Z 2500/2606 15007KT P6SM SCT026 SCT120
      TEMPO 2509/2513 BKN020
     FM251300 15008KT P6SM BKN025
     FM251500 16012KT P6SM VCSH BKN025
     FM251800 15014G22KT 6SM TSRA BR SCT025 BKN040CB
     FM260200 14009KT P6SM VCSH BKN050=



000
FTUS44 KHGX 242320
TAFCXO
TAF
KCXO 242320Z 2500/2524 16005KT P6SM FEW025
      TEMPO 2509/2513 5SM BR BKN020
     FM251300 15008KT P6SM BKN025
     FM251500 16010KT P6SM VCSH BKN025
     FM251800 17011KT 6SM TSRA BR SCT025 BKN040CB=



000
FTUS44 KHGX 242320
TAFCLL
TAF
KCLL 242320Z 2500/2524 16010KT P6SM FEW030 SCT070
      TEMPO 2509/2513 5SM BR BKN020
     FM251300 16011KT P6SM BKN025
     FM251500 16013KT P6SM VCSH BKN025
     FM251700 17013KT 6SM TSRA BR SCT025 BKN040CB=



000
FTUS44 KHGX 242320
TAFLBX
TAF
KLBX 242320Z 2500/2524 17010KT P6SM SCT026
      TEMPO 2509/2513 BKN020
     FM251300 15008KT P6SM BKN025
     FM251500 16013KT P6SM VCSH BKN025
     FM251900 16015G22KT 6SM TSRA BR SCT025 BKN040CB=



000
FTUS44 KHGX 242320
TAFSGR
TAF
KSGR 242320Z 2500/2524 16007KT P6SM SCT027
      TEMPO 2509/2513 BKN020
     FM251300 15008KT P6SM BKN025
     FM251500 16012KT P6SM VCSH BKN025
     FM251800 15014G22KT 6SM TSRA BR SCT025 BKN040CB=



000
FTUS44 KHGX 242320
TAFCXO
TAF
KCXO 242320Z 2500/2524 16005KT P6SM FEW025
      TEMPO 2509/2513 5SM BR BKN020
     FM251300 15008KT P6SM BKN025
     FM251500 16010KT P6SM VCSH BKN025
     FM251800 17011KT 6SM TSRA BR SCT025 BKN040CB=



000
FTUS44 KHGX 242320
TAFLBX
TAF
KLBX 242320Z 2500/2524 17010KT P6SM SCT026
      TEMPO 2509/2513 BKN020
     FM251300 15008KT P6SM BKN025
     FM251500 16013KT P6SM VCSH BKN025
     FM251900 16015G22KT 6SM TSRA BR SCT025 BKN040CB=



000
FTUS44 KHGX 242320
TAFIAH
TAFIAH
TAF
KIAH 242320Z 2500/2606 15007KT P6SM SCT026 SCT120
      TEMPO 2509/2513 BKN020
     FM251300 15008KT P6SM BKN025
     FM251500 16012KT P6SM VCSH BKN025
     FM251800 15014G22KT 6SM TSRA BR SCT025 BKN040CB
     FM260200 14009KT P6SM VCSH BKN050=



000
FTUS44 KHGX 242320
TAFCXO
TAF
KCXO 242320Z 2500/2524 16005KT P6SM FEW025
      TEMPO 2509/2513 5SM BR BKN020
     FM251300 15008KT P6SM BKN025
     FM251500 16010KT P6SM VCSH BKN025
     FM251800 17011KT 6SM TSRA BR SCT025 BKN040CB=



000
FTUS44 KHGX 242320
TAFUTS
TAFUTS
TAF
KUTS 242320Z 2500/2524 17004KT P6SM SCT025
      TEMPO 2509/2513 5SM BR BKN020
     FM251300 17006KT P6SM BKN025
     FM251500 17007KT P6SM VCSH BKN025
     FM251700 17009KT 6SM TSRA BR SCT025 BKN040CB=



000
FTUS44 KHGX 242107
TAFHOU
TAFHOU
TAF AMD
KHOU 242107Z 2421/2518 18007KT P6SM FEW022 SCT029 OVC220
     FM242200 16014KT P6SM VCSH SCT040 BKN250
     FM250300 16008KT P6SM BKN050
     FM250900 16012KT P6SM VCSH BKN025 BKN050
     FM251500 15012G20KT P6SM VCTS BKN025CB=



000
FTUS44 KHGX 242107
TAFHOU
TAFHOU
TAF AMD
KHOU 242107Z 2421/2518 18007KT P6SM FEW022 SCT029 OVC220
     FM242200 16014KT P6SM VCSH SCT040 BKN250
     FM250300 16008KT P6SM BKN050
     FM250900 16012KT P6SM VCSH BKN025 BKN050
     FM251500 15012G20KT P6SM VCTS BKN025CB=



000
FTUS44 KHGX 242107 AAB
TAFHOU
TAF AMD
KHOU 242107Z 2421/2518 18007KT P6SM FEW022 SCT029 OVC220
     FM242200 16014KT P6SM VCSH SCT040 BKN250
     FM250300 16008KT P6SM BKN050
     FM250900 16012KT P6SM VCSH BKN025 BKN050
     FM251500 15012G20KT P6SM VCTS BKN025CB=



000
FTUS44 KHGX 242107 AAB
TAFHOU
TAF AMD
KHOU 242107Z 2421/2518 18007KT P6SM FEW022 SCT029 OVC220
     FM242200 16014KT P6SM VCSH SCT040 BKN250
     FM250300 16008KT P6SM BKN050
     FM250900 16012KT P6SM VCSH BKN025 BKN050
     FM251500 15012G20KT P6SM VCTS BKN025CB=



000
FTUS44 KHGX 242107 AAB
TAFIAH
TAF AMD
KIAH 242107Z 2421/2524 15014KT P6SM SCT025 SCT100 BKN150
     FM242200 17012KT P6SM VCSH SCT025 BKN035
     FM250100 16007KT P6SM BKN050
     FM251200 16010KT P6SM VCSH BKN025 BKN050
     FM251500 16012KT P6SM VCTS BKN025CB
     FM251800 15014G22KT 6SM TSRA BR SCT025 BKN040CB=



000
FTUS44 KHGX 242107 AAB
TAFIAH
TAF AMD
KIAH 242107Z 2421/2524 15014KT P6SM SCT025 SCT100 BKN150
     FM242200 17012KT P6SM VCSH SCT025 BKN035
     FM250100 16007KT P6SM BKN050
     FM251200 16010KT P6SM VCSH BKN025 BKN050
     FM251500 16012KT P6SM VCTS BKN025CB
     FM251800 15014G22KT 6SM TSRA BR SCT025 BKN040CB=



000
FTUS44 KHGX 242019 AAA
TAFCLL
TAF AMD
KCLL 242019Z 2420/2518 17010KT P6SM VCSH FEW024 BKN035 OVC050
     FM242100 17014KT P6SM VCTS SCT025 BKN040CB
     FM250100 16009KT P6SM FEW050 BKN250
     FM251200 15012KT P6SM VCTS BKN025 OVC050CB
     FM251500 15014G22KT 6SM TSRA BR SCT015 OVC025CB=



000
FTUS44 KHGX 242019 AAA
TAFCLL
TAF AMD
KCLL 242019Z 2420/2518 17010KT P6SM VCSH FEW024 BKN035 OVC050
     FM242100 17014KT P6SM VCTS SCT025 BKN040CB
     FM250100 16009KT P6SM FEW050 BKN250
     FM251200 15012KT P6SM VCTS BKN025 OVC050CB
     FM251500 15014G22KT 6SM TSRA BR SCT015 OVC025CB=



000
FTUS44 KHGX 242018 AAA
TAFCXO
TAF AMD
KCXO 242018Z 2420/2518 16012KT P6SM SCT110 BKN250
     FM242200 17012KT P6SM VCTS BKN035CB OVC250
     FM250200 15006KT P6SM SCT020 BKN050
     FM251500 17009KT P6SM VCTS SCT025 BKN050CB=



000
FTUS44 KHGX 242018 AAA
TAFCXO
TAF AMD
KCXO 242018Z 2420/2518 16012KT P6SM SCT110 BKN250
     FM242200 17012KT P6SM VCTS BKN035CB OVC250
     FM250200 15006KT P6SM SCT020 BKN050
     FM251500 17009KT P6SM VCTS SCT025 BKN050CB=



000
FTUS44 KHGX 242018 AAA
TAFUTS
TAF AMD
KUTS 242018Z 2420/2518 18009KT P6SM VCSH FEW021 FEW027 BKN250
     FM242100 17014KT P6SM VCTS SCT030CB BKN040CB
     FM250100 16007KT P6SM BKN050 OVC250
     FM251300 17012KT P6SM VCTS BKN025 OVC050CB
     FM251600 18015KT 6SM TSRA BR SCT015 OVC025CB=



000
FTUS44 KHGX 242018 AAA
TAFUTS
TAF AMD
KUTS 242018Z 2420/2518 18009KT P6SM VCSH FEW021 FEW027 BKN250
     FM242100 17014KT P6SM VCTS SCT030CB BKN040CB
     FM250100 16007KT P6SM BKN050 OVC250
     FM251300 17012KT P6SM VCTS BKN025 OVC050CB
     FM251600 18015KT 6SM TSRA BR SCT015 OVC025CB=



000
FTUS44 KHGX 242017 AAA
TAFHOU
TAF AMD
KHOU 242017Z 2420/2518 16010KT P6SM FEW022 SCT029 OVC250
     FM242200 16014KT P6SM VCSH SCT040 BKN250
     FM250300 16008KT P6SM BKN050
     FM250900 16012KT P6SM VCSH BKN025 BKN050
     FM251500 15012G20KT P6SM VCTS BKN025CB=



000
FTUS44 KHGX 242017 AAA
TAFIAH
TAF AMD
KIAH 242017Z 2420/2524 16013KT P6SM SCT024 BKN150 OVC250
     FM242200 17012KT P6SM VCSH SCT025 BKN035
     FM250100 16007KT P6SM BKN050
     FM251200 16010KT P6SM VCSH BKN025 BKN050
     FM251500 16012KT P6SM VCTS BKN025CB
     FM251800 15014G22KT 6SM TSRA BR SCT025 BKN040CB=



000
FTUS44 KHGX 242017 AAA
TAFIAH
TAF AMD
KIAH 242017Z 2420/2524 16013KT P6SM SCT024 BKN150 OVC250
     FM242200 17012KT P6SM VCSH SCT025 BKN035
     FM250100 16007KT P6SM BKN050
     FM251200 16010KT P6SM VCSH BKN025 BKN050
     FM251500 16012KT P6SM VCTS BKN025CB
     FM251800 15014G22KT 6SM TSRA BR SCT025 BKN040CB=



000
FTUS44 KHGX 242016 AAA
TAFSGR
TAF AMD
KSGR 242016Z 2420/2518 16011KT P6SM BKN250
     FM242200 17013KT P6SM VCSH SCT040 BKN250
     FM250300 16010KT P6SM BKN050
     FM251500 16012G22KT P6SM VCTS BKN025CB=



000
FTUS44 KHGX 242016 AAA
TAFSGR
TAF AMD
KSGR 242016Z 2420/2518 16011KT P6SM BKN250
     FM242200 17013KT P6SM VCSH SCT040 BKN250
     FM250300 16010KT P6SM BKN050
     FM251500 16012G22KT P6SM VCTS BKN025CB=



000
FTUS44 KHGX 242016 AAA
TAFGLS
TAF AMD
KGLS 242016Z 2420/2518 16012KT P6SM SCT018 BKN250
     FM250800 16017KT P6SM SCT025 BKN250
     FM251500 15018KT P6SM VCSH BKN050=



000
FTUS44 KHGX 242016 AAA
TAFGLS
TAF AMD
KGLS 242016Z 2420/2518 16012KT P6SM SCT018 BKN250
     FM250800 16017KT P6SM SCT025 BKN250
     FM251500 15018KT P6SM VCSH BKN050=



000
FTUS44 KHGX 242016 AAA
TAFGLS
TAF AMD
KGLS 242016Z 2420/2518 16012KT P6SM SCT018 BKN250
     FM250800 16017KT P6SM SCT025 BKN250
     FM251500 15018KT P6SM VCSH BKN050=



000
FTUS44 KHGX 242016 AAA
TAFSGR
TAF AMD
KSGR 242016Z 2420/2518 16011KT P6SM BKN250
     FM242200 17013KT P6SM VCSH SCT040 BKN250
     FM250300 16010KT P6SM BKN050
     FM251500 16012G22KT P6SM VCTS BKN025CB=



000
FTUS44 KHGX 242016 AAA
TAFSGR
TAF AMD
KSGR 242016Z 2420/2518 16011KT P6SM BKN250
     FM242200 17013KT P6SM VCSH SCT040 BKN250
     FM250300 16010KT P6SM BKN050
     FM251500 16012G22KT P6SM VCTS BKN025CB=



    US Dept of Commerce
    National Oceanic and Atmospheric Administration
    National Weather Service
    1325 East West Highway
    Silver Spring, MD 20910
    Page Author: NWS Internet Services Team
Disclaimer
Information Quality
Credits
Glossary
Privacy Policy
Freedom of Information Act (FOIA)
About Us
Career Opportunities